ENHM 030820Z 25017KT 9999 VCSH FEW015 SCT020CB 04/M03 Q0996 W07/S5 UUOK 030800Z 14005MPS 3000 BR OVC005 01/M00 Q1016 NOSIG RMK 12150050 KIWI 030753Z AUTO VRB05KT 10SM CLR M08/M19 A3024 RMK AO2 SLP242 T10831194 KJMR 030835Z AUTO 16005KT 10SM SCT008 SCT090 M06/M09 A2990 RMK AO2 KIXA 030835Z AUTO 00000KT 10SM CLR 00/M02 A3038 RMK AO2 PPIT 030836Z AUTO 10007KT 9SM -RA BKN017 OVC024 02/01 A2962 RMK AO2 UPE01RAB01 P0001 FZRANO KJMS 030756Z AUTO 33018G27KT 10SM FEW013 BKN120 M07/M10 A2973 RMK AO2 PK WND 33027/0753 SLP091 T10671100 UUOO 030830Z 13005MPS 8000 -SG OVC022 M00/M03 Q1018 NOSIG RMK 12901055 KIXD 030816Z 16014KT 2SM BR OVC003 00/00 A2989 RMK AO2 T00000000 ENHV 030750Z 19012KT 160V220 9999 SCT017 BKN029 03/M01 Q0996 KM63 030756Z AUTO 16005KT 10SM BKN170 13/07 A2992 RMK AO2 LTG DSNT S SLP091 T01310066 PPIZ 030756Z AUTO 10SM BKN029 BKN035 M09/M11 A2974 RMK AO2 TSNO T10881105 SLP075 $ KIYA 022255Z AUTO 34005KT 7SM OVC004 17/16 A3019 RMK AO2 T01650157 ENKB 030820Z 13006KT 9999 FEW050 02/M05 Q0995 FDSK 030800Z 23009KT 200V260 9999 FEW035 23/09 Q1026 NOSIG KJNX 030835Z AUTO 07004KT 10SM OVC026 05/M01 A3036 RMK AO2 OYMB 030800Z 18005KT CAVOK 31/M02 Q1017 KIZA 030835Z AUTO 00000KT 10SM CLR 03/02 A2997 RMK AO2 ENLA 030820Z AUTO 24024KT 9999NDV BKN033/// 04/00 Q1001 W///S5 KJOT 030815Z AUTO 14009KT 7SM SCT060 OVC070 M03/M08 A3014 RMK AO2 T10351078 FDST 030600Z AUTO 24009KT //// // ////// 16/13 Q1026 LBGO 030800Z 28024KT 9999 FEW026 OVC048 09/06 Q1014 R99/29//94 NOSIG KJQF 030835Z AUTO 02003KT 10SM -RA OVC034 07/M07 A3033 RMK AO2 KIZG 030754Z AUTO 00000KT 10SM CLR M15/M22 A3020 RMK AO2 SLP236 T11501217 ENKR 030820Z 17014KT 9999 BKNO20 01/M02 Q1001 RMK WIND 731FT 18020KT ENLK 030750Z VRB03KT 9999 FEW030 BKN040 01/M01 Q0993 KM91 030835Z AUTO 00000KT 10SM OVC018 04/M02 A3014 RMK KN03 030835Z AUTO 00000KT 10SM -SN BKN026 M12/M13 A3032 RMK AO2 ENMH 030750Z 19019KT 9999 BKN021 02/M01 Q0997 KLAA 030753Z AUTO 28012KT 10SM CLR 02/00 A2962 RMK AO2 SLP029 T00220000 ENNA 030820Z 17019KT 9999 BKN026 03/M01 Q0996 RMK WIND 1800FT 20032KT ENML 030820Z 05007KT 9999 FEW050 01/M04 Q0995 ENNE 030820Z 15015KT 9999 FEW020 04/01 Q0991 W///S5 KLAF 030754Z AUTO 10008KT 10SM FEW090 BKN110 M04/M08 A3018 RMK AO2 SLP225 T10391083 TSNO $ KLBB 030753Z 20014KT 1 3/4SM BR OVC002 02/02 A2993 RMK AO2 SLP141 T00170017 ENOA 030820Z 25019KT 9999 VCSH FEW014CB SCT017 04/00 Q0995 W///S5 ENMS 030750Z 13002KT 9999 FEW000 00/M00 Q0995 RMK WIND 412FT VRB02KT ENNK 030750Z 05003KT 9999 FEW003 SCT015 BKN025 01/01 Q0994 KJTC 030835Z AUTO 24015G20KT 10SM CLR 02/M04 A2996 RMK AO2 KLAL 030835Z AUTO 36003KT 7SM SCT006 16/16 A3019 RMK AO2 KLAM 030835Z AUTO 24010G20KT 210V270 10SM BKN049 BKN070 BKN080 02/M08 A2993 RMK AO2 T00241076 KLAN 030753Z 18006KT 9SM BKN055 BKN070 OVC090 M04/M09 A3024 RMK AO2 SLP252 T10391094 KLBE 030835Z AUTO 00000KT 6SM BR OVC110 M07/M08 A3033 RMK AO2 ENNM 030720Z VRB01KT 9999 FEW020 SCT040 M01/M02 Q0996 KLBF 030753Z AUTO 13003KT 10SM OVC013 M02/M06 A2962 RMK AO2 SLP046 T10221056 $ KJSO 030835Z AUTO 00000KT 3/4SM BR OVC001 07/07 A3011 RMK AO2 T00730072 ENNO 030750Z VRB01KT 9999 FEW060 M02/M03 Q0999 KLAR 030753Z AUTO 23025G35KT 10SM CLR M02/M06 A2951 RMK AO2 PK WND 23035/0751 SLP974 T10171056 $ LATI 030820Z 17003KT 120V230 9999 SCT014 BKN050 16/11 Q1018 NOSIG VMMC 030830Z 15006KT 3800 BR FEW010 SCT018 20/18 Q1009 NOSIG KLAS 030756Z 02005KT 10SM CLR 08/02 A2989 RMK AO2 SLP119 T00780022 401500072 KJST 030754Z AUTO 09003KT 9SM BKN120 M09/M12 A3023 RMK AO2 SLP276 T10941122 KLBL 030835Z AUTO 25010G17KT 10SM CLR 02/M01 A2975 RMK AO1 ENOL 030820Z 13013KT 9999 FEW030TCU SCT200 01/M04 Q0995 NOSIG KJSV 030835Z AUTO 11006KT 7SM OVC008 02/01 A3006 RMK AO2 KLAW 030753Z AUTO 20008KT 4SM BR OVC006 03/02 A3003 RMK AO2 SLP177 T00280017 KLAX 030753Z 15004KT 5SM +RA BR FEW020 BKN032 BKN050 11/08 A2998 RMK AO2 RAB00 SLP151 P0014 T01060083 401560083 KLCG 030835Z AUTO 17006KT 10SM OVC023 M01/M06 A2975 RMK AO2 T10111062 KLCH 030812Z AUTO 07006KT 1SM BR VV002 12/11 A3013 RMK AO2 T01170111 KLCI 030835Z AUTO 24007KT 10SM CLR M09/M19 A3023 RMK AO1 KN38 030835Z AUTO 00000KT 10SM CLR M14/M15 A3029 RMK AO2 ENQA 030820Z AUTO 25023KT 9999NDV FEW029/// SCT096/// 03/M01 Q0996 W03/S5 KLBT 030754Z AUTO 09007KT 10SM OVC050 07/01 A3033 RMK AO2 SLP270 T00670011 KLCK 030835Z AUTO 06003KT 10SM SCT120 M06/M11 A3025 RMK AO2 T10561106 ENQC 030820Z AUTO 23019KT 9999NDV BKN029/// 04/M01 Q0995 W///S5 ENOV 030750Z VRB03KT 9999 VCSH FEW020 BKN035 03/M02 Q0995 RMK WIND 2175FT 15016KT KLBX 030753Z AUTO 09005KT 3/4SM BR VV002 14/14 A3009 RMK AO2 SLP189 T01440144 KLCQ 030835Z AUTO 10003KT 10SM SCT032 OVC046 17/16 A3019 RMK AO2 VLVT 030830Z 14002KT 7000 FEW020 35/24 Q1004 NOSIG KLDJ 030835Z AUTO 31006KT 10SM CLR M04/M11 A3042 RMK AO2 T10391111 KKLS 030835Z 01003KT 10SM CLR 02/M02 A3018 RMK AO1 KLEB 030753Z AUTO 36003KT 10SM CLR M10/M18 A3028 RMK AO2 SLP267 T11001178 ENRA 030820Z 10001KT 9999 FEW005 SCT020 01/01 Q0996 KJVL 030835Z AUTO 14007KT 10SM OVC070 M03/M08 A3007 RMK AO2 OYRN 030800Z 12011KT 6000 FEW020 SCT035 28/19 Q1017 KLDM 030834Z AUTO 15004KT 1 1/2SM -SN OVC006 M05/M07 A3016 RMK AO2 T10501070 KLEE 030835Z AUTO 00000KT 1/2SM FG FEW004 SCT027 17/17 A3020 RMK AO2 T01720172 OYSH 030800Z 16008KT CAVOK 25/01 Q1026 KJWG 030835Z AUTO 19015G21KT 10SM BKN010 OVC022 03/03 A2989 RMK AO2 T00260026 ENQR 030820Z AUTO 22014KT 9999NDV FEW024/// SCT063/// 03/00 Q0993 W///S5 KN60 030752Z AUTO 32024G36KT M11/M14 A2988 RMK AO1 PK WND 33036/0745 PRESRR SLP149 T11061144 UUWW 030830Z 14006MPS 9999 BKN011 OVC026 M00/M02 Q1014 19290045 NOSIG ENSB 030750Z 15013KT 9999 FEW020 BKN060 01/M03 Q0990 NOSIG RMK WIND 1400FT 10012KT OYSN 030800Z 09012KT 050V140 CAVOK 24/M07 Q1029 NOSIG UWGG 030830Z 16003MPS 9999 SCT033 OVC100 00/M04 Q1020 NOSIG 18150045 RMK QFE758 ENSD 030820Z 08004KT 9999 FEW025 SCT032 BKN038 02/M00 Q0996 RMK WIND 1138FT 15004KT ENRM 030820Z 14009KT CAVOK 01/M01 Q0995 LCEN 030820Z 29017KT 9999 FEW025TCU SCT030 17/09 Q1017 NOSIG ENSE 030820Z AUTO 21018KT 9999NDV FEW019/// SCT051/// BKN076/// 04/00 Q0993 W///S5 OYSQ 030800Z 06015KT 9999 FEW018 27/19 Q1015 ENRO 030820Z 34003KT 9999 4000SE R32/0500VP2000U VCFG BKN003 M13/M14 Q0994 ENSG 030750Z 07004KT 9999 2000E VCSH BR FEW/// SCT006 BKN020 M03/M04 Q0995 RMK WIND 3901FT 19012KT ENSH 030750Z VRB02KT 9999 FEW012 BKN045 02/01 Q0994 KJXI 030835Z AUTO 10004KT 1/2SM FG OVC003 05/05 A3009 RMK AO2 T00470047 KLFI 030758Z AUTO 05011KT 10SM CLR 00/M06 A3037 RMK AO2 SLP291 T00021056 $ KLGA 030751Z 31008KT 10SM CLR M03/M12 A3038 RMK AO2 SLP288 T10331117 ENRS 030750Z 19011KT 9999 SCT036 03/M02 Q0993 KLGB 030753Z 08003KT 10SM FEW060 11/07 A2998 RMK AO2 SLP150 T01060067 401560094 KLFK 030827Z AUTO 08003KT 3/4SM BR OVC002 09/08 A3011 RMK AO2 T00940078 ENSK 030750Z VRB02KT 9999 FEW009 SCT040 03/02 Q0994 KLGC 030835Z AUTO 12003KT 10SM OVC007 15/13 A3019 RMK AO2 T01460130 LBPD 030800Z 28022G33KT 9999 SCT061 BKN070 12/05 Q1014 NOSIG ENTC 030820Z 22008KT 9999 -RA FEW011 SCT023 BKN040 03/M01 Q0993 TEMPO 4000 -RASN VV012 RMK WIND 2600FT 18017KT ENSL 030820Z 26021KT 9999 SCT030 04/M02 Q0998 W04/S5 KLGD 030835Z AUTO 30015KT 10SM CLR M01/M09 A2998 RMK AO1 KLEW 030835Z AUTO 33003KT 10SM CLR M09/M20 A3023 RMK AO1 KJXN 030756Z 18005KT 7SM OVC095 M05/M09 A3023 RMK AO2 SLP250 T10501094 ENSN 030750Z 30004KT 9999 FEW/// M02/M02 Q0998 OYSY 030800Z 07003KT CAVOK 30/08 Q1017 KLEX 030754Z 07003KT 10SM CLR M01/M07 A3020 RMK AO2 SLP235 T10111067 ENSO 030820Z 17010KT 140V210 9999 VCSH SCT007 SCT010 BKN018 01/01 Q0998 KJYG 030834Z AUTO 13010KT 10SM OVC060 M04/M07 A2985 RMK AO2 KJWY 030835Z AUTO 00000KT 1/2SM FG OVC001 05/05 A3010 RMK AO2 T00450045 ENRY 030820Z VRB01KT 9999 FEW005 BKN009 01/01 Q0998 TEMPO BKN012 ENSR 030750Z 14015KT 9999 FEW030 BKN040 04/M02 Q0993 WIND 1119FT 15006KT ENSS 030750Z 18024KT 9999 SCT021 02/M01 Q1001 RMK WIND 500FT 19023KT KLFT 030830Z 04004KT 1/2SM FG VV002 12/12 A3013 RMK AO2 T01170117 KLHB 030835Z AUTO 00000KT 1 1/4SM BR OVC002 06/06 A3010 RMK AO2 T00600060 ENST 030820Z 16009KT 130V190 9999 FEW020 03/M02 Q0995 RMK WIND 300FT 14012KT KJYL 030835Z AUTO 12003KT 5SM DZ SCT004 BKN043 OVC050 14/14 A3022 RMK AO2 T01430143 KJYM 030834Z AUTO 14003KT 10SM SCT065 BKN080 OVC095 M05/M10 A3020 RMK AO2 T10531098 UUYY 030830Z 19003MPS 9999 OVC023 M01/M05 Q1022 NOSIG 19CLRD61 RMK QFE758/1010 KJYO 030815Z AUTO 02003KT 10SM CLR M02/M07 A3040 RMK AO2 OYTZ 030800Z 13012KT CAVOK 28/01 Q1022 ENTO 030820Z 27003KT 210V360 CAVOK M01/M02 Q0998 KJZI 030835Z AUTO 05009KT 10SM OVC016 13/12 A3024 RMK A02 P000 KJYR 030835Z AUTO 15006KT 10SM BKN014 OVC022 M01/M03 A2970 RMK AO2 ENVA 030820Z 11005KT CAVOK M01/M05 Q0996 NOSIG RMK WIND 670FT 14008KT FGBT 030400Z 00000KT 8000 TS BKN010 FEW020CB BKN100 26/24 Q1009 NOSIG KLGU 030751Z AUTO 13007KT 10SM BKN040 BKN120 M01/M02 A2977 RMK AO2 SLP084 T10061022 KLIC 030755Z AUTO 33006KT 5SM HZ CLR M04/M07 A2961 RMK AO2 SLP049 T10391067 KLHM 030835Z AUTO 06006KT 10SM CLR 04/03 A2999 RMK AO1 ENVD 030750Z 17014KT 9999 BKN022 02/M01 Q1000 EPBY 030830Z 26012KT 9999 BKN018 03/M00 Q1009 KLHQ 030753Z AUTO 00000KT 5SM BR CLR M07/M09 A3026 RMK AO2 SLP258 T10721094 ENVH 030820Z AUTO 25030KT 9999NDV SCT032/// 04/M02 Q1003 W///S5 UWKD 030830Z 15002MPS CAVOK M05/M09 Q1024 R11/7/0060 NOSIG RMK QFE758/1011 UWKE 030830Z 00000MPS CAVOK M07/M13 Q1025 NOSIG RMK QFE751/1002 21190060 KMAE 030753Z AUTO 00000KT 10SM CLR 05/03 A2998 RMK AO2 SLP152 T00500033 401670044 KLHW 030833Z AUTO 02003KT 1 3/4SM R33/3000FT BR BKN001 BKN110 14/14 A3019 RMK AO2 VIS 1 1/4V1 3/4 CIG 001V100 BKN001 V SCT KLHX 030753Z AUTO 27012KT 10SM CLR 06/M01 A2963 RMK AO2 PK WND 27029/0734 WSHFT 0640 SLP027 T00561006 KMAF 030753Z AUTO 15007KT 1/2SM FG VV003 04/03 A2997 RMK AO2 TWR VIS 2 1/2 SLP146 T00390033 KLJF 030833Z AUTO 14007KT 10SM SCT027 BKN040 OVC075 M05/M09 A2985 RMK AO2 LBSF 030830Z 29020KT 9999 BKN021 BKN026 08/04 Q1017 NOSIG DXNG 030800Z 08008KT CAVOK 26/M05 Q1015 NOSIG KLHZ 030815Z AUTO 00000KT 10SM OVC027 02/M02 A3036 RMK AO2 VOCB 030830Z VRB02KT 6000 FEW015 SCT018 FEW020TCU 32/20 Q1011 NOSIG KMAI 030753Z AUTO 00000KT 1/2SM FG VV002 13/13 A3018 RMK AO2 SLP219 T01330133 ENVR 030750Z 23006KT 9999 FEW020 BKN023 03/M01 Q0994 VOBL 030830Z VRB05KT 9999 SCT015 SCT020 31/22 Q1015 NOSIG KLIT 030753Z 00000KT 1/4SM FG OVC002 02/00 A3016 RMK AO2 SLP216 VIS W 1/2 T00170000 RVRNO KO22 030815Z AUTO 04003KT 10SM CLR 03/03 A2996 RMK AO1 KMAN 030815Z AUTO 31015G22KT 10SM 03/M05 A2988 RMK AO1 KMAO 030835Z AUTO 06005KT 10SM -RA OVC048 07/05 A3031 RMK AO2 VOCI 030830Z 29007KT 5000 HZ SCT015 FEW025CB 34/22 Q1009 NOSIG KMBG 030752Z AUTO 35024G33KT 10SM BKN015 OVC100 M04/M08 A2973 RMK AO2 PK WND 35035/0735 SLP085 T10391078 UWKS 030830Z 15003MPS CAVOK M03/M07 Q1022 NOSIG RMK QFE751 06900555 VNKT 030750Z 26007KT 8000 FEW020 FEW025CB SCT030 17/11 Q1015 NOSIG CB TO S VOCL 030830Z 31010KT 8000 FEW015 FEW025TCU 33/21 Q1010 NOSIG KMCB 030753Z AUTO 00000KT 1/4SM FG VV002 16/16 A3014 RMK AO2 SLP202 T01610161 KMBL 030835Z AUTO 16006KT 5SM SCT013 OVC021 M06/M10 A3015 RMK AO1 KMCC 030835Z AUTO 02004KT 10SM CLR 08/05 A3002 RMK AO2 KMCD 030835Z AUTO 16007KT 10SM CLR M10/M15 A3015 RMK AO2 T11001155 EPGD 030830Z 26013KT 9999 FEW005 BKN011 02/01 Q1005 KMCE 030753Z AUTO 02003KT 10SM CLR 07/06 A2998 RMK AO2 RAB00E10 SLP152 P0000 T00670056 KMCF 030758Z AUTO 07003KT 10SM CLR 18/18 A3018 RMK AO2 SLP223 T01790179 KLKR 030835Z AUTO 07007KT 10SM OVC041 09/M02 A3027 RMK AO2 KMCI 030753Z 17012KT 5SM -DZ OVC008 01/M01 A2988 RMK AO2 DZB51 SLP124 P0000 T00061006 KMBS 030753Z 17005KT 10SM BKN100 OVC120 M05/M11 A3026 RMK AO2 SLP257 T10501106 KLLJ 030755Z AUTO 27006KT 10SM OVC046 M02/M04 A2972 RMK AO2 SNE44 SLP075 P0001 T10171044 KMCJ 030835Z AUTO 09008KT M1/4SM OVC001 15/15 A3005 RMK AO1 KMCK 030806Z AUTO 10008KT 8SM OVC015 M01/M04 A2957 RMK AO2 PRESFR T10061044 LCLK 030830Z 24004KT 170V300 9999 FEW025TCU SCT030 18/10 Q1018 NOSIG UWLW 030800Z 23001MPS 8000 SKC M04/M08 Q1025 20800255 NOSIG RMK QFE763 KLKU 030835Z AUTO 00000KT 10SM CLR M02/M07 A3037 RMK AO2 KLKV 030835Z 36013KT 10SM CLR M02/M08 A2997 RMK AO1 KMDD 030815Z AUTO 16008KT 3/4SM BR OVC001 05/05 A2997 RMK AO2 T00450045 KMCN 030753Z AUTO 00000KT 10SM OVC028 14/13 A3020 RMK AO2 SLP222 T01440128 TSNO KMCO 030826Z 00000KT 3SM R35L/1000V1600FT BR BCFG SCT001 18/18 A3019 RMK AO2 T01780178 KMDH 030752Z AUTO 13005KT 10SM OVC025 01/M04 A3011 RMK AO2 PRESFR SLP200 T00061044 KLLQ 030805Z AUTO 00000KT 1 1/4SM BR OVC003 03/03 A3015 RMK AO2 RAB0759E05 P0000 T00330028 KMDJ 030835Z AUTO 13011KT 22/21 A3015 RMK A01 KMEB 030752Z AUTO 10012KT 10SM OVC050 07/02 A3034 RMK AO2 SLP273 T00670022 KLNC 030835Z AUTO 00000KT 1/4SM FG OVC001 05/04 A3009 RMK AO2 T00500042 KLND 030819Z AUTO 13008KT 1SM -SN BR FEW007 OVC016 M06/M07 A2972 RMK AO2 P0001 T10611072 KMCW 030826Z AUTO 14012KT 9SM BKN026 OVC032 M05/M08 A2988 RMK AO2 T10501078 KO54 030815Z AUTO 00000KT 10SM CLR 00/M01 A3000 RMK AO1 KLMO 030834Z AUTO 26016G31KT 10SM CLR 07/M07 A2960 RMK AO2 T00711071 KMCX 030835Z AUTO 11005KT 10SM BKN070 BKN120 M04/M08 A3015 RMK AO2 T10381084 KMEH 030756Z AUTO 00000KT 10SM BKN050 M04/M08 A2997 RMK AO2 SLP174 T10391083 400331061 KMDQ 030835Z AUTO 00000KT 10SM OVC013 07/05 A3017 RMK AO2 KMEI 030823Z AUTO 00000KT 3SM BR OVC003 11/11 A3015 RMK AO2 T01110111 KMDS 030830Z AUTO 16008KT 10SM OVC060 M05/M05 A2972 RMK AO2 KLMT 030753Z AUTO 06006KT 10SM CLR 00/M06 A2998 RMK AO2 SLP155 T00001061 400941044 KLNK 030804Z AUTO 16010KT 7SM OVC014 00/M04 A2977 RMK AO2 T00001039 KMDT 030756Z 00000KT 10SM BKN250 M07/M11 A3040 RMK AO2 SLP300 T10721111 LDDU 030830Z 04009KT 010V070 CAVOK 14/01 Q1018 BECMG 32010KT KLNL 030815Z AUTO 19004KT 10SM SCT047 BKN060 OVC070 M07/M15 A2997 RMK AO2 T10711146 UWOO 030830Z 04004MPS P5000 SKC M06/M10 Q1024 08810254 NOSIG RMK QFE757/1010 KMFD 030752Z AUTO 11009KT 10SM OVC100 M06/M12 A3024 RMK AO2 SLP260 T10611117 KMEM 030754Z 14006KT 1SM R36L/5500VP6000FT -DZ BR OVC003 06/04 A3014 RMK AO2 SLP206 P0000 T00560044 ENZV 030820Z 27006KT 9999 -DZ FEW018CB SCT020 BKN027 02/01 Q0999 TEMPO 3000 SHRASNGS BKN012CB KMDW 030753Z 13007KT 9SM OVC070 M02/M08 A3017 RMK AO2 SLP228 T10221083 KMFE 030813Z AUTO 00000KT 3/4SM BR OVC002 12/11 A3006 RMK AO2 T01170111 KLNN 030835Z AUTO 15004KT 10SM BKN120 M06/M12 A3031 RMK AO1 T10601117 LBWN 030830Z 34003KT 5000 BR SCT025 BKN036 09/08 Q1011 R99/29//95 TEMPO 4000 RA UWOR 030800Z VRB02MPS CAVOK M12/M15 Q1024 07390160 NOSIG RMK QFE743/0990 KLNP 030815Z AUTO 17009KT 10SM CLR 06/M05 A3015 RMK AO2 KMDZ 030815Z AUTO 16005KT 10SM SCT022 BKN060 OVC090 M07/M09 A2998 RMK AO2 T10731090 KMER 030835Z AUTO 00000KT 10SM CLR 04/04 A2999 RMK AO1 KMFI 030754Z AUTO 15005KT 10SM OVC085 M06/M09 A3003 RMK AO2 SLP191 T10611089 KLNR 030756Z AUTO 09006KT 9SM OVC070 M04/M08 A3006 RMK AO2 SLP185 T10441083 KLNS 030753Z AUTO 03006KT 10SM CLR M07/M13 A3039 RMK AO2 SLP296 T10671133 KO69 030835Z AUTO 28004KT 10SM FEW018 05/04 A3002 RMK AO1 DXSK 021800Z 00000KT 3000 HZ NSC 35/M03 Q//// KLOL 030753Z AUTO 04004KT 9SM BKN055 BKN070 OVC090 03/M02 A2990 RMK AO2 SLP128 T00281022 401111050 KLPC 030835Z AUTO 09003KT 10SM CLR 06/03 A2997 RMK AO1 KMGC 030815Z AUTO 12006KT 10SM OVC080 M03/M12 A3018 RMK AO2 KLOM 030835Z AUTO 00000KT 10SM CLR M03/M12 A3040 RMK AO1 KMEV 030835Z AUTO 14004KT 10SM CLR M03/M05 A2996 RMK AO2 KMGE 030758Z AUTO 01003KT 10SM OVC013 11/07 A3021 RMK AO2 SLP230 T01060068 $ KMGG 030836Z AUTO 14006KT 10SM BKN048 BKN060 OVC085 M05/M09 A2988 RMK AO2 T10471089 KMEZ 030835Z AUTO 00000KT 3/4SM OVC001 03/02 A3007 RMK AO2 LCPH 030830Z 27012KT 9999 SCT021 FEW024TCU 18/12 Q1019 KLOR 030835Z AUTO 00000KT 1/2SM FG SCT002 OVC042 14/14 A3016 RMK AO2 T01440139 KMFR 030753Z AUTO 00000KT 10SM OVC045 07/02 A3008 RMK AO2 SLP186 T00670022 401390039 KMGJ 030754Z AUTO 19003KT 10SM CLR M12/M17 A3034 RMK AO2 SLP279 T11221167 TSNO KLOT 030815Z AUTO 14009KT 10SM OVC065 M03/M08 A3012 RMK AO2 T10341078 EPLB 030830Z 26013KT CAVOK 04/M00 Q1011 EPKK 030830Z 25011KT 5000 -SHSN BR SCT014CB BKN030 01/00 Q1015 R25/51//95 KLOU 030753Z AUTO 00000KT 10SM OVC050 00/M08 A3022 RMK AO2 SLP237 T00001078 KMGM 030810Z AUTO 13003KT 3/4SM BR VV002 14/14 A3018 RMK AO2 KMFV 030835Z AUTO 01006KT 10SM CLR M01/M09 A3040 RMK AO2 KMHE 030753Z AUTO 15010KT 10SM M02/M07 A2974 RMK AO2 SLP085 T10171072 $ KMGN 030834Z AUTO 07004KT 10SM BKN110 M14/M17 A3016 RMK AO2 T11461173 FHAW 030550Z 13010KT 9999 FEW014 25/22 Q1011 BLU NOSIG VOHS 030810Z 27006KT 6000 SCT015 SCT025 31/17 Q1014 NOSIG KLOZ 030753Z AUTO 00000KT 10SM BKN080 01/M06 A3017 RMK AO2 SLP220 T00111056 KO86 030830Z AUTO 00000KT 10SM CLR 00/00 A3001 RMK AO1 KLPR 030753Z AUTO 16005KT 9SM OVC100 M07/M12 A3031 RMK AO2 SLP278 T10721117 TSNO KMGR 030835Z AUTO 00000KT 3/4SM BR VV005 13/13 A3020 RMK AO2 KMIA 030753Z 09004KT 10SM FEW025 22/18 A3015 RMK AO2 SLP211 98612 T02170183 $ LCRA 030750Z 26015KT 9999 FEW025 17/09 Q1018 NOSIG KMIB 030828Z 31028G34KT 2SM R29/3500FT BLSN FEW024 M13/M15 A2989 RMK AO2A SNE0758DZB0758 $ KMHK 030752Z AUTO 19008KT 7SM OVC007 02/01 A2982 RMK AO2 SLP105 T00170006 TSNO KLQK 030835Z AUTO 10SM OVC021 10/03 A3025 RMK AO2 T01040029 KMIC 030653Z AUTO 14008KT 10SM OVC042 M05/M11 A2997 RMK AO2 SNB04E16 SLP163 P0000 T10501111 TSNO EPKT 030830Z 25014KT 7000 -SHSN FEW008 BKN023CB 00/M00 Q1015 EPLL 030830Z 26011KT 9999 SCT012 OVC018 01/00 Q1012 KLRD 030814Z AUTO 00000KT 2 1/2SM -RA BR OVC003 08/08 A3008 RMK AO2 CIG 002V005 P0000 VOHY 030640Z 27008KT 5000 HZ FEW020 SCT025 29/17 Q1016 NOSIG KMGW 030753Z AUTO 00000KT 10SM CLR M04/M10 A3029 RMK AO2 SLP271 T10441100 TSNO KMIE 030753Z AUTO 14004KT 8SM OVC110 M04/M09 A3022 RMK AO2 SLP241 T10441094 KLRF 030833Z AUTO 10002KT 1SM R25/4500FT BR OVC002 01/00 A3012 RMK AO2 KMGY 030753Z AUTO 12005KT 10SM CLR M04/M09 A3024 RMK AO2 SLP253 T10391094 KMHR 030655Z 04003KT 10SM SCT110 05/04 A2998 KMHS 030756Z AUTO 00000KT 10SM OVC046 03/M02 A2999 RMK AO2 SLP175 T00331017 401220006 KP08 030835Z AUTO 10005KT 10SM FEW033 FEW040 FEW100 10/09 A2996 RMK AO2 KLRJ 030835Z AUTO 13008KT 10SM OVC029 M02/M05 A2977 RMK AO2 KMHT 030753Z 29005KT 10SM CLR M07/M16 A3027 RMK AO2 SLP271 T10671161 KLSB 030835Z AUTO 29003KT 10SM SCT022 OVC033 06/04 A2996 RMK AO2 LEAB 030800Z 00000KT CAVOK 10/07 Q1026 NOSIG KMHV 030835Z AUTO 23004KT 10SM CLR 03/01 A2994 RMK AO1 KLSE 030753Z AUTO 13005KT 10SM OVC070 M03/M09 A3003 RMK AO2 SLP184 T10331094 KLSF 030836Z AUTO 00000KT 6SM R33/5000FT BR OVC009 16/15 A3018 RMK AO2 DZB09E26 CIG 009V011 KLRO 030815Z AUTO 06005KT 8SM OVC018 13/12 A3024 RMK AO2 EPMO 030830Z 25013KT 9999 BKN014 03/00 Q1010 LEAG 030830Z AUTO VRB03KT 9999 // NCD 15/13 Q1025 UWSS 030830Z VRB02MPS CAVOK M08/M10 Q1021 300///60 NOSIG RMK QFE752 LEBA 030800Z 00000KT CAVOK 08/07 Q1025 KMIS 030835Z AUTO 00000KT 9SM CLR 22/19 A3015 RMK A01 KNAK 030754Z AUTO 31003KT 10SM CLR M02/M09 A3041 RMK AO2 SLP299 T10171089 LEBB 030830Z VRB02KT 6000 SCT028 BKN038 11/10 Q1025 NOSIG KMKC 030810Z 17010KT 5SM BR BKN008 OVC012 02/M01 A2991 RMK AO2 T00171006 KLRU 030835Z AUTO 25007KT 10SM SCT039 BKN055 OVC070 13/07 A2994 RMK AO2 T01270065 KNBC 030756Z AUTO 00000KT 7SM OVC006 13/13 A3021 RMK AO2 CIG 004V009 SLP232 T01330128 $ LEAL 030830Z 06008KT CAVOK 16/13 Q1024 NOSIG KMIV 030754Z AUTO 30005KT 10SM CLR M03/M08 A3039 RMK AO2 SLP291 T10281083 $ LEAM 030830Z 00000KT 0700 FG BKN001 12/12 Q1024 KMKE 030752Z 19003KT 7SM OVC110 M04/M09 A3016 RMK AO2 SLP226 T10391089 KMIW 030753Z AUTO 14014KT 10SM OVC024 M04/M07 A2992 RMK AO2 SLP145 T10391072 LEAO 030800Z 00000KT 0200 FG VV001 07/07 Q1026 LEBG 030800Z 23010KT 9999 BKN011 09/08 Q1025 KNBG 030804Z AUTO 14004KT 1/2SM FG VV006 19/17 A3013 RMK AO2 T01890172 $ KMKG 030755Z AUTO 13006KT 10SM OVC100 M04/M09 A3022 RMK AO2 SNE01 SLP243 P0000 T10441089 KMJQ 030833Z AUTO 14009KT 10SM OVC060 M04/M07 A2980 RMK AO2 KNCA 030756Z 06006KT 10SM CLR 04/M02 A3035 RMK SLP281 T00391022 KP28 030756Z AUTO 17007KT 01/M01 A2984 RMK AO1 SLP116 T00061006 KLUA 030835Z AUTO 00000KT 10SM CLR M01/M06 A3034 RMK AO2 KMKJ 030815Z AUTO 10005KT 10SM CLR 00/M07 A3024 RMK AO2 T00001066 LEAS 030830Z VRB02KT 0600 R29/0700N R11/1500N RA OVC002 10/10 Q1024 NOSIG KMLB 030835Z AUTO 00000KT 1/2SM FG VV002 17/17 A3017 RMK AO2 T01720167 KMLC 030753Z AUTO 19009G16KT 3SM BR OVC003 03/03 A3006 RMK AO2 RAB10E26 SLP180 P0000 T00330028 KMKL 030835Z AUTO VRB03KT 5SM BR OVC004 06/05 A3012 RMK AO2 T00610050 LEBL 030830Z 30003KT 260V350 9999 FEW018 14/10 Q1026 NOSIG KLUD 030835Z AUTO 20004KT 3/4SM BR OVC002 03/03 A3006 RMK AO2 T00300030 KLSV 030758Z AUTO 07009KT 10SM CLR 07/04 A2994 RMK AO2 SLP136 T00700038 401470065 KMKN 030835Z AUTO 17005KT 3/4SM BR OVC003 03/03 A3006 RMK AO2 T00320032 KMLE 030835Z AUTO 13006KT 10SM OVC017 00/M05 A2976 RMK AO2 T00001047 KMKO 030837Z AUTO 17010KT 4SM BR OVC004 02/01 A3004 RMK AO2 RAB18E25UPB25E31 P0000 T00220011 KMLF 030752Z AUTO 18012KT 10SM BKN060 M01/M03 A2987 RMK AO2 SLP123 T10061033 TSNO KMJX 030835Z AUTO 00000KT 10SM CLR M06/M12 A3042 RMK AO1 KLUF 030818Z AUTO 02006KT 10SM BKN075 10/09 A2996 RMK AO2 $ KMLI 030837Z AUTO 14010KT 2 1/2SM -SN OVC022 M03/M06 A3003 RMK AO2 UPB04E20SNB20 P0003 I1000 T10331061 $ UWUU 030830Z 00000MPS 4000 BR SCT007 BKN200 M09/M11 Q1026 821///48 NOSIG RMK QBB210 QFE758/1011 KMKS 030855Z AUTO 08006KT 10SM OVC011 13/11 A3024 RMK AO2 KLTS 030833Z AUTO 17012KT 10SM BKN009 OVC020 03/03 A2998 RMK AO2 CIG 009V019 BKN V SCT $ KMLJ 030835Z AUTO 00000KT 10SM OVC026 15/12 A3021 RMK AO2 VOMM 030810Z 11012KT 8000 FEW020 32/23 Q1010 NOSIG LEBT 030800Z AUTO 00000KT CAVOK 15/11 Q1025 KLUK 030753Z AUTO 02004KT 10SM CLR M03/M09 A3028 RMK AO2 SLP260 T10331089 KMKT 030835Z AUTO 14011KT 10SM OVC060 M05/M09 A2986 RMK AO1 KNBT 030756Z AUTO A3037 RMK AO2 SLP290 PWINO PNO KLUM 030835Z AUTO 11004KT 10SM OVC075 M06/M08 A2996 RMK AO2 T10591085 LECO 030830Z 00000KT 2000 -RA BR BKN002 BKN006 10/10 Q1024 TEMPO 0800 DZ BCFG DXXX 030800Z 25004KT 8000 FEW013 29/26 Q1011 NOSIG EPPO 030830Z 26012KT 9999 -DZ OVC007 02/00 Q1011 KMLP 030827Z AUTO VRB05KT 10SM BKN007 BKN011 M13/M15 A2985 RMK AO2 CIG 004V009 T11331150 KMKY 030835Z AUTO 05004KT 10SM CLR 18/17 A3014 RMK AO1 KMMH 030835Z AUTO 27003KT 10SM OVC038 M04/M06 A2993 RMK AO1 LEBZ 030800Z 29003KT 260V320 0600 R31/1100U FG VV001 10/10 Q1026 KMMI 030835Z AUTO 00000KT 10SM OVC026 05/04 A3021 RMK KLVJ 030753Z AUTO 10005KT 1/2SM FG VV002 15/15 A3011 RMK AO2 SLP195 T01500150 KMLS 030753Z AUTO 36017KT 10SM OVC026 M08/M13 A3004 RMK AO2 PK WND 35029/0706 SLP199 T10831133 KLWA 030835Z AUTO 15006KT 10SM OVC065 M03/M10 A3018 RMK AO2 T10291096 KLVK 030753Z AUTO 00000KT 10SM CLR 07/04 A2998 RMK AO2 SLP153 T00720039 401670039 KMLT 030753Z AUTO 29013G22KT 10SM CLR M12/M22 A3012 RMK AO2 PK WND 29036/0703 UPE00 SLP211 P0001 T11221217 KMMK 030753Z AUTO 29004KT 10SM CLR M08/M14 A3037 RMK AO2 SLP284 T10781144 TSNO KLWB 030815Z AUTO 03004KT 10SM CLR M03/M07 A3023 RMK AO2 T10301070 LEEC 030800Z 12001KT 0250 FG OVC001 12/11 Q1025 KLWC 030801Z AUTO 17010KT 2 1/2SM BR OVC006 01/00 A2989 RMK AO2 T00110000 KMLU 030753Z AUTO 00000KT 1/2SM FG VV002 05/05 A3017 RMK AO2 SLP215 T00500050 KMML 030835Z AUTO 17011KT 10SM OVC060 M04/M08 A2980 RMK AO1 KLVL 030835Z AUTO 00000KT 10SM BKN040 00/M04 A3037 RMK AO1 T10011043 LECV 030800Z VRB01KT 0150 FG NSC 07/07 Q1025 KLVM 030815Z AUTO 10014KT 3SM -SN OVC032 M10/M13 A2998 RMK AO2 P0000 T11001133 KLWD 030826Z AUTO 16010KT 10SM OVC014 M01/M04 A2986 RMK AO2 PRESFR T10111044 KLVN 030801Z AUTO 14006KT 10SM OVC070 M07/M11 A2993 RMK AO2 KP53 030756Z AUTO 18006KT M08/M13 A3010 RMK AO1 SLP205 T10831133 KMNE 030815Z AUTO 00000KT 1SM BR OVC003 05/04 A3015 RMK AO2 T00470041 KLUX 030835Z AUTO 05007KT 7SM OVC034 11/08 A3025 RMK AO2 KMNH 030836Z AUTO 23016G22KT 10SM CLR 01/M09 A2963 RMK AO2 KMNI 030835Z AUTO 08004KT 10SM OVC010 12/05 A3025 RMK AO2 KP58 030751Z AUTO 20005KT M07/M13 A3027 RMK AO1 SLP267 T10671128 KLVS 030753Z AUTO 25017G26KT 10SM CLR 04/M02 A2984 RMK AO2 PK WND 27026/0748 SLP081 T00391017 KP59 030751Z AUTO 26008KT M07/M16 A3000 RMK AO1 SLP179 T10721161 KP60 030756Z AUTO VRB04KT M11/M14 A2965 RMK AO1 SLP076 T11061139 KMOB 030756Z AUTO 15005KT 1/4SM FG VV002 16/ A3018 RMK AO2 SLP218 T0156 $ KMMT 030838Z AUTO 08004KT 10SM BKN014 OVC034 13/11 A3024 RMK AO2 UWWW 030830Z VRB01MPS CAVOK M07/M12 Q1024 05810550 15//99// NOSIG RMK QFE754/1006 KMMU 030835Z AUTO 00000KT 10SM CLR M10/M15 A3039 RMK AO2 EPSC 030830Z 26011KT 9999 SCT007 BKN011CB 02/01 Q1010 KMMV 030753Z AUTO 31003KT 10SM CLR 04/01 A3013 RMK AO2 SLP204 T00440006 401330022 KMOD 030753Z AUTO 14003KT 10SM CLR 08/06 A2998 RMK AO2 SLP154 T00780056 401780061 KLWM 030754Z AUTO 30007KT 10SM CLR M07/M17 A3031 RMK AO2 SLP265 T10671167 KMNM 030835Z AUTO 22010KT 10SM BKN070 OVC085 M04/M09 A3008 RMK AO1 KMNN 030753Z AUTO 12007KT 8SM OVC090 M06/M12 A3026 RMK AO2 SLP263 T10611117 TSNO KNFE 030756Z AUTO 00000KT 10SM CLR 02/M07 A3039 RMK AO2 SLP294 T00171067 KNFG 030754Z AUTO 03003KT 10SM CLR 07/04 A2998 RMK AO2 SLP152 T00720044 401500072 KNDZ 030756Z AUTO 00000KT 1/4SM FG VV002 18/17 A3018 RMK AO2 SLP204 T01830167 $ LEGA 030800Z 00000KT CAVOK 11/08 Q1025 KP68 030753Z AUTO 17005KT M03/M06 A2985 RMK AO1 SLP112 T10331056 400171072 KLWS 030756Z AUTO 24003KT 10SM SCT030 BKN040 OVC055 02/01 A3001 RMK AO2 SLP174 T00170006 400671017 KP69 030752Z AUTO VRB03KT 01/M02 A3000 RMK AO1 SLP176 P0003 T00061022 400941044 KLWT 030806Z AUTO VRB06KT 4SM -SN BR OVC031 M12/M14 A3008 RMK AO2 P0000 T11221144 KLXL 030834Z AUTO 15008KT 4SM -SN OVC010 M06/M08 A2984 RMK AO2 KNFL 030756Z AUTO 25003KT 10SM BKN080 OVC100 04/M01 A2991 RMK AO2 SLP102 T00391011 401111022 FGSL 030300Z 00000KT 9999 FEW010 26/24 Q1010 RETS NOSIG KLWV 030753Z AUTO 11008KT 8SM OVC042 M01/M06 A3017 RMK AO2 SLP221 T10061061 KNEW 030753Z AUTO 13004KT 1/4SM FG VV002 18/16 A3014 RMK AO2 SLP200 T01780161 TSNO KLXN 030835Z AUTO 11003KT 10SM OVC013 M02/M05 A2962 RMK AO2 T10171050 LEGE 030830Z 15001KT 8000 FEW005 BKN035 11/10 Q1025 KMOP 030835Z AUTO 16004KT 10SM OVC050 M05/M10 A3022 RMK AO2 T10551097 KLYH 030837Z AUTO 09004KT 10SM OVC031 01/M08 A3036 RMK AO2 T00111083 KMNZ 030835Z AUTO 00000KT 1/4SM DZ OVC002 04/04 A3007 RMK AO2 T00400040 EPRZ 030830Z 25014KT 9999 -SHRA SCT011CB SCT017 02/00 Q1014 KMOR 030815Z AUTO 07004KT 10SM BKN040 OVC070 04/M02 A3018 RMK LDOS 030830Z 34008KT CAVOK 06/00 Q1024 KMOT 030837Z AUTO 30025G34KT 5SM -SN FEW012 SCT024 M13/M17 A2991 RMK AO2 PK WND 29034/0835 P0000 T11281167 KLXT 030809Z AUTO 17008KT 2 1/2SM BR OVC007 01/M01 A2991 RMK AO2 CIG 004V008 T00061011 KMQB 030835Z AUTO 15009KT 10SM -RA OVC026 M02/M04 A3006 RMK AO2 P0001 T10171037 LEHC 021500Z 29015KT 9999 FEW050 17/09 Q1021 LDPL 030830Z 06013KT 030V100 CAVOK 12/02 Q1020 NOSIG KLXV 030753Z AUTO VRB04KT 10SM BKN044 OVC060 M08/M13 A2969 RMK AO2 UPE01 SLP004 P0000 T10781133 KNFW 030808Z AUTO 21003KT 2 1/2SM BR BKN004 OVC010 05/04 A3014 RMK AO2 VIS 1 3/4 N T00500039 $ KMQE 030754Z AUTO 31012KT M08/M16 A3025 RMK AO1 SLP263 T10831156 KMOX 030833Z AUTO 16014KT 1SM -SN OVC011 M04/M06 A2977 RMK AO2 KMPO 030753Z AUTO 30003KT 10SM CLR M11/M16 A3026 RMK AO2 SLP277 T11111156 KNGP 030756Z AUTO 03008KT 1/4SM FG VV002 12/12 A3006 RMK AO2 DZE51 SLP179 P0000 T01220122 KLXY 030835Z AUTO 00000KT 3/4SM BR OVC003 06/06 A3006 RMK AO2 T00570056 KMQI 030823Z AUTO 02010KT 10SM CLR 02/M03 A3038 RMK AO2 LEGR 030830Z VRB01KT 8000 NSC 09/08 Q1026 KMQJ 030835Z AUTO 10006KT 10SM CLR M04/M12 A3019 RMK AO1 LEGT 030820Z 00000KT 0800 R05/1200 FG BKN003 09/09 Q1025 KNHK 030752Z AUTO 34004KT 10SM CLR M01/M08 A3042 RMK AO2 SLP300 T10111083 KMRB 030753Z AUTO 03004KT 10SM CLR M04/M09 A3039 RMK AO2 SLP297 T10441094 TSNO LEIB 030830Z 06009KT 9999 FEW010 15/14 Q1024 NOSIG KMRC 030835Z AUTO 00000KT OVC009 A3014 RMK KNGU 030759Z 04009KT 10SM BKN250 02/M05 A3040 RMK AO2 SLP294 T00221050 KP92 030753Z AUTO 00000KT 19/19 A3011 RMK AO1 SLP197 T01940189 KMPV 030751Z AUTO 28005KT 10SM CLR M13/M19 A3028 RMK AO2 SLP278 T11281189 KLYV 030836Z AUTO 17006KT 10SM CLR M03/M06 A2976 RMK AO2 KNID 030756Z AUTO 19005KT CLR 04/02 A2993 RMK AO2 SLP138 T00390017 401440039 $ KMRF 030835Z AUTO 00000KT 10SM CLR 05/02 A3001 RMK AO1 KMPZ 030835Z AUTO 13013KT 7SM UP BKN026 BKN034 OVC042 M02/M05 A2996 RMK AO2 T10251047 KMRH 030758Z AUTO 03006KT 10SM CLR 03/M01 A3036 RMK AO2 SLP282 T00281011 TSNO LDRI 030830Z VRB02KT CAVOK 11/M03 Q1021 KMQS 030835Z AUTO 00000KT 10SM CLR M05/M12 A3037 RMK AO2 KMRJ 030810Z AUTO 13008KT 10SM OVC060 M03/M07 A3002 RMK AO2 EPWA 030830Z 27011KT 220V300 9999 BKN016 03/M00 Q1010 TEMPO 5000 SHSN BKN015CB KLZU 030145Z 00000KT 10SM OVC100 13/06 A3025 RMK CLOSING FORECAST ; OO KMRN 030835Z AUTO 00000KT 10SM -RA OVC036 05/04 A3034 RMK AO2 T00500040 KNIP 030753Z 00000KT 10SM BKN030 BKN100 BKN250 18/14 A3021 RMK AO2 SLP226 T01780144 KMQY 030756Z AUTO 00000KT 10SM OVC018 06/00 A3020 RMK AO2 T00610000 OVC V BKN SLP237 KLZZ 030835Z AUTO 00000KT 1/2SM FG OVC001 05/04 A3006 RMK AO2 P0001 T00450042 KOAJ 030835Z AUTO 05009KT 10SM OVC060 03/M02 A3035 RMK AO1 LFBA 030830Z AUTO 06002KT 9999 NSC 10/09 Q1025 KOAK 030753Z 12004KT 10SM CLR 10/06 A2998 RMK AO2 SLP153 T01000061 401500072 KMRT 030833Z AUTO 00000KT 10SM OVC090 M06/M10 A3024 RMK AO2 T10561103 KNJK 030756Z AUTO 31006KT 10SM CLR 10/06 A2994 RMK AO2 SLP154 T01000056 401780094 KMSL 030753Z AUTO 00000KT 4SM BR OVC008 07/05 A3019 RMK AO2 SLP225 T00720050 KMTC 030758Z AUTO 00000KT 10SM BKN100 M08/M11 A3027 RMK AO2 SLP263 T10831107 $ LFBC 030830Z AUTO 16003KT 4300 -RA BR FEW026/// BKN037/// BKN049/// ///TCU 10/10 Q1025 LFBD 030830Z AUTO 18005KT 9999 -RA SCT004/// SCT018/// BKN052/// ///TCU 10/09 Q1025 KNJM 030757Z AUTO 05009KT 10SM CLR 04/M03 A3036 RMK AO2 SLP282 T00391033 $ KMSN 030753Z AUTO 14007KT 10SM OVC070 M04/M10 A3008 RMK AO2 SLP199 T10441100 KOBE 030835Z AUTO 00000KT 1/2SM FG OVC001 16/16 A3018 RMK AO2 LFBE 030830Z AUTO VRB02KT 9999 OVC005/// ///TCU 10/09 Q1025 KMSO 030753Z AUTO 13012KT 10SM FEW065 BKN080 M06/M12 A3008 RMK AO2 SLP221 T10611117 VOTR 030810Z 10008KT 8000 SCT016 35/20 Q1010 NOSIG KMSP 030753Z 13007KT 10SM OVC070 M06/M12 A2994 RMK AO2 SLP153 T10561117 KMRY 030754Z AUTO 10004KT 10SM CLR 07/05 A2998 RMK AO2 SLP165 T00720050 401390072 LDSP 030830Z 03006KT 340V080 CAVOK 14/03 Q1021 NOSIG LFBG 030830Z AUTO 16004KT 090V180 0700 R23/1100N FG VV/// 08/07 Q1025 LFBH 030830Z AUTO 17007KT 9000 FEW021 BKN035 OVC120 09/08 Q1024 KMTH 030753Z AUTO 08009KT 10SM FEW024 23/20 A3013 RMK AO2 SLP201 T02330200 LFAQ 030830Z AUTO 19013KT 9999 NSC 04/01 Q1018 LFBI 030830Z AUTO 19008KT 9999 NSC 07/04 Q1023 LEJR 030830Z 17004KT 140V200 6000 BKN004 14/14 Q1025 EPWR 030830Z 30019G30KT 9999 FEW009 SCT033 05/M02 Q1015 KMTJ 030753Z AUTO 21013G24KT 10SM CLR 02/M04 A2984 RMK AO2 PK WND 21027/0734 SLP079 T00221044 $ KMSS 030753Z AUTO 20003KT 10SM CLR M19/M22 A3038 RMK AO2 SLP297 I1000 T11941217 VOTV 030740Z 24005KT 6000 FEW015 FEW025CB SCT090 32/26 Q1010 NOSIG LFAT 030830Z AUTO 19010KT 140V220 9999 BKN026/// BKN049/// OVC092/// ///CB 06/03 Q1016 LELC 030800Z 01001KT CAVOK 15/10 Q1023 NOSIG LFBL 030830Z AUTO 17004KT 9999 BKN003 BKN021 06/05 Q1024 KNLC 030756Z 28007KT 10SM FEW100 03/01 A2998 RMK AO2 SLP153 RH/85 T00330011 401610028 $ KMSV 030835Z AUTO 26004KT 10SM CLR M12/M16 A3030 RMK AO1 LFBM 030830Z AUTO 06002KT 7000 BKN002 OVC046 10/10 Q1025 KMTN 030821Z AUTO 30003KT 10SM CLR M03/M06 A3043 RMK AO2 LFBO 030830Z AUTO VRB01KT 9999 FEW008 OVC042 10/09 Q1026 KMTO 030753Z AUTO 13013G20KT 10SM UP BKN043 OVC095 M02/M08 A3008 RMK AO2 UPB05 SLP195 P0000 T10171078 KOCF 030835Z AUTO 36003KT 2SM BKN002 16/14 A3019 RMK AO1 KMTP 022054Z AUTO 27008KT 02/M06 A3010 RMK AO1 SLP191 T00221056 53011 LFBP 030830Z AUTO VRB02KT 9999 OVC044 10/09 Q1025 KMSY 030753Z 16004KT 1/16SM FG VV002 19/18 A3014 RMK AO2 SLP207 T01890183 RVRNO $ KOCH 030835Z AUTO 12004KT 1 3/4SM OVC003 07/06 A3012 RMK AO1 KMUI 030758Z AUTO VRB03KT 10SM CLR M06/M14 A3039 RMK AO2 SLP300 T10641142 LFCK 030830Z AUTO VRB01KT 9999 BKN007 BKN048 OVC054 09/08 Q1027 LFBT 030830Z AUTO VRB02KT 9999 FEW004 OVC072 09/08 Q1024 KNKT 030754Z 06007KT 10SM CLR 04/M03 A3038 RMK AO2 SLP283 T00391033 $ LELL 030830Z VRB02KT 9999 FEW014 BKN037 13/11 Q1026 LFBU 030830Z AUTO 17003KT 130V220 8000 BKN003 07/06 Q1024 KMTV 030815Z AUTO 03003KT 10SM OVC048 03/M04 A3035 RMK AO2 T00261037 LEMD 030830Z VRB02KT 4000 BR BKN004 OVC006 09/09 Q1026 NOSIG KMVE 030834Z AUTO 19010G14KT 10SM OVC060 M04/M07 A2981 RMK AO2 KMTW 030830Z AUTO 20006KT 8SM FEW009 BKN055 OVC090 M05/M06 A3012 RMK AO2 SNE13 P0000 FZRANO LELN 030800Z 00000KT 1200 R23/0900U R05/1300U BCFG BR BKN001 SCT020 07/07 Q1024 LELO 030800Z 00000KT 9999 SCT010 SCT030 11/11 Q1025 KNKX 030755Z 08006KT 10SM FEW065 10/07 A2996 RMK AO2 RAE26 SLP143 P0001 T01000072 401670100 KMUO 030808Z AUTO 29020KT 10SM SCT075 BKN090 01/M06 A2983 RMK AO2 LEMG 030830Z 29005KT 260V320 CAVOK 14/12 Q1024 NOSIG LFBY 030800Z 10002KT 6000 BKN040 10/10 Q1025 EPZG 030830Z 24015KT 9999 SCT009 BKN020 OVC030 02/01 Q1014 LFBZ 030830Z AUTO 07003KT 9999 BKN032 OVC040 10/10 Q1025 KMVH 030835Z AUTO 33013KT 6SM HZ BKN027 BKN033 OVC070 M13/M18 A3003 RMK A01 KOCQ 030815Z AUTO 20006KT 2 1/2SM BKN015 BKN029 OVC070 M05/M08 A3011 RMK AO1 T10511078 LEMH 030830Z 07008KT CAVOK 14/10 Q1026 LFCR 030830Z AUTO 00000KT 9999 FEW032 BKN120 BKN140 07/04 Q1025 KMWA 030835Z AUTO 14005KT 10SM OVC021 01/M04 A3009 RMK AO2 KOEB 030835Z AUTO 14004KT 10SM SCT060 BKN070 OVC090 M05/M09 A3021 RMK AO2 T10501092 KMUT 030835Z AUTO 15009KT 8SM FEW023 SCT031 BKN037 M02/M05 A3002 RMK AO2 KMVL 030754Z AUTO 00000KT 10SM CLR M13/M20 A3030 RMK AO2 SLP274 T11281200 TSNO KMWC 030815Z AUTO 14005KT 10SM BKN080 BKN120 M03/M09 A3013 RMK AO2 KNMM 030838Z AUTO 00000KT 1SM BR VV005 11/10 A3016 RMK AO2 T01060100 $ KMVN 030835Z AUTO 12005KT 10SM OVC026 00/M06 A3009 RMK AO1 KOCW 030835Z AUTO 00000KT 10SM CLR 00/M02 A3038 RMK AO2 T00011022 LEMO 030800Z 27002KT 0400 R02/0300 R20/0300 FG VV001 12/11 Q1025 NOSIG KODO 030753Z AUTO 16008KT 1/2SM FG VV002 04/03 A2997 RMK AO2 SLP145 T00440033 KMWH 030752Z 36018KT 10SM CLR 02/M09 A3011 RMK AO2 PK WND 35028/0724 SLP204 T00221089 401060006 KMWK 030815Z AUTO 05004KT 10SM OVC042 05/M08 A3031 RMK AO2 T00501085 KMWL 030806Z AUTO 17008KT 2SM BR BKN002 OVC017 03/02 A3007 RMK AO2 T00280022 KMWM 030834Z AUTO 13008KT 10SM OVC060 M05/M07 A2980 RMK AO2 KMWN 030755Z 32066KT 130SM FEW/// SKC M25/M29 RMK TPS LWR FEW058 KODX 030653Z AUTO 16009KT 10SM OVC021 M02/M08 A2969 RMK AO2 SLP072 T10171083 KMWO 030835Z AUTO 04003KT 10SM SCT120 M02/M09 A3024 RMK AO2 T10251086 KOFF 030758Z AUTO 14009KT 10SM OVC018 00/M05 A2978 RMK AO2 PRESFR SLP096 T10011051 CHINO RWY30 $ KMXF 030838Z AUTO 00000KT 1/2SM R15/1800FT FG VV003 14/14 A3017 RMK AO2 KOEO 030835Z AUTO 12006KT 10SM SCT070 OVC085 M06/M09 A2994 RMK AO2 T10631095 KMVY 030753Z AUTO 31014G19KT 10SM CLR M04/M15 A3029 RMK AO2 SLP259 T10441150 KNOG 030756Z AUTO 02006KT OVC002 10/10 A3007 RMK AO2 RAB14E46 SLP164 P0000 T01000100 $ KMWS 030830Z 23500G00KT MM/M01 RMK SNOW DEPTH M PTKK 030752Z 03013KT 15SM FEW014CB SCT120 BKN280 28/24 A2974 RMK CB NW MOV SW SLP074 T02830235 KNPA 030832Z AUTO 13003KT 1/4SM FG VV002 16/16 A3016 RMK AO2 T01610161 $ KOGA 030835Z AUTO 06007KT 1SM BR OVC003 M02/M02 A2957 RMK AO2 T10211022 LEPA 030830Z 06007KT CAVOK 15/10 Q1025 NOSIG LFGA 030830Z AUTO 18005KT 9999 NSC 03/M01 Q1024 KMWT 030819Z AUTO 00000KT 3/4SM BR OVC002 02/01 A3008 RMK AO2 T00170011 KOGB 030804Z AUTO 09003KT 10SM BKN028 OVC038 14/10 A3024 RMK AO2 T01390100 KOFK 030756Z AUTO 18009KT 10SM OVC026 M01/M06 A2973 RMK AO2 SLP080 T10061061 KOGD 030753Z AUTO 15005KT 8SM FEW018 OVC027 01/00 A2979 RMK AO2 SLP084 T00060000 TSNO KMYF 030753Z AUTO 09004KT 10SM FEW034 11/07 A2997 RMK AO2 RAE12 SLP146 T01110072 401560100 TSNO PNO $ KMXO 030835Z AUTO 13008KT 10SM BKN022 OVC033 M04/M06 A2999 RMK AO2 KOFP 030754Z AUTO 06003KT 10SM CLR M02/M08 A3040 RMK AO2 SLP295 T10171078 PTKR 030754Z 05006KT 15SM SCT016 BKN110 OVC300 28/24 A2976 RMK SLP079 T02780239 KNQA 030835Z AUTO 00000KT 5SM OVC004 04/04 A3011 RMK LDZA 030830Z VRB02KT 9999 FEW001 04/04 Q1024 NOSIG LFGJ 030830Z AUTO 19007KT 9999 NSC 07/04 Q1024 KMYL 030751Z AUTO 33004KT 10SM CLR M04/M09 A2980 RMK AO2 SLP111 T10441094 LDZD 030830Z 07011KT 030V120 CAVOK 13/M00 Q1020 NOSIG ESCF 030820Z 27007KT 1200 R01/0900VP1500D R19/0900VP1500D -SN VV006 00/00 Q0998 KMZG 030835Z AUTO 12012KT 6SM BR FEW006 FEW023 BKN041 22/22 A3004 RMK A01 LEPP 030830Z 00000KT 9999 FEW006 BKN030 10/09 Q1025 KMZH 030835Z AUTO 00000KT 7SM SCT033 BKN050 OVC075 M06/M11 A2986 RMK AO2 KMYR 030835Z AUTO 06011KT 10SM OVC040 09/04 A3031 RMK AO1 KNQI 030756Z AUTO 35004KT 3/4SM BR VV002 11/11 A3007 RMK AO2 SLP178 T01110111 TSNO $ GABS 030830Z 05015KT CAVOK 23/M04 Q1015 NOSIG KNRB 030752Z AUTO 19003KT 10SM BKN035 OVC070 16/14 A3020 RMK AO2 RAE01 SLP226 P0000 T01560144 $ KMYV 030753Z AUTO 07004KT 10SM CLR 07/04 A3001 RMK AO2 SLP164 T00670044 401720061 ESDF 030820Z 28009KT 240V310 9999 SCT018 SCT024 04/01 Q1002 FJDG 030755Z 28008KT 9999 FEW020 SCT250 32/26 A2986 RMK SLP108 T03190262 KMYZ 030815Z AUTO 17010G19KT 2SM -RA OVC002 00/00 A2975 RMK AO2 WIBB 030800Z 34007KT 9999 SCT015 34/20 Q1006 NOSIG LERI 030800Z 00000KT CAVOK 15/09 Q1023 NOSIG LESA 030830Z VRB01KT 2000 BR SCT001 OVC020 09/09 Q1026 KOJA 030835Z AUTO 20014G21KT 7SM OVC006 01/00 A2991 RMK AO2 KOJC 030832Z AUTO 18012KT 1 3/4SM BR OVC003 01/00 A2987 RMK AO2 T00060000 LGAD 030820Z 00000KT 9999 FEW020 SCT025 BKN080 15/11 Q1019 KNSE 030756Z AUTO 13003KT 1/4SM FG VV002 17/16 A3017 RMK AO2 RAE35 SLP204 P0000 T01670161 $ KPAE 030753Z AUTO 34003KT 10SM CLR 04/M03 A3015 RMK AO2 SLP211 T00441028 401000044 KNQX 030753Z AUTO 07012KT 10SM FEW021 FEW028 23/19 A3012 RMK AO2 SLP199 T02330194 $ FIMP 030800Z 07010KT 9999 SCT018 31/27 Q1012 KPAH 030753Z AUTO 12005KT 10SM OVC022 02/M04 A3013 RMK AO2 SLP206 T00221039 KMZZ 030815Z AUTO 12007KT 10SM OVC090 M04/M09 A3021 RMK AO2 T10421093 KNSI 022357Z COR 24007G15KT 10SM FEW030 SCT075 BKN120 BKN180 16/07 A2991 RMK AO2 CB DSNT E MDT CU E-S SLP123 SHRA DSNT SE T01610067 53003 $ LERS 030830Z 00000KT 9999 FEW030 16/10 Q1026 FIMR 030700Z 12013KT 9999 SCT018 31/25 Q1014 KNRS 030756Z AUTO 08006KT -RA CLR 11/08 A2997 RMK AO2 SLP149 T01060083 401670094 PNO $ LERT 030800Z VRB01KT 9000 4000NE BCFG FEW004 13/13 Q1025 TEMPO 2000 BR LFKB 030830Z 08005KT 060V130 9999 FEW030 BKN250 17/04 Q1019 NOSIG KOKB 030752Z AUTO 04004KT 10SM CLR 07/05 A2997 RMK AO2 SLP148 T00670050 401610056 LFKC 030830Z 22014G26KT 190V250 9999 FEW100 SCT260 16/01 Q1020 NOSIG LFJL 030830Z AUTO 17008KT 9999 OVC049 04/M00 Q1022 KOKC 030807Z 19014G22KT 5SM BR OVC003 03/02 A2997 RMK AO2 LGAL 030820Z 22004KT 9999 FEW018 BKN080 BKN200 12/09 Q1013 KPAM 030838Z AUTO 31003KT 1 1/2SM R14/2800FT BR OVC003 14/13 A3018 RMK AO2 VIS 1 1/2V4 $ KNTD 030756Z AUTO 05005KT 10SM CLR 11/07 A2997 RMK AO2 SLP151 T01060072 401830089 $ KPAN 030835Z AUTO 00000KT 10SM -DZ OVC022 02/01 A2999 RMK AO2 LESO 030830Z 00000KT 8000 -DZ OVC038 11/11 Q1025 LFKF 030830Z AUTO 26013KT 220V280 9999 NCD 16/07 Q1021 KPAO 030447Z VRB04KT 10SM SKC 10/0 A2994 KPBF 030753Z AUTO 00000KT 1/2SM FG VV002 02/02 A3016 RMK AO2 SLP213 T00170017 KPBG 030753Z AUTO 29004KT 10SM CLR M12/M18 A3035 RMK AO2 SLP283 T11221183 KPBH 030835Z AUTO 19007KT 7SM -SN BKN021 BKN026 OVC031 M07/M11 A2994 RMK AO2 T10711112 KPBI 030753Z 09007KT 10SM FEW018 23/20 A3015 RMK AO2 SLP210 T02330200 $ LFJR 030830Z AUTO 19007KT 9999 NSC 07/06 Q1022 LFKJ 030830Z VRB03KT 9999 FEW040 13/08 Q1023 NOSIG WIDD 030800Z 05016KT 9999 FEW015 31/24 Q1008 LFLB 030800Z 13003KT 9999 FEW040 SCT230 04/03 Q1025 NOSIG KOKK 030835Z AUTO 11010KT 10SM CLR M04/M08 A3017 RMK AO1 LEST 030830Z 00000KT 3000 -RADZ BR BKN003 BKN008 09/09 Q1024 TEMPO 0800 BCFG KNUC 030156Z 27008KT 10SM SCT035 BKN060 BKN250 14/09 A2995 RMK SLP141 LAST T01440089 LESU 021600Z 21008KT 180V250 9999 FEW037 19/08 Q1019 LETL 030730Z AUTO 10005KT 9000 RA NSC 07/05 Q1026 LFLC 030830Z 17007KT 9999 FEW050 SCT086 BKN200 08/03 Q1024 NOSIG LGBL 030820Z VRB03KT 9999 FEW030 18/08 Q1015 LGAV 030820Z 27004KT 230V320 9999 FEW025 17/08 Q1016 NOSIG PTPN 030457Z 08008KT 15SM SCT017 SCT130 OVC300 31/25 A2971 RMK LAST KOKM 030835Z AUTO 18011G16KT 5SM BR OVC002 03/03 A2998 RMK AO2 T00310031 KOLE 030835Z AUTO 21004KT 10SM CLR M12/M12 A3024 RMK AO2 KOLF 030829Z AUTO 33010KT 10SM BKN030 M11/M17 A3012 RMK AO2 T11111172 LETO 030829Z VRB01KT 2000 BR -DZ OVC004 09/08 Q1026 NOSIG KOLG 030835Z AUTO 18008KT 10SM SCT045 OVC060 M06/M13 A2990 RMK AO1 ESGG 030820Z 25011KT 9999 BKN006 02/01 Q1000 R21/29//95 KNUI 022053Z AUTO VRB05KT 10SM CLR 08/M09 A3028 RMK AO2 SLP251 T00781094 53003 KOMA 030752Z 16013KT 10SM OVC023 00/M06 A2980 RMK AO2 SLP100 T00001056 LFKS 030830Z AUTO 36013KT 9999 NSC 16/09 Q1019 ESGJ 030820Z 26007KT 9999 BKN013 01/00 Q0999 R19/690053 KPDC 030835Z AUTO 10005KT 10SM OVC060 M04/M08 A3001 RMK AO2 T10381083 KNTU 030756Z 03006KT 10SM SCT250 01/M06 A3039 RMK AO2 SLP291 T00061056 LEVC 030830Z VRB01KT CAVOK 17/12 Q1025 NOSIG LFMC 030800Z 29015KT CAVOK 11/00 Q1020 LFLL 030830Z VRB01KT CAVOK 08/03 Q1025 NOSIG LEVD 030830Z 24009KT 210V270 9999 BKN008 10/08 Q1025 KOLM 030754Z AUTO 00000KT 9SM CLR M01/M02 A3016 RMK AO2 SLP215 T10111022 401171028 KPCM 030835Z AUTO 00000KT 7SM CLR A3021 RMK AO2 KOKV 030835Z AUTO 00000KT 10SM CLR M02/M11 A3036 RMK AO2 LFMD 030830Z AUTO 33004KT 290V360 9999 NSC 14/01 Q1019 LFLN 030830Z AUTO 17003KT 140V200 9999 NSC 07/05 Q1024 KPBX 030835Z AUTO 04003KT 10SM CLR 00/M05 A3014 RMK AO2 T10051052 LFLP 030830Z AUTO 04002KT 9999 NSC 05/02 Q1024 ESGP 030820Z 24008KT 9999 SCT011 04/02 Q1001 R19/19//95 KNUQ 030756Z 00000KT 10SM CLR 09/06 A3000 RMK AO2 SLP160 T00890056 401610056 KOMH 030815Z AUTO 00000KT 10SM SCT120 M02/M06 A3040 RMK AO2 LFMH 030830Z VRB02KT 9999 FEW040 BKN200 06/03 Q1025 NOSIG PTSA 030150Z COR 04011KT 10SM SCT025 BKN130 OVC300 31/24 A2973 LAST LFMI 030830Z AUTO 33012KT 9999 NSC 11/04 Q1024 LFLS 030830Z AUTO 10003KT 9999 NSC 07/04 Q1025 ESGR 030820Z AUTO 25007KT 210V270 9999 BKN009/// 02/01 Q0998 KONA 030837Z AUTO 13006KT 10SM OVC070 M04/M08 A2998 RMK AO2 KOLS 030809Z AUTO 20006KT 10SM OVC027 09/07 A2996 RMK AO2 T00940067 KPEA 030815Z AUTO 14009KT 10SM UP BKN024 M01/M04 A2994 RMK AO2 T10151043 LFMK 030830Z AUTO 28006KT 250V310 9999 BKN056 OVC066 11/08 Q1025 KOMK 030753Z AUTO 35013G19KT 10SM CLR 02/M11 A3016 RMK AO2 SLP220 T00171106 401000006 KPDK 030753Z AUTO 00000KT 10SM OVC018 11/07 A3021 RMK AO2 SLP228 T01060067 KNY0 030815Z AUTO 28004KT 10SM CLR M13/M17 A3032 RMK AO2 T11261168 LFLU 030830Z AUTO 36010KT 9999 NSC 08/04 Q1024 LFML 030830Z 29009KT CAVOK 10/06 Q1024 NOSIG ESIB 030820Z 21006KT 180V250 9999 FEW010 02/02 Q0999 ESGT 030820Z 21007KT CAVOK 03/02 Q0999 KOLU 030835Z AUTO 16006KT 10SM OVC036 M01/M07 A2975 RMK AO1 KOLV 030835Z AUTO 14005KT 1/2SM OVC001 04/ A3012 RMK A01 P000 KOMN 022350Z 11005KT 5SM BR SKC 19/18 A3021 RMK LAST LFLW 030830Z AUTO VRB01KT 9000 NSC 04/04 Q1024 PTRO 030750Z 06006G16KT 14SM BKN016CB BKN120 OVC290 27/24 A2977 RMK CB VC ALQDS MOV W KPCW 030833Z AUTO 12003KT 10SM OVC100 M07/M10 A3028 RMK AO2 $ KNUW 030756Z 02007KT 10SM CLR 06/M08 A3019 RMK AO2 SLP225 T00611078 401220050 VISNO E $ LFMN 030830Z 33010KT CAVOK 13/M02 Q1019 NOSIG LFLX 030830Z 22006KT CAVOK 07/05 Q1024 NOSIG LFMO 030830Z AUTO 32008KT 290V350 9999 NSC 11/05 Q1024 LFLY 030830Z AUTO 00000KT 9999 NSC 09/04 Q1025 LFMP 030830Z AUTO VRB02KT 9999 OVC068 13/08 Q1026 KOLY 030815Z AUTO 12007KT 10SM BKN030 OVC036 00/M06 A3014 RMK AO2 KPCZ 030835Z AUTO 11003KT 10SM OVC085 M04/M08 A3006 RMK AO2 T10451078 KOLZ 030835Z AUTO 14013KT 10SM FEW020 BKN027 OVC032 M04/M07 A2993 RMK AO2 LEVS 030830Z VRB01KT 0700 FG BKN002 10/10 Q1026 KOOA 030815Z AUTO 13011KT 10SM UP OVC024 M02/M05 A2994 RMK AO2 T10241049 LFOA 030830Z AUTO 22007KT 9999 NSC 07/04 Q1024 LFOB 030830Z AUTO 21009KT 9999 NSC 05/02 Q1019 LFMT 030830Z 30006KT CAVOK 12/04 Q1025 NOSIG KPDT 030753Z AUTO 33014G22KT 10SM CLR 02/M09 A3005 RMK AO2 SLP179 T00171089 400781022 LEVT 030830Z 00000KT 9999 SCT015 BKN028 09/08 Q1024 LFMU 030830Z AUTO 26002KT 9999 NSC 11/09 Q1025 LGEL 030820Z 29006KT 9999 FEW025 SCT180 18/07 Q1016 KONL 030815Z AUTO 19006KT 10SM OVC023 M01/M07 A2969 RMK AO2 T10101068 LFMV 030830Z AUTO 33012KT 9999 NSC 11/04 Q1024 KONM 030815Z AUTO 01006KT 10SM 07/02 A2994 RMK AO2 T00670020 ETAD 030758Z AUTO 22009KT 9999 CLR 01/M01 A3013 RMK AO2 SLP210 T00111010 LFOE 030830Z AUTO 21014KT 9999 NSC 05/03 Q1019 KPDX 030753Z 01003KT 10SM CLR 06/01 A3013 RMK AO2 SLP203 T00560006 401330050 KPEO 030810Z AUTO 20003KT 10SM FEW029 M11/M14 A3032 RMK AO2 T11111144 KONO 030753Z AUTO 30018KT 10SM OVC085 03/M04 A2993 RMK AO2 PK WND 29029/0724 SLP145 T00331044 KNXF 030756Z AUTO 05009KT 10SM CLR 10/06 A2997 RMK AO2 SLP234 T01000061 401560100 $ LEVX 030830Z 20009KT 0100 R20/0300N R02/0200N DZ FG VV001 12/12 Q1025 NOSIG RCKH 030830Z 21008KT 180V240 9999 FEW015 SCT035 BKN120 26/21 Q1010 NOSIG RMK A2983 KONP 030835Z AUTO 07003KT 10SM CLR 03/02 A3017 RMK AO2 LFMY 030830Z AUTO 32011KT 9999 ////// 12/04 Q1024 LFOH 030830Z AUTO 21015KT 9999 SCT029 BKN039 BKN045 06/03 Q1018 KPEQ 030835Z AUTO 00000KT 10SM CLR 03/02 A2996 RMK AO2 T00330020 KPGA 030613Z AUTO 25003KT 10SM BKN060 04/M02 A2991 RMK AO2 T00391022 TSNO LFOJ 030830Z AUTO 21009KT 9999 FEW026 06/04 Q1022 LEXJ 030830Z 00000KT 7000 OVC043 11/10 Q1024 LFPB 030830Z AUTO 21009KT 9999 NSC 06/02 Q1021 LFOK 030830Z AUTO 20010KT 9999 NSC 04/01 Q1022 KONT 030753Z 00000KT 10SM FEW025 BKN048 BKN200 09/05 A2998 RMK AO2 SLP153 BKN048 V SCT T00940050 401390078 KNYC 030751Z AUTO 00000KT 10SM CLR M04/M13 A3040 RMK AO2 SLP287 T10391133 LFPC 030830Z AUTO 19007KT 9999 ////// 06/01 Q1020 KPGD 030825Z AUTO 05005KT 1/2SM FG VV009 16/16 A3018 RMK AO2 T01610161 WIHH 030800Z 33010KT 3000 TSRA FEW016CB SCT017 27/24 Q1009 RMK/CB TO NW KOPF 030753Z AUTO 08003KT 10SM SCT023 22/18 A3016 RMK AO2 SLP212 T02170183 KPEX 030834Z AUTO 11010KT 7SM -SN OVC080 M07/M08 A2983 RMK AO2 T10751083 KONX 030840Z AUTO 03008KT 10SM CLR 02/M07 A3038 RMK AO2 T00181075 PTTP 032357Z 06006KT 15SM FEW018 SCT130 OVC300 30/26 A2983 RMK SLP100 8/171 T03000255 10300 20259 58002 LFOP 030830Z AUTO 20013KT 9999 NSC 05/02 Q1019 VQPR 030650Z 22010G20KT 4000 RA SCT020 FEW030TCU BKN050 12/01 Q1018 NOSIG KNYG 030756Z AUTO 04003KT 10SM CLR M01/M08 A3043 RMK AO2 SLP304 T10111083 KNXP 030756Z AUTO 31005KT 10SM CLR 06/02 A3001 RMK AO2 SLP145 T00610022 401390056 LFPG 030830Z 19012KT 170V260 CAVOK 06/02 Q1020 NOSIG KONZ 030834Z AUTO 15003KT 10SM OVC100 M06/M08 A3027 RMK AO2 KPEZ 030835Z AUTO 01003KT 1/2SM FG OVC001 07/07 A3006 RMK AO2 T00720068 LFQA 030830Z AUTO 15008KT 9999 NSC 05/01 Q1021 ETAR 030758Z AUTO 23005KT 9999 CLR 03/M02 A3018 RMK AO2 SLP233 T00291018 $ LFQB 030830Z AUTO 21012KT 9999 NSC 06/03 Q1022 LFOT 030830Z AUTO 20008KT 9999 NSC 07/04 Q1023 KOPL 030815Z AUTO 01003KT 1/2SM FG OVC002 10/09 A3014 RMK AO2 T00950093 KNYL 030757Z AUTO 00000KT 10SM CLR 13/08 A2995 RMK AO2 SLP139 T01280083 LFOV 030830Z AUTO 20010KT 9999 FEW008/// SCT027/// BKN043/// ///TCU 07/05 Q1021 LFPM 030830Z AUTO 20010KT 9999 NSC 06/03 Q1022 KPHD 030753Z AUTO 09003KT 7SM OVC095 M07/M11 A3031 RMK AO2 SLP276 T10671111 KOPN 030835Z AUTO 00000KT 10SM OVC011 14/11 A3021 RMK AO2 LFPN 030830Z AUTO 20009KT 9999 NSC 06/02 Q1021 ESKN 030820Z 03004KT 350V050 2000 -SN BR VV006 00/00 Q0997 R26/690543 KPHF 030754Z 05007KT 10SM CLR 01/M05 A3038 RMK AO2 SLP288 T00061050 LFPO 030830Z 18006KT CAVOK 05/02 Q1021 NOSIG LFQG 030830Z AUTO 19006KT 9999 SCT036 08/04 Q1024 WIII 030830Z 27003KT 5000 -RA FEW019CB SCT020 25/23 Q1008 NOSIG RMK CB TO SW LEZG 030830Z 28002KT CAVOK 11/08 Q1025 LGHI 030750Z VRB03KT 9999 FEW020 BKN080 15/09 Q1015 KPIA 030823Z 14008KT 5SM -FZRA FEW035 OVC047 M02/M06 A3007 RMK AO2 UPE17FZRAB17 P0001 I1001 T10221061 LFPT 030830Z AUTO 21008KT 9999 NSC 05/02 Q1020 KORB 030833Z AUTO 18010G15KT 10SM OVC070 M06/M13 A2972 RMK AO2 KPIB 030835Z AUTO 14004KT 1/2SM OVC002 15/14 A3015 RMK AO1 LFRB 030830Z 28006KT 9999 FEW026 SCT043 BKN090 08/05 Q1020 NOSIG GAMB 030600Z 36004KT CAVOK 17/02 Q1013 KPHL 030754Z 01010KT 10SM FEW110 SCT250 M03/M13 A3043 RMK AO2 SLP302 T10281128 $ KORC 030815Z AUTO 00000KT 10SM OVC035 M03/M06 A2977 RMK AO2 LEZL 030830Z VRB01KT 0800 R27/0900N R09/1100N FG VV002 12/12 Q1025 NOSIG LFRC 030830Z AUTO 23012KT 9999 FEW034 BKN043 OVC050 07/05 Q1017 LFRD 030830Z AUTO 22011KT 9999 FEW036 BKN043 BKN049 08/05 Q1019 KORD 030751Z 15008KT 10SM OVC070 M03/M08 A3016 RMK AO2 SLP222 T10331083 KPGV 030815Z AUTO 00000KT 10SM CLR 01/00 A3038 RMK AO2 LFPV 030830Z AUTO 18004KT 140V230 9999 NSC 05/02 Q1021 KORE 030752Z AUTO 00000KT 10SM CLR M13/M16 A3029 RMK AO2 SLP267 T11331161 KPIE 030753Z 03005KT 1/4SM R18L/1200V1800FT FG VV002 19/19 A3018 RMK AO2 SLP220 T01890189 KPHN 030839Z AUTO 16003KT 10SM OVC110 M08/M10 A3029 RMK AO2 KORF 030751Z AUTO 02011KT 10SM CLR 01/M06 A3038 RMK AO2 SLP288 T00061056 TSNO RCMQ 030830Z 31007KT 8000 FEW008 SCT050 23/16 Q1010 NOSIG RMK A2985 KPHP 030755Z AUTO 35022G29KT 10SM OVC042 01/M03 A2968 RMK AO2 PK WND 35029/0750 UPB22E29SNE22 SLP059 P0000 T00111033 KORG 030835Z AUTO 07005KT 1/2SM FG OVC002 13/13 A3013 RMK AO2 T01320132 LFRG 030830Z AUTO 23012KT 200V260 9999 BKN034 BKN040 OVC046 06/04 Q1018 GAKY 030000Z 08008KT 8000 NSC 27/01 Q1013 LFRH 030830Z AUTO 28005KT 9999 -RADZ FEW038 BKN044 OVC052 08/06 Q1021 KPIH 030753Z AUTO 21016KT 10SM CLR 01/M07 A2971 RMK AO2 PK WND 23027/0726 SLP069 T00061067 KORH 030754Z AUTO 30004KT 10SM CLR M09/M15 A3025 RMK AO2 SLP259 T10891150 LFQQ 030830Z 19011KT CAVOK 04/01 Q1017 NOSIG LFRI 030830Z AUTO 18007KT 9999 BKN026 08/08 Q1023 KOSA 030815Z AUTO 11005KT 1 1/4SM OVC001 05/05 A3012 RMK AO1 T00450045 LFRJ 030830Z AUTO 27008KT 9999 NSC 07/05 Q1020 LFSB 030830Z 13003KT 100V160 9999 FEW054 SCT066 03/00 Q1024 NOSIG KOQT 030753Z AUTO 07003KT 10SM OVC036 06/00 A3022 RMK AO2 SLP240 T00560000 KPHT 030835Z AUTO 13005KT 10SM OVC013 03/M02 A3012 RMK LFRK 030830Z AUTO 22013KT 9999 FEW021/// SCT033/// BKN039/// ///TCU 07/04 Q1018 KORL 030753Z AUTO 00000KT 10SM CLR 19/18 A3019 RMK AO2 SLP226 T01890178 KPIL 030753Z AUTO 00000KT 1/2SM FG VV002 13/13 A3005 RMK AO2 SLP176 T01330133 ESMK 030820Z 27012KT 250V310 9999 FEW017 BKN020 04/01 Q1004 KOSC 030833Z AUTO 21004KT 10SM CLR M08/M11 A3021 RMK AO2 T10861117 ETEB 030758Z AUTO 23010KT 9999 CLR 01/00 A3016 RMK AO2 SLP248 T00120000 LFRL 030830Z AUTO 28011KT 9999 FEW035 OVC086 08/05 Q1020 LFRM 030830Z AUTO 18006KT 150V210 9999 FEW028 BKN058 OVC068 07/04 Q1022 LFSD 030830Z AUTO VRB03KT 9999 NSC 07/03 Q1024 RCNN 030830Z 21008KT 9999 FEW012 BKN120 27/15 Q1009 NOSIG RMK A2981 LFRN 030830Z AUTO 21009KT 9999 FEW036 SCT044 OVC082 08/06 Q1021 LFRO 030830Z AUTO 24012KT 9999 BKN024 BKN030 BKN036 08/05 Q1019 KPHX 030829Z 30008KT 10SM -RA SCT015 BKN021 OVC037 12/09 A2996 RMK AO2 RAB24 P0000 T01170094 LGIO 030820Z 00000KT 9999 FEW005 BKN030 OVC080 09/09 Q1018 LFSG 030830Z AUTO 17003KT 140V200 9999 NSC 04/01 Q1022 KNZY 030752Z 09005KT 10SM FEW020 FEW038 SCT070 SCT180 11/08 A2996 RMK AO2 SLP144 T01060078 401610106 $ LFRQ 030830Z AUTO 26006KT 9999 FEW021 SCT052 BKN074 08/06 Q1021 ESNG 030820Z 15006KT 9999 OVC009 00/M01 Q0995 KOSH 030753Z AUTO 14005KT 9SM OVC080 M04/M09 A3011 RMK AO2 PRESFR SLP216 T10441089 LGIR 030820Z 27012KT 9999 FEW025 SCT080 15/08 Q1017 NOSIG ESMQ 030820Z 28016KT 9999 FEW018 SCT020 BKN031 04/01 Q0999 KPIR 030810Z AUTO 28004KT 3/4SM -SN BR VV006 M01/M01 A2967 RMK AO2 P0001 T10061011 PTYA 030752Z 07007KT 12SM FE016 SCT130 BKN300 28/24 A2977 RMK SLP083 T02810237 LFSI 030830Z AUTO 20008KT 9999 NSC 06/02 Q1022 KORS 030835Z AUTO 06006KT 10SM CLR 07/M07 A3019 RMK AO2 KQAJ 030755Z 10005KT 9999 SKC 23/02 A3005 RMK SLP174 T02340024 LFRS 030830Z 18007KT 9999 FEW026 BKN080 09/07 Q1022 NOSIG LFRT 030830Z AUTO 26010KT 9999 NSC 08/05 Q1019 KPIT 030751Z 10004KT 5SM HZ OVC110 M07/M11 A3030 RMK AO2 SLP285 T10721106 ESMS 030820Z 28015KT 9999 BKN014 03/01 Q1005 R17/29//95 KPKB 030753Z AUTO 07004KT 9SM FEW090 M04/M08 A3029 RMK AO2 SLP265 T10441078 LFRU 030830Z AUTO 24008KT 9999 FEW021 OVC100 07/05 Q1019 LFSL 030830Z AUTO 17003KT 140V200 9999 OVC003 07/06 Q1025 ESNK 030820Z VRB02KT 0200 R17/0500N R35/0450N FZFG VV001 M03/M03 Q0998 ESMT 030820Z 26017KT 9999 FEW009 BKN010 03/01 Q1003 LGKC 030750Z /////KT 9999 SCT008 13/10 Q1019 LHBC 030645Z 30015KT 9999 FEW020TCU SCT083 BKN200 06/01 Q1018 LFRV 030830Z AUTO 22003KT 170V340 9999 -RADZ FEW010/// SCT018/// BKN023/// ///TCU 08/06 Q1021 ESNL 030820Z 19005KT 130V220 9999 BKN011 02/M01 Q0996 KPKD 030817Z AUTO 17011KT 10SM SCT014 OVC075 M04/M08 A2975 RMK AO2 T10441078 LFSN 030830Z AUTO 19004KT 150V220 9999 BKN045 OVC054 04/M01 Q1023 ESOE 030820Z 25001KT 2200 SN VV002 01/01 Q0998 ESNN 030820Z VRB02KT CAVOK M02/M03 Q0998 R16/79//36 LGKF 030750Z 00000KT 9999 FEW018 SCT020 BKN080 15/13 Q1019 KQBF 030755Z AUTO VRB05KT 5SM HZ CLR 23/M09 A3011 RMK AO2 SLP180 T02271094 LFSO 030830Z AUTO 15005KT 9999 FEW049 04/M00 Q1022 ESNO 030820Z 14002KT 0150 R12/0375N R30/0400N FZFG VV003 M01/M01 Q0997 ESMX 030820Z 26010KT 9999 FEW015 BKN020 02/00 Q1000 KOTG 030835Z AUTO 16007KT 10SM OVC060 M05/M08 A2979 RMK AO1 KS25 030815Z AUTO 33016G25KT 9SM -SN FEW009 BKN016 M12/M16 A2998 RMK AO2 LFTH 030830Z AUTO 32004KT 9999 NSC 16/M00 Q1021 LFRZ 030830Z AUTO 23009KT 9999 FEW018/// SCT024/// OVC058/// ///TCU 10/08 Q1022 KOTH 030835Z 14003KT 1/2SM OVC002 05/05 A3014 RMK AO1 ESNQ 030820Z 17010KT 8000 -SN BKN009 OVC015 M00/M01 Q0993 GANR 030600Z 00000KT CAVOK 17/00 Q//// LFST 030830Z AUTO 18007KT 150V220 9999 FEW056 OVC068 04/00 Q1024 ESPA 030820Z 18007KT 4000 BR OVC002 01/00 Q0998 ESNS 030820Z 17006KT 150V210 9000 BR BKN003 OVC004 02/01 Q0998 ESOK 030820Z VRB02KT 6000 BCFG BR FEW001 OVC005 01/01 Q0997 LGKL 030820Z 32004KT 7000 BKN035 OVC080 13/10 Q1020 KOSU 030753Z AUTO 09007KT 10SM SCT090 M05/M11 A3024 RMK AO2 SLP250 T10501106 KQBL 030756Z AUTO 00000KT 3/16SM FG VV001 16/15 A3019 RMK AO2 SLP229 T01560154 KOTM 030836Z AUTO 15011KT 7SM -FZRA OVC025 M02/M06 A2993 RMK AO2 UPE0759B17E30FZRAB30 P0001 I1001 T10171056 ESNU 030820Z 18005KT 0300 R14/0600N R32/0650N FG VV002 01/01 Q0998 R14/19//70 ESPE 030820Z AUTO 13006KT 110V170 9999NDV OVC011/// 02/M00 Q0996 LGKO 030820Z 29010KT 9999 FEW018 SCT080 15/08 Q1016 LFSX 030830Z AUTO 11004KT 9999 NSC 04/01 Q1024 LGKP 030650Z 24014KT 9999 BKN025 16/07 Q1018 ESNX 030820Z 14010KT 4000 -SN BR FEW005 BKN008 OVC057 M00/M00 Q0994 KQAY 030755Z AUTO 00000KT 9999 CLR 25/03 A3006 RMK AO2 SLP176 T02480027 $ LHBP 030830Z 28023KT 9999 FEW043 07/M03 Q1020 NOSIG ETGG 030820Z 25018KT 9999 FEW015CB SCT024 03/01 Q1009 BLU+ KQAZ 030830Z AUTO 09011KT 9999 CLR 24/01 A3003 RMK CDP03565 CLR LGKR 030820Z 00000KT 9999 FEW010 SCT015 BKN080 15/12 Q1018 NOSIG ESNZ 030820Z 20004KT 0700 R12/1300U R30/P1500N VCFG FEW001 M05/M05 Q0995 ETHA 030820Z 27012KT 9999 FEW040 01/M04 Q1022 BLACKBLU+BLU+ VRMM 030800Z 32005KT 9999 SCT018 31/24 Q1012 NOSIG WIMM 030800Z 33011KT 9999 FEW018TCU 33/25 Q1008 NOSIG KS39 030840Z AUTO 00000KT 10SM OVC046 01/M04 A3004 RMK AO2 ETHB 030820Z 24015KT 9999 BKN017 04/00 Q1016 WHT BLU+ TEMPO GRN LHDC 030815Z /////KT 9999 FEW020 Q ETHC 030820Z 24016KT 9999 SCT020 SCT050 04/M00 Q1015 BLU+BLU+ BECMG BLU KPMD 030753Z AUTO 00000KT 10SM FEW075 03/02 A2995 RMK AO2 SLP141 T00330017 401280022 LGKV 030820Z 23008KT 9999 FEW020 BKN080 12/10 Q1013 LGLM 030820Z 27008KT 9999 SCT020 SCT100 16/09 Q1014 KPKV 030655Z AUTO 01004KT 3/4SM BR OVC002 11/11 A3012 RMK AO2 T01100110 LFTW 030830Z AUTO 34008KT 9999 NSC 12/04 Q1024 KOVE 030753Z AUTO 00000KT 10SM CLR 07/04 A3001 RMK AO2 SLP165 T00670039 401670067 $ KPLN 030754Z AUTO 00000KT 10SM CLR M23/M26 A3021 RMK AO2 SLP248 T12281256 KOUN 030815Z AUTO 19016G21KT 5SM BR OVC003 02/02 A3000 RMK AO2 ETHE 030820Z 21009KT 9999 FEW016 04/01 Q1016 BLU+ ESOW 030820Z 36003KT 2500 -RASN BKN003 00/00 Q0998 R19/290195 ETHF 030820Z 21009KT 9999 SCT030 02/M01 Q1019 BLU+BLU+ LGKZ 030750Z 11004KT 070V170 9999 FEW020 SCT070 13/03 Q1016 ETGQ 030420Z AUTO 20006KT //// // ////// 03/M01 Q1020 /// LGLR 030750Z 00000KT 9999 FEW030 SCT180 14/07 Q1015 BLU KOWA 030835Z AUTO 13011G16KT 10SM OVC060 M05/M09 A2987 RMK AO2 PWINO KPNA 030815Z AUTO 29009KT 10SM SCT023 SCT048 OVC055 M05/M06 A2964 RMK AO2 LGMK 030820Z 28010KT 9999 FEW020 14/08 Q1016 KOWB 030829Z AUTO 11007KT 10SM OVC028 02/M04 A3016 RMK AO2 TSNO OVC V BKN KPNC 030753Z AUTO 18008KT 4SM BR OVC004 03/02 A2992 RMK AO2 SLP137 T00280017 KOVL 030833Z AUTO 15011KT 10SM SCT055 BKN065 M06/M07 A2982 RMK AO2 KPLU 030815Z AUTO 00000KT 10SM CLR M00/M00 A3016 RMK AO2 ETHL 030820Z 24011KT 9999 FEW090 SCT220 02/M02 Q1023 BLU+BLU+ KOWD 030753Z AUTO 30003KT 10SM CLR M06/M16 A3032 RMK AO2 SLP266 T10611161 ETIC 030758Z AUTO 25006KT 9999 FEW018 01/M02 A3014 RMK AO2 SLP228 KPNE 030754Z 36007KT 10SM CLR M03/M13 A3043 RMK AO2 SLP305 T10331133 ETHN 030820Z 23010KT 9999 FEW016 02/M02 Q1021 BLU+BLU+ LFVP 022200Z 18022KT 1200 R26/P2000 -RA BR OVC003 03/03 Q0986 NOSIG KPMP 030753Z AUTO 09007KT 10SM CLR 23/18 A3016 RMK AO2 SLP212 T02280183 KQEI 030830Z AUTO 02002KT 8000 HZ BKN013 03/M00 A2978 RMK A02 TSNO ETIH 030758Z AUTO 25008KT 9999 CLR 02/M02 A3016 RMK AO2 SLP234 T00191021 KQEJ 030830Z AUTO 34001KT 9999 BKN008 03/M00 A2974 RMK A02 TSNO KOVS 030753Z AUTO 00000KT 9SM OVC065 M03/M08 A3006 RMK AO2 SLP189 T10331083 KQFA 030755Z AUTO VRB05KT 4800 -RA FEW008 BKN015 BKN170 02/02 A2977 RMK AO2 RAB0555 SLP084 P0006 T00200016 $ PWAK 030758Z AUTO 08016KT 9000 HZ FEW026 SCT050 25/20 A2999 RMK AO2 SLP162 T02500198 ETHS 030820Z 25013KT 9999 FEW010 BKN013 02/M00 Q1014 GRN GRN BECMG BLU+ ESSA 030820Z 03004KT 4000 BR OVC003 02/02 Q0997 R01L/19//95 R08/19//95 R01R/19//95 BECMG 5000 BR LGMT 030820Z 15008KT 9000 -RA FEW016 SCT020 BKN080 13/11 Q1015 KOXB 030753Z AUTO 34005KT 10SM CLR M02/M09 A3040 RMK AO2 SLP292 T10221089 TSNO KPOB 030758Z AUTO 12005KT 10SM BKN026 BKN050 OVC065 06/M01 A3034 RMK AO2 CIG 026V050 BKN026 V FEW SLP277 T00561010 KQFB 030830Z AUTO 27002KT 9999 BKN009 BKN045 04/01 A2986 RMK A02 TSNO ESSB 030820Z 02003KT 5000 BR BKN003 02/02 Q0997 R12/19//68 KQEL 030830Z AUTO 26001KT 8000 HZ OVC007 03/00 A2984 RMK A02 TSNO KOXC 030835Z 33003KT 10SM CLR M08/M17 A3033 RMK AO1 KPOC 030447Z 00000KT 10SM BKN025 08/05 A3000 RMK LAST ETIK 030758Z AUTO 24012KT 9999 CLR 03/01 A3017 RMK AO2 SLP234 T00270008 KPNM 030835Z AUTO 00000KT 10SM BKN029 BKN034 OVC050 M05/M09 A2988 RMK AO2 KPMV 030815Z AUTO 14009KT 10SM OVC015 M01/M06 A2978 RMK AO2 T10061060 ESSD 030820Z 11003KT 2500 VV020 M00/M00 Q0997 KQEN 030830Z AUTO 9999 CLR M03/M08 / RMK A02 TSNO KPOE 030808Z AUTO 09002KT 2SM BR OVC004 09/08 A3013 RMK AO2 VIS 1 1/4V2 KPOF 030753Z AUTO 11003KT 10SM OVC018 02/M04 A3012 RMK AO2 SLP205 T00171044 KQEP 030830Z AUTO 25001KT 6000 HZ CLR 04/00 A2977 RMK A02 TSNO KQFG 030755Z AUTO 16004KT 9999 FEW110 14/06 A3008 RMK AO2 SLP184 T01370057 KOWP 030835Z AUTO 19011G14KT 1 1/2SM BR OVC001 04/03 A2997 RMK AO2 T00410033 KQEQ 030830Z AUTO 16002KT 9999 OVC005 03/01 A2966 RMK A02 TSNO RCSS 030830Z 29008KT 260V320 6000 FEW020 SCT030 23/15 Q1011 WS R10 NOSIG RMK A2987 KQER 030830Z AUTO 8000 /CLR M06/M11 / RMK A02 TSNO KOXI 030835Z AUTO 12008KT 10SM M03/M15 A3015 RMK AO1 KQGA 030759Z AUTO 07014G20KT 6000 HZ CLR 25/M01 A2998 RMK CDP03659 CLR KPNS 030753Z AUTO 00000KT 1/4SM R17/1200FT FG VV002 17/16 A3017 RMK AO2 SLP219 T01670161 KQES 030830Z AUTO 9999 FEW008 BKN012 05/01 A2987 RMK A02 TSNO LGPA 030750Z 31010KT 9999 FEW030 16/09 Q1017 KPPA 030815Z AUTO 22011G16KT 10SM BKN007 01/00 A2983 RMK AO2 T00120000 ESTA 030820Z 26016KT 9999 BKN010 03/01 Q1004 KPNT 030815Z AUTO 12009KT 10SM BKN050 OVC055 M03/M05 A3012 RMK AO2 T10281052 ESSL 030820Z 28007KT 5000 -SN BR OVC003 00/00 Q0998 RESN R29/29//95 KQEV 030830Z AUTO 30003KT 9999 CLR 07/M01 A2983 RMK A02 TSNO WIPP 030800Z 33007KT 9999 SCT013 33/22 Q1007 NOSIG FKKD 030800Z 00000KT 6000 SCT016 FEW020CB 28/25 Q1012 NOSIG KQEW 030830Z AUTO 20001KT 9999 BKN038 07/M01 A2979 RMK A02 TSNO LGNX 030750Z 26010KT 9999 FEW020 SCT080 16/09 Q1016 KPPF 030752Z AUTO 18013G19KT 5SM BR OVC004 02/02 A2995 RMK AO2 SLP145 T00220017 KQEX 030830Z AUTO 20003KT 9999 CLR 05/00 A2984 RMK A02 TSNO RCTP 030830Z 36010KT 5000 HZ FEW015 SCT100 20/15 Q1012 NOSIG RMK A2989 KQEY 030830Z AUTO 30003KT 9999 OVC029 06/00 A2981 RMK A02 TSNO ESSP 030820Z 28006KT 4900 -SN OVC010 00/00 Q0998 R27/620395 KQFQ 030755Z AUTO VRB05KT 3SM -RA BR FEW008 BKN015 BKN170 02/02 A2977 RMK AO2 RAB0555 SLP084 P0006 T00190016 $ WIPT 030800Z 22005KT 180V310 9999 FEW020 30/23 Q1008 KOXR 030751Z AUTO 05007KT 10SM CLR 11/07 A2997 RMK AO2 SLP147 T01060067 401610083 KQFS 030756Z AUTO 22001KT 5000 BR M 04/03 A2982 RMK AO2 SLPNO T00360025 $ KOZA 030815Z AUTO 18003KT 1/4SM FG OVC002 06/06 A3005 RMK AO2 KQFT 030830Z AUTO 16003KT 4000 HZ BKN003 BKN004 03/00 A2979 RMK A02 TSNO KQFU 030830Z AUTO 06002KT 4000 HZ FEW003 SCT045 BKN070 03/00 A2980 RMK A02 TSNO KPOU 030753Z AUTO 00000KT 10SM CLR M12/M16 A3036 RMK AO2 SLP280 T11221161 ESTL 030820Z AUTO 26018KT 9999NDV FEW012/// SCT015/// BKN035/// 03/01 Q1004 KQFV 030830Z AUTO 17001KT 2400 HZ CLR 01/M01 A2974 RMK A02 TSNO KPOV 030836Z AUTO 11005KT 10SM OVC100 M06/M13 A3027 RMK AO2 T10621130 KOXV 030815Z AUTO 14011KT 9SM OVC023 M02/M06 A2990 RMK AO2 ESUD 030820Z AUTO VRB02KT 3300 -SN FEW016/// SCT027/// BKN036/// 01/M00 Q0995 RESN ESSV 030820Z 34005KT 9999 -RA OVC007 02/02 Q0996 R21/29//61 FKKN 030800Z 28004KT CAVOK 23/03 Q1017 KQFX 030830Z AUTO 24004G11KT 3200 HZ SCT005 BKN008 05/01 A2982 RMK A02 TSNO KPPO 030835Z AUTO 14004KT 10SM OVC070 M03/M08 A3018 RMK AO2 T10281082 KPOY 030815Z AUTO 34026G31KT 7SM SCT065 SCT075 BKN120 M12/M14 A2985 RMK AO2 KPPQ 030835Z AUTO 13008KT 10SM OVC019 M01/M04 A3003 RMK AO2 T10151044 KPQI 030835Z AUTO 31010G18KT 10SM CLR M15/M23 A3008 RMK AO1 LFYR 030830Z AUTO 22003KT 170V260 9999 NCD 07/05 Q1023 FKKR 030800Z 00000KT 6000 NSC 29/01 Q1011 NOSIG KPRB 030753Z AUTO 00000KT 10SM CLR 06/03 A2998 RMK AO2 SLP150 T00560033 401610028 TSNO $ KPQL 030753Z AUTO 15004KT 3/4SM BR VV003 17/17 A3017 RMK AO2 SLP217 T01720172 TSNO KPRC 030753Z AUTO 17003KT 10SM BKN031 OVC050 02/00 A2997 RMK AO2 SLP137 T00220000 KQGV 030755Z 12008G13KT 9999 CLR 22/00 A3006 RMK SLPNO QNH1018 PA +336 KPQN 030834Z AUTO 18011KT 10SM OVC060 M04/M07 A2974 RMK AO2 KQHN 030755Z VRB03KT 9999 FEW110 15/M06 A3000 RMK SLP128 Q1016 DA4045 KQGX 030758Z AUTO 27006KT 9999 CLR 27/12 A3000 RMK AO2 SLP161 T02670121 $ KPRG 030815Z AUTO 11007KT 10SM UP SCT043 BKN070 OVC100 M02/M05 A3012 RMK AO2 T10171054 LGPZ 030820Z 06005KT 9999 FEW010 SCT020 BKN080 13/11 Q1020 KOZR 030823Z AUTO 00000KT 1/4SM FG OVC060 15/14 A3018 RMK AO2 RVRNO LGSA 030820Z 28019G29KT 9999 BKN025 15/09 Q1018 VTBD 030830Z 20010KT 150V220 9999 FEW025 SCT040 BKN300 33/24 Q1007 NOSIG ESUT 030820Z AUTO VRB03KT 9999 FEW014/// SCT022/// OVC072/// M05/// Q0993 KPSC 030753Z AUTO 31006KT 10SM CLR 02/M08 A3014 RMK AO2 SLP207 T00171078 401061033 KRAC 030753Z AUTO 18005KT 10SM BKN080 BKN100 OVC120 M03/M09 A3018 RMK AO2 SLP227 T10281089 ETML 030820Z AUTO 24015KT //// // ////// 04/01 Q1010 /// KPRN 030756Z AUTO 00000KT 1/2SM FG VV002 16/15 A3018 RMK AO2 SLP217 T01560150 KOZW 030834Z AUTO 17006KT 10SM OVC070 M05/M10 A3023 RMK AO2 T10471096 ETMN 030820Z 24017KT 9999 FEW020CB 03/01 Q1012 BLU+BLU+ TEMPO GRN KPSF 030754Z AUTO 27005KT 10SM CLR M11/M16 A3025 RMK AO2 SLP268 T11111156 KPRO 030835Z AUTO 15011KT 10SM M02/M05 A2984 RMK AO2 T10161046 LGRP 030820Z 22011KT 9999 FEW010 FEW018TCU BKN020 15/11 Q1016 NOSIG KQL5 030755Z 08004KT 9999 SCT030 BKN045 BKN100 15/07 A3006 RMK SLP180 T01470071 KQHY 030756Z AUTO 36001KT 1/2SM FG VV002 16/16 A3019 RMK AO2 SLP230 T01560157 ETNG 030750Z 21010KT 9999 FEW030 BKN080 05/00 Q1018 TEMPO 5000 SHRA ETNH 030820Z 24015G28KT 9999 VCSH FEW010TCU SCT060 03/01 Q1010 BLU+BLU+ TEMPO WHT KQIR 030758Z 02009KT 9999 FEW150 SCT200 26/08 A3000 RMK AO2A SLP160 T02570082 LIBA 030755Z 29011KT CAVOK 13/11 Q1019 RMK SCT SCT180 VIS MIN 9999 WIND THR29 29012KT BLU VTCC 030830Z 10004KT 6000 FEW040 36/11 Q1007 A2975 NOSIG KPRS 030815Z AUTO 02008KT 10SM CLR 13/04 A2995 RMK AO2 T01310036 LGSK 030750Z 22006KT CAVOK 16/07 Q1014 KT20 030835Z AUTO 08003KT 3SM BR OVC002 07/07 A3007 RMK AO2 T00720072 KPSK 030815Z AUTO 05003KT 10SM BKN035 M01/M05 A3028 RMK AO2 T10111049 KPTB 030815Z AUTO 00000KT 10SM BKN043 M02/M05 A3041 RMK AO2 T10161050 LIBC 030750Z 23005KT CAVOK 14/12 Q1019 KRAL 030753Z AUTO 08004KT 10SM CLR 08/05 A2999 RMK AO2 SLP148 T00780050 401440078 ETNL 030820Z 25013KT 9999 FEW012 03/00 Q1011 BLU+BLU+ VTBO 030600Z 17015KT 9999 FEW024 31/22 Q1011 LIBD 030820Z 34011KT CAVOK 16/08 Q1020 KRBD 030753Z 00000KT 1/4SM FG VV002 05/05 A3009 RMK AO2 RAE03B26E51 SLP191 P0001 T00500050 LGSM 030820Z 15007KT 9999 SCT018 SCT030 BKN090 13/11 Q1015 KPSM 030758Z 28008KT 10SM CLR M07/M18 A3025 RMK AO2A SLP248 T10711182 LHKE 030815Z 31021G31KT 9999 FEW037 07/M03 Q1020 NOSIG RMK BLU KPSN 030835Z AUTO 00000KT 3/4SM BR OVC003 07/07 A3010 RMK AO2 T00800080 LIBF 030750Z 29007KT CAVOK 13/12 Q1020 ETNN 030820Z 19005KT 9999 FEW020 BKN220 06/M00 Q1018 BLU+ VTCH 030800Z 04003KT 7000 NSC 37/11 Q1006 A2971 INFO LGRX 030820Z 18008KT 9999 FEW025 SCT040 16/12 Q1019 LGSO 030650Z 25012KT 9999 FEW020 14/09 Q1016 KPRX 030835Z 17004KT 1 1/4SM OVC002 03/02 A3011 RMK AO1 KPSO 030835Z AUTO 25010G19KT 10SM -SN SCT011 BKN016 OVC038 M01/M02 A2988 RMK AO2 T10121022 LIBG 030750Z 00000KT CAVOK 13/11 Q1018 KRAP 030830Z AUTO 34026G38KT 2 1/2SM -SN BR FEW012 BKN020 OVC025 M06/M07 A2975 RMK AO2 PK WND 34038/0810 PRESRR P0000 T10561072 KPSP 030753Z AUTO 36007KT 10SM CLR 10/05 A2997 RMK AO2 SLP151 T01000050 401670094 TSNO KRBG 030753Z AUTO 00000KT 10SM BKN065 07/04 A3011 RMK AO2 SLP199 T00720039 401060056 LGTG 030720Z 30008KT CAVOK 15/07 Q1016 RMK FEW080 SCT180 BLU LIBH 030755Z 31004KT CAVOK 12/11 Q1019 RMK BKN SCT080 BKN200 QUK / QUL / VIS MAR 20 KM VIS MIN 9999 VTBS 030830Z 19013KT 150V210 9999 FEW022 BKN300 31/23 Q1007 NOSIG LGSR 030820Z 26017KT 9999 SCT025 SCT080 16/11 Q1016 LICA 030750Z 28012KT 6000 FEW010 SCT040 15/14 Q1021 VTCL 030800Z 28003KT 230V350 8000 NSC 37/13 Q1006 A2971 INFO VTBU 030830Z 22014KT 7000 FEW020 BKN300 29/22 Q1008 A2978 KRCA 030815Z 35025G33KT 1SM -SN BLSN BKN006 OVC017 M05/M06 A2973 RMK $ KRAS 030815Z AUTO 02007KT 1/2SM FG OVC002 13/13 A3005 RMK AO2 T01250125 LICB 030750Z VRB02KT 6000 FEW006 SCT020 13/12 Q1023 ETNS 030820Z 25017KT 9999 SCT013 SCT015CB 04/01 Q1010 RETS BLU+ KPTK 030753Z AUTO 18004KT 10SM BKN085 OVC100 M05/M10 A3025 RMK AO2 SLP257 T10501100 TSNO KPUB 030753Z 29013KT 6SM BR CLR M01/M02 A2962 RMK AO2 SLP044 T10061022 VTCN 030800Z 18004KT 6000 HZ NSC 37/15 Q1005 A2969 RWY/02 INFO/D. ETNT 030820Z 23014KT 9999 FEW018 04/01 Q1012 BLU+BLU+ TEMPO GRN LICC 030820Z 25009KT CAVOK 18/10 Q1021 KPUC 030753Z AUTO 03004KT 5SM -SN BR OVC033 00/M02 A2977 RMK AO2 SNB48 SLP105 P0000 T00001022 KRBL 030754Z AUTO 30005KT 10SM CLR 04/02 A3000 RMK AO2 SLP160 T00440022 401670044 LICD 030750Z 24008KT CAVOK 16/13 Q1026 VTCP 030800Z 17005KT 6000 FEW025 37/17 Q1005 A2969 INFO I RWY01 LIBN 030755Z 26007KT 9999 FEW020 15/13 Q1018 RMK BKN SCT080 BKN200 VIS MIN 9999 WIND THR14 /////KT BLU KPTN 030835Z AUTO 00000KT 1/4SM OVC002 19/18 A3012 RMK AO1 KRCE 030835Z AUTO 20014G23KT 3SM BR OVC004 02/02 A2994 RMK AO2 KRBO 030655Z AUTO 36005KT 1SM BR OVC001 A3010 RMK AO2 ETNW 030820Z 24014KT 9999 SCT018 SCT250 03/00 Q1015 BLU+BLU TEMPO WHT LICF 030755Z 29007KT 9999 SCT018 16/13 Q1020 RMK SCT QUK 2 QUL 0 VIS MAR 12 KM MON CIME INC NC VIS MIN 9999 KPSX 030753Z AUTO 01004KT 1/2SM FG VV003 13/13 A3009 RMK AO2 SLP188 T01330133 LICG 030755Z /////KT 9999 FEW015 14/11 Q1024 LIBP 030750Z 22004KT CAVOK 11/08 Q1021 LGSY 030750Z 25011KT 9999 SCT035 BKN080 15/07 Q1013 RMK FEW180 BLU KT35 030815Z AUTO 00000KT 1 1/4SM BR OVC002 06/06 A3008 RMK AO2 T00580057 LIBQ 030555Z 22015KT 0000 FG VV/// 04/04 Q1016 RMK MON INVIS VAL INVIS VIS MIN 0000 VTCT 030800Z 16008KT 4000 HZ NSC 35/19 Q1006 A2972 RMK/RWY03 INFO I LIBR 030815Z 30014KT 9999 FEW020 15/13 Q1019 NOSIG LICJ 030820Z 24005KT 160V290 CAVOK 18/10 Q1023 LGTS 030820Z 31008KT 9000 FEW010 13/10 Q1016 NOSIG KPUJ 030835Z AUTO 00000KT 10SM OVC003 10/08 A3018 RMK AO2 KPTS 030835Z AUTO 19013G18KT 10SM OVC010 03/02 A2991 RMK AO2 T00290020 KPTT 030835Z AUTO 19023G28KT 7SM CLR 00/M01 A2971 RMK AO2 KPVB 030815Z AUTO 11008KT 10SM BKN050 OVC060 M04/M07 A3001 RMK AO1 T10411072 LICL 030755Z 00000KT CAVOK 14/11 Q1021 RMK FEW FEW200 QUK 1 QUL 0 VIS MAR 20 KM VIS MIN 9999 KPVC 030835Z 31018G21KT 10SM CLR M04/M14 A3030 RMK AO1 LIBV 030755Z 33008KT CAVOK 13/08 Q1018 RMK SCT FEW160 SCT200 VIS MIN 9999 WIND THR32 33007KT WIND THR14 33008KT BLU KPVD 030751Z AUTO 28005KT 10SM CLR M07/M14 A3033 RMK AO2 SLP269 T10721144 PWINO FZRANO $ KRDD 030753Z AUTO 00000KT 10SM CLR 05/03 A2999 RMK AO2 SLP155 T00500028 401610044 KPTV 030835Z AUTO 14006KT 10SM CLR 04/02 A2997 RMK AO1 ETOU 030758Z AUTO 25002KT 9999 CLR 03/00 A3017 RMK AO2 SLP225 T00321005 $ KRCM 030815Z AUTO 16007KT 7SM OVC013 00/M01 A2994 RMK AO2 GCGM 030800Z VRB02KT 9999 SCT020 14/10 Q1023 RMK CAB09 VRB02KT GCFV 030830Z 03010KT 9999 SCT011 BKN017 16/14 Q1023 KPTW 030754Z AUTO 36008KT 10SM CLR M06/M14 A3041 RMK AO2 SLP300 T10561139 $ KPVE 030835Z AUTO 17003KT 10SM OVC010 06/04 A3013 RMK KRBW 030835Z AUTO 08004KT 10SM OVC027 13/12 A3024 RMK AO2 KPVF 030835Z AUTO 10005KT 10SM SCT035 BKN041 04/01 A2999 RMK AO1 LIBY 030755Z 32008KT CAVOK 13/09 Q1017 RMK BKN SCT070 SCT200 QUK 2 QUL 1 NW VIS MAR 20 KM VIS MAX 20 KM VIS MIN 9999 KPVG 030835Z AUTO 05005KT 10SM CLR 00/M08 A3042 RMK AO1 KRDG 030754Z 36004KT 10SM CLR M07/M15 A3040 RMK AO2 SLP304 T10671150 LICR 030750Z 02015KT 9999 SCT030 18/11 Q1021 KRCR 030815Z AUTO 11006KT 10SM SCT080 M02/M07 A3020 RMK AO2 GCHI 030800Z 05015KT 9999 SCT020 SCT027 18/14 Q1023 LIEA 030820Z 21003KT 190V260 CAVOK 14/10 Q1025 KPWA 030753Z AUTO 20015KT 5SM BR OVC005 04/02 A2997 RMK AO2 PK WND 19026/0716 SLP155 T00390022 KPVJ 030835Z AUTO 18006KT 10SM OVC004 03/03 A3001 RMK AO2 T00330030 LIEB 030755Z 33022G34KT CAVOK 18/09 Q1021 RMK BKN BKN080 QUK 2 QUL 0 VIS MAR 30 KM MON LIB VIS MIN 9999 LICT 030755Z 16003KT 9999 FEW010 16/14 Q1023 KRDK 030815Z AUTO 16012G20KT 10SM OVC017 00/M04 A2980 RMK AO2 LIEC 030755Z 25016KT 9999 SCT030 13/11 Q1022 RMK BKN BKN070 QUK 3 QUL 0 VIS MAR 20 KM VIS MIN 9999 KPWC 030834Z AUTO 16008KT 10SM SCT022 BKN048 OVC065 M06/M09 A2981 RMK AO2 LIED 030755Z 31006KT 9999 FEW004 12/10 Q1023 RMK SCT SCT100 VIS MIN 9999 WIND THR35 32006KT WIND THR17 33008KT BLU KRCV 030835Z AUTO 24014KT 10SM CLR M01/M09 A2978 RMK AO2 T10121095 KRDM 030756Z AUTO 00000KT 10SM OVC070 M01/M06 A3003 RMK AO2 SLP182 T10111056 400831050 LIEE 030820Z 33009KT 9999 FEW020 14/12 1024 KPUW 030753Z AUTO 01009KT 10SM CLR M02/M03 A3000 RMK AO2 SLP177 T10171033 400501017 FLHN 030800Z 11013KT 9999 BKN010 BKN015 19/16 Q1022 NOSIG KRCX 030835Z AUTO 15004KT 2 1/2SM -SN BKN010 OVC013 M06/M08 A2998 RMK AO2 T10651078 KPWG 030835Z AUTO 00000KT 3/4SM 04/02 A3009 RMK AO1 LICZ 030755Z 27012KT 9999 FEW020 18/11 Q1021 RMK SCT SCT150 VIS MIN 9999 WIND THR28 26012KT A3016 BLU KRCZ 030835Z AUTO 09008KT 10SM 07/04 A3028 RMK AO2 T00690039 KRDR 030758Z AUTO 31012G20KT 10SM CLR M04/M08 A2973 RMK AO2 SLP086 T10421081 ETSA 030820Z 23010KT 9999 FEW220 02/M03 Q1023 BLU+BLU+ KPWK 030752Z AUTO 15005KT 10SM OVC075 M03/M09 A3017 RMK AO2 SLP225 T10281094 ETSB 030820Z 24009KT 9999 SCT007 M00/M02 Q1019 BLU+BLU+ TEMPO GRN KRDU 030751Z 10008KT 10SM FEW018 BKN024 BKN050 05/M01 A3036 RMK AO2 SLP279 T00501011 KPVU 030835Z AUTO 22010KT 10SM BKN048 BKN055 OVC070 02/M01 A2984 RMK AO1 KPWM 030751Z AUTO 33003KT 10SM CLR M08/M19 A3026 RMK AO2 SLP247 T10831194 KRFD 030754Z 15009KT 10SM BKN065 OVC100 M04/M08 A3012 RMK AO2 SLP211 T10441083 KPVW 030815Z AUTO 23012G16KT 1 3/4SM BR OVC002 02/01 A2992 RMK AO2 T00150011 KPXE 030815Z AUTO 00000KT 10SM BKN023 BKN120 17/15 A3021 RMK AO2 T01680147 LIEO 030750Z 26019KT CAVOK 18/00 Q1021 KREO 030752Z AUTO 31017KT 01/M07 A2989 RMK AO1 SLP131 T00061067 400891078 KT65 030815Z AUTO 00000KT 1/2SM FG OVC003 11/11 A3005 RMK AO2 T01120105 ETSH 030820Z 24019KT 9999 FEW025 04/M01 Q1017 BLU+BLU+ KRFI 030815Z AUTO 13003KT 2 1/2SM OVC002 06/06 A3012 RMK AO2 T00600060 ETSI 030820Z 26009KT 9999 FEW040 03/M01 Q1023 BLU+BLU+ LHPA 030815Z 28007MPS 9999 FEW030 06/M02 Q1023 NOSIG RMK BLU KPWT 030835Z AUTO 36009KT 10SM CLR 07/M04 A3018 RMK AO1 ETSL 030820Z 22009KT 9999 FEW040 03/M02 Q1023 BLU+BLU+ ETSN 030820Z 23008KT 9999 FEW020 03/M02 Q1023 BLACKBLU+ LGZA 030750Z 00000KT 9999 FEW016 SCT020 BKN080 17/12 Q1019 GCLA 030830Z 01010KT 9999 SCT020 BKN035 17/13 Q1024 KRGK 030831Z AUTO 14007KT 10SM OVC080 M05/M11 A2993 RMK AO2 FLKK 030800Z 07012KT 9999 BKN010 BKN090 20/18 Q1022 KPYM 030752Z AUTO 32007KT 10SM CLR M06/M17 A3030 RMK AO2 SLP261 T10611167 KT82 030815Z AUTO 00000KT 1/4SM FG OVC002 05/04 A3005 RMK AO2 T00450042 LHPP 030815Z 33009KT CAVOK 07/M03 Q1023 FMCH 030800Z 06002KT 9999 FEW020CB BKN030 BKN090 25/24 Q1012 TEMPO 4000 RA KRHI 030653Z AUTO 20009KT 10SM BKN065 OVC080 M07/M14 A3003 RMK AO2 SLP194 T10671144 LHPR 030815Z 29023KT 9999 FEW030 06/M01 Q1022 AGGH 030800Z 18003KT 9999 FEW020 FEW021CB 28/26 Q1006 KQRB 030750Z AUTO 04004KT 4800 BR FEW190 22/21 A2987 RMK AO2 SLP113 T02200206 KRIC 030754Z 03004KT 10SM OVC300 M01/M09 A3039 RMK AO2 SLP297 T10061089 KPYX 030815Z AUTO 21016KT 10SM CLR 02/00 A2976 RMK AO2 T00200002 KRHP 030835Z AUTO 00000KT 10SM RA OVC030 07/07 A3021 RMK AO2 P0001 T00720070 KPZQ 030834Z AUTO 16003KT 10SM CLR M13/M16 A3020 RMK AO2 T11341162 KQRH 030756Z AUTO 08006KT 9000 CLR 29/18 A3004 RMK AO2 SLP165 T02920183 GCLP 030830Z 04012KT 9999 FEW011 BKN023 17/14 Q1024 NOSIG KSAA 030835Z AUTO 34009G27KT 3/4SM -SN BKN004 OVC009 M04/M05 A2964 RMK AO2 KQSA 030755Z 19003KT 9999 FEW055 BKN180 08/01 A3002 RMK AO2A SLP121 MDT CU SW-NW T00840009 $ KRIL 030753Z AUTO 26007KT 10SM OVC070 02/M02 A2976 RMK AO2 UPB29E34 SLP071 P0000 T00221022 KSAC 030753Z 00000KT 10SM CLR 08/05 A2999 RMK AO2 SLP155 T00830050 401780072 KSAD 030751Z AUTO 28004KT 10SM OVC065 08/06 A2996 RMK AO2 RAE0654 SLP120 P0000 T00780056 KRHV 030550Z 00000KT 10SM SKC 09/06 A2996 RMK LAST FMEE 030830Z 04005KT 9999 FEW030 FEW033TCU BKN076 31/25 Q1012 NOSIG KSAF 030753Z AUTO 16003KT 10SM OVC042 02/M01 A2994 RMK AO2 RAE0657B09E19 SLP107 P0000 T00221011 KQSF 030755Z AUTO VRB04KT 6000 HZ FEW034 BKN046 08/M03 A3007 RMK AO2 SLP223 T00801032 KQQY 030755Z AUTO VRB01KT 9999 BKN085 25/19 A2990 RMK AO2 SLP098 T02540190 KU16 030658Z AUTO 21014KT 10SM CLR 01/M01 A2976 RMK AO2 SLP714 T00111011 TSNO $ FMCZ 030830Z 32018KT 9000 VCSH FEW020CB SCT022TCU 30/24 Q1010 NOSIG KSBA 030753Z AUTO 03003KT 10SM CLR 09/06 A2996 RMK AO2 SLP145 T00890056 401560072 $ KQTC 030755Z AUTO 08015G21KT 2SM HZ CLR 28/M06 A2996 RMK AO2 SLP107 T02821062 $ KSBD 030449Z 08006KT 10SM BKN024 OVC047 09/04 A2998 KRKD 030835Z AUTO 31003KT 10SM CLR M11/M19 A3023 RMK AO1 KRIV 030758Z AUTO 00000KT 10SM BKN047 04/04 A2997 RMK AO2 SLP152 T00390039 401290039 LHSM 030815Z 29008KT CAVOK 07/M02 Q1024 NOSIG ETWM 030820Z 22009G19KT 9999 FEW016 04/00 Q1014 BLU+ KSAN 030751Z 07006KT 10SM FEW038 SCT055 SCT180 12/08 A2998 RMK AO2 SLP150 T01220078 401610117 LHSN 030834Z 30023G33KT CAVOK 07/M03 Q1019 RMK BLU KRIW 030753Z AUTO 01026G33KT 4SM BLSN OVC050 M06/M09 A2970 RMK AO2 PK WND 01033/0752 UPB26E49SNE26 SLP100 P0001 T10611094 KQSN 030655Z AUTO VRB05KT 9999 CLR 07/M08 A2999 RMK AO2 SLP198 T00661078 $ KQTF 030755Z AUTO VRB02KT 9SM CLR 12/10 A3016 RMK AO2 SLP212 T01150104 $ FMEP 030830Z AUTO 18008KT 9999 NCD 30/24 Q1011 KQTH 030755Z 13004KT 9999 CLR 33/M03 A3008 RMK AO2A SLP162 T03251027 $ KQTI 030755Z VRB01KT 99999 FEW220 22/04 A3005 RMK SLP178 WND DATA ESTMD ALSTG/SLP ESTMD KSAR 030815Z AUTO 15004KT 10SM SCT020 SCT033 SCT060 00/M04 A3008 RMK AO2 T10051045 KSAT 030751Z 09004KT 1/8SM R12R/3500V4500FT -DZ FG VV002 07/07 A3008 RMK AO2 SLP179 P0000 T00720067 KQTM 030759Z AUTO 13017KT 9999 CLR 21/M01 A2974 RMK CDP03569 CLR KSBM 030753Z AUTO 00000KT 6SM BR BKN090 OVC110 M06/M07 A3015 RMK AO2 SNE03 SLP223 P0000 T10561072 KSAV 030814Z AUTO 09003KT 3/4SM R10/4000VP6000FT BR VV002 13/12 A3021 RMK AO2 TSNO $ KSCD 030835Z AUTO 00000KT 2SM DZ OVC003 11/11 A3018 RMK AO2 P0001 T01100110 LHUD 030815Z 31021G33KT 9999 FEW020 07/M02 Q1022 GBYD 030800Z 09009KT CAVOK 21/03 Q1011 KSBN 030754Z 14009KT 10SM OVC080 M03/M09 A3022 RMK AO2 SLP244 T10331094 KSAW 030836Z AUTO 20009KT 10SM OVC100 M10/M13 A3000 RMK AO2 T10961134 LJCE 030830Z VRB02KT 4000 BR BKN002 03/02 Q1024 RMK AMB KSBO 021450Z AUTO 29004KT 2SM BR OVC003 11/11 A3034 RMK AO2 KRKP 030753Z AUTO 34004KT 1/4SM FG VV002 12/12 A3008 RMK AO2 SLP187 T01220117 KSBP 030756Z AUTO 00000KT 10SM CLR 06/06 A2997 RMK AO2 SLP150 T00610056 401560028 KSCH 030246Z 29010KT 10SM CLR M06/M13 A3031 KSAZ 030833Z AUTO 17011KT 5SM -SN SCT022 BKN028 OVC075 M06/M08 A2978 RMK AO2 KRKR 030815Z AUTO 00000KT 10SM OVC010 A3006 RMK AO2 LIMA 030800Z 00000KT CAVOK 10/M01 Q1020 KRKS 030805Z AUTO 26022KT 10SM SCT013 SCT050 M04/M06 A2966 RMK AO2 PK WND 26026/0805 T10441061 KSBS 030835Z AUTO 23018G26KT 10SM SCT044 BKN050 OVC070 00/M06 A2968 RMK AO1 T00001065 KSDA 030815Z AUTO 15012KT 10SM OVC015 00/M04 A2980 RMK AO2 KSDB 030748Z AUTO 19009KT 10SM OVC037 02/M01 A2993 RMK AO2 SLP125 T00221006 400890017 KSCK 030755Z 00000KT 10SM CLR 06/04 A2998 RMK AO2 SLP150 T00610039 401780056 LIMC 030820Z 31006KT CAVOK 11/M02 Q1020 NOSIG LIME 030820Z 18004KT 150V220 CAVOK 10/M03 Q1020 KRME 030753Z AUTO 00000KT 10SM CLR M18/M19 A3039 RMK AO2 SLP298 I1000 T11781194 LIMF 030820Z VRB02KT CAVOK 10/01 Q1020 KQVF 030755Z AUTO VRB02KT 9999 CLR 30/20 A2997 RMK AO2 SLP149 T02980203 $ KSDF 030756Z 08003KT 9SM BKN055 OVC140 00/M07 A3022 RMK AO2 SLP238 T00001072 LIMG 030750Z 26002KT CAVOK 07/05 Q1019 KRMG 030833Z AUTO 07003KT 10SM OVC014 09/05 A3019 RMK AO2 T00890050 KSBY 030754Z AUTO 33005KT 10SM CLR M01/M08 A3040 RMK AO2 SLP297 T10111078 LIMH 030355Z /////KT CAVOK M12/M25 Q1013 RMK SKC MON LIB VAL FOSCHIA VIS MIN 9999 KQTZ 030755Z 27005KT 9999 FEW080 FEW250 23/02 A3005 RMK SLP173 WND/ALSTG/SLP ESTMD KSCR 030815Z AUTO 10005KT 10SM OVC042 06/01 A3031 RMK AO2 T00550014 LIMJ 030820Z 06003KT 360V120 CAVOK 14/01 Q1019 KSEA 030753Z 18003KT 10SM CLR 06/01 A3015 RMK AO2 SLP219 T00610006 401110044 LIMK 021655Z 30020G32KT 230V360 CAVOK 11/M03 Q1009 RMK SKC VAL FOSCHIA SKC SUP VIS MIN 9999 FKYS 030700Z 22003KT 190V250 8000 BKN010 22/21 Q1015 NOSIG LIML 030750Z 08003KT 020V130 CAVOK 08/00 Q1020 NOSIG KSDL 030753Z AUTO VRB03KT 10SM SCT049 OVC065 10/07 A2998 RMK AO2 SLP144 T01000067 KRNC 030835Z AUTO 16011G183KT 10SM OVC016 07/03 A3017 RMK KSDM 030753Z AUTO 14005KT 10SM FEW055 SCT070 09/07 A2996 RMK AO2 RAB33E44 SLP144 P0000 T00940067 401610078 KRND 030828Z AUTO 04004KT 1/2SM R32R/1400FT FG CLR 06/06 A3006 RMK AO2 LIMN 030755Z /////KT CAVOK 07/00 Q1019 RMK FEW FEW200 VIS MIN 9999 BLK BLU KSEE 030815Z AUTO 28004KT 10SM CLR 07/07 A2998 RMK AO2 KRMN 030815Z AUTO 00000KT 10SM CLR M04/M08 A3045 RMK AO2 T10371082 LIMP 030750Z VRB03KT CAVOK 08/02 Q1021 KSEG 030753Z AUTO 00000KT 10SM CLR M12/M16 A3041 RMK AO2 SLP305 T11221156 KRNH 030815Z AUTO 14007KT 10SM SCT055 OVC080 M06/M11 A2994 RMK AO2 T10631115 LIMS 030755Z 13004KT CAVOK 06/02 Q1018 KROA 030754Z 16003KT 10SM BKN027 01/M07 A3035 RMK AO2 SLP281 T00111072 LIMT 021755Z 22015KT 0000 FG VV/// 06/04 Q1010 RMK MON INVIS VAL INVIS VIS MIN 0000 KSFB 030829Z AUTO 35005KT 3/4SM BR VV002 18/18 A3020 RMK AO2 T01830178 LIMU 030755Z 36007KT CAVOK 13/04 Q1019 RMK SCT SCT200 QUK 3 QUL 1 S VIS MAR 35 KM VIS MIN 9999 KROC 030754Z 22004KT 10SM FEW070 M13/M15 A3036 RMK AO2 SLP295 T11281150 LIMV 020955Z /////KT 2000 BR SCT003 BKN007 09/08 Q1011 RMK OVC MON INVIS VAL NEBBIA SCT VIS MIN 2000 KRNM 030753Z 13003KT 4SM BR CLR 03/02 A2997 RMK AO2 SLP150 T00280022 401110028 KSEM 030835Z AUTO 00000KT 1/4SM FG 14/14 A3016 RMK AO2 KQWM 030755Z 15005KT 9999 FEW120 BKN170 23/M02 A3006 RMK SLP176 QNH1017 VTPH 030800Z 15015KT CAVOK 31/25 Q1007 NOSIG KSFF 030753Z AUTO 01006KT 10SM CLR M01/M08 A3008 RMK AO2 SLP201 T10111083 400671028 KRNO 030755Z 19004KT 10SM FEW065 BKN085 02/M02 A2994 RMK AO2 SLP131 T00221017 401001044 KSEP 030835Z AUTO 17003KT 3/4SM 03/03 A3008 RMK AO2 T00320025 KRMY 030833Z AUTO 17004KT 10SM SCT070 OVC090 M05/M09 A3022 RMK AO2 T10511094 KSDY 030835Z AUTO 31016G28KT 10SM CLR M11/M18 A3008 RMK AO1 KRNP 030835Z AUTO 00000KT 10SM OVC065 M05/M09 A3024 RMK AO2 T10471094 KROG 030757Z AUTO 14006KT 10SM OVC007 02/01 A2999 RMK AO2 PRESFR SLP162 T00220011 TSNO LIMZ 030750Z 23004KT CAVOK 06/01 Q1020 GCRR 030830Z 04004KT 9999 FEW020 16/14 Q1024 LIPA 030755Z 09004KT CAVOK 07/05 Q1020 RMK SKC VIS MIN 9999 A3015 BLU KU68 030815Z AUTO 03019G22KT 10SM SCT023 SCT028 OVC038 M07/M16 A2991 RMK AO2 LIPB 030750Z VRB03KT CAVOK 03/00 Q1023 KRNT 030753Z AUTO 10004KT 10SM CLR 03/01 A3016 RMK AO2 SLP218 T00280006 401110028 KSET 030754Z AUTO 14009KT 10SM OVC023 00/M04 A3006 RMK AO2 SLP181 T00001044 FLSK 030800Z 08009KT 9999 BKN012 21/18 Q1021 LIPC 030755Z 01005KT 2400 BR NSC 07/05 Q1020 FNBC 030700Z VRB02KT 0300 FG BKN010 21/// Q1014 VTPO 030800Z 23003KT 5000 HZ NSC 36/21 Q1005 KSFM 030835Z AUTO 13004KT 10SM CLR M16/M21 A3024 RMK AO1 KRPD 030835Z AUTO 11005KT 10SM SCT021 SCT034 OVC045 M07/M09 A2996 RMK AO2 T10701087 KRNV 030835Z AUTO 11003KT 1SM BR OVC003 05/05 A3013 RMK AO2 T00510051 VTPP 030800Z 23004KT 7000 FEW025 35/21 Q1006 LIPE 030820Z VRB02KT CAVOK 11/01 Q1021 LIPF 030755Z 07002KT 0100 FG VV/// 05/03 Q1020 KSGF 030752Z 16014KT 10SM OVC012 01/M03 A2997 RMK AO2 SLP156 T00111033 $ KSFO 030756Z 28006KT 10SM CLR 11/08 A2998 RMK AO2 SLP153 T01110083 401610100 LIPH 030815Z /////KT CAVOK 06/04 Q1021 KSGH 030756Z AUTO 13006KT 7SM CLR M06/M10 A3025 RMK AO2 T10551100 SLP256 KRPH 030835Z AUTO 17004KT 3SM BR BKN002 OVC013 02/02 A3005 RMK AO2 T00200020 FNBG 030700Z 00000KT 9999 FEW020 29/23 Q1012 KSEZ 030815Z AUTO 00000KT 1/4SM -RA OVC002 02/02 A2997 RMK AO2 KSFQ 030815Z AUTO 06005KT 10SM CLR 00/M06 A3039 RMK AO2 T10021061 LIPI 030755Z 07008KT CAVOK 09/04 Q1021 RMK FEW FEW200 VIS MIN 9999 WIND THR06 04007KT BLU KSGJ 030758Z AUTO 00000KT 10SM SCT002 OVC041 16/16 A3022 RMK AO2 SLP233 T01610156 KROS 030835Z AUTO 15006KT 10SM SCT065 OVC085 M07/M09 A2990 RMK AO2 T10671088 KRPJ 030835Z AUTO 14016KT 10SM OVC060 M04/M08 A3008 RMK AO2 T10451077 FNCA 030700Z 07005KT 9999 FEW015 BKN080 24/23 Q1012 LIPK 021650Z VRB03KT 5000 BR SCT020 12/06 Q1009 KQXT 030755Z 12012KT 9999 SCT130 20/M08 A2994 RMK SLP133 WND DATA ESTMD ALSTG/SLP ESTMD Q1013 KRQB 030834Z AUTO 17003KT 1 3/4SM -SN SCT009 BKN014 OVC028 M06/M09 A3017 RMK AO2 T10601086 LIQC 030755Z ///01KT 9999 FEW016 BKN025 13/11 Q1020 RMK OVC QUK 2 QUL 1 SW VIS MAR 20 KM VIS MIN 9999 LIPL 030755Z /////KT CAVOK 06/02 Q1020 RMK SKC VIS MIN 9999 WIND THR31 07008KT BLU KSHD 030835Z AUTO 00000KT 10SM SCT090 OVC110 M02/M07 A3034 RMK AO2 T10231071 KROW 030831Z AUTO 18008KT 7SM BKN005 02/01 A2990 RMK AO2 T00220011 KRQE 030805Z AUTO 26004KT 4SM -SN BR BKN015 BKN021 OVC026 00/M02 A2995 RMK AO2 P0000 T00001022 TSNO LIPO 030750Z 06016KT CAVOK 09/00 Q1020 KROX 030834Z AUTO 22014G19KT 10SM OVC024 M03/M07 A2967 RMK AO2 KSFY 030835Z AUTO 14012KT 10SM SCT042 OVC050 M03/M07 A3003 RMK AO2 T10311075 LIPQ 030820Z VRB01KT CAVOK 10/06 Q1021 KSFZ 030835Z 00000KT 10SM CLR M13/M17 A3029 RMK AO1 VTSB 030800Z 04011KT 9999 FEW020 35/19 Q1008 A2977 LIPR 030815Z 32002KT 5000 BR NSC 09/09 Q1020 KSGR 030813Z AUTO 00000KT 1/4SM FG VV002 15/14 A3009 RMK AO2 T01500144 LIPS 030755Z 06009KT CAVOK 09/04 Q1020 RMK SKC VIS MIN 9999 WIND THR26 /////KT WIND THR08 06009KT BLU LIRA 030815Z 34001KT 4000 BR FEW025 11/10 Q1019 KSGS 030830Z AUTO 15007KT 10SM OVC075 M05/M11 A2992 RMK AO2 T10511113 KSGT 030835Z AUTO 00000KT 1/4SM OVC002 02/01 A3015 RMK AO1 GCTS 030830Z 06005KT 030V090 9999 FEW030 17/12 Q1023 NOSIG LIPU 030750Z VRB02KT 6000 NSC 05/05 Q1021 KSGU 030835Z AUTO 00000KT 10SM FEW019 BKN038 OVC060 05/02 A2997 RMK AO1 KSHL 030815Z AUTO 15010KT 10SM OVC050 M04/M06 A2977 RMK AO2 VTSF 030800Z 10009KT 060V130 9999 FEW020 31/24 Q1008 A2978 INFO I / RWY 19 KSHM 030756Z AUTO 23014G21KT 10SM CLR 03/M04 A2966 RMK AO2 SLP068 T00261040 400261072 LIQN 021650Z 11005KT 6000 BKN025 11/09 Q1015 VTSG 030800Z 09003KT 030V150 9999 SCT020 36/16 Q1008 A2977 LIRE 030755Z VRB01KT CAVOK 13/12 Q1019 RMK FEW FEW180 VIS MIN 5000SE WIND THR31 VRB01KT WHT KSHN 030753Z AUTO 23003KT 10SM CLR M02/M03 A3013 RMK AO2 SLP207 T10221033 401331033 LIQO 021555Z 19013KT 0000 FG VV/// 12/11 Q1012 RMK VAL INVIS NC VIS MIN 0000 VTSH 030800Z 04008KT 9999 FEW020 BKN300 30/23 Q1008 A2979 LIPX 030815Z 12003KT 4500 BR NSC 08/04 Q1022 LIRF 030820Z 07005KT 040V130 8000 NSC 12/11 Q1020 NOSIG KRQO 030835Z AUTO 20021KT OVC005 02/01 A2992 RMK AO2 PWINO KSIF 030835Z AUTO 00000KT 10SM SCT014 OVC047 03/M02 A3032 RMK AO2 T00301025 LIRG 030755Z 20002KT 9999 FEW003 12/10 Q1019 LIPY 030819Z VRB01KT 6000 NSC 11/09 Q1021 WMBA 030800Z 26006KT 190V320 9999 FEW017CB BKN280 33/24 Q1007 LIRH 030755Z 04002KT 0200 FG BKN001 08/05 Q1019 LIPZ 030820Z 06006KT CAVOK 07/04 Q1021 LIRI 030810Z 00000KT 9999 BKN020 15/13 Q1021 KSHR 030811Z AUTO 32016KT 1 1/2SM -SN BR OVC018 M08/M11 A2995 RMK AO2 P0001 T10831106 FMMI 030830Z 15005KT 110V190 8000 -DZRA SCT017 BKN020 22/22 Q1019 TEMPO 5000 DZRA KSIK 030755Z AUTO 09003KT 10SM OVC021 02/M02 A3014 RMK AO2 PWINO VTSM 030800Z 13012KT 9999 FEW020 BKN300 31/23 Q1010 A2983 LIRK 030755Z AUTO 11005KT //// ///// Q0000 LIRL 030755Z 00000KT 5000 BR FEW003 SCT016 10/08 Q1019 KSJC 030753Z 13004KT 10SM CLR 07/04 A2999 RMK AO2 SLP155 T00720044 401610061 KRRL 030815Z AUTO 20007KT 7SM -SN SCT009 SCT016 OVC050 M06/M09 A3001 RMK AO2 T10621092 LIRM 030755Z 02002KT 1300 BR SCT010 BKN025 13/11 Q1019 KSHV 030756Z 13004KT 1/2SM -DZ FG OVC002 06/05 A3014 RMK AO2 SLP206 P0000 T00560050 KTAD 030754Z AUTO 28014KT 10SM CLR 06/M04 A2971 RMK AO2 SLP030 T00561044 LIQW 030755Z 32008KT CAVOK 08/05 Q1019 VTSP 030830Z 27010KT 9999 FEW020 BKN300 32/20 Q1008 A2979 LIRN 030820Z 20004KT 170V260 5000 BR FEW010 BKN040 14/13 Q1020 VTSR 030300Z VRB04KT 8000 NSC 32/21 Q1013 A2992 VOR/DME RWY02 INFO N LIRP 030815Z 13008KT 9999 SCT030 13/11 Q1020 NOSIG VTSS 030830Z 04010KT 9999 FEW020 SCT300 33/23 Q1007 A2974 NOSIG LIRQ 030820Z VRB01KT 9999 SCT012 SCT020 12/12 Q1020 VTST 030800Z 35003KT 9999 SCT020 SCT028 34/22 Q1006 RWY08 INFO I LIRS 030755Z /////KT CAVOK 13/08 Q1018 WMAU 030800Z 03008KT 310V100 9999 FEW020 SCT150 BKN280 30/24 Q//// QFF1008 KSKA 030758Z AUTO 36009KT 10SM CLR M04/M07 A3004 RMK AO2 SLP199 T10381070 VTUD 030800Z VRB04KT 6000 NSC 36/19 Q1006 A2971 INFO K RWY30 LIRT 030455Z 28010KT 0000 FG VV/// 07/05 Q1016 RMK MON INVIS VAL INVIS VIS MIN 0000 KRRT 030834Z AUTO 22011G19KT 10SM OVC028 M04/M07 A2967 RMK AO2 LIRU 030750Z VRB03KT 0800 FG FEW025 08/08 Q1020 FMMT 030800Z 16010KT 9000 VCSH BKN017CB SCT033 BKN233 30/26 Q1010 TEMPO 4000 TSRA KRSL 030753Z AUTO 18017G21KT 10SM CLR 01/M02 A2965 RMK AO2 SLP054 T00111022 LIRV 030755Z 03006KT 0300 FG BKN001 07/04 Q1019 FMNM 030800Z 02006KT 9999 FEW007 SCT016CB BKN090 28/25 Q1010 NOSIG KTAN 030752Z AUTO 26004KT 10SM CLR M06/M14 A3031 RMK AO2 SLP263 T10611144 KSJN 030754Z AUTO 31005KT 10SM OVC060 A2997 RMK AO2 SLPNO $ KRSN 030835Z AUTO 00000KT 1/4SM FG OVC002 05/05 A3019 RMK AO2 T00470047 LIRX 030755Z 36007KT CAVOK 11/04 Q1017 RMK FEW FEW200 VIS MIN 9999 VIS MAR 20 KM FMNN 030800Z 36004KT 9999 VCSH BKN020CB 30/26 Q1011 KSKF 030838Z AUTO 05005KT 3/4SM R33/2600FT BR OVC002 07/07 A3004 RMK AO2 $ GEFF 021900Z 35004KT 6000 NSC 29/20 Q1008 NOSIG VTUI 030800Z 35002KT 6000 FEW040 36/21 Q1006 A2971 INFO J RWY05 KSIY 030753Z AUTO 34004KT 10SM CLR 01/M02 RMK AO2 SLPNO T00061022 401220000 $ KRSP 030754Z AUTO 10SM CLR M07/M12 RMK AO2 SLPNO T10671117 $ LIRZ 030750Z VRB01KT 9000 FEW030 12/11 Q1020 VTUK 030800Z VRB04KT CAVOK 36/17 Q1006 A2971 RWY03 INFO J VTUL 030800Z 16006KT 120V200 4000 HZ NSC 36/20 Q1006 A2971 KSJS 030835Z AUTO 04004KT 10SM CLR M01/M06 A3016 RMK AO2 T10121056 KSJT 030751Z AUTO 00000KT 1/2SM FG VV002 04/03 A3005 RMK AO2 SLP185 T00390033 RVRNO KRST 030754Z AUTO 15011KT 10SM OVC060 M06/M11 A2994 RMK AO2 SLP163 T10611106 KSLB 030815Z AUTO 14012KT 10SM OVC021 M04/M06 A2979 RMK AO2 KSLC 030753Z 17007KT 10SM FEW009 SCT028 SCT060 01/M01 A2977 RMK AO2 SLP079 T00061006 KTCC 030753Z AUTO 25015KT 10SM CLR 03/01 A2985 RMK AO2 SLP111 T00280006 VTUO 030800Z 21004KT 8000 FEW020 37/19 Q1005 A2969 INFO I RWY 22 KRSV 030835Z AUTO 13009KT 10SM SCT038 OVC045 M01/M06 A3014 RMK AO2 T10101060 KRSW 030753Z 05004KT 10SM CLR 18/17 A3016 RMK AO2 SLP212 T01830172 KRTN 030753Z AUTO 23015G24KT 10SM FEW100 03/M02 A2979 RMK AO2 PK WND 24026/0710 SLP084 T00331022 KRUE 030836Z AUTO 11003KT 2 1/2SM HZ OVC003 10/01 A3010 RMK AO2 T01000006 KSLE 030756Z AUTO 00000KT 10SM CLR 02/01 A3012 RMK AO2 SLP200 T00220006 401330022 KTBN 030758Z AUTO 17010G16KT 10SM OVC013 01/01 A3000 RMK AO2 SLP170 T00100006 KSJX 030836Z AUTO 14004KT 10SM CLR M10/M13 A3014 RMK AO2 T10961130 GCXO 030830Z VRB02KT 9999 BKN013 12/09 Q1025 NOSIG VVCR 030800Z 17010KT CAVOK 31/21 Q1008 NOSIG KRUG 030815Z AUTO 32025G34KT 10SM OVC011 M11/M14 A2983 RMK AO2 KSLG 030835Z AUTO 20010KT 8SM OVC006 03/M01 A2999 RMK AO1 KSLH 030838Z AUTO 00000KT 10SM CLR M18/M21 A3018 RMK AO2 T11891215 KTAZ 030815Z AUTO 14006KT 10SM OVC029 M02/M06 A3009 RMK AO2 VVCT 030800Z VRB01KT 9999 SCT015 32/18 Q1007 NOSIG KSLI 030758Z AUTO 06005KT 10SM CLR 09/06 A2998 RMK AO2 SLP155 T00910063 401570090 $ KTBR 030815Z AUTO 00000KT 10SM OVC046 16/16 A3020 RMK AO2 T01550155 FNGI 030800Z 07004KT 9999 FEW015 26/10 Q1018 VTUU 030800Z 23006KT 9000 FEW023 BKN300 35/20 Q1005 A2970 NOSIG KRTS 030830Z AUTO 36007KT 330V030 10SM BKN060 OVC075 01/M03 A2994 RMK AO2 LJLJ 030830Z VRB02KT 0300 R30/0400N FG VV001 02/02 Q1023 BECMG FM0830 9999 NSW FEW060 VTUV 030400Z 24010KT 6000 NSC 32/23 Q1010 A2982 INFO E RWY 18 KSLK 030751Z AUTO 00000KT 10SM CLR M23/M26 A3022 RMK AO2 SLP275 T12331261 LJMB 030830Z 01010KT 9999 FEW030 08/M03 Q1023 R32/CLRD// LIVC 021755Z 25028KT CAVOK 02/M01 Q1011 RMK SKC MON LIB VAL CLD SCT DIM ABB VIS MIN 9999 VTUW 030800Z 28004KT 6000 SCT026 36/17 Q1004 A2967 RWY 15 INFO G VVDN 030830Z 11007KT 7000 FEW015 SCT300 29/24 Q1006 NOSIG KTCL 030806Z AUTO 00000KT 3SM BR OVC007 11/09 A3018 RMK AO2 T01060094 LIVD 030755Z 00000KT CAVOK M02/M05 Q1021 RMK SKC VIS MIN 9999 KTCM 030758Z AUTO 00000KT 10SM CLR M01/M01 A3015 RMK AO2 SLP216 T10061012 401101011 $ LIVE 030755Z /////KT 9999 SCT025 M05/M09 Q1021 RMK SCT VIS MIN 9999 KSLN 030817Z AUTO 19013G19KT 5SM BR OVC010 02/M01 A2977 RMK AO2 T00171006 KSME 030815Z AUTO 00000KT 10SM SCT044 SCT055 BKN080 00/M05 A3019 RMK AO2 KSMF 030753Z 00000KT 10SM FEW100 07/05 A2999 RMK AO2 SLP153 T00670050 401780050 KSKX 030835Z AUTO 14008KT 10SM OVC050 M01/M04 A2991 RMK AO1 KSLO 030835Z AUTO 12008KT 10SM OVC022 01/M06 A3007 RMK AO2 T00071057 KTDF 030815Z AUTO 11010G14KT 10SM OVC024 03/M01 A3035 RMK AO2 KRUQ 030815Z AUTO 03003KT 10SM OVC037 06/M07 A3029 RMK AO2 T00631070 KSLR 030835Z AUTO 00000KT 3/4SM BR OVC002 05/05 A3012 RMK AO2 T00490049 KTCS 030753Z AUTO 18007KT 10SM BKN055 11/05 A2990 RMK AO2 SLP073 T01060050 TSNO KSNA 030753Z 07003KT 10SM FEW065 12/04 A2998 RMK AO2 SLP150 T01220044 401670100 EVRA 030820Z 20013KT 9000 -SN BKN005 OVC015 01/01 Q0995 RESN R18/290195 NOSIG KTEB 030751Z 00000KT 10SM CLR M06/M13 A3038 RMK AO2 SLP288 T10611133 KRUT 030835Z 13003KT 10SM CLR M14/M18 A3029 RMK AO1 KSNC 030815Z AUTO 31005KT 10SM CLR M05/M13 A3033 RMK AO2 LIVM 030755Z ///01KT 0300 FG NSC 07/06 Q1020 RMK SKC QUK / QUL / VIS MAR 300 M VIS MIN 0300 LKCV 030800Z 27017KT 9999 FEW026 04/M03 Q1019 NOSIG RMK BLU BLU KSMN 030835Z AUTO 02017G21KT 10SM SCT035 BKN041 OVC048 M02/M13 A2983 RMK AO1 LIVO 030755Z 00000KT CAVOK 00/M01 Q1020 RMK SKC VIS MIN 9999 KSMO 030751Z AUTO 01003KT 10SM BKN050 OVC065 12/08 A2998 RMK AO2 SLP151 T01220078 401720083 $ KRWF 030753Z AUTO 14013KT 10SM OVC065 M05/M08 A2986 RMK AO2 SLP127 T10501078 LIVP 021955Z 33015KT CAVOK M03/M11 Q1008 RMK SKC MON LIB VAL S CLD SCT VIS MIN 9999 KSMQ 030753Z AUTO 33005KT 10SM CLR M07/M14 A3038 RMK AO2 SLP292 T10671139 TSNO KSNH 030835Z AUTO 00000KT 2SM OVC004 06/06 A3015 RMK LIVR 030655Z 00000KT CAVOK M07/M16 Q1016 RMK SKC MON LIB VIS MIN 9999 KRWI 030753Z AUTO 00000KT 10SM BKN034 03/M02 A3038 RMK AO2 SLP288 T00281017 KTDR 030838Z AUTO 30003KT 2 1/4SM BR VV003 14/14 A3018 RMK AO2 VIS 2 1/4V10 KRVS 030753Z AUTO 18007KT 1SM BR OVC002 03/03 A3001 RMK AO2 SLP170 T00280028 KSMS 030835Z AUTO 10005KT 10SM BKN010 BKN013 OVC039 12/11 A3026 RMK AO2 KSOA 030815Z AUTO 00000KT 1/2SM BR OVC001 06/06 A3008 RMK AO2 LIVT 030755Z 04011KT CAVOK 11/M02 Q1020 RMK SKC QUK 3 QUL 1 NE VIS MAR 20 KM VIS MIN 9999 KSNK 030815Z AUTO 19007KT 3/4SM BR OVC002 02/02 A2999 RMK AO2 T00240022 TSNO KRWL 030825Z AUTO 35015G24KT 2SM -SN BR FEW020 OVC028 M06/M08 A2965 RMK AO2 P0000 T10611083 KSNL 030835Z AUTO 19010KT 5SM BR OVC001 05/05 A2998 RMK AO2 FNHU 030700Z 27004KT 9999 SCT016 16/16 Q1023 FMSD 030800Z 20014KT 9999 VCSH FEW020TCU BKN040 25/16 Q1015 KRXE 030831Z AUTO 07009G15KT 1 3/4SM -SN OVC029 M04/ A2971 RMK AO2 SNB25 P0000 T1039 $ KSMX 030751Z AUTO 16006KT 10SM CLR 07/04 A2997 RMK AO2 SLP152 T00670044 401500039 TSNO KTDZ 030753Z AUTO 00000KT 8SM OVC100 M06/M10 A3030 RMK AO2 SLP270 T10561100 TSNO KSPA 030835Z AUTO 03010KT 10SM CLR 10/00 A3027 RMK AO2 KSNS 030753Z 00000KT 10SM CLR 08/05 A2998 RMK AO2 SLP161 T00780050 401500067 KSNT 030751Z AUTO 00000KT M04/M08 A2970 RMK AO1 SLP046 T10391083 KSPB 030753Z AUTO VRB04KT 10SM CLR 07/M02 A3012 RMK AO2 SLP200 T00671017 401330044 KSPD 030756Z AUTO 24014G21KT 06/02 A2968 RMK AO1 PK WND 23030/0711 SLP040 T00610022 KRWV 030815Z AUTO 00000KT 3/4SM BR BKN001 06/06 A3013 RMK AO2 KTEW 030834Z AUTO 17005KT 10SM OVC100 M05/M09 A3023 RMK AO2 T10461092 KSPF 030835Z AUTO 33014G25KT 3/4SM -SN OVC002 M09/M11 A2983 RMK AO2 P0078 KTEX 030835Z AUTO 26003KT 10SM SCT040 M05/M09 A2987 RMK AO2 T10471087 KSNY 030753Z AUTO 12004KT 1/4SM FZFG VV001 M02/M03 A2957 RMK AO2 SLP031 T10171028 KSPG 030753Z AUTO 04004KT 10SM CLR 20/18 A3017 RMK AO2 SLP215 T02000183 KSOP 030835Z AUTO 09009KT 10SM OVC042 06/00 A3032 RMK AO1 KTFP 030815Z AUTO 04007KT 1/2SM FZFG OVC002 00/00 A3005 RMK AO2 T00001002 KSPI 030833Z AUTO 12011KT 10SM UP OVC027 M02/M05 A3003 RMK AO2 UPE0755B27FZRAB0755E27 P0001 I1001 T10171050 KTGI 030817Z AUTO 01006KT 10SM CLR M01/M05 A3041 RMK AO1 KTHA 030835Z AUTO 00000KT 10SM 07/04 A3018 RMK KSPL 030835Z AUTO 35004KT M1/4SM VV000 14/14 A3004 RMK AO1 KRYN 030245Z 35005KT 10SM 12/10 A3001 KSOW 030835Z AUTO 21006KT 10SM BKN018 BKN050 M01/M02 A2999 RMK AO2 KSQE 030835Z AUTO VRB04KT 9SM CLR 23/21 A3011 RMK A01 KSQI 030835Z AUTO 16008KT 10SM BKN039 OVC050 M03/M08 A3006 RMK AO1 KSPR 030835Z AUTO 14011KT 8SM CLR 23/21 A3010 RMK A01 KSPS 030801Z AUTO 19013KT 5SM -DZ BR SCT008 OVC017 03/01 A3004 RMK AO2 P0000 T00280011 $ MBGT 022300Z 09012KT 9999 SCT010 25/19 Q1019 FNMA 030700Z 20005KT 9999 BKN057 18/17 Q1020 EVVA 030820Z AUTO 28009KT 2700 +RASN OVC004 01/01 Q0994 RERA KSRB 030835Z AUTO 19004KT 10SM 07/02 A3016 RMK KSQL 030835Z AUTO 00000KT 10SM CLR 09/06 A3000 RMK AO2 KSRC 030838Z AUTO 00000KT 2 1/2SM BR OVC004 01/00 A3014 RMK AO2 FZRANO TSNO KRZL 030835Z AUTO 13006KT 7SM UP SCT055 OVC080 M02/M06 A3016 RMK AO2 FNKU 030700Z 27010KT CAVOK 17/15 Q1020 KRYV 030815Z AUTO 11006KT 10SM OVC080 M04/M09 A3006 RMK AO2 T10451090 KSPW 030834Z AUTO 15010KT 10SM BKN027 OVC033 M03/M07 A2979 RMK AO2 T10331072 TSNO $ KRYW 030835Z AUTO 00000KT 1/4SM FG OVC001 05/05 A3006 RMK AO2 T00510045 LIYW 030758Z AUTO 07004KT 9999 CLR 08/08 A3016 RMK AO2 DZB0745E0755 SLP221 P0000 T00800080 KRZN 030810Z AUTO 17009KT 7SM -SN SCT015 BKN033 BKN048 M06/M10 A2994 RMK AO2 T10621097 KTIF 030815Z AUTO 00000KT 2SM BR SCT003 OVC012 M02/M02 A2964 RMK AO2 T10211025 KRYY 022347Z 35003KT 10SM BKN120 13/06 A3028 WMKA 030800Z 24009KT 170V280 9999 SCT020 BKN280 36/22 Q1006 LJPZ 030830Z 28004KT CAVOK 11/04 Q1021 WMKB 030800Z 29010KT 8000 FEW020 BKN280 32/24 Q1007 NOSIG KRZR 030835Z AUTO 00000KT 10SM OVC028 06/03 A3020 RMK WMKC 030800Z 06010KT 010V100 9999 FEW018 BKN280 31/25 Q1008 WMKD 030800Z 06007KT 9999 SCT020 SCT160 BKN280 32/25 Q1008 NOSIG KTIK 030827Z AUTO 19016G23KT 7SM R18/5500FT OVC003 03/03 A2996 RMK AO2 KRZT 030835Z AUTO 00000KT 7SM SCT120 M05/M08 A3025 RMK AO2 WMKE 030700KT 9999 FEW018 BKN270 31\24 Q1009 KSSC 030818Z AUTO 10007KT 10SM BKN009 BKN014 OVC036 12/10 A3023 RMK AO2 CIG 009V015 $ FNLU 030700Z VRB03KT 9999 SCT018 BKN020 26/24 Q1012 NOSIG GEML 030830Z 32004KT CAVOK 17/13 Q1024 KTHV 030753Z AUTO 31003KT 8SM CLR M09/M12 A3038 RMK AO2 SLP295 T10941122 KW13 030835Z AUTO 00000KT 10SM OVC100 M01/M09 A3031 RMK AO1 T10131086 KSSF 030801Z AUTO 07005KT 3/4SM BR VV002 07/06 A3006 RMK AO2 T00670061 FNMO 021600Z 26016KT 9999 SCT024 27/22 Q1009 WMKI 030800Z 25003KT 9999 FEW017CB SCT020 BKN300 34/24 Q1007 KTIP 030835Z AUTO 13012KT 10SM OVC042 M02/M05 A3009 RMK AO2 T10201053 WMKJ 030800Z 06007KT 350V140 9999 SCT018TCU BKN130 33/24 Q1007 KSRQ 030753Z AUTO 08005KT 10SM SCT044 19/18 A3016 RMK AO2 SLP213 T01890178 WMKK 030830Z 23008KT 190V270 9999 FEW017CB SCT018 BKN280 31/24 Q1007 NOSIG KSSI 030753Z AUTO 23005KT 7SM BKN043 BKN050 OVC065 14/14 A3020 RMK AO2 SLP226 T01440139 KSRR 030815Z AUTO 23018G24KT 10SM FEW014 SCT041 BKN048 07/03 A2996 RMK AO2 WMKL 030800Z 24007KT 9999 FEW022 BKN280 31/25 Q1008 WMKM 030800Z 22007KT 150V280 9999 FEW022 SCT150 BKN280 32/26 Q1007 LKKB 030800Z 25017KT CAVOK 03/M05 Q1019 NOSIG WMKN 030800Z 06006KT 010V130 9999 FEW018 BKN300 31/24 Q1008 KSTC 030753Z AUTO 17008KT 8SM BKN060 OVC080 M06/M09 A2989 RMK AO2 SNB0655E38 SLP145 P0000 T10611094 KTKC 030833Z AUTO 17008KT 10SM OVC065 M03/M06 A2979 RMK AO2 T10351061 KW22 030815Z AUTO 05004KT 10SM SCT080 BKN100 M04/M07 A3022 RMK AO2 WMKP 030830Z 28008KT 9999 FEW020 BKN280 32/24 Q1007 KTIW 030753Z AUTO 05004KT 10SM CLR 06/M01 A3015 RMK AO2 SLP212 T00611011 401110056 KUBE 030815Z AUTO 15008KT 3SM -SN BKN013 SCT021 OVC026 M07/M09 A2993 RMK AO2 KSTE 030815Z AUTO 13004KT 10SM OVC080 M07/M09 A3005 RMK AO2 T10701095 KTIX 022047Z 04010KT 7SM FEW025 23/19 A3023 KUAO 030753Z AUTO 00000KT 10SM CLR 04/M01 A3014 RMK AO2 SLP205 T00391006 401330022 KSTF 030835Z AUTO 00000KT 3/4SM BR OVC002 07/07 A3016 RMK AO2 LLBG 030820Z 26004KT 9999 BKN030 19/10 Q1021 NOSIG KTKI 030807Z AUTO 18003KT 3/4SM BR VV002 05/05 A3010 RMK AO2 RAE0756 P0000 T00500050 KSTJ 030805Z AUTO 17011KT 9SM OVC014 01/M02 A2988 RMK AO2 T00111022 KSUA 030835Z AUTO 10003KT 10SM SCT017 SCT022 20/18 A3017 RMK AO2 KSTK 030830Z AUTO 25006KT 5SM BR OVC006 00/M01 A2958 RMK AO2 KW29 030818Z AUTO 00000KT 10SM M02/M06 A3041 RMK AO1 KSTL 030751Z 14009KT 10SM BKN020 OVC030 01/M06 A3007 RMK AO2 SLP191 T00061056 KW31 030835Z AUTO 00000KT 10SM OVC035 01/M07 A3035 RMK AO1 T00111073 KSUE 030835Z AUTO 20010KT 2SM BKN018 BKN026 OVC038 M05/M09 A3012 RMK AO1 KSTP 030753Z AUTO 10SM OVC075 M06/M12 A2996 RMK AO2 SLP154 T10561117 KTLH 030829Z AUTO 00000KT 1/4SM FG VV001 16/14 A3017 RMK AO2 T01560144 $ VVNB 030830Z 04013KT CAVOK 25/15 Q1008 NOSIG KSTS 030753Z AUTO 00000KT 8SM CLR 06/04 A2999 RMK AO2 RAB16E31 SLP149 P0000 T00560044 401670044 KTMA 030815Z AUTO 17004KT 1SM BR BKN003 OVC075 13/13 A3019 RMK AO2 T01320132 KTMB 030753Z AUTO 06003KT 10SM CLR 19/18 A3015 RMK AO2 SLP210 T01890178 LKKU 030800Z 25006KT 180V310 9999 FEW041 SCT046 04/M02 Q1019 KSVC 030835Z AUTO 32012KT 10SM FEW035 BKN044 BKN050 06/05 A2996 RMK AO2 KTKV 030835Z AUTO 17003KT 5SM -SN SCT016 BKN021 OVC040 M07/M12 A2998 RMK AO2 T10661120 LKKV 030830Z 25013KT 9999 SCT019 00/M04 Q1018 R29/791091 LKLN 030800Z AUTO 27006KT 240V310 9999 OVC022 02/M02 Q1020 KTME 030835Z AUTO 36004KT 1/4SM FG OVC002 12/12 A3010 RMK AO2 KSUN 030835Z AUTO 31005KT 10SM BKN100 BKN120 00/M06 A2967 RMK AO2 KW43 030835Z AUTO 3/4SM -SN OVC006 M09/M11 A2984 RMK AO2 KUDG 030835Z AUTO 11008KT 10SM SCT010 OVC018 09/06 A3029 RMK AO1 KUCP 030756Z AUTO 00000KT 10SM CLR M09/M12 A3033 RMK AO2 T10941122 SLP304 KSVH 030815Z AUTO 03004KT 10SM OVC037 06/M06 A3029 RMK AO2 T00621058 LKNA 030800Z 28018G27KT 9999 SCT032 02/M03 Q1018 NOSIG RMK BLU BLU KSUS 030754Z AUTO 10003KT 10SM OVC023 00/M06 A3005 RMK AO2 SLP183 T00001056 KTMK 030835Z AUTO 00000KT 10SM CLR 01/01 A3017 RMK AO2 KSUT 030835Z AUTO 05011G14KT 10SM BKN060 BKN070 07/02 A3031 RMK AO2 T00720022 KTNB 030835Z AUTO 00000KT 10SM OVC018 02/M03 A3024 RMK AO2 T00221029 KSUU 030758Z AUTO 11003KT 10SM CLR 06/06 A2997 RMK AO2 SLP156 T00620056 401690062 $ KSVN 030833Z AUTO 05002KT 10SM BKN003 BKN210 13/13 A3019 RMK AO2 CIG 003V210 BKN003 V FEW KSUW 030815Z AUTO 22007KT 10SM OVC080 M05/M13 A2993 RMK AO2 T10531133 KSUX 030752Z 15010KT 10SM OVC029 M01/M07 A2979 RMK AO2 SLP098 T10061067 KSWF 030745Z 00000KT 10SM SKC M14/M17 A3035 KUCY 030835Z AUTO 00000KT 10SM OVC015 03/M01 A3011 RMK VVPB 030830Z 10006KT 9999 FEW020 33/22 Q1005 NOSIG KTOA 030350Z VRB06 10 FEW060 BKN250 12/09 A2996 FNSA 030700Z 00000KT 9999 SCT023 23/19 Q1014 KTOB 030834Z AUTO 15013KT 10SM OVC060 M06/M08 A2988 RMK AO2 LKMT 030830Z 24015KT 9999 SCT028 BKN045 03/M02 Q1018 NOSIG KTOC 030835Z AUTO 08006KT 10SM OVC019 12/03 A3024 RMK AO2 T01230031 KW63 030835Z AUTO 12004KT 10SM OVC029 02/M04 A3035 RMK AO1 KSWO 030822Z AUTO 18014KT 7SM OVC006 03/02 A2994 RMK AO2 T00330022 TSNO KTOI 030834Z AUTO 00000KT 1/2SM FG OVC003 15/15 A3018 RMK AO2 T01500150 KTPA 030753Z 03003KT 1/4SM R01L/P6000FT FG OVC002 19/18 A3019 RMK AO2 SFC VIS 1/2 SLP222 T01890178 KUES 030815Z AUTO 12005KT 10SM OVC080 M05/M09 A3010 RMK AO2 LLET 030750Z 03016KT CAVOK 21/07 Q1021 KTOL 030752Z 00000KT 8SM OVC100 M06/M10 A3028 RMK AO2 SLP265 T10611100 KTNU 030815Z AUTO 14013KT 9SM OVC022 M03/M05 A2991 RMK AO2 LKPD 030800Z 26018KT 9999 FEW029 04/M04 Q1018 NOSIG RMK BLU BLU KSWW 030815Z AUTO 19009KT 4SM BKN006 OVC010 03/03 A3002 RMK AO2 T00330033 VVPQ 030830Z 22008KT 190V250 9999 FEW017 30/21 Q1008 NOSIG KTPF 030835Z AUTO 04003KT 10SM CLR 20/20 A3018 RMK AO2 KSYF 030815Z AUTO 25007KT 5SM BR CLR M02/M03 A2956 RMK AO2 T10171026 KTOP 030753Z AUTO 16010G16KT 5SM BR OVC007 01/00 A2987 RMK AO2 SLP120 T00110000 KW75 030835Z AUTO 03004KT 10SM CLR M01/M07 A3038 RMK AO1 T10151070 KTPH 030756Z AUTO 33004KT 10SM FEW095 M01/M02 A2992 RMK AO2 SLP132 T10061022 400671011 KTOR 030753Z AUTO 34005KT 6SM BR OVC018 M02/M03 A2961 RMK AO2 SNE02 SLP038 P0000 T10171028 KSYI 030835Z AUTO 00000KT 7SM OVC012 06/04 A3018 RMK LLHA 030750Z 26006KT 210V290 9999 FEW030 18/10 Q1021 KSXS 030816Z AUTO 18002KT 3/16SM FG SCT037 BKN042 15/15 A3019 RMK AO2 KW78 030815Z AUTO 10006KT 10SM OVC030 03/M05 A3035 RMK AO1 T00301048 KSXT 030756Z AUTO 01009KT 1/4SM FG VV002 00/00 A3001 RMK AO2 SLP181 T00000000 400501011 KTPL 030835Z AUTO 00000KT 1/2SM OVC003 04/02 A3006 RMK AO1 KW81 030835Z AUTO 07003KT 10SM OVC041 00/M06 A3037 RMK AO1 T10031061 FNSU 030800Z 27004KT 9999 FEW014 BKN080 30/21 Q1015 KSYM 030830Z AUTO 00000KT 10SM CLR M01/M08 A3023 RMK AO2 KSYN 030834Z AUTO 16007KT 10SM OVC070 M04/M09 A2989 RMK AO2 T10431095 KTQE 030754Z AUTO 15009KT 10SM OVC024 M01/M06 A2980 RMK AO2 SLP095 T10061056 KUGN 030755Z AUTO 14006KT 10SM BKN075 OVC090 M03/M09 A3014 RMK AO2 PRESFR SLP221 T10281094 FNUE 030700Z 27007KT CAVOK 21/18 Q1018 FNUG 021600Z 30014KT 8000 TS SCT015 FEW022CB OVC070 25/20 Q1013 WMSA 030800Z 28011KT 9999 FEW017CB SCT019 BKN280 33/24 Q1007 KTQH 030835Z AUTO 19005KT 4SM BR OVC006 02/01 A3002 RMK AO2 KSYR 030754Z 00000KT 10SM FEW230 M16/M16 A3036 RMK SLP285 T11581156 LKPR 030830Z 24018KT 9999 FEW025 03/M04 Q1019 NOSIG LLIB 030750Z 19006KT 150V240 9999 FEW015 SCT025 16/11 Q1020 KSZL 030808Z AUTO 19012KT 10SM OVC014 01/M02 A2994 RMK AO2 MBPV 022200Z 04014KT 9999 SCT015 29/21 Q1019 GFLL 030700Z 12009KT 5000 MIST BKN010 23/21 Q1010 KW96 030835Z AUTO 00000KT 10SM CLR M01/M07 A3040 RMK AO1 T10151067 KTRI 030753Z 00000KT 10SM OVC180 02/M02 A3019 RMK AO2 SLP218 T00171022 MDAB 022100Z 08010KT 9999 SCT022 30/24 Q1017 KSZT 030835Z AUTO 03013KT 10SM CLR M02/M11 A3011 RMK AO2 KTRK 030815Z AUTO 00000KT 10SM OVC065 M05/M06 A2995 RMK AO2 KW99 030815Z AUTO 00000KT 10SM SCT120 M03/M07 A3035 RMK AO2 T10351070 KTRL 030753Z AUTO 00000KT 1/4SM FG VV002 06/06 A3011 RMK AO2 SLP196 T00610056 KUIL 030753Z AUTO 01003KT 8SM CLR 01/00 A3017 RMK AO2 SLP216 T00060000 401280000 $ KTRM 030752Z AUTO 33006KT 10SM CLR 07/04 A2994 RMK AO2 SLP137 T00670044 401780061 TSNO KVAD 030838Z AUTO 00000KT 3/4SM R36/2000FT BR FEW180 12/12 A3018 RMK AO2 $ KUIN 030754Z AUTO 15011KT 8SM OVC020 M02/M06 A3003 RMK AO2 UPE54 SLP175 P0001 I1001 T10171056 KVAF 030835Z AUTO 18012KT 5SM BR SCT005 SCT009 BKN015 21/21 A3008 RMK A01 KTTA 030835Z AUTO 09005KT 10SM OVC025 06/00 A3035 RMK AO2 T00600000 LKTB 030830Z 29016KT 9999 SCT043 05/M04 Q1019 NOSIG KTTD 030753Z AUTO 09004KT 10SM CLR 03/M01 A3013 RMK AO2 SLP201 T00331006 401330022 KTTF 030834Z AUTO 00000KT 10SM OVC100 M05/M09 A3026 RMK AO2 KUKF 030815Z AUTO 00000KT 10SM OVC041 05/M04 A3034 RMK AO2 KTSP 030835Z AUTO 06004KT 10SM CLR M02/M03 A2994 RMK AO2 KVBG 030755Z AUTO 11009KT 10SM CLR 08/06 A2997 RMK AO2 SLP139 T00780061 401440050 TSNO $ MDBH 022300Z 11012KT 9999 FEW020 BKN060 27/21 Q1016 FOOG 030800Z /////KT 9999 FEW010 FEW020CB SCT040 27/24 Q1012 VVTS 030830Z 20006KT 160V240 9999 SCT020 32/20 Q1007 NOSIG KUKI 030756Z AUTO 00000KT 10SM CLR 06/03 A3000 RMK AO2 SLP156 T00610028 401830033 KVCB 030753Z AUTO 00000KT 10SM CLR 07/04 A2999 RMK AO2 SLP156 T00670044 401780067 FOOL 030655Z 08004KT 9999 FEW010 FEW018CB 26/25 Q1011 NOSIG KTTN 030753Z 33005KT 10SM CLR M04/M13 A3039 RMK AO2 SLP289 T10441133 FOON 021200Z /////KT 8000 BKN16 30/24 Q1010 KVAY 030754Z AUTO 36007KT 10SM CLR M04/M12 A3041 RMK AO2 SLP299 T10391122 KTTS 030838Z AUTO 05002KT 2 1/2SM BR CLR 15/15 A3017 RMK AO2 VIS 2 1/2V10 $ KVBS 030835Z AUTO 13012KT M1/4SM FG OVC003 14/14 A3009 RMK A01 KVBT 030835Z AUTO 19006KT 10SM OVC006 03/01 A2998 RMK AO1 KUKT 030835Z AUTO 33003KT 10SM CLR M09/M14 A3039 RMK AO1 KTVC 030753Z AUTO 00000KT 10SM OVC095 M08/M13 A3018 RMK AO2 SLP231 T10781133 KTUL 030834Z 17011KT 3/4SM R36R/P6000FT -RA BR OVC002 03/03 A2997 RMK AO2 SFC VIS 1 RAB34 P0000 T00280028 KULM 030834Z AUTO 15010KT 10SM OVC070 M06/M09 A2985 RMK AO2 KVBW 030835Z AUTO 00000KT 10SM BKN110 M03/M07 A3032 RMK AO2 T10321071 KVDF 030835Z AUTO 00000KT 1/2SM FG OVC001 18/17 A3019 RMK AO2 KTVF 030835Z AUTO 21015KT 10SM OVC028 M04/M07 A2971 RMK AO1 KTUP 030837Z AUTO 00000KT 1SM BR VV003 07/06 A3016 RMK AO2 T00720061 RJAA 030830Z 03007KT 360V060 9999 FEW030 BKN160 05/00 Q1018 NOSIG RMK 2SC030 7AC160 A3006 KVDI 030835Z AUTO 00000KT 10SM OVC050 16/16 A3020 RMK AO2 KTVI 030815Z AUTO 00000KT 3/4SM BR OVC002 13/13 A3020 RMK AO2 KTUS 030753Z 34004KT 10SM SCT060 OVC070 11/08 A2998 RMK AO2 SLP126 T01110083 KVCT 030751Z AUTO 35005KT 1SM BR OVC002 10/10 A3010 RMK AO2 SLP193 T01000100 TSNO KTVK 030835Z AUTO 15012KT 10SM OVC016 M02/M04 A2993 RMK AO2 KTVL 030753Z AUTO 18005KT 10SM SCT044 OVC060 M02/M07 A2994 RMK AO2 SLP137 T10221067 400441089 KVCV 030835Z AUTO 20003KT 10SM 03/01 A2995 RMK AO2 RJAF 030700Z 15008KT 9999 FEW050 BKN070 06/M02 Q1013 LKVO 030800Z 26018KT CAVOK 04/M03 Q1019 KTWF 030753Z AUTO 25020G26KT 10SM SCT070 OVC095 01/M05 A2978 RMK AO2 PK WND 26029/0720 SLP071 T00111050 MDCY 022300Z 09010KT 9999 FEW020 25/21 Q1017 RJAH 030800Z 05008KT 9999 FEW020 OVC030 05/M02 Q1017 SAAJ 030634Z 02004KT 8000 TS FEW015 FEW050CB OVC100 21/20 Q1009 KTVR 030831Z AUTO 00000KT 1SM BR VV007 07/07 A3015 RMK AO2 T00720067 KUNI 030815Z AUTO 00000KT 10SM CLR M03/M08 A3024 RMK AO2 T10351080 RJAK 030223Z 07011KT 9999 FEW025 BKN030 07/01 Q1021 RMK 1CU025 7SC030 A3017 RJBB 030830Z 12004KT 060V150 9999 VCSH FEW025 SCT040 BKN060 13/03 Q1009 BECMG 16008KT RJBD 030800Z 12013KT 9999 -RA FEW030 SCT050 BKN080 12/06 Q1010 KVEL 030835Z AUTO 00000KT 10SM SCT013 OVC019 01/M01 A2974 RMK AO2 T00061011 RJBE 030800Z 05013KT 9999 -RA FEW030 SCT050 BKN070 10/04 Q1009 KTWM 030834Z AUTO 21006KT 10SM OVC085 M04/M12 A2985 RMK AO2 SABE 030800Z 09005KT CAVOK 25/22 Q1010 SAAP 021008Z 02002KT 0300 FG BKN100 18/18 Q1012 KUNO 030753Z AUTO 17007KT 10SM OVC009 M01/M04 A3008 RMK AO2 SLP193 T10061039 SAAR 030800Z 25012KT 3000 TSRA SCT008 BKN015 FEW045CB OVC045 21/21 Q1008 KVER 030815Z AUTO 15008KT 10SM OVC020 01/M05 A2996 RMK AO2 T00101048 RJAT 022235Z 01003KT 9999 FEW020 SCT030 BKN200 03/M06 Q1019 RMK 1SC020 4SC030 5CI200 A3010 RJCB 030800Z 09004KT 050V120 9999 FEW040 SCT170 BKN/// 00/M08 Q1016 KVES 030815Z AUTO 13004KT 10SM OVC100 M05/M08 A3022 RMK AO2 RJCC 030830Z 16009KT 9999 FEW050 BKN/// 01/M05 Q1018 RMK 1SC050 A3007 EYKA 030820Z 22009KT 200V260 9999 BKN010 OVC013 03/01 Q1002 R08/290095 KTXK 030753Z AUTO VRB03KT 1/2SM FG VV002 02/02 A3014 RMK AO2 SLP207 T00220022 KUNU 030815Z AUTO 13008KT 10SM OVC080 M05/M09 A3008 RMK AO2 T10481086 RJAW 030800Z 10013KT 9999 BKN012 21/17 Q1016 RMK 6CU012 A3001 KUNV 030835Z AUTO 00000KT 10SM CLR M09/M13 A3034 RMK AO2 T10921134 RJCH 030800Z 21009KT 9999 FEW040 SCT090 BKN/// 05/M03 Q1017 RJCK 030800Z 23005KT 200V260 9999 FEW040 BKN/// 01/M08 Q1017 RJBT 030800Z VRB01KT 0300 FG -RA FEW000 SCT015 BKN025 04/03 Q1010 RJDC 030818Z VRB02KT 2500 RA BR FEW004 SCT006 BKN008 08/06 Q1008 RMK 2ST004 4ST006 6ST008 A2978 RJCM 030800Z 11004KT 9999 SCT050 BKN/// M01/M04 Q1017 RJCN 030800Z 22003KT 200V310 9999 FEW050 SCT060 02/M05 Q1017 RJCO 030635Z 09007KT 9999 FEW030 BKN060 BKN230 03/M05 Q1018 RMK 1CU030 5SC060 7CI230 A3008 SADF 030800Z 05002KT CAVOK 21/20 Q1010 SACO 030823Z 23004KT 2500 RABR SCT002 FEW040CB BKN050 18/18 Q1011 RMK CB OBS TO E KUOX 030815Z AUTO 00000KT 1SM BR OVC001 05/05 A3017 RMK AO2 PWINO PNO KTYQ 030835Z AUTO 12006KT 10SM UP OVC080 M03/M09 A3018 RMK AO2 T10321090 KTYR 030833Z AUTO 14005KT 3SM BR OVC002 07/06 A3008 RMK AO2 T00670056 RJEB 030700Z 25014KT 9999 FEW050 03/M08 Q1016 KTYS 030753Z 34004KT 10SM OVC036 05/02 A3021 RMK AO2 SLP231 T00500022 RJEC 030800Z 16005KT 9999 FEW025 BKN/// M01/M07 Q1016 KVGT 030753Z 35007KT 10SM CLR 07/01 A2993 RMK AO2 SLP152 T00670011 401440061 RJCW 030800Z 23006KT 9999 FEW010 SCT035 BKN090 M01/M07 Q1016 SADP 021230Z 32006KT 5000 BR OVC006 19/19 Q1013 KVIH 030753Z AUTO 18012KT 10SM OVC016 01/M04 A2998 RMK AO2 SLP161 T00061039 KTZR 030835Z AUTO 10003KT 10SM SCT120 A3025 RMK AO2 RJDT 030800Z 34004KT 300V060 9999 -SHRA FEW003 SCT006 BKN010 07/07 Q1007 MDJB 022300Z 02010KT 8000 -RA BKN016 25/22 Q1016 RJFE 030813Z 32011KT 290V350 9999 -SHRA FEW007 SCT015 BKN040 10/09 Q1008 RMK 1ST007 3CU015 5CU040 A2978 LLSD 030750Z 21008KT 9999 FEW025 17/11 Q1020 RJFF 030830Z 16003KT 090V210 8000 -SHRA FEW005 SCT020 BKN040 08/07 Q1008 RMK 1ST005 3CU020 5CU040 A2977 KUSE 030835Z AUTO 16003KT 8SM SCT075 OVC085 M06/M09 A3026 RMK AO2 RJFG 030825Z 26018KT 2000 R31/0700VP1800U SHRA BR FEW001 SCT002 BKN005 17/17 Q1005 RMK 1ST001 3ST002 5ST005 A2970 KVJI 030835Z AUTO 07005KT 10SM SCT045 BKN090 03/M04 A3018 RMK AO2 T00301042 RJFK 030800Z 06004KT 330V120 5000 R34///// -SHRA PRFG BR FEW001 SCT010 BKN020 11/10 Q1004 KUTA 030835Z AUTO 00000KT 1/2SM FG OVC001 04/03 A3014 RMK AO2 KVIS 030835Z AUTO 00000KT 5SM CLR 07/03 A2997 RMK AO1 KY19 030815Z AUTO 33025G30KT 10SM FEW019 OVC075 M09/M12 A2986 RMK AO2 RJFM 030812Z 27004KT 3000 -SHRA BR FEW002 SCT005 BKN007 09/08 Q1005 RMK 1ST002 4ST005 6ST007 A2969 KWAL 030754Z AUTO 36007KT 10SM CLR M02/M08 A3041 RMK AO2 SLP293 T10171083 RJFO 030800Z 06013KT 6000 -RA FEW004 BKN006 BKN010 08/08 Q1007 KY23 030815Z AUTO 08003KT 10SM BKN035 OVC044 M07/M09 A2997 RMK AO2 T10711086 RJGG 030830Z 15003KT 120V190 9999 -RA FEW020 BKN040 BKN090 09/03 Q1013 BECMG 13017KT SAEZ 030800Z VRB02KT 3000 MIFG BR FEW005 21/20 Q1011 RJFR 030826Z 05006KT 5000 -RA BR FEW006 BKN009 BKN020 08/07 Q1008 RMK 2ST006 6ST009 7SC020 A2978 RJFS 030800Z 30009KT 3000 SHRA BR FEW003 SCT009 BKN015 08/06 Q1008 RJFT 030816Z 34006KT 310V010 0200 R07/0450V0800U RA FG BKN001 BKN004 08/08 Q1006 RMK 5ST001 7ST004 A2972 RJFU 030800Z 36007KT 6000 -SHRA FEW005 BKN015 BKN030 09/08 Q1007 EYPA 030820Z 26008KT 210V310 9999 -SHRA OVC011CB 03/02 Q0998 R19/2///95 KVLD 030812Z AUTO 00000KT 8SM BKN002 12/12 A3020 RMK AO2 T01220122 TSNO RJFY 030742Z 14004KT 1500 R26///// -SHRA BR FEW001 BKN025 FEW025CB OVC045 11/11 Q1005 RMK 1ST001 6CU025 1CB025 8SC045 A2968 CB 15KM S MOV NE KUTS 030813Z AUTO 00000KT 1SM BR VV002 10/09 A3010 RMK AO2 T01000094 KUVA 030835Z AUTO 00000KT 1 1/2SM DZ OVC001 08/08 A3007 RMK AO2 T00810080 KVKS 030840Z AUTO 00000KT 3/4SM BR OVC002 08/07 A3014 RMK A01 KVLL 030835Z AUTO 19005KT 10SM BKN055 OVC070 M03/M09 A3028 RMK AO2 T10331095 GGOV 030800Z 06004KT 8000 NSC 19/13 Q1009 BECMG 4000 DU KVKY 030835Z AUTO 00000KT 10SM SCT010 BKN014 21/20 A3016 RMK A01 KWDG 030815Z AUTO 19018G24KT 5SM BR BKN008 02/02 A2987 RMK AO2 SBAA 022000Z 32002KT 9999 SCT020 BKN090 27/24 Q1009 MDLR 030300Z 36005KT 9999 FEW018 21/21 Q1018 NOSIG KY50 030756Z AUTO 00000KT 10SM OVC080 M05/M09 A3009 RMK AO2 TSNO T10501088 SLP199 KY49 030815Z AUTO 18005KT 10SM SCT018 OVC070 M05/M09 A2975 RMK AO2 T10511087 LMML 030815Z 33018KT 9999 FEW020 16/13 Q1023 NOSIG KUUU 030753Z AUTO 29006KT 10SM CLR M06/M13 A3031 RMK AO2 SLP266 T10561128 KY51 030815Z AUTO 13008KT 10SM OVC060 M05/M08 A2999 RMK AO1 T10531085 KVNC 030815Z AUTO 07004KT 10SM CLR 18/18 A3017 RMK AO2 SBAF 030800Z 06002KT CAVOK 23/21 Q1014 RJKA 030822Z 26017KT 4000 SHRA FEW015 SCT020 BKN025 19/16 Q1009 RMK 2CU015 3CU020 5CU025 A2982 KWDR 030835Z AUTO 03003KT 10SM SCT024 BKN031 OVC043 13/10 A3023 RMK AO1 KVOA 030835Z AUTO 13008KT 10SM OVC011 22/19 A3016 RMK A01 EYSA 030820Z 20016G26KT 9000 -RA BKN007 OVC015 02/02 Q0998 R14L/690194 R14R/690194 SBAN 030800Z 05006KT 9999 FEW025 BKN100 19/17 Q1018 SBBE 030800Z 14002KT 9999 SCT004 BKN020 24/23 Q1009 KY63 030835Z AUTO 17022G27KT 1SM SN OVC013 M05/M06 A2975 RMK AO2 T10471057 SBBG 022200Z 23003KT 9999 FEW030 SCT080 28/22 Q1011 SBAQ 022300Z 12002KT CAVOK 25/21 Q1016 SBBH 030800Z 08004KT CAVOK 20/17 Q1017 SBBI 030000Z 10006KT 9999 SCT005 OVC006 19/17 Q1019 SBAR 030800Z 10009KT 9999 SCT015 26/21 Q1011 SBCA 030700Z 07013KT CAVOK 22/17 Q1015 SBAT 030300Z 00000KT CAVOK 24/23 Q1013 SBCB 022100Z 09009KT 9999 SCT019 BKN040 27/24 Q1016 SBCC 022000Z 01006KT 9999 SCT030 FEW035TCU 29/20 Q1009 SBAU 030815Z 16006KT 9999 FEW010 BKN090 22/20 Q1014 KY70 030833Z AUTO 13004KT 10SM OVC090 M04/M08 A3021 RMK AO2 T10421080 KVOK 030758Z AUTO 12007KT 10SM OVC080 M05/M08 A3005 RMK AO2 PRESFR SLP193 T10491082 KVPC 030753Z AUTO 00000KT 10SM OVC017 09/05 A3022 RMK AO2 SLP228 T00940050 MDPC 030700Z 07007KT 9999 FEW020 24/20 Q1017 KUXL 030815Z AUTO 07003KT 1 1/4SM BR OVC002 13/13 A3014 RMK AO2 T01260126 SBAX 022200Z 15005KT 9999 FEW020 24/14 Q1017 SBCF 030800Z 12008KT CAVOK 20/17 Q1018 KUYF 030835Z AUTO 00000KT 10SM CLR M07/M10 A3023 RMK AO2 SBCG 030800Z 02006KT 9999 FEW007 FEW040TCU 22/20 Q1013 SBBQ 022300Z 09007KT 9999 SCT013 18/16 Q1022 SBCH 030400Z 12010KT CAVOK 23/13 Q1015 KVNY 030817Z 06003KT 10SM SCT019 OVC050 10/08 A2997 RMK AO2 T01000078 SBCI 022100Z 05004KT 9999 TS FEW015 FEW023CB BKN080 26/24 Q1010 SBBR 030800Z 00000KT 9999 -RA FEW035 18/18 Q1017 SBCJ 022130Z 03001KT CAVOK 23/22 Q1012 KUZA 030754Z AUTO VRB03KT 10SM -RA SCT033 BKN044 OVC080 09/M02 A3028 RMK AO2 RAB06 SLP250 P0000 T00891017 SBBU 030800Z 13006KT CAVOK 21/20 Q1016 SBCM 030000Z 06004KT CAVOK 25/20 Q1014 FPST 030700Z 20004KT 9999 FEW025CB BKN110 24/22 Q1011 NOSIG SBBV 030800Z 08015KT 9999 BKN045 25/19 Q1009 SBBW 022200Z 10004KT 9999 FEW020 25/23 Q1011 SAME 030800Z 18004KT 9999 FEW045 19/15 Q1012 SBCO 030000Z 16003KT CAVOK 25/22 Q1013 SBCP 030100Z 22010KT 9999 FEW030 BKN090 26/22 Q1017 MDPP 030600Z 00000KT 9999S CT017 SCT070 22/21 Q1018 N0SIG SBCR 030000Z 00000KT 9999 SCT005 SCT020 FEW025TCU BKN100 25/25 Q1008 KVPS 030755Z 00000KT 1/4SM R19/1200FT FG VV001 16/15 A3017 RMK AO2A SLP223 T01560154 $ SBCT 030800Z 10003KT 9999 BKN007 SCT020 17/15 Q1020 FQMA 030800Z 16012KT 9999 BKN025 27/12 Q1025 NOSIG KVRB 030829Z AUTO 00000KT 2 1/2SM BR BKN003 17/16 A3016 RMK AO2 T01670161 SBDN 030800Z 11007KT 9999 FEW045 23/19 Q1014 SBCX 022000Z 29006KT 9999 SCT030 BKN090 26/17 Q//// RJNG 022346Z 04005KT 9999 FEW030 BKN180 BKN230 03/M03 Q1020 RMK 1CU030 5AC180 A3015 SBEG 030800Z 32002KT CAVOK 24/22 Q1009 SBCY 030800Z 34004KT 9999 SCT020 BKN100 23/22 Q1012 KWHP 030347Z 00000KT 10SM BKN090 10/07 A2998 RMK LAST SBCZ 030300Z 00000KT CAVOK 24/24 Q1010 SAMR 022155Z 20019G25KT 2000 RATS SCT040 FEW045CB 20/15 Q1008 KVQQ 030815Z AUTO 00000KT 5SM BR SCT060 15/15 A3020 RMK AO2 KVPZ 030756Z AUTO 12009KT 10SM OVC070 M04/M09 A3017 RMK AO2 PRESFR SLP227 T10391094 TSNO RJOA 030800Z 04007KT 3000 RA BR FEW001 SCT008 BKN015 04/04 Q1008 SBEK 022100Z 12002KT 9999 FEW025TCU 31/25 Q1006 RJNK 030800Z 03005KT 9000 -RA FEW050 BKN080 OVC100 09/01 Q1012 RJOB 030800Z 01008KT 3500 -RA BR BCFG FEW000 SCT020 BKN030 04/03 Q1009 EYVI 030820Z 20012KT 7000 SCT006 OVC013 02/01 Q1004 R20/2///95 NOSIG SAOC 030800Z 23002KT 8000 TSRA FEW020 FEW040CB OVC045 17/17 Q1010 RJOC 030800Z 05008KT 8000 -RA FEW005 SCT030 BKN040 06/05 Q1010 KVQT 030835Z AUTO 13009KT 7SM CLR 22/22 A3010 RMK A01 RJOE 030824Z 33003KT 9999 -SHRA FEW030 BKN040 BKN120 08/03 Q1013 RMK 1CU030 5SC040 6AC120 A2994 MDSD 030700Z 02005KT 9999 SCT016 SCT070 21/21 Q1016 RJOF 030818Z 27003KT 5000 -RA BR FEW005 SCT010 BKN015 08/07 Q1007 RMK 1ST005 3ST010 5CU015 A2976 KVSF 030754Z AUTO 28005KT 10SM CLR M12/M17 A3028 RMK AO2 SLP266 T11221172 TSNO $ KWJF 030756Z AUTO 27009KT 10SM FEW060 04/01 A2995 RMK AO2 SLP149 T00390011 401280022 RJOH 030800Z 13002KT 8000 -RA FEW010 BKN030 OVC040 05/03 Q1010 SBFI 030800Z 11007KT CAVOK 24/22 Q1011 RJOI 030755Z 02010KT 3200 SHRA BR FEW003 BKN007 OVC015 07/06 A2980 RMK SLP092 P0013 T00720061 SBES 022300Z 09009KT 9999 FEW045 BKN080 25/20 Q1016 RJNS 030800Z 10004KT 9999 FEW020 BKN045 BKN120 10/02 Q1015 SANT 030800Z 18010KT 9999 SCT040 FEW045CB 24/23 Q1006 RJOK 030818Z 14021KT 4000 SHRA BR FEW010 BKN015 BKN025 13/11 Q1007 RMK 1ST010 5CU015 6CU025 A2976 RJNT 030800Z 04003KT 350V110 9999 FEW050 BKN080 OVC120 08/M01 Q1012 KVTA 030754Z AUTO 01004KT 10SM OVC090 M06/M11 A3026 RMK AO2 SLP259 T10561106 SBFL 030800Z 02005KT 9999 FEW020 SCT040 25/21 Q1015 RJOM 030800Z 05005KT 4500 RA BR FEW004 SCT006 BKN050 07/06 Q1007 SBFN 030800Z 09006KT 6000 -RA BKN019 BKN080 23/// Q1011 RJNW 030800Z 06006KT 9999 FEW040 SCT050 BKN080 04/01 Q1012 LOAN 030800Z 28012G22KT 45KM FEW030CU RMK FEW RJOO 030800Z 07011KT 9999 FEW030 SCT060 BKN080 10/02 Q1010 RJOP 030734Z 22010KT 160V290 9999 -RA FEW020 BKN040 BKN080 11/07 Q1009 RMK 2CU020 6SC040 7AC080 A2980 RJNY 030518Z 17006KT 140V210 9999 FEW025 BKN180 BKN230 12/02 Q1018 RMK 1CU025 5AC180 A3006 RJOR 030800Z 09004KT 7000 -SHRA FEW010 SCT020 BKN035 05/03 Q1011 RJOS 030731Z 31003KT 9999 -RA BKN030 BKN050 OVC120 11/07 Q1009 RMK 5CU030 6SC050 8AS120 A2981 SBFS 022100Z 21005KT 9999 FEW015 BKN080 ///// Q1016 KVTI 030835Z AUTO 16012G19KT 10SM BKN020 OVC025 M02/M06 A2996 RMK AO2 T10231065 RJOT 030818Z 34004KT 300V010 3000 -RA BR FEW000 SCT002 BKN004 05/05 Q1009 RMK 1ST000 3ST002 5ST004 A2979 SAOU 022015Z 027012G30KT 1000 TSRAGR BKN040 FEW045CB BKN050 26/19 Q1009 VYMD 030730Z 34003KT 8000 NSC 38/15 Q1006 NOSIG SBGL 030800Z 26003KT 9999 FEW030 23/20 Q1015 MDST 030700Z 00000KT 8000 -RA SCT016 19/19 Q1017 SBGM 022300Z 20002KT CAVOK 25/24 Q1007 LOAV 030800Z 29022G40KT 40KM FEW040CU 05/M05 Q1022 RMK FEW RJOW 030800Z VRB02KT 4000 -RA BR FEW005 BKN040 OVC070 07/05 Q1007 KWLD 030806Z AUTO 19014G24KT 4SM BR OVC004 02/02 A2990 RMK AO2 T00220017 KVTN 030752Z AUTO 19004KT 5SM HZ OVC021 M01/M04 A2963 RMK AO2 SLP051 T10061039 SBGO 030800Z 08002KT CAVOK 22/18 Q1015 RJOY 030800Z 11011KT 9999 FEW035 SCT060 BKN100 11/02 Q1010 RJOZ 030717Z 36003KT 4900 -RA BR FEW005 BKN010 BKN015 07/06 Q1008 RMK 1ST005 5ST010 5CU015 A2978 KVTP 030835Z AUTO 20021KT 10SM SCT007 BKN012 OVC060 M06/M08 A2971 RMK AO2 SBFZ 030800Z 17002KT 9999 SCT017 25/22 Q1010 KXBP 030835Z AUTO 00000KT 5SM BR OVC012 04/04 A3009 RMK AO2 T00360036 SBGR 030800Z 07007KT 9999 BKN013 19/19 Q1018 KVUJ 030815Z AUTO 05006KT 10SM OVC036 07/M04 A3032 RMK AO2 T00711042 SBGU 022000Z 02004KT 9999 BKN020 25/18 Q1017 SBIC 022200Z 06002KT 9999 SCT016 BKN090 27/25 Q1008 SARC 030800Z 07004KT 010V100 CAVOK 26/24 Q1008 KWMC 030756Z AUTO 00000KT 10SM FEW046 OVC055 01/M01 A2990 RMK AO2 SLP122 T00111006 401001072 $ SBGW 022300Z 14003KT 9999 SCT030 25/18 Q1017 SARE 030800Z 05003KT CAVOK 25/24 Q1008 SARF 030800Z 09006KT CAVOK 25/24 Q1008 KVUO 030753Z AUTO 00000KT CLR 04/M01 A3013 RMK AO2 SLP202 T00391006 401330039 PNO $ SBIH 022300Z 00000KT 9999 FEW013 27/25 Q1008 KVVG 030815Z AUTO 00000KT 1/4SM FG 17/17 A3010 RMK A01 SARI 030800Z 05003KT CAVOK 22/22 Q1013 SASA 021800Z 14004KT 9999 BKN018 26/19 Q1013 RJSA 030800Z 04004KT 9999 FEW040 BKN070 02/M04 Q1016 SBHT 030300Z 00000KT CAVOK 26/24 Q1012 RKJB 030800Z 27009KT 9999 BKN040 08/03 Q1011 NOSIG SBIL 030800Z 25005KT 8000 VCSH SCT015 BKN025 BKN070 23/23 Q1012 SARL 030800Z 09006KT CAVOK 23/23 Q1010 RJSC 030800Z 08005KT 9999 FEW050 SCT100 BKN120 05/M04 Q1017 FQQL 021300Z 00000KT 9999 FEW010 BKN020 FEW025CB BKN100 25/22 Q1009 RETS RMK CB TO NW SBJF 022200Z 06009KT 9999 FEW020 21/18 Q1019 RJSF 030800Z 15005KT 9999 FEW020 SCT040 BKN070 02/M02 Q1017 SBIP 022250Z 00000KT 9999 SCT020TCU BKN040 23/17 Q1014 SARP 030800Z 14006KT CAVOK 24/22 Q1010 RJSI 030800Z 16007KT 130V190 9999 FEW040 BKN090 BKN120 04/M04 Q1018 SARS 021115Z 27007KT 9999TS FEW040CB BKN010 23/22 Q1012 SASJ 030800Z 32002KT 9999 SCT030 BKN100 22/21 Q1009 SCBA 030800Z AUTO 31020G32KT CAVOK 07/02 Q1011 RJSK 030800Z 13005KT 110V170 9999 FEW050 BKN070 OVC100 04/M04 Q1016 RKJK 030832Z 26007KT 10SM -RA BKN024 05/03 A2986 RMK AO2A RAE07DZB07 RJTC 030119Z 02007KT 9999 FEW020 SCT030 BKN050 04/M04 Q1022 RMK 2SC020 4SC030 7SC050 A3018 HAAB 022200Z 03010KT 9999 FEW026 16/07 Q1028 RJTE 022244Z 35010KT 9999 SCT020 BKN045 07/04 Q1019 RMK 3CU020 6SC045 A3011 RJSN 030800Z 05006KT 9999 FEW080 BKN100 BKN120 07/M01 Q1014 KVVV 030834Z AUTO 15008KT 2 1/2SM -SN SCT016 BKN021 OVC037 M04/M07 A2977 RMK AO2 RJTF 030700Z 01005KT 330V050 8000 BKN025 BKN035 06/M02 Q1019 SBKG 030800Z 10005KT 6000 FEW020 21/21 Q1013 SBJP 030800Z 17003KT 9999 SCT020 24/21 Q1011 SCAP 030700Z AUTO 22010KT //// // NSC 11/02 Q1022 SBIZ 030300Z 15004KT 9999 SCT015 25/23 Q1012 SBJR 022300Z 12005KT CAVOK 27/21 Q1015 RJTI 030700Z 05008KT 360V080 9999 FEW020 BKN025 07/M00 Q1019 RJSR 030800Z 06003KT CAVOK 03/M04 Q1016 SCAR 030800Z 23003KT 9999 OVC043 22/17 Q1011 SCAS 022000Z 25010KT 9999 -SHRA FEW030 BKN036 13/10 Q1009 RJSS 030800Z 14014KT 9999 FEW015 SCT025 BKN045 05/M00 Q1019 RJTK 030020Z 01010KT 9999 BKN020 OVC035 08/01 Q1020 RMK 5SC020 8SC035 A3013 SBLB 022100Z 13019KT 9999 SCT040 27/19 Q1016 W///S4 SCAT 030800Z AUTO 34010KT 8000 // NCD 16/13 Q1013 RJSU 030120Z 15005KT 9999 FEW015 SCT050 BKN180 06/M05 Q1022 RMK 1CU015 4SC050 7CI180 A3018 SBJU 030800Z 00000KT 9999 BKN020 25/24 Q1015 SBJV 030000Z 01004KT 9999 SCT025 BKN040 25/22 Q1016 KVWU 030829Z AUTO 00000KT 10SM CLR M04/M08 A2970 RMK AO2 SBLE 022100Z /////KT 9999 SCT040 27/22 Q1013 RJTO 030800Z 05010KT 9999 FEW020 SCT140 BKN/// 09/05 Q1017 SCCF 030800Z 09012KT CAVOK 07/00 Q1024 RJSY 030800Z 10009KT 9999 FEW070 OVC100 06/M04 Q1015 SBKP 030800Z 13009KT CAVOK 19/18 Q1017 SCCH 022300Z 23005KT 9999 FEW030 22/11 Q1014 RJTR 022200Z 34008KT 7SM FEW024 BKN042 04/M03 A3011 RMK FIRST SCCI 030800Z 35008KT 9999 BKN025 06/05 Q0989 RESHRA NOSIG SBMA 030800Z 36004KT 5000 -RA SCT006 OVC070 22/22 Q1010 SCDA 030800Z 18003KT CAVOK 19/15 Q1012 RJTT 030830Z 04006KT 360V080 9999 BKN020 06/01 Q1018 NOSIG RMK 7SC020 A3007 RJTU 030148Z 10003KT 9999 -RA FEW030 BKN035 OVC045 05/M02 Q1020 RMK 1SC030 5SC035 8SC045 A3020 SAVC 030800Z 27015KT CAVOK 14/02 Q1008 SBMD 022300Z 04004KT CAVOK ///// Q1010 SAVE 021235Z 27011KT 8000 -RA BKN030 SCT100 BKN200 15/07 Q1007 SBME 030800Z 35001KT CAVOK 22/21 Q1015 SBLO 030800Z 12005KT CAVOK 20/20 Q1016 SBMG 030000Z 08007KT CAVOK 27/20 Q1013 SBLP 022100Z 14006KT 9999 FEW030 34/17 Q1010 RJTY 030758Z AUTO 01004KT 10SM OVC026 05/00 A3012 RMK AO2 SLP211 T00521002 SBLS 022300Z 14006KT 9999 FEW045 23/17 Q1018 SBMK 030800Z 05004KT 9999 SCT030 21/18 Q1016 KVYS 030815Z AUTO 13009KT 10SM OVC050 M03/M07 A3010 RMK AO2 T10261075 SBML 030800Z 13010KT CAVOK 21/17 Q1016 KWRB 030758Z AUTO 33004KT 10SM BKN028 OVC060 15/13 A3019 RMK AO2 CIG 028V060 BKN V SCT SLP224 T01540127 SAWE 030800Z 29016KT FEW013 BKN170 06/04 Q0990 SBMN 030800Z 00000KT CAVOK 25/22 Q1009 SBNF 030300Z 02010KT 8000 -RA BKN020 SCT040 26/24 Q1016 SBMO 030800Z 08002KT 9999 BKN012 SCT020 22/21 Q1012 SCCY 030000Z 22003KT 9999 SCT040 12/M00 Q1011 SAWG 030800Z 32015KT CAVOK 10/M02 Q0993 SAWH 030800Z 32001KT 9999 BKN045 OVC090 02/02 Q0986 SBMQ 030800Z 30002KT CAVOK 23/23 Q1009 LOIH 021600Z 18010KT 30KM FEW015SC BKN025SC 08/03 Q1013 RMK BKN SH W KXIH 030835Z AUTO 11012KT M1/4SM FG OVC003 15/15 A3007 RMK A01 SBMS 022200Z 06003KT 9999 FEW025 27/25 Q1010 KWRI 030758Z AUTO 34004KT 10SM CLR M06/M12 A3038 RMK AO2 SLP293 T10571119 SCFA 030800Z 14001KT 9999 BKN012 19/14 Q1012 NOSIG SBMT 022300Z 12010KT 8000 BKN020 22/16 Q1018 SCEL 030800Z VRB02KT CAVOK 14/09 Q1014 NOSIG KWRL 030824Z AUTO 32021G31KT 3SM -SN OVC021 M07/M10 A2981 RMK AO2 PK WND 32032/0801 P0000 T10721100 SBMY 022200Z 00000KT 9999 SCT025TCU 28/24 Q1008 SBOI 022000Z 09003KT 9999 BKN012 OVC018 25/23 Q1010 RERA SBPA 030800Z 00000KT CAVOK 23/22 Q1012 SBPB 030200Z 11002KT 8000 RA SCT020 BKN100 25/24 Q1012 SBNT 030800Z 14011KT 9999 SCT023 FEW033TCU SCT070 25/22 Q1011 SBPC 022200Z 03002KT 9999 FEW025 21/18 Q1019 RKPC 030800Z 28005KT 260V330 9999 BKN030 BKN110 09/05 Q1011 NOSIG SCGE 030000Z 16005KT CAVOK 21/12 Q1014 SBPF 030000Z 16006KT 9999 SCT030 24/20 Q1016 RKNY 030800Z 30010KT 9999 FEW050 BKN120 08/M01 Q1006 NOSIG SBPJ 030800Z 03003KT 9999 FEW025 SCT100 24/22 Q1011 SAZB 030344Z 32018KT 2000 +TSRA OVC030CB 19/19 Q1011 SBPK 030800Z 02002KT CAVOK 20/20 Q1012 LPBJ 030820Z 34004KT 2000 BCFG BKN002 OVC005 10/10 Q1026 RKPK 030834Z 28006KT 9000 SCT009 BKN034 04/03 Q1010 NOSIG SCFT 030700Z AUTO VRB05KT //// SKC 11/02 Q1017 MGCB 030000Z 09006KT 9999 SCT016 17/14 QFE 872.5 SBPL 030800Z 11006KT CAVOK 25/20 Q1013 KWST 030753Z AUTO 29004KT 10SM CLR M06/M13 A3035 RMK AO2 SLP276 T10611133 SBPN 022100Z 12007KT 9999 FEW030 30/22 Q1008 SBPP 022200Z 05004KT 9999 SCT020 28/21 Q1011 SBPR 022122Z 11008KT 9999 FEW035 26/17 Q1017 LPAZ 030800Z 21010KT 9999 FEW015 SCT023 BKN045 15/14 Q1026 SBPS 030820Z 25003KT 5000 1400W BR SCT002 23/23 Q1013 SBRB 030800Z 00000KT 9999 FEW005 BKN035 BKN100 23/22 Q1010 SCIC 030700Z AUTO 18004KT 9999 NCD 14/10 Q1013 SAZM 030800Z 29003KT CAVOK 16/13 Q1010 SBPV 030800Z 00000KT 9999 TS BKN005 SCT020 FEW025CB 24/23 Q1009 KXLL 030835Z AUTO 00000KT 10SM CLR M06/M13 A3040 RMK AO2 SAZN 030800Z 32002KT 9999 FEW050 15/10 Q1015 SCIE 030800Z 19004KT CAVOK 14/12 Q1015 SBRF 030800Z 10009KT 9999 SCT025 27/22 Q1011 SBRJ 030835Z 00000KT 9999 FEW025 24/21 Q1015 KWVI 030753Z AUTO 31004KT 10SM CLR 08/05 A2999 RMK AO2 SLP154 T00780050 401560078 $ SAZS 030800Z 16004KT 9999 FEW050 08/03 Q1016 KXNA 030753Z AUTO 18010KT 10SM OVC007 03/01 A2998 RMK AO2 SLP159 T00280011 SBSC 030800Z 04005KT 9999 FEW023 21/19 Q1015 FSIA 030800Z 02005KT 9999 SCT019 30/25 Q1011 NOSIG SBQV 030800Z 12002KT 9999 SCT005 19/19 Q1017 KWVL 030835Z 36006KT CLR M13/M23 A3019 RMK AO1 KWWD 030835Z AUTO 34004KT 10SM CLR M02/M08 A3041 RMK AO1 SBRP 030800Z 12005KT CAVOK 22/19 Q1015 RKSG 030824Z 28007KT 3SM -SHRA BR BKN018 OVC025 05/03 A2982 RMK A02A SCIP 030800Z 09002KT 9999 FEW020 20/17 Q1022 NOSIG SCIR 021900Z 23008KT 9999 FEW025 21/15 Q1017 RKSI 030830Z 28018KT 260V320 2000 BR FEW007 BKN025 OVC080 04/02 Q1009 NOSIG SBTA 022300Z /////KT 9999 FEW020 ///// Q1017 KXMR 030808Z AUTO 00000KT 3/4SM R31/1800FT BR CLR 15/14 A3017 RMK AO2 $ SBSJ 030800Z 00000KT 9999 SCT015 21/18 Q1017 SBTC 022020Z 15003KT 9999 SCT020 BKN100 28/25 Q1013 SBSL 030800Z 18002KT 9999 BKN017 25/23 Q1010 SBSM 030400Z 09002KT CAVOK 21/20 Q1012 SBSN 030800Z 11006KT 7000 -RA BKN010 OVC100 24/23 Q1010 RETSRA SBTE 030800Z 27001KT 9999 BKN005 23/23 Q1010 SCJO 022200Z VRB03KT 9999 SCT020 BKN030 16/15 Q1016 SBTF 022300Z 02009KT 9999 SCT010 BKN017 SCT030TCU BKN100 26/24 Q1008 RKSO 030758Z 25009KT 5SM -RA SCT010 BKN015 OVC020 05/05 A2981 RMK AO2A SLP098 P0001 T00480048 $ SBSP 030800Z AUTO 07004KT 010V130 9999 SCT012 OVC014 20/16 Q1018 SBSR 030800Z 07004KT CAVOK 24/19 Q1015 SBUA 022300Z 10003KT 5000 -RA BR SCT008 BKN090 24/24 Q1008 RETSRA RKSS 030800Z 24008KT 4000 -RA BR SCT009 BKN020 OVC060 04/01 Q1009 NOSIG KWWR 030815Z AUTO 21016G22KT 10SM CLR 03/00 A2981 RMK AO2 SBTK 022300Z 00000KT 9999 FEW020 BKN100 25/24 Q1008 MGES 030000Z 05008KT 9999 BKN016 21/17 QFE 912.4 SBST 022300Z 14003KT CAVOK 24/20 Q1014 LPFL 030100Z 02008KT 9999 SCT018 SCT034 12/06 Q1029 SBSV 030800Z 17002KT 8000 VCSH SCT017 FEW020TCU SCT070 25/22 Q1 011 RKTN 030800Z 32002KT 6000 FEW008 SCT015 BKN030 04/02 Q1009 NOSIG SBUF 022200Z 13014KT 9999 FEW020 31/20 Q1011 SBUG 022200Z 11006KT 9999 TS SCT030 FEW040CB BKN100 26/22 Q1010 LPFR 030800Z 04003KT CAVOK 12/10 Q1025 SBTT 022300Z 35001KT 9999 FEW020 30/24 Q1007 SBTU 022130Z 00000KT CAVOK 27/25 Q1010 SBUL 030800Z 08007KT CAVOK 19/17 Q1017 RKTU 030800Z 26011KT 9000 -RA OVC030 06/00 Q1009 NOSIG VYYY 030830Z 27005KT 9000 R21/2000N NSC 37/17 Q1007 SBVH 030300Z 29002KT 9999 BKN014 BKN070 23/22 Q1014 SBUR 030800Z 06006KT CAVOK 21/19 Q1016 SCMK 022000Z 24014KT 9999 FEW030 17/09 Q1012 MGGT 030800Z 36016KT 9999 SCT014 15/12 Q1026 A3030 SBUY 022300Z 00000KT 9999 FEW020 27/25 Q1006 KXPY 030835Z AUTO 11006KT 3SM BR SCT002 SCT018 19/19 A3016 RMK A01 YABA 030830Z 13010KT 9999 FEW038 19/10 Q1023 LPHR 030800Z 05009KT 9999 FEW012 SCT030 12/08 Q1028 SBVT 030800Z 22005KT 9999 -RA SCT008 BKN020 24/20 Q1014 KXSA 030835Z AUTO 00000KT 10SM CLR M01/M09 A3039 RMK AO2 T10101089 MGHT 030800Z 00000KT 9999 BKN020 13/11 QFE 820.0 WSAP 030800Z 06009KT 9999 FEW016 FEW018TCU SCT150 32/23 Q1007 KYIP 030753Z AUTO 19006KT 9SM SCT075 OVC095 M04/M10 A3029 RMK AO2 SLP262 T10391100 TSNO SCNT 030700Z 6 FUMAROLA VA VOLCAN VILLARRICA SCON 030700Z AUTO 09001KT 8000 SKC 08/07 Q1019 MHAM 030600Z 04008KT 9999 FEW030 BKN080 29/21 MHCA 021800Z 06007KT 9999 SCT028 BKN070 25/19 Q1020 PCPN E LPLA 030800Z /////KT 9999 BKN015 SCT025 12/10 Q1028 LQBK 030830Z 14004KT 9999 FEW035 09/06 Q1024 NOSIG KYKM 030753Z AUTO 00000KT 10SM BKN080 01/M02 A3014 RMK AO2 SLP212 T00111017 401060006 KYKN 030835Z AUTO 15006KT 10SM OVC046 M02/M07 A2975 RMK AO1 SCPQ 030800Z AUTO 23005KT CAVOK 06/06 Q1018 MHCH 030600Z 04010KT 9999 FEW030 27/20 HZ SBYS 022300Z 00000KT CAVOK 24/22 Q1015 LPMA 030800Z 01008KT 340V050 9999 SCT018 BKN030 15/07 Q1026 RS02010KT 0501007KT 2303008KT SCRD 022300Z 18005KT CAVOK 18/12 Q1015 SCQP 030800Z 00000KT CAVOK 08/08 Q1017 VA VOLCAN VILLARRICA PLUMILLA MOV NE TOP ESTIMADO 3000 MTS KXVG 030836Z AUTO 17007G16KT 10SM OVC065 M06/M10 A2977 RMK AO2 SCRM 030800Z 03013KT 9999 BKN005 01/01 Q0979 MGMM 030300Z 11004KT 9999 FEW020 24/21 Q1019 A3009 SCSE 030800Z 11004KT CAVOK 14/12 Q1012 LOWG 030820Z 28006KT 250V320 9999 FEW075 07/M08 Q1023 NOSIG KYNG 030751Z 13006KT 10SM OVC110 M07/M13 A3030 RMK AO2 SLP278 VIRGA T10671128 LOWI 030820Z 14004KT 080V180 9999 FEW018 02/M01 Q1024 R08/1///95 NOSIG SCTB 022300Z 25005KT CAVOK 23/13 Q1015 MGMT 030000Z 00000KT CAVOK 30/23 Q1005 LOWK 030820Z VRB02KT 0400 R10/P1500U R28/0600N BCFG BKN002 00/00 Q1023 R10L/19//95 BECMG 1500 BCFG SCT002 LOWL 030820Z 26013KT 9999 FEW032 05/M02 Q1023 NOSIG SCTE 030800Z 20004KT 9999 BKN025 09/09 Q1018 NOSIG SCSN 030700Z AUTO 11002KT CAVOK 11/11 Q1014 LOWS 030820Z 22006KT 9999 FEW035 SCT060 04/M04 Q1024 NOSIG MGPB 030800Z 00000KT 9999 SCT016 BKN080 23/22 Q1016 A3000 LPPD 030800Z 02016G29KT 9000 -SHRA SCT006 SCT012 BKN030 13/11 Q1026 SCTN 030800Z AUTO 00000KT CAVOK 08/08 Q1018 LOWW 030820Z 28018KT 9999 FEW036 05/M03 Q1022 NOSIG LOWZ 030800Z 00000KT 40KM BKN050SC M03/M04 Q1023 RMK BKN LOXT 030820Z 26015G26KT 45KM FEW028CU 06/M01 Q1022 TEMPO 25018G28KT RMK FEW SCVD 030800Z AUTO 14002KT 0650 R35/0750 // VV002 11/10 Q1018 LOXZ 030820Z 24014G24KT 30KM FEW050SC BKN068SC 04/M09 Q1022 NOSIG RMK BKN LPPR 030800Z 19007KT 2000 -DZ BR BKN002 12/12 Q1025 LPPS 030800Z 05007KT 010V100 9999 FEW015 BKN030 15/10 Q1027 LPPT 030818Z VRB01KT 9999 FEW012 13/11 Q1026 SCVM 030700Z 00000KT CAVOK 13/13 Q1014 YBAF 030830Z AUTO 06011KT 9999 // NCD 25/19 Q1014 MGQZ 030000Z 36040KT 9999 FEW010 17/12 QFE 770.5 YBAS 030830Z AUTO 08012KT 9999 // NCD 38/06 Q1010 MGSJ 030800Z 00000KT CAVOK 23/23 Q1011 A2985 MGRT 030000Z 22008KT CAVOK 30/20 Q1013 A2991 VOL. STA. MARIA Y SANTIAGUITO EN ACTIVIDAD YBBN 030830Z 09007KT 9999 FEW026 25/19 Q1013 LRBC 030830Z 36013KT 9999 BKN050 07/03 Q1013 R16/220295 YBCG 030830Z AUTO 13006KT 9999 // SCT034 24/18 Q1014 YBCK 030830Z AUTO 11008KT //// // ////// 37/12 Q1009 YAMB 030830Z 07011KT CAVOK 26/18 Q1013 LRAR 030830Z 30016KT 9999 FEW017 06/02 Q1020 R09/19//95 MHLC 030800Z 10003KT 9999 FEW026 BKN080 21/20 Q1015 A2997 NOSIG LRBM 030800Z 29005KT 250V320 9999 FEW023 05/01 Q1016 R10/19//95 YBDG 030830Z AUTO 21007KT 9999 // NCD 25/03 Q1013 MHLE 030000Z 04008KT 9999 FEW022 17/15 YBCS 030830Z 13012KT 9999 VCSH FEW025 SCT035 28/22 Q1008 LRBS 030830Z 28004KT 260V320 4000 -RA BR FEW004 BKN036 09/08 Q1012 R07/29//95 BECMG 9999 NSW SEGU 030600Z 22007KT 9999 BKN020 BKN100 26/20 Q1009 NOZCZC MWA0517 03060045 KK SVMRYMYX 030600 SBBRYZYX SABZ19 SBMQ 030600 METAR SBMQ 030600Z 30002KT CAVOK 23/23 Q1010 YBCV 030830Z AUTO 00000KT 9999 // SCT120 37/14 Q1010 LRCK 030830Z 27010KT 1200 R18/1700VP2000U -RA BR SCT005 08/08 Q1010 R18/290195 NOSIG MGTU 030000Z 18004KT CAVOK 31/23 LRCL 030830Z AUTO 30012KT 270V330 9999 FEW047/// SCT170/// 08/M01 Q1015 MHLM 030800Z 00000KT 9999 FEW024 BKN080 24/22 Q1015 A2997 NOSIG YBDV 030830Z AUTO 17014KT //// // ////// 42/04 Q1006 LRCT 030800Z 30009KT 9999 SCT040 SCT150 08/M02 Q1015 BLU BLU LRCV 030830Z 29017KT CAVOK 10/02 Q1014 LQMO 030830Z 14004KT 120V190 CAVOK 12/03 Q1019 BGBW 030750Z 08003KT 9999 -SN BKN026 BKN045 M10/M13 Q1001 ROAH 030830Z 20015KT 9999 FEW015 BKN090 BKN120 22/19 Q1010 RMK 2CU015 5AC090 6AC120 A2985 SFAL 021900Z 21013KT 9999 FEW010 SCT080 BKN120 BKN 11/09 Q0995 GMAD 030830Z 06006KT CAVOK 13/09 Q1023 NOSIG GMAE 030700Z 11004KT 080V190 CAVOK 10/09 Q1023 NOSIG MHNO 030000Z 33015KT 9999 FEW040 24/17 Q1017 HZ GMAG 030800Z ///08KT CAVOK 16/02 Q1023 NOSIG FTTA 030800Z 28006KT 5000 HZ NSC 31/00 Q1011 FTTC 030800Z 1500 HZ NSC 30/M08 Q1013 FTTD 021500Z 34010KT 8000 NSC 37/M02 Q1008 HDAM 030600Z 13004KT 8000 HZ SCT020 28/22 Q1017 YBHI 030830Z AUTO 21011KT 9999 // NCD 31/05 Q1014 KZPH 030835Z AUTO 00000KT 1/2SM FG OVC001 15/15 A3020 RMK AO2 MGZA 030000Z 07010KT 9999 BKN020 27/18 QFE 989.2 FEW080 PCPN ENE/E YBHM 030830Z AUTO 13019KT 9999 // SCT029 SCT033 27/22 Q1010 FTTJ 030800Z 03014KT 360V060 3500 DU NSC 28/05 Q1012 NOSIG MHPL 030000Z 07008KT 9999 SCT024TCU 27/23 Q1016 TCU ALL HZ GMAT 030800Z 00000KT 5000 NSC 11/10 Q1023 NOSIG YARG 030830Z AUTO 04009KT 9999 // NCD 35/20 Q1005 SELT 030600Z 00000KT 9999 SCT030 SCT100 11/10 Q1031 LRIA 030830Z 33012KT 9999 FEW007 SCT013 BKN034 05/04 Q1012 R14/29//95 BGGH 030750Z AUTO 32008KT 9999NDV -SHSN OVC017/// M12/M15 Q1003 YARM 030830Z AUTO 21006KT 9999 // NCD 23/14 Q1018 FVBU 030800Z 11019KT 090V160 9999 -DZ BKN008 15/12 Q1025 BECMG BKN010 RODN 030758Z AUTO 20015KT 10SM SCT020 22/19 A2986 RMK AO2 SLP118 $ FTTY 021500Z 06014KT 8000 SA 31/M06 Q1012 YCBA 030830Z AUTO 23011KT //// // ////// 34/01 Q1011 YCBB 030830Z AUTO 36006KT //// // ////// 30/15 Q1013 SEMT 030600Z 20006KT 9999 BKN020 25/23 Q1011 WSSL 030800Z 36007KT 330V030 9999 FEW020 FEW022TCU SCT150 BKN300 33/22 Q1007 RMK 0730Z Q1008 LQSA 030830Z VRB01KT 9999 SCT012 05/03 Q1023 NOSIG YBKE 030830Z AUTO 24012KT //// // ////// 39/06 Q1008 MHSC 030358Z 34012KT 9999 FEW025 BKN055 22/18 A3010 RMK AO2A CIG 046 RWY17 SLP151 LAST T02170185 MHRO 030000Z 09006KT 9999 SCT020TCU BKN080 27/22 Q1016 A3000 NOSIG YCAR 030830Z AUTO 19019KT 9999 // NCD 32/23 Q1005 YCAS 030830Z AUTO 11006KT //// // ////// 23/17 Q1014 WSSS 030830Z 04010KT 330V070 9999 FEW020TCU BKN160 32/23 Q1008 NOSIG FVFA 030600Z 13012KT 9999 BKN010 20/18 Q1020 NOSIG MHTE 030000Z 07004KT 9999 BKN028CB BKN080 27/24 Q1013 CB N TCU TDS HZ YCBP 030830Z AUTO 13011KT //// // NCD 35/01 Q1013 MHTG 030800Z 35004KT 9999 FEW008 SCT026 19/17 Q1019 A3009 NOSIG GMFF 030800Z 16007KT CAVOK 12/05 Q1026 NOSIG YBMA 030830Z AUTO 36005KT 9999 // NCD 33/23 Q1008 YBKT 030830Z AUTO 01007KT //// // ////// 31/25 Q1006 MHSR 030600Z 34006KT 9999 SCT008 OVC020 18/17 HZ YBLN 030830Z AUTO 19019KT //// // ////// 26/12 Q1019 GMFK 030800Z 16002KT 130V200 CAVOK 12/05 Q1030 NOSIG GMFM 030800Z 18005KT CAVOK 12/04 Q1025 NOSIG BGJN 030750Z AUTO 13008KT 9999NDV FEW017/// BKN024/// M21/M25 Q1007 GMFO 030800Z VRB01KT CAVOK 13/09 Q1024 NOSIG YBNA 030830Z AUTO 09004KT 9999 // NCD 23/19 Q1014 YBLT 030830Z AUTO 18008KT 9999 // NCD 20/06 Q1015 MHTR 030000Z 12006KT 9999 SCT022CB BKN080 25/23 CB VCSH W WNW TCU N W NW HZ YBMK 030830Z AUTO 11014KT 9999 // SCT028 28/22 Q1011 FVHA 030800Z 16010KT 130V190 9999 BKN010 18/15 Q1026 NOSIG YCEE 030830Z AUTO 18012KT //// // ////// 19/11 Q1017 SEQM 030600Z 01004KT 1000 BR SCT001 OVC015 14/13 Q1025 TEMPO 0600 RMK A3027 YCDO 030830Z AUTO 21011KT //// // ////// 32/05 Q1010 BGKK 030750Z AUTO VRB03KT //// SCT037/// M07/M17 Q0992 YCCY 030830Z AUTO 03007KT //// // ////// 36/21 Q1007 ROIG 030800Z 24009KT 9999 -SHRA FEW009 BKN012 FEW025TCU 22/21 Q1010 LQTZ 030830Z 31003KT 250V350 9999 FEW035 08/07 Q1023 YCDU 030830Z AUTO 17016KT 9999 // SCT040 SCT056 BKN072 18/14 Q1017 YCEM 030830Z AUTO 16005KT //// // ////// 20/11 Q1014 GLRB 030830Z 04006KT 6000 SKC 24/21 Q1012 RMK BRVC YBNS 030830Z AUTO 11008KT 9999 // NCD 18/12 Q1015 YBOK 030830Z 07011KT 9999 FEW048 26/16 Q1014 YCFL 030830Z AUTO 13013KT //// // ////// 28/22 Q1008 YAYE 030830Z AUTO 08007KT 9999 // NCD 40/07 Q1009 LROD 030830Z 29017KT 9999 FEW024 06/00 Q1018 YCFS 030830Z AUTO 05007KT 9999 // SCT029 24/19 Q1014 SGAS 030800Z 08006KT CAVOK 26/23 Q1008 HEBA 030800Z 33013KT 9999 SCT020 17/11 Q1022 NOSIG FVKB 021500Z 00000KT 9999 FEW025CB BKN100 26/23 Q1009 YBPN 030830Z AUTO 11011KT 9999 // NCD 27/21 Q1010 LSGC 030820Z VRB02KT 9999 SCT020 01/M03 Q1022 LROP 030830Z 27005KT 3000 -RA BR OVC038 09/08 Q1012 R88/29//95 BECMG 5000 LSGG 030820Z VRB02KT 9999 FEW030 BKN250 07/03 Q1024 NOSIG YCHK 030830Z AUTO 13010KT 9999 // SCT044 BKN073 BKN092 32/21 Q1008 HEAR 030800Z 15006KT CAVOK 18/14 Q1021 NOSIG HECA 030830Z 28003KT 4000 HZ NSC 19/05 Q1022 NOSIG HEAT 030800Z 36010KT CAVOK 16/05 Q1022 NOSIG HEBL 030800Z 02010KT CAVOK 25/M00 Q1017 NOSIG HEAX 030800Z 34012KT 9999 SCT020 17/11 Q1021 NOSIG MHYR 022300Z 09004KT 9999 SCT020 BKN080 23/19 HZ YBRK 030830Z 09007KT CAVOK 27/20 Q1011 LSGS 030820Z 00000KT 9999 FEW120 SCT150 04/00 Q1024 YBRM 030830Z 35003KT 9999 -RA FEW018 SCT090 BKN130 27/25 Q1005 YCIN 030830Z AUTO 31006KT //// // SCT120 28/25 Q1005 GMMB 030800Z 02003KT 310V050 0200 FG OVC004 11/11 Q1026 NOSIG GMMC 030800Z 12004KT 2000 BR OVC010 13/13 Q1025 FWCL 030800Z 26012KT 9999 FEW008 FEW020CB SCT022 24/20 Q1019 NOSIG YBSG 030830Z AUTO 00000KT //// // SCT065 30/25 Q1005 GMME 030830Z 00000KT 0600 R21/1000V1100N FG BKN002 13/12 Q1026 BECMG 2000 SCT010 BKN015 GMMH 030800Z 36010KT 8000 NSC 15/14 Q1019 NOSIG GMMI 030800Z AUTO VRB02KT 9999NDV NCD 10/10 Q1023 NOSIG LRSB 030830Z 28021KT 9999 BKN040 08/M00 Q1015 LTAC 030820Z 18004KT 080V230 9999 SCT040 SCT080 06/02 Q1015 BECMG TL0900 25012KT SGEN 022100Z 07005KT 9999 FEW030 SCT200 31/21 Q1009 KZZV 030753Z AUTO 10004KT 10SM OVC095 M06/M11 A3026 RMK AO2 SLP259 T10561106 TSNO GMML 030800Z 06009KT 5000 SCT010 SCT200 13/12 Q1022 NOSIG YBRY 030830Z AUTO 05006KT 9999 // SCT028 SCT048 BKN067 24/23 Q1011 YBTH 030830Z AUTO 13005KT 9999 // SCT091 OVC120 26/15 Q1014 ROMY 030800Z 19012KT 9999 FEW010 BKN017 BKN047 22/19 Q1011 LTAF 030820Z 13004KT 060V220 9999 FEW040 17/07 Q1016 NOSIG GMMN 030830Z 05005KT 0200 R35R/0375N FG BKN005 11/11 Q1026 NOSIG LTAG 030820Z 20003KT 9999 SCT035 16/09 Q1017 NOSIG SGES 030800Z 12004KT CAVOK 24/22 Q1011 LTAI 030820Z 35005KT 9999 SCT030 BKN100 13/06 Q1017 BECMG TL1000 18010KT YBSU 030830Z AUTO 12007KT 9999 // NCD 25/18 Q1013 YBTL 030830Z 06013KT 9999 FEW033 29/22 Q1009 LTBA 030820Z 20011KT 9999 SCT040 BKN080 11/06 Q1014 NOSIG LTAJ 030820Z 24010KT 9999 SCT040 BKN100 11/05 Q1016 NOSIG YBUD 030830Z AUTO 11012KT 9999 // NCD 26/20 Q1012 YCKN 030830Z AUTO 13008KT 9999 // SCT120 28/22 Q1008 LRTC 030830Z 26005KT 170V280 2000 -SHRA BR FEW010 SCT029CB BKN034 07/07 Q1011 LRSM 030830Z 24011KT 9999 FEW010 BKN047 06/04 Q1016 R01/29//95 FVMV 021200Z 20013KT 9999 -RA SCT020 OVC090 23/17 Q1018 LTAN 030824Z 08004KT 050V120 3400 BR BKN005 05/05 Q1017 BECMG TL1000 6000 SCT035 BKN100 RMK RWY19 05004KT 350V110 LTBF 030750Z 00000KT 9999 SCT035 BKN100 10/07 Q1015 NOSIG GMMW 030800Z VRB02KT CAVOK 10/09 Q1024 NOSIG LTAP 030820Z VRB02KT CAVOK 08/03 Q1015 NOSIG GMMX 030830Z 08003KT CAVOK 14/08 Q1025 NOSIG LTBH 030334Z 17009KT 9999 SCT035 BKN100 12/09 Q1013 RESHRA BGSF 030750Z AUTO 06007KT 9999NDV BKN075/// M29/M33 Q1006 LTAR 030750Z 13002KT 7000 SCT035 BKN100 02/01 Q1016 GMMZ 030800Z VRB01KT CAVOK 09/01 Q1028 NOSIG LTAS 030626Z 12005KT 100V160 9999 SCT035 08/02 Q1015 RMK RWY18 13004KT 090V160 LTBJ 030820Z 16004KT 130V190 4000 -SHRA BR SCT026 BKN100 10/09 Q1016 BECMG 9999 NSW LTCA 030750Z VRB03KT 9999 FEW020 SCT035 09/03 Q1017 NOSIG LTAT 030820Z VRB03KT 9999 FEW040 SCT100 11/04 Q1016 NOSIG LTAU 030820Z 00000KT 9999 SCT035 BKN090 08/03 Q1016 NOSIG LTCC 030820Z VRB01KT 2000 BR SCT006 08/08 Q1016 BECMG 4000 LTCD 030750Z 23003KT 140V290 9999 SCT038 BKN090 07/M00 Q1016 NOSIG LRSV 030830Z 33012KT 270V350 CAVOK 04/01 Q1013 LRTM 030830Z 28009KT 250V310 9999 FEW025 07/00 Q1015 LTAW 030642Z 00000KT 5000 BR FEW035 03/02 Q1017 RMK RWY22 VRB02KT YDBY 030830Z AUTO 32007KT //// // ////// 28/24 Q1005 LTCE 030820Z 34006KT 310V010 4500 BR SCT030 BKN080 M01/M02 Q1015 BECMG TL1000 8000 LTBO 030738Z VRB02KT 5000 -RA BR FEW010 SCT040 BKN080 06/04 Q1017 RMK RWY09 13004KT 100V160 BIBD 030800Z 00000KT 9999 SCT030 M06/// Q0992 LTCF 030750Z 28005KT 9999 SCT035 M03/M04 Q1015 MJKP 030400Z 33006KT 9999 FEW022 26/21 Q1017 LTAY 030635Z 09004KT 6000 SCT035 BKN100 04/03 Q1017 RMK RWY06 09005KT LTCG 030820Z 09006KT 9999 SCT035 10/07 Q1017 NOSIG LTAZ 030820Z VRB02KT 9999 SCT040 09/04 Q1016 LTBQ 030750Z VRB01KT 7000 FEW035 BKN080 13/07 Q1015 NOSIG LTBR 030820Z 24003KT 4800 BR SCT040 BKN100 06/05 Q1015 BECMG TL0900 20013KT 9999 NSW LRTR 030830Z 30010KT 9999 FEW015 06/02 Q1021 R11/290095 NOSIG LTCI 030750Z VRB02KT 8000 SCT025 BKN070 02/01 Q1016 RESN TEMPO TL0900 2500 BR LTDA 030427Z 20008KT 9999 TSRA BKN025CB BKN080 10/10 Q1018 RMK RWY04 20007KT 170V230 LSMA 030750Z VRB02KT 9999 FEW090 02/01 Q1024 RMK BLU LTBS 030820Z 04009KT 9999 SCT025 BKN080 11/09 Q1017 RESHRA NOSIG LTCJ 030820Z 26003KT 5000 BR SCT040 BKN100 10/06 Q1016 YCMM 030830Z AUTO 13012KT //// // ////// 21/10 Q1018 LTBT 030711Z 01003KT 290V050 5000 -RA BKN025 BKN100 09/09 Q1016 RMK RWY14 32004KT 290V350 LTCK 030750Z 34005KT 8000 FEW010 OVC025 02/M02 Q1017 BIAR 030800Z 00000KT 9999 SCT054 M08/M10 Q0990 R01/420064 LTBU 030820Z VRB02KT 4000 -SHRA BR BKN030 BKN090 09/08 Q1014 LSMD 030750Z 13003KT CAVOK 03/M01 Q1024 RMK BLU LSME 030750Z 04002KT 9999 BKN056 04/02 Q1024 RMK WHT BGTL 030758Z AUTO 10007KT 9999 CLR M31/M34 A2977 RMK AO2 SLP076 T13101343 $ HEGN 030800Z 35018KT CAVOK 23/03 Q1019 NOSIG LTBY 021529Z 32005KT 9999 FEW027CB SCT035 BKN080 09/01 Q1015 RMK RWY27 32007KT LTCP 030641Z 11006KT 4000 BR SCT037 BKN090 07/07 Q1016 RMK RWY23 10004KT 050V130 LTBZ 030423Z 29003KT 260V320 2000 0700SW R31/0700D R13/1000N BCFG SCT002 M01/M01 Q1015 RMK RWY13 29004KT 260V320 YCMT 030830Z AUTO 10004KT //// // ////// 31/14 Q1011 YCNK 030830Z AUTO 14007KT //// // ////// 24/17 Q1012 LTCR 030835Z 13007KT 050V170 6000 -RA BKN030 OVC090 10/08 Q1017 RMK RWY21 14006KT LTCT 030615Z 19004KT 140V260 9999 SCT080 07/M03 Q1015 RMK RWY30 VRB02KT YCNM 030830Z AUTO 05007KT //// // ////// 36/14 Q//// YCOE 030830Z AUTO 06007KT //// // ////// 29/20 Q1007 LTCV 021234Z 17008KT 9999 -SHRA FEW030TCU SCT035 BKN090 12/05 Q1013 RMK RWY29 19010KT LSMM 030750Z 11004KT 9999 FEW075 BKN085 02/01 Q1024 RMK WHT YBWP 030830Z AUTO 28004KT 9999 // SCT062 BKN073 29/25 Q1005 LSMP 030750Z 00000KT 9999 FEW120 03/01 Q1024 RMK BLU RORS 030800Z 19011KT 9999 SCT015 BKN050 22/20 Q1011 LTFA 030727Z 12013KT 9999 SCT035 BKN090 11/10 Q1016 RESHRA RMK RWY17 12011KT LSMS 030750Z 00000KT 9999 SCT150 03/00 Q1024 YCOM 030830Z AUTO 04010KT 9999 // SCT066 BKN082 17/13 Q1016 YBWW 030830Z AUTO 08011KT 9999 // NCD 26/17 Q1014 LTFC 030820Z 09004KT 070V130 6000 FEW010 SCT030 BKN100 05/03 Q1017 YBWX 030830Z AUTO 31012KT //// // ////// 31/21 Q1005 LTFD 030504Z 05005KT 5000 -SHRA BR FEW020 SCT030 BKN090 09/07 Q1014 RMK RWY23 05005KT YCNY 030830Z AUTO 00000KT //// // ////// 30/24 Q1007 LTFE 030829Z 05004KT 350V100 8000 -SHRA SCT030 BKN090 15/11 Q1017 NOSIG RMK RWY10 08003KT 010V140 LTFH 030750Z 09005KT 060V120 9999 FEW036 BKN200 12/06 Q1015 NOSIG BIEG 030800Z 22009KT 9999 FEW030 BKN050 BKN070 M05/M09 Q0988 R04/710095 LTFJ 030820Z VRB02KT 9999 -SHRA BKN030 BKN090 11/06 Q1014 NOSIG RPLB 030800Z 24001G11KT 9999 FEW020 32/16 Q1008 NOSIG RMK A2977 RPLC 030800Z 11006KT 9999 FEW030 SCT300 31/15 Q1010 NOSIG A2982 GMTA 030800Z 10002KT CAVOK 13/10 Q1024 NOSIG ROTM 030758Z 21015G23KT 9999 BKN030 BKN120 22/18 A2987 RMK PK WND 21027/35 SLP103 WND WRNG XWND ADV T02220183 RPLI 030800Z 25012KT 9999 FEW019 29/21 Q1009 NOSIG RMK A2980 FWKI 030800Z 20007KT 9999 BKN025 23/18 Q1021 NOSIG RPLL 030800Z 14998KT 070V220 9999 FEW025 31/19 Q1009 NOSIG RMK A2980 RPMD 030800Z 16006KT 9999 SCT016 BKN290 31/22 Q1008 RMK A2977 GMTN 030800Z 23012KT 8000 FEW023 14/11 Q1024 HEMA 030800Z 35018KT CAVOK 23/04 Q1018 NOSIG RPLV 022300Z 34007KT 9999 FEW020 26/22 Q1012 RMK A2988 GMTT 030830Z 20006KT 4000 BR SCT007 BKN016 13/12 Q1026 TEMPO 10000 HEMM 030800Z 33010KT 9999 SCT025 18/11 Q1023 NOSIG BIHN 021900Z 36002KT 9999 VCSH FEW013 SCT030 BKN045 M03/// Q0982 HELX 030800Z 36004KT CAVOK 23/06 Q1018 NOSIG RPMZ 030800Z 00000KT 9999 FEW017CB BKN100 31/26 Q1009 RMK A2980 CB NW-N NCAI 030800Z AUTO 03002KT //// ///// 25/23 Q1010 MKJP 030800Z 28004KT 9999 FEW022 24/19 Q1014 MKJS 030800Z 15004KT 9999 FEW022 24/21 Q1015 YCUN 030830Z AUTO 10012KT //// // ////// 28/11 Q1017 BIIS 030800Z 24004KT 9999 SCT050 M03/M08 Q0992 R88/450195 LUBL 030830Z 33012KT 9999 SCT009 BKN017CB 04/03 Q1012 YDLQ 030830Z AUTO 25009KT //// // ////// 28/02 Q1012 YCWA 030830Z AUTO 04011KT 9999 // NCD 28/22 Q1011 GOGG 030800Z 03006KT 6000 NSC 21/08 Q1012 BIKF 030830Z 02011KT CAVOK M04/M09 Q0992 GOGK 030800Z 00000KT CAVOK 16/10 Q1012 HEPS 030800Z 21008KT 9999 SCT025 16/13 Q1021 NOSIG GOGS 030800Z 04010KT CAVOK 20/16 Q1010 YCWR 030830Z AUTO 20007KT //// // ////// 30/12 Q1011 HESC 030800Z 05012KT CAVOK 12/M06 Q1025 NOSIG HESH 030800Z 01023KT CAVOK 22/01 Q1017 NOSIG YDPO 030830Z AUTO 27014KT 9999 // NCD 18/06 Q1012 HESN 030800Z 01010KT CAVOK 23/M01 Q1018 NOSIG LSZA 030820Z 01011KT CAVOK 11/M08 Q1020 NOSIG LSZB 030820Z 12004KT CAVOK 05/01 Q1023 NOSIG LSZC 030820Z AUTO VRB01KT 9999 NCD 05/01 Q1024 LSZG 030820Z 10003KT CAVOK 04/M00 Q1024 NOSIG LSZH 030820Z 16003KT CAVOK 04/M01 Q1024 NOSIG LSZL 030750Z 09004KT 010V150 CAVOK 08/M03 Q1021 RMK BLU RPVM 030800Z 02014KT 9999 FEW020 BKN090 29/23 Q1009 RMK A2980 LSZR 030820Z 25005KT 210V280 CAVOK 07/M05 Q1024 NOSIG RMK C MMAA 030745Z 28002KT 7SM SKC 23/20 A2990 RMK HZY LSZS 030820Z VRB01KT 9999 FEW035 M09/M12 Q1020 FXMM 030800Z 00000KT 9999 FEW035 18/13 Q1030 YELD 030830Z AUTO 24008KT //// // ////// 29/// Q//// CAHR 030800Z AUTO 29014G25KT M12/M17 RMK AO1 PK WND 29028/0728 SLP082 T11181172 53050 BIRK 030800Z 00000KT CAVOK M06/M11 Q0991 GOOD 030800Z 00000KT CAVOK 21/05 Q1012 MMAN 030540Z 14005KT 5/8SM -DZ BR VV001 11/11 A3013 RMK SLP192 57008 990 60035 8//// YFBS 030830Z AUTO 19012KT //// // ////// 31/11 Q1010 GOOG 030600Z 10004KT 7000 NSC 24/09 Q//// MMAS 030744Z 16006KT 10SM SKC 13/02 A3024 MMCB 030100Z 00000KT 10SM SKC 27/M01 A3005 LUKK 030830Z 34014KT 9999 -RA SCT010 OVC023 04/01 Q1011 R26/290152 TEMPO 34018G28KT GOOK 030800Z 04004KT CAVOK 24/03 Q1012 FYGB 030800Z AUTO 06007KT //// // ////// 23/13 Q1025 YFDF 030830Z AUTO 23012KT 9999 // BKN066 OVC085 26/23 Q1009 MMCE 030143Z 01008KT 7SM SKC 26/23 A3002 CBBC 030800Z AUTO VRB02KT 9SM BKN200 BKN220 01/M02 A3027 RMK SLP250 FYGF 030800Z 06009KT 9999 SCT030 23/15 Q1024 YEML 030830Z AUTO 09010KT 9999 // NCD 32/13 Q1010 MMBT 030140Z 00000KT 8SM SKC 28/23 A2990 RMK HZY MMCL 030540Z 00000KT 10SM SCT100 BKN250 22/18 A2997 RMK SLP138 51010 9// 8/038 MMCM 030246Z 00000KT 7SM SKC 26/23 A3007 RMK SLP184 5//// 9// RTS MMCN 030245Z 10007KT 8SM -RA FEW030 SCT060 OVC100 19/17 A2997 RMK SLP149 60035 8/47/ -RAB25 INTMT MMCP 030442Z 10007KT 7SM SKC 25/22 A3003 GOOY 030830Z 05006KT 020V090 8000 NSC 20/13 Q1011 NOSIG MMCS 030319Z 23005KT 10SM BKN040 OVC090 14/09 A2995 RMK 8/57/ BINOVC MMCT 022143Z 15010KT 8SM BKN020TCU 32/19 A3003 RMK 8/200 MSGTX MMMD MMCU 030540Z 22008KT 10SM BKN080 OVC200 18/01 A3007 RMK SLP101 52007 977 8/072 MMCV 030744Z 13004KT 5SM BKN005 OVC010 16/15 A3005 RMK 8/5// BR MMDO 030540Z 23009KT 8SM SKC 15/03 A3026 RMK SLP109 52003 978 RTS MMCZ 030740Z 00000KT 7SM FEW015 21/21 A3006 RMK 8/500 RTS BIVM 030800Z 35015KT CAVOK M03/M08 Q0988 R03/950259 MMEP 030247Z 24004KT 12SM SKC 18/15 A3013 RMK SLP208 52020 963 GOSM 030800Z 00000KT 8000 NSC 21/09 Q1014 GOSP 030800Z 00000KT 8000 NSC 20/03 Q1013 GOSS 030800Z 07006KT 030V110 CAVOK 22/02 Q1012 GOTK 021300Z 04008KT 8000 NSC 30/02 Q1014 MMGL 030800Z RTD 00000KT 10SM SKC 14/04 A3020 MMGM 030142Z 00000KT 5SM FEW020 OVC060 22/18 A2993 RMK 8/82/ FYKM 030800Z 00000KT 9999 OVC019 23/19 Q1020 MMIA 030340Z 00000KT 8SM SKC 23/12 A3003 RMK 6//// YERN 030830Z AUTO 11011KT //// // ////// 37/04 Q1013 GOTT 030800Z 04006KT CAVOK 23/07 Q1011 FYKT 030800Z AUTO 03013KT //// // ////// 30/09 Q1020 MMHO 030741Z 00000KT 10SM SCT015 BKN040 OVC070 18/17 A2996 RMK 8/77/ NCPY 021600Z 05007KT //// //// 25/24 Q1008 NCRG 030800Z 10004KT 9999 VCSH SCT015 25/24 Q1010 RMK RESHRA FYML 030800Z AUTO 06010KT //// // ////// 29/10 Q1023 YESP 030830Z AUTO 16015KT 9999 // NCD 22/14 Q1021 MMIO 030240Z 36005KT 1/2SM FG OVC002 09/08 A3015 RMK 8/5// YGBI 030830Z AUTO 36003KT //// // ////// 30/24 Q1005 YEST 030830Z 15014KT 9999 FEW030 21/15 Q1021 FYLZ 030800Z AUTO 33006KT //// // ////// 18/13 Q1014 MMIT 030000Z 35017KT 6SM FEW020 30/19 A2987 RMK SLP114 57048 967 8/100 HZ FYOA 030800Z 10010KT CAVOK 27/11 Q1017 YGAY 030830Z AUTO 07003KT //// // ////// 27/17 Q1012 YFLI 030830Z AUTO 28015KT 9999 // SCT031 BKN043 18/11 Q1014 MNBL 022300Z 03010KT 9999 SCT017 28/23 Q1013 YGDH 030830Z AUTO 03005KT //// // ////// 31/15 Q1011 FYOO 030800Z AUTO 11008KT //// // ////// 29/10 Q1018 MNCH 022300Z 36012KT 9999 FEW025 SCT090 35/19 Q1008 MMMA 030040Z 34004KT 1/2SM FG PY VV002 14/14 A3014 RMK 8//// MMLM 030342Z 32005KT 10SM BKN100 OVC220 21/14 A2999 RMK 8/037 MMMD 030745Z 09007KT 7SM SCT040 23/21 A3006 RMK 8/500 MMLO 030746Z 00000KT 8SM SKC 13/05 A3029 FYOW 030800Z AUTO 09008KT //// // ////// 26/26 Q1021 MMLP 030546Z 15006KT 10SM SCT100 BKN200 19/15 A3004 RMK SLP171 52006 964 6//// 8/038 YGEL 030830Z 09017KT CAVOK 33/14 Q1011 MMLT 030145Z 00000KT 8SM FEW050 OVC100 21/18 A2994 RMK 8/12/ MMML 030441Z 32004KT 10SM FEW050 FEW080 12/08 A2997 RMK 8/460 ISOL CI MMMM 030742Z 00000KT 7SM SKC 14/05 A3022 MMMT 030152Z 36008KT 10SM OVC100 24/21 A3001 RMK 8/05/ MMNL 030141Z 00000KT 1 1/2SM -DZ BR OVC003 10/08 A3016 RMK 60035 8/7// YGFN 030830Z AUTO 11004KT 9999 // NCD 24/17 Q1014 MMMV 022340Z 06008KT 3SM BR BKN010 OVC015 12/09 A3010 RMK 8/5// SKBG 030400Z 00000KT 9999 SCT012 SCT080 21/19 A3000 FYRN 030800Z 09015KT 9999 SCT025 25/17 Q1020 MMMX 030807Z 06005KT 3SM HZ FU SKC 11/06 A3031 NOSIG MMMY 030740Z 17003KT 1/2SM FG -DZ VV001 10/10 A3005 RMK 60015 8//// VV VRB 001/002 SKAR 030400Z 00000KT 9999 SCT023 SCT100 21/19 A3002 MMMZ 030742Z 04008KT 10SM SKC 14/12 A2993 MMPA 030340Z 00000KT 6SM BKN090 21/19 A3015 RMK 8/030 HZY SKCC 030500Z 00000KT 9999 SCT018 SCT200 24/22 A2999 MMPB 030449Z 00000KT 8SM SKC 11/04 A3036 RMK HZY SKBO 030800Z 35004KT 9999 BKN017 13/11 A3024 SKCG 030800Z 05007KT CAVOK 25/22 A2977 METAR SKBQ 030800Z 02012KT CAVOK 26/22 A2978 MMPG 030040Z 00000KT 8SM OVC004 10/08 A3016 RMK 8/6// HZY SKBQ 030800Z 02012KT CAVOK 26/22 A2978 SKCL 030800Z 07004KT 9999 FEW040 SCT120 21/19 A2987 MMPN 030040Z 00000KT 12SM SKC 23/09 A3014 RMK HZY MMOX 030441Z 03005KT 7SM SKC 18/05 A3030 RMK MMPQ 030048Z 09010KT 8SM BKN060 27/22 A2989 RMK 8/030 MSGTX MMMD MMPR 030746Z 00000KT 12SM SKC 19/18 A2996 MMPS 030041Z 18006KT 7SM SKC 27/22 A3000 RMK CU N HZY YHBA 030830Z AUTO 14009KT 9999 // NCD 26/19 Q1013 SKEJ 022300Z 00000KT 9999 FEW010 SCT200 31/22 A2970 YFRT 030830Z AUTO 14010KT //// // ////// 19/18 Q1019 MMQT 030745Z 10006KT 7SM SCT250 10/07 A3030 RMK 8/002 HZY BKPR 030830Z 34014KT 9999 SCT040 BKN100 07/01 Q1020 NOSIG RMK 17290095 FYWB 030800Z 02004KT 9999 OVC012 17/13 Q1017 MMSD 030448Z 34002KT 12SM SKC 22/16 A3001 RMK CI RTS FYWE 030800Z 08010KT 9999 BKN050 22/06 Q1025 MNJG 022300Z 00000KT 6000 VCRA BKN018 23/17 Q1012 RA/NW YGLA 030830Z AUTO 10013KT 9999 // NCD 27/21 Q1012 YGLB 030830Z AUTO 10007KT //// // BKN039 BKN066 OVC115 18/16 Q1015 FYWH 030800Z 05009KT CAVOK 22/11 Q1025 NOSIG TAPA 030800Z 08011KT 9999 BKN017 25/19 Q1014 NOSIG GQNI 021800Z 04014KT 6000 BLSA NSC 29/M01 Q1015 MMTB 030200Z 30005KT 7SM SCT020 24/18 A3003 RMK 8/500 MMSL 030244Z 02005KT 8SM FEW140 FEW250 22/18 A3005 RMK 8/078 HZY ISOL SC MSGTX MMSD MMTC 030548Z 03003KT 10SM SKC 22/07 A3001 RMK SLP083 51016 9// YHAY 030830Z AUTO 23011KT //// // ////// 30/03 Q1012 MMRX 030240Z 33004KT 1/4SM FG VV001 11/10 A3015 RMK SLP207 51009 973 8//// GQNN 030830Z 09008KT 5000 DU NSC 24/M03 Q1014 NOSIG YGLI 030830Z AUTO 10009KT //// // ////// 22/18 Q1018 MMTG 030441Z 00000KT 12SM FEW020 SCT080 23/17 A3005 RMK 8/130 MMSP 030748Z 00000KT 7SM FEW020 10/08 A3025 RMK 8/500 MMTJ 030740Z 10004KT 6SM SCT030 10/06 A2999 RMK 8/500 GQPA 021800Z 08018KT 6000 BLSA NSC 31/06 Q1018 MNJU 022300Z 09010KT 9999 SCT020 31/19 Q1012 MMTM 030446Z 01010KT 2SM BR SCT002 BKN004 OVC008 18/17 A3012 RMK 8/7// CONDS VAR YFTZ 030830Z AUTO 13012KT //// // ////// 27/19 Q1006 FYWW 030800Z 09009KT 9999 FEW045 SCT090 23/08 Q1025 MMTO 030758Z RTD 00000KT 6SM SKC 06/00 A3028 RMK HZ MMTP 030741Z 00000KT 10SM SKC 23/22 A2988 YGLS 030830Z AUTO 16009KT //// // ////// 37/09 Q1011 SKIB 030100Z 23003KT 9999 SCT030 SCT100 21/20 A2999 MMVA 030543Z 04007KT 7SM SKC 24/23 A3006 RMK SLP177 54000 9// MMUN 030743Z 07005KT 7SM FEW018 25/22 A3006 RMK 8/100 K04V 030836Z AUTO 31007KT 10SM CLR M02/M08 A2976 RMK AO2 K06D 030815Z AUTO 33028G37KT 10SM -SN OVC011 M12/M14 A2977 RMK AO2 K04W 030833Z AUTO 16006KT 10SM -SN SCT036 BKN042 OVC055 M06/M08 A2989 RMK AO2 MNMG 030800Z 08006KT CAVOK 25/19 Q1011 A2988 NOSIG GQPP 030800Z 36008KT 6000 NSC 17/10 Q1016 NOSIG K05U 030835Z AUTO 25004KT 8SM FEW004 SCT010 BKN022 M01/M03 A2988 RMK AO1 SKIP 022300Z 01006KT 9999 VCSH BKN018 15/10 A3033 RMK VCSH/E/W GQPZ 030600Z 14006KT 8000 NSC 17/M04 Q1019 MMVR 030440Z 02002KT 3SM BR HZ SKC 20/19 A3010 LWOH 030830Z VRB03KT 9999 SCT033 12/04 Q1017 SLCA 022300Z 00000KT 9999 SCT036 30/21 Q1009 SLCB 030800Z 00000KT 9999 FEW027 SCT070 BKN200 14/12 Q1023 SKLC 022300Z 33010G21KT 9999 FEW025 SCT090 28/23 A2976 LXGB 030750Z 25007KT 9999 FEW018 SCT250 14/12 Q1024 NOSIG MNPC 022300Z 07008KT 8000 BKN016 28/25 Q1013 HZ NFFN 030800Z 09004KT 9999 -SHRA FEW023CB SCT025 BKN048 27/26 Q1008 NOSIG YHID 030830Z AUTO 08004KT 9999 // SCT037 29/24 Q1006 SKMD 022300Z 02010KT 9999 SCT035 BKN200 26/16 A3000 MMZC 030751Z 00000KT 10SM SKC 09/M01 A3026 SLCO 022200Z 20006KT 8000 VCSH FEW006 FEW020CB BKN070 BKN200 26/25 Q1007 SLCP 022200Z 36006KT 9999 FEW017 BKN200 28/24 Q1010 MMZH 030245Z 00000KT 7SM SKC 25/21 A2990 RMK SLP/// 5//// SKLT 030700Z 00000KT 9999 FEW020 SCT080 24/23 A2980 MMZO 030245Z 00000KT 10SM SKC 24/20 A2987 RMK HZY SKMR 030100Z 00000KT CAVOK 27/22 A2977 K11R 030835Z AUTO 00000KT 1 1/4SM BR OVC002 08/08 A3010 RMK AO2 T00840081 YGTE 030830Z AUTO 04008KT 9999 // NCD 31/24 Q1005 YGTH 030830Z AUTO 21007KT 9999 // NCD 31/M01 Q1011 K12N 030754Z AUTO 00000KT M11/M15 A3037 RMK AO1 SLP299 T11111150 YHLC 030830Z AUTO 13002KT //// // ////// 25/23 Q1007 MNRS 022300Z 16010KT CAVOK 30/22 Q1009 SLET 022300Z 33007KT 9999 FEW017 28/21 Q1007 TBPB 022300Z 04017KT 9999 FEW018 SCT040 SCT280 24/21 Q1013 NOSIG SKPC 022300Z 00000KT 9999 FEW020 BKN200 31/19 A2971 LWSK 030830Z 36019G30KT 9999 SCT040 BKN083 11/03 Q1019 NOSIG YGTN 030830Z AUTO 13004KT //// // ////// 32/19 Q1008 SKNV 030300Z 00000KT 9999 FEW040 28/22 A2983 SKPE 030500Z 09008KT 9999 FEW015 SCT080 21/17 A3001 LYBE 030830Z 33014KT 9999 FEW033 SCT040 06/02 Q1024 NOSIG MPBO 030300Z 29006KT 250V330 FEW018 Q1016 SKPS 022300Z 00000KT 9999 BKN020 21/17 A3004 YHML 030830Z AUTO 20011KT 9999 // NCD 20/10 Q1016 MPDA 030300Z 34010KT 9999 FEW020 ///// Q1010 LYBT 030830Z 32011G21KT 9999 BKN040 06/02 Q1023 NOSIG SKPV 030000Z 06007KT 9999 FEW017 27/23 A//// SKRG 030800Z 35004KT 7000 VCFG BKN006 14/13 A3023 RMK VCFG/E/S SKRH 022300Z 06011G21KT 9999 FEW020 27/21 A2985 K14Y 022324Z AUTO 14014KT 10SM OVC095 M03/M10 A3010 RMK AO2 NFNA 030800Z 00000KT 9999 FEW020 BKN300 28/26 Q1009 K0A9 030835Z AUTO 06005KT 10SM OVC050 03/M01 A3017 RMK SLJE 022200Z 00000KT 9999 SCT020 BKN200 30/23 Q1009 SKSM 030300Z 02006KT 9999 FEW020 29/20 A2983 YHOO 030830Z AUTO 08012KT //// // ////// 35/20 Q1006 SLJO 022100Z 00000KT 9999 FEW017 BKN200 31/24 Q1007 SKSP 030800Z 07005KT 9999 FEW016 27/23 A2989 YHOT 030730Z AUTO 12006KT 9999 // ////// 17/12 Q1017 SKUC 030200Z 00000KT 9999 FEW030 25/22 A2984 K19A 030835Z AUTO 00000KT 10SM BKN037 OVC046 13/07 A3021 RMK AO2 TDCF 030000Z 31001KT 9999 SCT017 26/17 Q1013 SKUI 030000Z 00000KT 9999 BKN018 FEW020CB 27/25 A2977 RMK CB/S NGFU 030500Z 34005KT 9999 SCT019TCU BKN110 29/24 Q1005 K0E0 030835Z AUTO 31009KT 10SM BKN048 OVC055 02/00 A2996 RMK AO2 T00170000 K21D 030831Z AUTO 15006KT 10SM OVC075 M05/M11 A2992 RMK AO2 SLMG 022300Z 00000KT 9999 FEW017 BKN200 26/25 Q1007 SLLP 030800Z 07005KT 4000E VCFG FEW002 FEW017CB BKN070 07/05 Q1035 YJAB 030830Z AUTO 35005KT //// // ////// 28/24 Q1005 K20U 030815Z AUTO 34023G32KT 10SM OVC021 M12/M14 A2996 RMK AO2 K20V 030834Z AUTO 24016G30KT 5SM -SN BKN015 BKN019 OVC028 M01/M05 A2969 RMK AO2 K0F2 030835Z AUTO 16006KT 3/4SM BR OVC003 03/03 A3005 RMK AO2 T00260026 SKVP 030100Z 06015KT 9999 FEW020 29/19 A2988 K0CO 030613Z AUTO M1/4SM +SN OVC002 M11/M14 A2965 RMK AO2 YHSM 030830Z AUTO 20012KT 9999 // NCD 25/05 Q1014 SKVV 022300Z 00000KT 9999 FEW023 28/19 A2981 HKEL 030800Z 05020KT CAVOK 22/02 HKEM 030400Z 36003KT SKC 14/07 YHUG 030830Z AUTO 12009KT //// // ////// 34/12 Q1009 NFTF 030800Z 00000KT 9999 SCT016TCU 27/25 Q1011 SLOR 022200Z 03008KT 9999 SCT020 FEW023CB BKN200 13/07 Q1032 HKGA 030500Z 00000KT 9999 BKN024 26/20 Q1012 K24J 030835Z AUTO 00000KT 2 1/2SM SCT043 16/16 A3022 RMK AO1 NFTL 030600Z 09003KT 9999 FEW017 28/24 Q1009 SLPO 022000Z 05008KT 9999 SCT020 BKN200 15/06 Q1032 SLPS 022300Z 00000KT 9999 FEW015 OVC200 25/24 Q1007 SLRB 022300Z 00000KT 9999 FEW025CB SCT200 26/25 Q1009 NFTV 030600Z 13008KT 9999 SCT016TCU SCT290 29/25 Q1009 LYKV 030830Z 31013KT 280V340 9999 SCT027 09/03 Q1022 NOSIG MPMG 030300Z 33006KT 9999 FEW020 27/21 Q1012 NOSIG K0J4 030758Z AUTO 00000KT 1/2SM FG VV002 13/13 A3020 RMK AO2 SLP223 T01330128 $ SLRI 022300Z 00000KT 9999 SCT015 FEW020CB BKN200 28/23 Q1007 K1A5 030835Z AUTO 00000KT 10SM 07/06 A3023 RMK AO2 T00730055 SLSA 022300Z 03004KT 9999 FEW017 FEW023CB BKN200 27/24 Q1004 K1A6 030835Z AUTO 00000KT 10SM BKN036 BKN075 OVC090 03/00 A3020 RMK AO2 T00301003 K1A9 030835Z AUTO 00000KT 1/2SM FG OVC003 13/13 A3016 RMK AO2 T01340134 SLRQ 022200Z 36008KT 9999 SCT017 BKN200 29/25 Q1005 SLSI 022300Z 00000KT 9999 SCT020 27/24 Q1008 LYNI 030830Z 32008KT 280V340 9999 FEW023 BKN030 08/03 Q1021 NOSIG K1B7 021751Z 21015KT 10SM SKC 24/21 A3028 SLRY 022200Z 34006KT 9999 FEW017 BKN200 30/24 Q1007 SMJP 030800Z 20001KT 9999 -RA FEW004 BKN035 22/21 Q1011 NOSIG SLTJ 030200Z 11005KT 9999 TS BKN030 FEW033CB BKN070 BKN200 21/18 Q1017 MPPA 030300Z 36010KT 9999 FEW030 Q1012 SLSU 022300Z 04008KT 9999 FEW023 FEW033CB SCT200 17/11 Q1025 K28J 030815Z AUTO 06003KT 2SM BR OVC003 16/16 A3021 RMK AO2 HKJK 030800Z 04013KT CAVOK 25/10 Q1022 NOSIG LYPG 030830Z 06004KT 360V130 9999 FEW030 16/03 Q1018 NOSIG HKKG 030400Z 15003KT CAVOK 13/12 SLTR 022300Z 02004KT 9999 FEW017 FEW020CB SCT200 27/24 Q1006 HKKI 030800Z 20008KT 9999 FEW027CB SCT310 29/14 Q1017 ZBAA 030830Z 33010G15MPS 290V350 CAVOK 04/M26 Q1023 NOSIG HKKR 030400Z 00000KT CAVOK 07/05 HKKS 030700Z 09005KT CAVOK 25/10 LZIB 030830Z 30015KT 9999 FEW032 SCT056 06/M03 Q1022 NOSIG HKMB 030400Z 19032KT 3000 +FG BKN004 OVC015 17/17 SLVM 021800Z 36004KT 9999 BKN025 33/22 Q1007 HKKT 030800Z 36004KT 9999 FEW024 SCT280 27/04 K1F0 030815Z AUTO 21004KT 3/4SM BR OVC002 03/03 A3005 RMK AO2 HKME 030400Z 00000KT SKC 09/08 HKLO 030400Z 00000KT CAVOK 22/14 SLVR 030828Z 36007KT 9999 BKN006 FEW030CB BKN200 23/23 Q1009 HKNC 030800Z 06011KT CAVOK 23/08 Q1022 HKML 030800Z 06018KT 9999 FEW024 31/20 Q1013 HKLU 030800Z 09008KT 9999 BKN025 30/21 HKMO 030800Z 02009KT 9999 SCT024 33/19 Q1013 NOSIG GUCY 030800Z 02004KT 3000 BR NSC 23/21 Q1011 NOSIG SLYA 022300Z 00000KT 9999 NSC 27/24 Q1007 YJLC 030830Z AUTO 09008KT //// // ////// 37/17 Q1006 HKNI 030400Z 33001KT CAVOK 08/07 TDPD 030000Z 10009KT 9999 BKN016 26/20 Q1016 HKNK 030800Z 02010KT CAVOK 26/M01 HKMU 030800Z 09003KT 9999 BKN027 27/17 K1H2 030835Z AUTO 11009KT 10SM BKN025 OVC033 00/M07 A3010 RMK AO2 T10051075 CERM 030800Z AUTO 30007KT M17/M23 RMK AO1 SOG 44 3031 PK WND 30023/0718 SLP199 T11671232 HKNO 030400Z VRB02KT CAVOK 08/05 HKMY 030800Z 05020KT CAVOK 29/10 K33V 030834Z AUTO 22024G30KT 4SM SCT007 BKN014 OVC027 M03/M06 A2962 RMK AO2 HKNW 030700Z 03015KT CAVOK 22/10 Q1021 MPTO 030800Z 00000KT 9999 FEW018 27/20 Q1009 NOSIG HKNY 030400Z 00000KT CAVOK 09/04 Q1022 NGTT 030800Z VRB02KT 9999 FEW020 27/23 Q1007 K1J0 030837Z AUTO 00000KT 1 1/4SM BR SCT002 OVC060 13/13 A3018 RMK AO2 T01330128 YIVO 030830Z AUTO 19008KT //// // ////// 32/M08 Q1011 LYTV 030830Z VRB02KT CAVOK 16/03 Q1018 NOSIG LZKZ 030830Z VRB02KT 9999 FEW030 SCT080 04/01 Q1015 NOSIG K1K1 030835Z AUTO 19018G23KT 3SM BR OVC003 01/00 A2983 RMK AO2 T00070003 HKRE 030200Z 00000KT CAVOK 15/12 Q1020 LYUZ 030830Z 31008KT 270V330 9999 FEW015 SCT020 03/02 Q1021 LYVR 030830Z 33012KT 9999 FEW020 BKN033 07/02 Q1022 TEMPO 32015G25KT K1II 030835Z AUTO 00000KT 10SM OVC050 M02/M07 A3020 RMK AO2 K1L0 030835Z AUTO 00000KT 1/4SM FG OVC002 20/19 A3012 RMK AO2 T01950185 GVAC 030800Z 02009KT 6000 FEW014 18/17 Q1015 NOSIG K36U 030835Z AUTO 00000KT 10SM SCT015 BKN060 OVC080 M01/M02 A2979 RMK AO2 SOCA 030830Z AUTO 26004KT 9999 -RA FEW003/// BKN013/// BKN044/// 23/22 Q1010 GVBA 030800Z 05005KT 6000 FEW014 18/17 Q1015 NOSIG K2C8 030815Z AUTO 32016G25KT 10SM FEW027 M07/M10 A2973 RMK AO2 ZBHH 030800Z 36006MPS 330V030 CAVOK M05/M22 Q1021 NOSIG K1M4 030813Z AUTO 00000KT 3/4SM BR 07/07 A3018 RMK AO2 $ K0V4 030835Z AUTO 00000KT 10SM OVC031 01/M04 A3036 RMK AO1 T00101041 K2D5 030835Z AUTO 29013KT 10SM M03/M05 A2975 RMK AO2 K40J 030835Z AUTO 00000KT 1 1/4SM BR VV007 14/14 A3020 RMK AO2 VIS 3/4V5 T01360136 YKII 030830Z AUTO 26013KT 9999 // SCT041 16/07 Q1015 LZPP 030830Z 28018KT CAVOK 04/M01 Q1020 HLLM 030750Z 24008KT 9999 SKC 15/05 Q1029 AYGN 030300Z VRB02KT 9999 FEW020 SCT130 32/23 Q1007 K0VG 030835Z AUTO 00000KT 10SM BKN041 OVC070 00/00 A3021 RMK AO2 YLBD 030830Z AUTO 25001KT 9999 // BKN120 26/26 Q1006 K42J 030835Z AUTO 13004KT 7SM BKN002 OVC008 17/17 A3020 RMK AO1 TSNO MSAC 022150Z 18007KT 9999 FEW043 32/23 Q1010 A2983 K1P1 030835Z AUTO 29008G17KT 10SM CLR M09/M16 A3026 RMK AO2 T10911158 TFFF 030830Z AUTO 06011KT 9999 FEW060 BKN070 OVC088 23/20 Q1013 HKVO 030800Z 09018KT 9999 FEW023 BKN280 29/17 K2G4 030820Z AUTO 15008KT 10SM SCT095 OVC120 M07/M08 A3018 RMK AO1 K2DP 030756Z AUTO 02006KT 10SM BKN230 00/M02 A3038 RMK AO2 SLPNO T00011024 HKWJ 030100Z 13013KT SKC 25/20 K2G9 030835Z AUTO 18003KT 10SM OVC110 M10/M12 A3023 RMK AO2 LZSL 030830Z 30006KT 240V350 9999 -SHSN FEW031 BKN044 04/M03 Q1018 TFFR 030830Z AUTO 00000KT //// R12///// // FEW030/// BKN060/// OVC078/// ///TCU 22/19 Q1014 MRLB 030200Z 09021G31KT CAVOK 27/16 A2983 K2I0 030835Z AUTO 10003KT 10SM OVC023 03/M02 A3014 RMK AO2 T00251023 YLEC 030830Z AUTO 18012KT //// // ////// 34/03 Q1013 K1R7 030835Z AUTO 00000KT OVC001 12/12 A3015 RMK AO2 LZTT 030830Z 26021KT 7000 -SHSN SCT020 SCT050 M00/M03 Q1013 NOSIG MRLM 030000Z 00000KT CAVOK 24/22 A2992 YKMP 030830Z AUTO 06005KT //// // ////// 23/17 Q1014 SMZO 021400Z 04003KT 9000 RA SCT015 BKN022 24/23 Q1015 NOSIG K46D 030835Z AUTO 10SM SCT011 SCT120 M09/M10 A2981 RMK AO2 K1S5 030835Z AUTO 36015G22KT 10SM OVC100 04/M11 A3014 RMK AO2 T00351115 K2J9 030815Z AUTO 13003KT 3/4SM OVC001 13/13 A3019 RMK AO1 YLEO 030830Z AUTO 11013KT 9999 // BKN027 21/14 Q1017 YKNT 030830Z AUTO 07007KT //// // ////// 39/11 Q1008 MROC 030800Z 10014G24KT CAVOK 18/12 A2997 NOSIG K1QW 030756Z AUTO 35025G29KT M /// /// M M02/M11 A3002 RMK AO2 PK WND 35027/25 SLP193 T10181106 400381020 $ AYMO 030100Z 31009KT 9999 SCT018 OVC140 30/25 Q1009 YKOW 030830Z AUTO 26007KT //// // BKN067 BKN080 31/24 Q1006 K3D2 030835Z AUTO 20007KT 10SM OVC085 M04/M11 A3010 RMK AO2 T10451108 YLHI 030830Z AUTO 11006KT 9999 // SCT027 BKN039 OVC047 23/18 Q1014 K1V4 030754Z AUTO M12/M19 A3026 RMK AO1 SLP267 T11221194 K1V6 030830Z AUTO 27014KT 10SM SCT100 06/M06 A2967 RMK AO2 SPCL 030800Z VRB02KT 9999 BKN025 25/23 Q1009 RMK PP000 K3AU 030815Z AUTO 18015G20KT 4SM BR OVC004 00/00 A2984 RMK AO2 YLHR 030830Z AUTO 09005KT //// // SCT028 29/24 Q1006 LZZI 030830Z 23013KT 9999 -SN FEW027 BKN035 BKN044 01/M01 Q1018 YKSC 030830Z AUTO 20013KT 9999 // NCD 20/10 Q1017 AYNZ 030800Z 09026KT 9999 FEW016 BKN035CB BKN140 28/24 Q1004 RMKS MRPV 030000Z 07021G32KT 9999 FEW040 20/13 A3000 NOSIG YMBA 030830Z AUTO 13007KT //// // ////// 26/19 Q1011 YLIS 030830Z AUTO 12004KT 9999 // NCD 24/18 Q1014 ZBSJ 030800Z 36006MPS 330V030 CAVOK 06/M25 Q1024 NOSIG OAHR 030754Z 01007KT 7000 -RA BKN040 SCT070 10/01 Q1017 RMK OVC VIS MIN 7000 WHT YMBD 030800Z AUTO 20015KT //// // ////// 19/10 Q1017 YKRY 030830Z AUTO 09005KT //// // ////// 24/17 Q1015 ZBTJ 030830Z 34007MPS CAVOK 03/M24 Q1023 NOSIG AYPY 030600Z 00000KT 9999 FEW008 SCT020 BKN130 28/24 Q1005 OAKB 030650Z 10004KT 6000 FEW020 SCT040 07/M00 Q1018 NOSIG RMK WHT WHT YMAV 030830Z AUTO 17011KT 9999 // NCD 18/12 Q1015 YLLE 030800Z AUTO 17014KT //// // ////// 42/06 Q1007 YMAY 030830Z AUTO 29010KT 9999 // NCD 28/03 Q1011 GVNP 030800Z 01009KT CAVOK 19/13 Q1014 NOSIG OBBI 030800Z 36008KT CAVOK 24/11 Q1016 NOSIG K54J 030835Z AUTO 00000KT 1/2SM FG BKN002 14/14 A3017 RMK AO2 T01420142 SPGM 022100Z /////KT 9999 SCT040 SCT070 28/20 Q1010 RMK BIRD HAZARD RWY 19 PP000 YMCO 030830Z AUTO 19003KT //// // ////// 18/15 Q1015 NIUE 030300Z 13009KT 9999 BKN020 30/24 Q1008 K3I2 030835Z AUTO 00000KT 10SM CLR 00/M06 A3026 RMK AO2 YMDG 030830Z AUTO 10003KT //// // OVC120 30/16 Q1012 MTBO 030830Z AUTO 07006KT 9999 // OVC086 18/15 Q//// SPHI 030800Z 19007KT CAVOK 22/19 Q1010 RMK PP000 SPHO 022300Z 11005KT 9000 -RA SCT040 BKN090 20/14 Q1023 RMK PPTRZ MSLP 030750Z 35004KT 9999 BKN076 28/17 Q1010 A2984 K4A6 030815Z AUTO 00000KT 10SM OVC016 09/07 A3020 RMK AO2 YMEK 030830Z AUTO 13015KT 9999 // SCT028 OVC038 24/19 Q1014 K3J7 030835Z AUTO 00000KT 10SM SCT019 BKN027 OVC041 13/ A3018 RMK AO2 K1YT 030756Z AUTO 12006KT 10SM BKN070 00/M04 A3012 RMK AO2 SLPNO T00021043 400871008 SPIM 030800Z 16007KT 9999 BKN007 21/20 Q1010 NOSIG RMK PP000 K4A9 030835Z AUTO 00000KT 10SM SCT014 OVC022 09/02 A3018 RMK AO2 YMEN 030830Z AUTO 19012KT 9999 // NCD 20/11 Q1015 SPHY 021900Z /////KT 8000 VCSH SCT010 SCT012TCU 16/08 Q1031 RMK BIRD HAZARD RWY 03/21 PP000 K3K3 030815Z AUTO 22006KT 10SM CLR 05/02 A2962 RMK AO2 YMER 030830Z AUTO 14008KT 9999 // NCD 19/15 Q1015 YMES 030830Z AUTO 13007KT 9999 // NCD 18/12 Q1015 SPJI 022100Z 00000KT 9999 BKN030 27/26 Q1015 RMK T.MAX 31.1 PP000 YMGB 030830Z AUTO 01004KT //// // ////// 29/24 Q1005 OAMS 030750Z 13001KT 9999 FEW060 SCT250 16/02 Q1016 BLU+ BLU+ TEMPO YLO YMGD 030830Z AUTO 02006KT 9999 // NCD 28/26 Q1005 SPJL 030300Z 34003KT 9999 SCT010 OVC080 10/07 Q1036 RMK PP000 AYVN 030600Z 29007KT 9999 -SHRA SCT003 SCT020 OVC120 25/25 Q1008 SPJR 022300Z VRB02KT 9999 SCT030 BKN043 13/13 Q1025 RMK BIRD HAZARD RWY 16/34 PP016 YMHB 030830Z 08008KT 9999 FEW038 17/10 Q1010 ZBYN 030830Z 23002MPS 190V300 CAVOK 02/M27 Q1020 NOSIG AYWK 030700Z 30011KT 9999 FEW018 FEW020CB SCT140 OVC300 29/23 Q1005 RMKS K2V5 030835Z AUTO 25004KT 4SM HZ BKN004 OVC010 A2959 RMK AO2 YMIA 030830Z AUTO 20007KT 9999 // NCD 30/04 Q1013 YLRE 030830Z AUTO 09011KT 9999 // SCT097 37/12 Q1008 SPME 030300Z VRB01KT 9999 OVC020 26/22 Q1011 RMK BIRD HAZARD RWY 32/14 PP000 SPLO 022100Z 12012KT CAVOK 24/18 Q1009 RMK TMAX 26.5 PP000 GVSV 030800Z 07014KT 7000 FEW018 19/16 Q1016 NOSIG K4BM 030836Z AUTO 22014G26KT 10SM CLR M10/M12 A2964 RMK AO2 K3LF 030835Z AUTO 14008KT 10SM OVC021 M01/M07 A3006 RMK AO2 T10151073 K2W6 030818Z AUTO 00000KT 10SM CLR M02/M10 A3042 RMK AO1 YMHU 030830Z AUTO 02008KT 9999 // NCD 34/21 Q1006 SPNC 021532Z 07005KT 9999 FEW015 BKN140 19/16 Q1023 RMK K3N8 030815Z AUTO 18015KT 10SM CLR M03/M06 A2971 RMK AO2 T10351061 YMIN 030830Z AUTO 16015KT //// // ////// 21/10 Q1017 SPMS 022300Z 32003KT 9999 VCSH SCT025 BKN100 29/23 Q1008 RMK BIRD HAZARD RWY 09/27 PP000 MSSA 022350Z 30004KT 9999 SCT047 30/16 Q1016 A3000 YNAR 030830Z AUTO 23006KT //// // ////// 30/02 Q1012 YLST 030830Z AUTO 13013KT 9999 // BKN015 OVC019 19/17 Q//// YLTN 030830Z AUTO 12013KT //// // ////// 18/16 Q1019 MSSM 022350Z 05006KT CAVOK 35/15 Q1008 A2977 DAAD 030800Z 00000KT CAVOK 12/08 Q1028 YNBR 030830Z AUTO 02004KT //// // ////// 33/15 Q1010 DAAE 030800Z 26012KT CAVOK 15/10 Q1025 YMMB 030830Z AUTO 21009KT 9999 // ////// 20/12 Q1015 DAAG 030830Z 00000KT CAVOK 15/13 Q1025 MSSS 030550Z 33006KT CAVOK 24/18 Q1016 A3002 YLTV 030830Z AUTO 21006KT 9999 // OVC046 21/12 Q1015 DAAJ 030800Z 00000KT CAVOK 13/07 Q1026 DABB 030830Z 25005KT CAVOK 16/14 Q1025 DABC 030830Z 10003KT CAVOK 11/08 Q1028 K4I3 030836Z AUTO 04005KT 10SM OVC085 M06/M11 A3024 RMK AO2 MUCF 030758Z AUTO 07007KT 22/20 Q1018 K2WX 030756Z AUTO 33018KT M08/M11 A2979 RMK AO1 PK WND 34031/0716 SLP118 T10831111 YMLT 030830Z AUTO 35015KT 9999 // NCD 16/06 Q1011 DAAP 030800Z 09010KT CAVOK 10/M01 Q1028 K4I7 030835Z AUTO 12005KT 7SM UP BKN050 BKN065 OVC080 M02/M08 A3016 RMK AO2 K3R7 030835Z AUTO 06003KT 1 1/4SM BR OVC002 11/11 A3013 RMK AO2 T01050105 YMML 030830Z 17010KT CAVOK 20/09 Q1015 YMNE 030830Z AUTO 14014KT //// // OVC022 21/17 Q1016 MUCL 030805Z AUTO 07012KT 25/21 Q1017 DAAS 030800Z 00000KT CAVOK 11/05 Q1028 DAAT 030830Z 09011KT CAVOK 16/M07 Q1025 MUCM 030750Z 06012KT 9000 NSC 21/19 Q1019 YMNG 030830Z AUTO 20007KT 9999 // NCD 24/10 Q1013 DAAV 030800Z 18006KT CAVOK 17/11 Q1025 TGPY 030800Z 00000KT 9999 FEW020 24/22 Q1011 DAAY 030800Z 21008KT CAVOK 12/06 Q1030 K5A6 030835Z AUTO 00000KT 2SM BR OVC003 07/07 A3014 RMK AO2 T00720071 SPQT 030800Z 00000KT 9999 BKN020 OVC100 24/23 Q1009 RMK PP000 K65S 030835Z AUTO 01006KT 10SM CLR M06/M13 A3014 RMK AO2 SPQU 030800Z 00000KT CAVOK 12/11 Q1024 RMK PP000 YNEN 030830Z AUTO 26010KT 9999 // SCT016 28/23 Q1004 DABS 030800Z 00000KT CAVOK 07/04 Q1027 MUCU 030751Z 01008KT 9000 FEW020 22/18 Q1017 DABT 030800Z 00000KT CAVOK 08/06 Q1028 YMOG 030830Z AUTO 11013KT //// // ////// 24/16 Q1015 K3T5 030815Z AUTO 00000KT 1 1/4SM BR OVC002 08/07 A3009 RMK AO2 T00750074 K66R 030835Z AUTO 35003KT 3/4SM BR OVC003 08/08 A3008 RMK AO2 T00800080 SPRU 030800Z 10006KT 6000 BKN150 20/19 Q1009 RMK PP000 K5C1 030835Z AUTO 00000KT 1/4SM OVC003 06/05 A3006 RMK AO1 SPSO 030800Z 21007KT 9999 SCT100 21/19 Q1009 RMK PP000 YMOR 030830Z AUTO 05005KT 9999 // NCD 33/14 Q1011 DAEF 030800Z 09012KT CAVOK 11/00 Q1029 SPST 030300Z 12004KT 8000 SCT015 BKN070 24/22 Q1011 RMK BIRD HAZARD RWY 17/35 PP030 SPTN 030800Z 26003KT 9999 OVC040 20/14 Q1013 RMK PP000 DAEN 030800Z /////KT CAVOK 15/03 Q1029 YMRB 030830Z AUTO 12010KT 9999 // NCD 30/15 Q1011 YNHL 030830Z AUTO 22011KT //// // ////// 25/05 Q1015 DAFH 030800Z 28008KT CAVOK 11/04 Q1029 MUHA 030755Z 06004KT 9000 FEW020 19/17 Q1019 SPTU 022300Z 03005KT 9999 FEW007 BKN070 25/23 Q1005 RMK BIRD HAZARD RWY 01/19 PP000 DAER 030800Z 05010KT CAVOK 14/01 Q1029 K4M9 030835Z AUTO 00000KT 10SM OVC013 01/M02 A3013 RMK AO2 MUGM 030756Z 33006KT 9999 FEW035 22/19 A3003 RMK SLP169 T02220189 MTPP 022200Z 28012KT 9999 FEW026 29/// Q1015 A2999 MUHG 030750Z 03003KT CAVOK 21/19 Q1017 K4O4 030835Z AUTO 10004KT 3/4SM OVC001 02/01 A3010 RMK AO2 YMRY 030830Z AUTO 19007KT 9999 // SCT025 SCT028 SCT037 21/18 Q1014 YMTG 030830Z AUTO 22009KT 9999 // NCD 17/09 Q1017 YMTI 030830Z AUTO 32004KT //// // ////// 30/24 Q1006 K4MR 030756Z AUTO 22013G18KT 10SM BKN190 01/01 A2990 RMK AO2 SLP132 T00130005 $ K5H4 030815Z AUTO 33021G27KT 10SM OVC015 M10/M13 A2985 RMK AO2 SPZA 022130Z 19016KT 5000 DU SCT090 28/16 Q1011 SPYL 022100Z /////KT CAVOK 30/20 Q1007 RMK TX 32.0 BIRD HAZARD RWY 17/35 PP000 DBBB 030800Z 22010KT 8000 SCT011 29/25 Q1010 NOSIG K6A2 030835Z AUTO 00000KT 10SM OVC006 13/11 A3020 RMK AO2 SPZO 030800Z 00000KT 9999 SCT050 BKN100 09/06 Q1030 RMK PP000 UAAA 030830Z 02003MPS 9999 BKN100 BKN200 04/M04 Q1016 R88/CLRD65 NOSIG K6B0 030835Z AUTO 00000KT 10SM CLR M12/M18 A3032 RMK AO2 T11221177 UAAH 030830Z 07009MPS CAVOK M02/M08 Q1019 R05/0///60 NOSIG RMK QFE727/0969 YMYB 030830Z AUTO 12010KT 9999 // NCD 25/19 Q1013 UACC 030830Z 09005MPS CAVOK M05/M10 Q1025 R04/0/0070 NOSIG RMK QFE737/0982 DAOB 030800Z 00000KT CAVOK 09/06 Q1027 TJBQ 022350Z 09011G16KT 10SM SCT026 SCT034 BKN040 24/19 A3007 RMK RWY08 ATIS Q DAOF 030800Z 09004KT CAVOK 14/M01 Q1025 YNRC 030830Z AUTO 23014KT //// // ////// 21/07 Q1016 UACK 030830Z 20002MPS CAVOK M03/M10 Q1028 R20/010060 NOSIG RMK QFE747/0996 DAOI 030800Z 06005KT CAVOK 14/12 Q1024 K79J 030820Z AUTO 00000KT 1/4SM FG VV002 18/16 A3017 RMK AO2 K5M9 022015Z AUTO 06009KT 10SM CLR 02/M06 A3041 RMK AO2 T00221063 UADD 030830Z 26003MPS 9999 NSC 13/M02 Q1015 R13/0///65 NOSIG RMK QFE704/0939 UACP 030830Z 00000MPS CAVOK M09/M10 Q1030 R05/8/0556 NOSIG RMK QFE760/1014 DAON 030830Z 00000KT CAVOK 13/11 Q1025 DAOO 030830Z 21002KT CAVOK 12/10 Q1024 DAOR 030800Z 00000KT CAVOK 10/07 Q1029 YPAD 030830Z 17012KT CAVOK 23/08 Q1016 K82C 030835Z AUTO 12004KT 10SM OVC070 M04/M09 A3001 RMK AO2 T10421087 YPAG 030830Z AUTO 14015KT //// // SCT110 23/11 Q1015 DAOV 030800Z 00000KT CAVOK 10/09 Q1026 DAOY 030800Z 21002KT CAVOK 09/04 Q1029 YNSM 030830Z AUTO 13009KT //// // ////// 26/10 Q1019 OEAB 030800Z 18014KT CAVOK 24/03 Q1027 NOSIG OEAH 030800Z 05010KT CAVOK 25/00 Q1016 NOSIG OEBA 030800Z 00000KT CAVOK 26/08 Q1023 NOSIG YPCC 030830Z 12007KT 9999 FEW024 29/22 Q1008 YOLD 030830Z AUTO 16012KT 9999 // ////// 33/07 Q1013 YNTN 030830Z AUTO 31008KT //// // ////// 33/25 Q1006 YPBO 030830Z AUTO 17013KT 9999 // SCT068 BKN081 OVC098 30/22 Q1007 K82V 030835Z AUTO 36007KT 5SM BR OVC006 M01/M01 A2959 RMK AO2 OEAO 030800Z 33002KT CAVOK 23/M04 Q1019 OEBH 030800Z 00000KT CAVOK 28/10 Q1019 NOSIG MWCB 030000Z 08003KT 9999 FEW018 26/23 Q1017 K6I2 030830Z AUTO 00000KT 10SM FEW043 00/M05 A3017 RMK AO2 YPEA 030800Z 08011KT CAVOK 31/12 Q1016 NOSIG YPED 030830Z AUTO 23015KT 9999 // NCD 24/11 Q1015 YOLW 030830Z AUTO 30019KT //// // ////// 30/23 Q1005 DAUA 030800Z 03015KT CAVOK 12/00 Q1025 YPDN 030830Z 05009KT 9999 FEW020 BKN300 28/25 Q1004 DAUB 030800Z 08006KT CAVOK 13/06 Q1027 TJIG 022245Z 10012KT 10SM SCT040 26/20 A3005 RMK RY 09 IN USE ATIS N DATM 030800Z 09016KT CAVOK 15/M08 Q1019 OEDF 030800Z 03006KT CAVOK 25/05 Q1016 NOSIG DAUE 030700Z 35007KT CAVOK 06/M01 Q1029 UAII 030830Z 29003MPS 250V010 CAVOK 13/03 Q1017 R10/0///70 NOSIG RMK QFE727/0969 MWCR 030300Z 06007KT 9999 FEW018 25/23 Q1018 NOSIG DAUG 030700Z 29003KT CAVOK 10/M00 Q1029 DAUH 030830Z 00000KT CAVOK 13/08 Q1029 YOOD 030830Z AUTO 13015KT //// // ////// 38/01 Q1010 DAUI 030800Z 06024KT 5000 DRSA NSC 15/03 Q1025 YNWN 030830Z AUTO 07009KT //// // ////// 31/17 Q1010 OEDM 030600Z 14010KT CAVOK 22/M04 Q1018 DAUK 030800Z 18006KT CAVOK 11/06 Q1029 DAUL 030800Z 00000KT CAVOK 10/06 Q1029 DAUO 030800Z 220//KT CAVOK 13/05 Q1029 OEDR 030800Z 03007KT CAVOK 25/06 Q1015 NOSIG MUVR 030752Z 09005KT 9000 FEW020 22/20 Q1019 UBBB 030830Z VRB02KT 9999 SCT013 OVC027 09/06 Q1018 88CLRD70 NOSIG YOOM 030830Z AUTO 17015KT //// // ////// 38/03 Q1009 UAKD 030800Z 06005MPS 7000 OVC100 M05/M07 Q1019 R04/0///60 NOSIG RMK QFE731/0975 K5T9 030835Z AUTO 00000KT 2 1/2SM BR OVC004 09/08 A3007 RMK A01 DAUT 030700Z 09008KT CAVOK 09/M00 Q1026 DAUU 030800Z 00000KT CAVOK 14/04 Q1029 ZGGG 030830Z 35005MPS 5000 -RA BR SCT009 OVC023 15/14 Q1011 NOSIG UBBG 030830Z 05002KT 9999 BKN083 11/03 Q1016 R30/CLRD70 NOSIG K6L4 030835Z AUTO 05003KT 10SM CLR M00/M06 A3012 RMK AO2 ZGHA 030800Z 36003MPS 8000 NSC 12/05 Q1018 NOSIG TIST 030653Z AUTO 05010KT 10SM BKN070 BKN080 OVC110 22/20 A3001 RMK AO2 RAB09E26 SLP161 P0002 T02220200 TSNO DAUZ 030800Z 07010KT CAVOK 09/M02 Q1028 UAKK 030830Z 08005MPS CAVOK M06/M12 Q1022 R05/920555 NOSIG RMK QFE719/0959 UBBL 030700Z VRB02KT 8000 OVC023 10/08 Q1018 R33/CLRD70 RMK MT OBSC UBBN 030830Z 22002KT 9999 SCT100 10/M03 Q1014 R14R/CLRD60 NOSIG RMK MT OP QFE685 TISX 030653Z AUTO 06008KT 10SM CLR 23/19 A3000 RMK AO2 SLP157 T02330189 TSNO K5SM 030834Z AUTO 00000KT M07/M08 RMK AO2 PWINO UBBQ 030800Z 16005KT 8000 OVC012 07/05 Q1017 R16/29//60 NOSIG RMK MT OBSC YPGV 030830Z 03006KT 9999 FEW019 SCT350 29/24 Q1006 YORG 030830Z AUTO 21007KT 9999 // SCT056 SCT064 OVC115 24/16 Q1016 OEGN 030800Z 18008KT 9000 BKN030 31/24 Q1014 NOSIG K7BM 030834Z AUTO 31013G27KT 270V340 10SM SCT021 BKN026 OVC047 M03/M12 A2969 RMK AO2 UBBY 030800Z 16006KT 4000 BR BKN009 OVC022 07/05 Q1019 R33/////// NOSIG RMK MT OBSC OEGS 030800Z 00303KT CAVOK 24/06 Q1017 OEGT 030800Z 30002KT CAVOK 13/05 Q1020 NOSIG OEHL 030800Z 06004KT CAVOK 20/00 Q1019 NOSIG UBEE 030800Z 15007KT 2000 -DZ BR OVC004 08/08 Q1018 R30/190065 NOSIG YPKA 030830Z AUTO 32009KT 9999 // NCD 33/20 Q1005 YPKG 030830Z AUTO 09013KT 9999 // NCD 27/06 Q1018 TJNR 030753Z AUTO 06012G17KT 9SM UP SCT033 BKN048 OVC095 A3002 RMK AO2 UPB53 SLP167 P0000 $ YPJT 030830Z AUTO 28009KT 9999 // SCT081 30/15 Q1016 YPLC 030830Z AUTO 19015KT 9999 // NCD 20/12 Q1018 ZHCC 030800Z 30004MPS 270V340 CAVOK 12/M18 Q1021 NOSIG ZGKL 030800Z 04004MPS 010V130 9999 SCT030 OVC050 12/07 Q1016 NOSIG UAOO 030830Z 24006MPS CAVOK 13/M06 Q1016 R24/CLRD70 NOSIG RMK QFE750/1000 OEJN 030800Z 27010KT CAVOK 28/19 Q1013 NOSIG YPKS 030830Z AUTO 21009KT //// // ////// 31/11 Q1011 YPKT 030830Z AUTO 09005KT //// // ////// 29/25 Q1004 OEKJ 030800Z 09005KT CAVOK 26/M01 Q1020 YPKU 030830Z AUTO 06013KT 9999 // NCD 35/19 Q1004 OEKK 030800Z 09002KT CAVOK 27/10 Q1018 NOSIG YPLM 030830Z AUTO 28016KT 9999 // NCD 33/20 Q1004 OEKM 030800Z 22013KT CAVOK 23/06 Q1026 NOSIG K6R3 030813Z AUTO 00000KT 1/2SM -RA 12/12 A3012 RMK AO2 K6R6 030753Z AUTO 00000KT 07/06 A3002 RMK AO1 SLP159 T00720061 TJPS 030750Z 00000KT 8SM FEW030 20/18 A2997 OEMA 030800Z 11003KT CAVOK 28/M06 Q1019 NOSIG K8A0 030815Z AUTO 00000KT 10SM SCT008 OVC017 10/08 A3017 RMK AO2 K96D 030815Z AUTO 31018G24KT 10SM M08/M10 A2974 RMK AO2 YPMQ 030830Z AUTO 04006KT 9999 // ////// 24/18 Q1014 SUAA 022000Z 30009KT CAVOK 29/19 Q1009 YPOD 030830Z AUTO 26009KT 9999 // NCD 17/10 Q1017 OEMK 030800Z 24004KT CAVOK 33/18 Q1013 ZGNN 030800Z 36004MPS 330V030 9999 FEW026 19/11 Q1012 NOSIG SUAG 021300Z 01007KT 9999 FEW030 SCT080 26/22 Q1013 OENG 030800Z 18008KT CAVOK 31/05 Q1019 NOSIG UARR 030830Z 07005MPS CAVOK M09/M12 Q1023 R04/820560 NOSIG RMK QFE764/1018 TJSJ 030756Z 11003KT 10SM FEW060 22/21 A3000 RMK AO2 RAB09E21 SLP159 P0002 T02220211 UASK 030830Z 33001MPS 5000 BR SCT230 M11/M14 Q1028 R30/010060 NOSIG RMK QFE745/0993 YPPD 030830Z AUTO 34016KT 9999 // NCD 33/22 Q1005 YPPF 030830Z AUTO 14007KT 9999 // NCD 25/09 Q1015 UATE 030830Z 27004MPS 9999 OVC009 04/00 Q1016 R30/0///70 NOSIG RMK QFE760/1014 K7L2 030815Z AUTO 33018G25KT 10SM BKN017 M08/M10 A2983 RMK AO2 UATG 030830Z 06005MPS CAVOK M03/M05 Q1018 R14/CLRD70 NOSIG RMK QFE765/1021 UASP 030830Z 00000MPS 9999 FEW024 SCT230 M07/M09 Q1030 R21/0///60 NOSIG RMK QFE761/1015 YPPH 030830Z 27008KT CAVOK 31/14 Q1016 SUCA 022200Z 28010KT CAVOK 28/17 Q1007 UASS 030830Z 25002MPS CAVOK M13/M15 Q1029 R26/71//60 NOSIG RMK QFE753/1004 OEPA 030800Z 15008KT CAVOK 23/10 Q1017 NOSIG ZGOW 030800Z VRB01MPS 5000 HZ NSC 22/15 Q1010 NOSIG ZHHH 030800Z 06007MPS CAVOK 13/M06 Q1019 NOSIG K8D3 030756Z AUTO 18011KT M03/M05 A2973 RMK AO1 SLP091 T10331050 UATT 030830Z 10006MPS CAVOK M06/M12 Q1021 R13/0///60 NOSIG RMK QFE746/0995 K7N0 030835Z AUTO 16003KT 1SM OVC002 A3013 RMK AO1 CMGB 030830Z AUTO 00000KT M20/M24 RMK AO1 SOG 51 0008 SLP277 T12031236 CMFM 030800Z AUTO 32003KT M22/M26 RMK AO1 2PAST HR SOG 68 1015 SLP207 P0001 T12201262 50002 UAUU 030830Z 02003MPS 010V070 CAVOK M06/M10 Q1027 R15/CLRD60 NOSIG RMK QFE754/1005 OERF 030800Z 35006KT 9999 BKN040 19/M03 Q1019 SUDU 022000Z 30010KT 9999 FEW030 31/18 Q1008 OERK 030800Z 15007KT CAVOK 24/01 Q1018 NOSIG OESH 030800Z 20006KT CAVOK 30/M02 Q1016 NOSIG OERR 030800Z 31010KT CAVOK 18/10 Q1019 NOSIG OETB 030800Z 09008KT CAVOK 18/01 Q1020 NOSIG OESK 030800Z 33005KT 9999 SCT040 SCT100 14/05 Q1021 NOSIG UCFM 030830Z 29003MPS CAVOK 11/M04 Q1015 R26/CLRD70 NOSIG YPTN 030830Z AUTO 10008KT 9999 // NCD 33/22 Q1004 UCFO 030830Z 31002MPS 5000 HZ SCT100 11/03 Q1015 R12/CLRD70 NOSIG OETF 030800Z 00000KT CAVOK 27/07 Q1022 NOSIG ZGSZ 030800Z 30003MPS 6000 BKN023 22/18 Q1009 NOSIG OERY 030800Z 15010KT CAVOK 24/10 Q1018 TKPK 030100Z 06011KT 9999 FEW020 24/19 Q1017 TKPN 022100Z 09015KT 9999 HZ SCT020 SCT048 27/20 Q1015 K7R3 021838Z 00000KT 10SM BKN014 BKN022 OVC075 25/21 A3023 OETR 030800Z 29011KT CAVOK 13/05 Q1019 NOSIG SVAC 030100Z 020//KT 9999 FEW020 ///// Q1012 YREN 030830Z AUTO 19010KT //// // ////// 28/05 Q1014 OEWD 030800Z 12010KT CAVOK 29/07 Q1016 NOSIG YPWR 030830Z AUTO 17010KT 9999 // NCD 31/09 Q1014 OEWJ 030800Z 31015KT CAVOK 26/19 Q1015 NOSIG SVBC 030100Z 04010KT 9999 SCT010 27/22 Q1012 YPXM 030829Z AUTO 26003KT 9999 RA SCT020 BKN029 OVC059 24/23 Q1009 RERA SVBI 030600Z 02003KT CAVOK 24/19 Q1010 SVBM 030600Z 05003KT 9999 FEW016 20/18 Q1017 MYGF 030100Z 06003KT CAVOK 22/21 A3021 SVBS 030600Z 05002KT CAVOK 22/21 Q1017 HTAR 030800Z 12010KT 9999 FEW028 SCT420 24/17 Q1019 K9D7 030815Z AUTO 32017G27KT 10SM FEW016 BKN080 OVC100 M10/M13 A2980 RMK AO2 SVCN 021300Z 00000KT CAVOK ///// Q1019 OEYN 030800Z 23002KT 8000 NSC 29/21 Q1013 NOSIG K7W4 030835Z AUTO 00000KT 10SM SCT120 M02/M08 A3038 RMK AO1 T10201083 SVCR 030100Z /////KT CAVOK 27/24 Q1014 SULS 030400Z 01005KT CAVOK 20/18 Q1011 SVCU 030600Z 09008KT CAVOK 24/19 Q1012 HTDA 030800Z 01008KT 9999 FEW026 SCT080 32/23 Q1013 NOSIG HTBU 030800Z 00000KT 9999 FEW018 FEW020CB BKN080 22/19 Q1018 K9F2 021624Z 12007KT 6SM HZ SCT003 BKN060 21/21 A3027 SUMU 030800Z 02003KT CAVOK 20/18 Q1011 NOSIG HTDO 030800Z 08012KT 9999 FEW023 SCT250 26/19 Q1018 NOSIG YSBK 030830Z AUTO 07006KT 9999 // SCT072 OVC088 24/15 Q1013 YSCB 030830Z 05011KT 9999 FEW040 SCT120 23/15 Q1013 TLPC 030200Z 09007KT 9999 SCT023 24/21 Q1015 TEMPO SHRA SVFM 022200Z /////KT 9999 BKN040 ///// Q1015 SVGD 030600Z 34002KT CAVOK 24/18 Q//// SVGI 021800Z /////KT 9999 BKN070 27/21 Q1007 YRMD 030830Z AUTO 10010KT //// // ////// 36/14 Q1007 TLPL 030800Z 09018G34KT 3000 SHRA FEW018 SCT040 24/22 Q1013 NOSIG YSCN 030830Z AUTO 09004KT 9999 // OVC120 22/16 Q1013 YSCO 030830Z AUTO 14007KT //// // ////// 30/17 Q1010 YSCR 030830Z AUTO 09009KT //// // ////// 29/09 Q1017 SVGU 030100Z /////KT 9999 FEW017 29/18 Q1009 MZBZ 030000Z 09006KT 9999 FEW020 27/23 A3003 Q1016 NOSIG YSDU 030830Z AUTO 17004KT 9999 // SCT096 SCT125 32/16 Q1010 HRYR 030830Z 00000KT 9000 SCT025 23/19 Q1021 NOSIG SVJC 022200Z AUTO 05012KT 9999 SCT016 XX/XX Q1011 YROM 030830Z AUTO 03003KT 9999 // NCD 32/14 Q1012 YSGE 030830Z AUTO 10004KT //// // ////// 35/13 Q1010 SVJM 030100Z /////KT 9999 SCT020 27/24 Q1012 SUSO 022300Z 01006KT CAVOK 27/22 Q1008 K9L2 030755Z AUTO 24007KT 10SM CLR 06/01 A2993 RMK AO2 SLP137 T00560006 401390033 TSNO $ MYNN 030800Z VRB02KT 9999 FEW020 22/19 A3016 TNCA 030800Z 06010KT 9999 FEW018 25/21 Q1011 A2988 NOSIG HTIR 030800Z 00000KT 9999 FEW021 BKN230 26/18 Q1021 TNCB 030700Z AUTO 05012KT //// ////// 25/20 Q1012 NOSIG HTKA 030800Z 00000KT 9999 FEW022 FEW023CB BKN100 27/22 Q1019 TNCC 030700Z 07011KT 9999 SCT017 26/21 Q1013 NOSIG TNCE 030700Z AUTO 06011KT //// ////// ///// Q1016 SVLF 021400Z 00000KT 9000 FG OVC030 XX/XX Q1015 DFFD 030800Z 06007KT 6000 NSC 24/M06 Q1014 NOSIG YSHK 030830Z AUTO 19018KT //// // ////// 32/19 Q1007 ZJHK 030800Z 12003MPS 080V160 9999 FEW025TCU SCT025 26/19 Q1007 NOSIG SVMC 021500Z /////KT 9999 SCT013 30/21 Q1016 HTKJ 030800Z 08012KT 9999 FEW029 BKN260 28/17 Q1016 NOSIG HSSS 030830Z 02007KT 8000M HZ Q1011 SVMD 030600Z 16001KT 8000 VCBR OVC013 18/17 Q1022 TNCM 030600Z 09008KT 9999 SCT018TCU 25/19 Q1016 A3001 TCU E K8W2 030835Z AUTO 00000KT 10SM CLR M05/M07 A3033 RMK AO1 T10471074 SVMG 030100Z /////KT 9999 FEW010 SCT080 27/24 Q1014 NOSIG SVMI 030800Z 05002KT 9999 FEW016 25/20 Q1013 NOSIG YSHT 030830Z AUTO 16007KT //// // ////// 27/04 Q1012 YSHW 030830Z AUTO 10006KT 9999 // BKN087 OVC120 23/17 Q1013 HTMB 030700Z 00000KT 9999 FEW020 BKN090 21/15 Q///// SVMN 030600Z 07006KT 9999 BKN013 24/// Q1012 RETS UEEE 030830Z 35002MPS CAVOK M27/M32 Q1023 NOSIG RMK QFE759 23490150 HTMG 030800Z 00000KT 9999 SCT024 28/22 Q1015 SVMT 030100Z 02009KT CAVOK 25/19 Q1008 OIAA 030830Z 00000KT CAVOK 24/02 Q1017 OIAD 030800Z 00000KT 6000 NSC 22/01 Q1016 A3003 FEW170 K9MN 030833Z AUTO 12010G14KT 100V160 10SM OVC060 M06/M11 A2992 RMK AO1 T10561112 YTAR 030830Z AUTO 21014KT //// // ////// 31/11 Q1015 YRTI 030830Z AUTO 19022KT //// // ////// 24/17 Q1016 OIAG 030800Z 27004KT CAVOK 23/M04 Q1017 SVPA 030100Z /////KT 9999 FEW013 29/16 Q1011 OIBA 030800Z 25008KT 5000 HZ SKC 24/16 Q1013 SVPC 022200Z 06005KT 9999 SCT030 27/// Q1013 OIBB 030800Z 31012KT CAVOK 21/14 Q1016 A3000 HTMT 030800Z 33012KT 9999 -TSRA SCT023 FEW024CB BKN080 28/25 Q1012 DGAA 030800Z 27007KT 9999 SCT010 27/26 Q1011 HTMU 030800Z 34010KT 9999 FEW024 FEW026CB 28/18 Q1017 OIAM 030800Z 37004KT CAVOK 24/M04 Q1016 HTMW 030800Z 27010KT 9999 FEW024 FEW025CB SCT110 25/19 Q1017 NOSIG HUEN 030800Z 00000KT 8000 -TSRA SCT020 FEW024CB OVC130 24/21 Q1018 OIBJ 030800Z 36016KT CAVOK 22/M04 Q1017 OIBK 030800Z 29018KT CAVOK 24/09 Q1013 OICC 030830Z 31004KT 9999 SCT040 11/M03 Q1019 A3010 NOSIG OIBL 030600Z 23006KT CAVOK 23/12 Q1013 OIAW 030830Z 33002KT CAVOK 23/06 Q1015 YSMI 030830Z AUTO 26009KT //// // ////// 16/09 Q1014 OIBP 030830Z 30012KT 8000 SKC 26/09 Q1013 A2992 OIBQ 030800Z 32010KT CAVOK 21/12 Q1016 OICI 030800Z 25006KT 9999 SCT040 SCT200 12/M01 Q1018 A3008 OIBS 030800Z 26010KT CAVOK 25/11 Q1014 OICK 030800Z 28006KT 9999 FEW040 SCT180 12/M03 Q1018 YTEE 030830Z AUTO 04011KT 9999 // NCD 37/16 Q1007 KMG 030830Z AUTO 17009KT 9999 // NCD 18/08 Q1015 YTEF 030830Z AUTO 11007KT //// // ////// 37/17 Q1006 YSNF 030830Z AUTO 18008KT 9999 // BKN012 OVC018 22/20 Q1011 OIBV 030800Z 30010KT CAVOK 24/12 Q1013 SVSA 030600Z /////KT 9999 BKN020 25/22 Q1014 OICS 030830Z 21002KT 9999 FEW035CB SCT040 08/M02 Q1016 YTEM 030830Z AUTO 21005KT //// // ////// 28/10 Q1012 CPBT 030700Z AUTO 01004KT M17/M20 RMK AO1 T11661198 UDSG 030830Z VRB01MPS 9000 SCT050 BKN100 01/M03 Q1014 R02/CLRD70 NOSIG YSNW 030800Z 17007KT 9999 -RA FEW030 BKN080 BKN100 20/17 Q1014 NOSIG SVSP 021400Z 03015KT 9999 SCT060 XX/XX Q1015 SVSR 030600Z /////KT CAVOK 32/// Q1012 SVST 021300Z 09010KT 9999 OVC030 ///// Q1016 HUJI 030600Z 18005KT 9999 FEW020 FEW023CB BKN280 24/22 CPEH 030700Z AUTO 32007KT M14/M18 RMK AO1 T11401176 YTGM 030830Z AUTO 20011KT //// // ////// 41/08 Q1008 HUKA 030600Z 00000KT 5000 FEW020 FEW022CB 22/20 HTTB 030700Z 09003KT 9999 BKN020 24/19 Q1019 OIFM 030830Z 00000KT 8000 SKC 11/M08 Q1016 A3001 SVSZ 021300Z 00000KT 9999 FEW020 XX/XX Q1014 HTSO 030800Z 00000KT 9999 BKN022 FEW024CB 25/20 Q1018 OIGG 030830Z 16004KT 2000 BR BKN010 OVC080 11/09 Q1017 YTIB 030830Z AUTO 17016KT //// // ////// 36/// Q1011 SVVA 030600Z 05005KT 9999 FEW013 24/17 Q1013 OIFS 030830Z 17006KT CAVOK 10/M11 Q1017 CPFI 030800Z AUTO 34010KT M13/M18 RMK AO1 T11271179 K9V9 030815Z AUTO 17004KT 10SM BKN050 OVC065 M01/M08 A2966 RMK AO2 T10061082 HTSU 030800Z 15007KT 9999 SCT020 21/16 Q1022 SVVG 030600Z 23002KT 9999 BKN010 25/24 Q1010 YSRI 030830Z AUTO 16005KT 9999 // SCT089 BKN120 24/17 Q1013 DFOO 030800Z 02008KT 6000 NSC 22/M03 Q1013 OIHH 030800Z 29006KT 9999 SCT040 08/M07 Q1016 HULI 030600Z 14004KT CAVOK 26/XX SVVL 030000Z 02002KT 9999 SCT030 25/16 Q1015 YSRN 030830Z AUTO 32012KT 9999 // OVC056 14/06 Q1013 OIIE 030800Z 31012KT 9999 FEW040 14/M04 Q1014 NOSIG OIII 030830Z 25018KT 9999 FEW035 13/M05 Q1013 A2993 NOSIG OIIK 030800Z 22006KT 9999 SCT040 11/M03 Q1015 PAAD 030835Z AUTO 10027G30KT +SN OVC003 M18/M19 A2995 RMK AO2 YSTH 030830Z AUTO 29009KT 9999 // NCD 18/10 Q1011 OIIP 030800Z 29010KT 9999 FEW040 10/M06 Q1014 OJAI 030800Z 23005KT 7000 SCT035 10/07 Q1021 NOSIG PAAK 030836Z 31019G25KT 10SM OVC029 02/M04 A3016 RMK AO1 OIKB 030830Z 21006KT 7000 FEW030 25/16 Q1013 A2991 OJAM 030800Z 34011KT 5000 HZ SCT030 12/04 Q1022 NOSIG ZJSY 030800Z 17003MPS 120V220 9999 FEW013 SCT033 27/21 Q1008 NOSIG YSSY 030800Z 05013KT CAVOK 24/17 Q1013 NOSIG PABE 030753Z 11008KT 10SM -RA FEW024 OVC037 02/01 A2965 RMK AO2 SLP040 P0001 T00220011 PAAP 030159Z 03005KT 10SM OVC100 06/M07 A3032 RMK LAST NO SPECI OJAQ 030800Z 36012KT CAVOK 18/05 Q1020 NOSIG PAAQ 030753Z AUTO 36009KT 10SM OVC090 01/M08 A2999 RMK AO2 SLP162 T00111078 TSNO PABI 030753Z AUTO 11020G31KT 10SM CLR M05/M14 A2992 RMK AO2 PK WND 10031/0751 SLP165 T10501144 TSNO CPIR 030700Z AUTO 33008KT M13/M18 RMK AO1 T11311182 OIKK 030830Z 24014KT CAVOK 14/M09 Q1017 A3004 YSTW 030830Z AUTO 07003KT 9999 // NCD 29/15 Q1012 PABL 030836Z AUTO 11016G21KT 10SM OVC110 M05/M11 A2976 RMK AO1 PACD 030832Z AUTO 13006KT 10SM OVC031 04/03 A2976 RMK AO2 T00390033 TSNO $ OIKQ 030800Z 23012KT 7000 FEW030 23/18 Q1013 OIKR 021100Z 25014KT CAVOK 18/M08 Q1013 A2994 PABR 030753Z 11022KT 2 1/2SM BLSN BKN075 OVC100 M17/M19 A2984 RMK AO2 PK WND 11030/0743 SLP108 T11671189 HTZA 030800Z 06010KT 9999 SCT020 31/24 Q1012 NOSIG PABT 030753Z 31005KT 10SM CLR M17/M23 A3003 RMK AO2 SLP194 T11721228 PNO OIMB 030800Z 25004KT 9999 FEW030CB SCT035 OVC100 09/M01 Q1015 OIMC 030800Z 30010KT CAVOK 11/06 Q1018 YTMO 030830Z AUTO 01007KT //// // ////// 36/20 Q1008 PABV 030836Z AUTO 00000KT 10SM BKN045 OVC050 M01/M05 A3002 RMK AO1 PACM 030829Z AUTO 18005KT 2SM BR OVC006 01/01 A2964 RMK AO2 PWINO FZRANO TSNO $ OIMD 030800Z 24010KT 9999 FEW030 BKN090 09/04 Q1012 YTNG 030830Z AUTO 11005KT 9999 // NCD 28/16 Q1012 YSWG 030830Z AUTO 27005KT 9999 // NCD 28/07 Q1011 PADE 030753Z AUTO 13014KT 10SM BKN100 OVC120 09/M05 A2967 RMK AO2 SLP048 T00891050 TSNO YSWH 030830Z AUTO 21008KT //// // ////// 29/03 Q1013 PADG 030300Z 08016G21KT 15SM SCT040 BKN050 M06/M13 A2981 UDYZ 030830Z VRB01MPS 9999 SCT040 BKN100 11/M03 Q1014 R09/0///70 NOSIG YTNK 030830Z AUTO 01011KT 9999 // NCD 36/19 Q1007 PADK 030836Z AUTO 28007G14KT 280V340 10SM OVC033 01/M06 A3030 RMK AO1 PAEC 030148Z 00000KT 30SM SCT050 BKN080 M01/M07 A3004 RMK NOCPECI PADL 030836Z 17009KT 3SM OVC003 02/02 A2968 RMK AO1 PACV 030753Z 11011G22KT 10SM SCT034 BKN060 OVC120 06/M06 A3014 RMK AO2 SLP205 T00611061 PAED 030758Z AUTO 00000KT 10SM SCT029 OVC040 00/M10 A3000 RMK AO2 SLP157 T10011101 PADM 030756Z AUTO VRB03KT 10SM BKN022 OVC026 02/M01 A2970 RMK AO2 TSNO T00221011 SLP046 $ OIMM 030830Z 12010KT 9999 FEW040 BKN180 11/02 Q1015 A2997 OIMN 030800Z 35004KT 8000 SCT040 10/M00 Q1016 OINE 030800Z 36004KT 8000 FEW035 15/08 Q1016 PAEG 030753Z AUTO 11005KT 10SM CLR M06/M18 A3011 RMK AO2 SLP214 T10611183 TSNO OING 030800Z 06006KT 8000 FEW030 SCT100 14/08 Q1018 PAEH 030833Z AUTO 20015G18KT 3SM -RA BR CLR 01/00 A2958 RMK AO2 SLP025 TSNO $ PADQ 030753Z 12007KT 10SM FEW005 OVC020 06/04 A2979 RMK AO2 SLP089 T00560044 $ PACZ 030827Z AUTO 18015KT 10SM -RA OVC004 01/01 A2958 RMK AO2 SLP022 $ OIMQ 030800Z 09006KT 9999 FEW025 SCT035 OVC090 07/04 Q1015 PAEI 030758Z AUTO 34004KT 10SM CLR M16/M18 A2992 RMK AO2 SLP149 T11611183 $ OIMS 022300Z 04008KT 9999 SCT035 06/M01 Q1014 NSFA 030800Z 00000KT 9999 SCT022 27/25 Q1008 PAFA 030753Z 03003KT 10SM FEW200 M14/M17 A2993 RMK AO2 SLP148 T11441172 PAFB 030756Z AUTO 10SM CLR M13/M17 A2992 RMK SLP145 T11331167 400061239 $ VIA AUTODIAL PADU 030756Z AUTO 26006KT 10SM SCT095 05/01 A2977 RMK AO2 SLP086 T00500006 PAEM 030836Z AUTO 17008KT 10SM OVC010 00/M04 A2963 RMK AO1 PAEN 030753Z AUTO 36011KT 10SM -FZRA OVC041 01/M02 A2997 RMK AO2 UPE48FZRAB48 SLP152 P0001 I1001 T00061017 TSNO PAFE 030836Z AUTO 04005KT 10SM FEW120 00/M04 A3032 RMK AO1 OINN 030800Z 04006KT 7000 FEW025TCU 11/09 Q1016 OINR 030800Z VRB02KT 7000 OVC018 11/07 Q1016 PAGA 030758Z AUTO 05003KT 10SM SCT110 M09/M15 A2989 RMK AO2 SLP128 T10891150 FZRANO PAFM 030836Z AUTO 14009KT 10SM BKN060 BKN065 OVC110 M06/M14 A2992 RMK AO1 HUSO 030600Z 14003KT CAVOK 26/21 Q1017 PAGH 030757Z AUTO 11022G30KT 10SM OVC075 M07/M15 A2993 RMK AO2 PK WND 10032/0746 SLP167 T10721150 FZRANO OINZ 030800Z 03006KT 7000 FEW035 13/08 Q1016 PAFR 030055Z VRB03KT 10SM BKN100 M02/M08 A3011 RMK A02A SLP204 LAST SYCJ 030800Z 13004KT 9000 BKN012 BKN039 22/22 Q1011 NOSIG PAFS 030756Z AUTO 04007KT 10SM FEW044 M04/M11 A2984 RMK AO2 TSNO T10441111 SLP118 $ PAGK 030753Z AUTO 00000KT 10SM BKN110 M09/M13 A3008 RMK AO2 SLP235 T10941133 TSNO $ YTRE 030830Z AUTO 07011KT //// // NCD 23/18 Q1013 PAGL 030836Z AUTO 10016KT 10SM FEW043 OVC085 M01/M07 A2969 RMK AO1 PAHC 030756Z AUTO 07005KT 10SM FEW035 OVC050 01/M03 A2971 RMK AO2 TSNO T00111027 SLP065 $ PAGM 030550Z 00000KT 11/2SM SCT017 SCT023 OVC029 01/M01 A2958 RMK VIA PHONE PAGN 030756Z AUTO 00000KT 10SM CLR 01/M03 A3029 RMK AO2 TSNO T00111033 SLP259 $ PAGS 030836Z AUTO 36003KT 10SM FEW110 M02/M04 A3028 RMK AO1 PNO PAHL 030836Z AUTO 08014G19KT 10SM M08/M17 A2988 RMK AO1 PAHN 030754Z AUTO 00000KT 10SM CLR M01/M07 A3029 RMK AO2 SLP260 T10111072 TSNO PAHO 030753Z AUTO 00000KT 10SM OVC075 07/M01 A2989 RMK AO2 SLP122 T00671006 TSNO PAHP 030836Z AUTO 13008KT 9SM OVC003 00/M01 A2962 RMK AO1 PAGY 030753Z AUTO 00000KT 10SM CLR M02/M08 A3030 RMK AO2 SLP259 T10221083 TSNO PAIG 030756Z AUTO 07011KT UP OVC046 03/00 A2975 RMK AO2 TSNO T00270000 RAE37UPB21 P0000 SLP077 $ PAII 030836Z AUTO 17010KT 10SM BKN050 OVC060 03/02 A2975 RMK AO1 P0001 NTAA 030830Z 02025KT 9999 -RA FEW012CB BKN020 BKN066 24/22 Q1013 TEMPO 03020G30KT 3000 SHRA SCT015CB BKN040 PAIK 030801Z AUTO 10012G21KT 10SM OVC031 M05/M12 A2984 RMK AO2 PK WND 09027/0723 SLP149 T10501117 FZRANO PAIL 030753Z AUTO 09015KT 10SM OVC042 04/00 A2982 RMK AO2 RAB22E49 SLP099 P0000 T00390000 TSNO PAJC 030836Z AUTO 18003KT 10SM FEW028 04/01 A2976 RMK AO1 PAIM 030755Z AUTO 21005KT 10SM BKN160 M11/M19 A2991 RMK AO2 SLP169 T11111186 PAIN 030836Z AUTO 23003KT 10SM FEW060 OVC100 02/M13 A2988 RMK AO1 PAHX 030756Z AUTO 03005KT 9SM -SN OVC024 M03/M06 A2976 RMK AO2 SLP082 P0000 T10281061 FZRANO YTTI 030830Z AUTO 15010KT //// // ////// 27/28 Q1004 PAHY 030836Z AUTO 9SM CLR 02/M03 A3027 RMK AO1 YTST 030830Z AUTO 18004KT 9999 // NCD 27/24 Q1003 OISL 030800Z 25006KT CAVOK 20/M03 Q1015 PAJN 030753Z 10003KT 10SM BKN220 M02/M05 A3030 RMK AO2 SLP261 T10171050 PAIW 030832Z AUTO 16024G31KT 1/2SM SN FZFG OVC010 M01/M02 A2961 RMK AO2 PK WND 15035/0803 CIG 008V013 P0000 FZRANO DIAD 021700Z 16004KT 6000 NSC 30/26 Q1007 NOSIG PAKF 030801Z AUTO 16012G17KT 10SM BKN014 OVC021 05/03 A2975 RMK AO2 $ CPRO 030800Z AUTO 33008KT M15/M19 RMK AO1 T11501194 PAKH 030836Z AUTO 19006KT 2 1/2SM -RA BR 05/04 A2979 RMK AO2 TSNO P0001 $ OISR 030800Z 30006KT CAVOK 21/03 Q1015 PAKI 030756Z AUTO 12009KT 5SM -SN BR FEW011 BKN017 OVC026 01/M01 A2961 RMK AO2 TSNO T00051005 RAE31UPB31E53SNB53 P0005 SLP027 $ ZLLL 030800Z 11002MPS 070V150 7000 NSC 01/M14 Q1011 NOSIG OISS 030830Z 00000KT CAVOK 15/M05 Q1017 A3003 OKBK 030800Z 13004KT CAVOK 24/01 Q1017 NOSIG PAKK 030836Z AUTO 07005KT 10SM FEW039 OVC055 00/M06 A2970 RMK AO1 OITK 030800Z 29004KT 9999 FEW035CB BKN040 08/01 Q1014 OITL 030800Z 00000KT 5000 BR PRFG FEW035 BKN180 03/01 Q1014 OITM 030800Z 23008KT 9999 SCT035TCU FEW090 SCT190 10/M01 Q1015 SYGO 022200Z 05010KT 9999 BKN016 BKN300 26/22 Q1010 NOSIG PAKN 030754Z 17005KT 8SM -RA OVC040 04/03 A2970 RMK AO2 SLP058 P0002 T00390028 $ PAKP 030836Z AUTO 18007G20KT 140V220 10SM CLR M14/M24 A2985 RMK AO1 PALG 030756Z AUTO 10009KT 10SM BKN039 OVC050 03/M01 A2968 RMK AO2 TSNO T00271005 400441022 BKN V SCT SLP053 $ OISY 030800Z 32004KT CAVOK 11/M11 Q1019 PALH 030753Z 16005KT 10SM OVC042 00/M09 A3002 RMK AO2 SLP167 T00001089 PAJZ 030756Z AUTO 13023G32KT 10SM BKN034 OVC043 02/00 A2977 RMK AO2 TSNO T00220000 BKN V OVC RAE0658UPB28E37 P0000 PK WND 13035/0707 SLP072 $ YTWB 030830Z AUTO 08011KT 9999 // NCD 24/16 Q1017 CPRY 030800Z AUTO 26003KT M17/M20 RMK AO1 T11711195 DIAP 030830Z 25007KT 7000 SCT009 29/27 Q1011 NOSIG OITR 030830Z 29006KT 9999 FEW030CB BKN035 10/M01 Q1014 PALJ 030156Z 05023KT 30SM BKN070 OVC090 07/01 A2980 RMK LAST 407800011 EST PASS OPEN NOSPECI PAKT 030753Z AUTO 22003KT 10SM CLR 01/M05 A3030 RMK AO2 SLP260 T00111050 TSNO PAMB 030825Z AUTO 14008KT 3/4SM BR OVC004 00/00 A2962 RMK AO2 TSNO RAE0758UPB0758E16 P0000 $ OITT 030830Z 36004KT 9999 FEW035TCU FEW040CB BKN090 06/01 Q1015 A3000 PAKU 030345Z 11019KT 1 1/2SM R06/P6000FT BLSN FEW150 M20/M22 A3009 RMK LAST PAMC 030753Z AUTO 00000KT 10SM BKN065 OVC085 M04/M12 A2985 RMK AO2 SLP117 T10441122 TSNO DIBK 030800Z 24010KT 8000 BKN013 22/21 Q1013 NOSIG CPST 030800Z AUTO 36014KT M15/M20 RMK AO1 PK WND 00023/0726 T11511201 PAKV 030753Z AUTO 06006KT 10SM SCT041 OVC055 M05/M14 A2988 RMK AO1 SLP125 T10501139 FZRANO TSNO PAMD 030836Z 09023G27KT 2 1/2SM BKN006 OVC014 05/04 A3000 RMK AO1 PAKW 030753Z AUTO 00000KT 10SM CLR 01/M03 A3027 RMK AO2 SLP251 T00111028 TSNO CPSV 030800Z AUTO 33007KT M16/M19 RMK AO1 T11581186 PALP 030345Z 09025KT 1SM BLSN BR SCT170 M20/M23 A3006 PAMH 030836Z AUTO 00000KT 10SM CLR M08/M14 A2988 RMK AO1 OITZ 030800Z 35006KT 9999 SCT030 FEW030TCU 08/M02 Q1014 PANA 030756Z AUTO 11007KT 10SM UP OVC048 02/01 A2963 RMK AO2 SLP032 P0000 T00220011 FZRANO PAMK 030756Z AUTO 10007KT 10SM OVC040 M01/M06 A2967 RMK AO2 TSNO T10111055 400331088 SLP051 $ PANC 030753Z 00000KT 10SM BKN040 OVC055 00/M09 A3001 RMK AO2 SLP164 VIRGA ALQDS T00001089 $ PALU 030832Z AUTO 13022KT 010V180 2SM -SN BR FEW005 OVC013 M04/M07 A2970 RMK AO2 PK WND 05026/0827 SLP056 PAMM 030836Z AUTO 00000KT 10SM CLR 04/M03 A3031 RMK AO1 DIBU 021700Z 00000KT 4000 HZ NSC 35/09 Q1007 NOSIG PAMO 030833Z AUTO 09006KT 1/2SM FZFG OVC001 M01/M01 A2965 RMK AO2 TSNO $ PAMR 030753Z 00000KT 10SM SCT045 OVC060 00/M09 A3001 RMK AO2 SLP163 VIRGA S-SW T00001089 PANI 030836Z AUTO 11006KT 10SM FEW039 FEW050 OVC065 02/M02 A2971 RMK AO1 UHBB 030830Z 02003MPS CAVOK M09/M14 Q1016 NOSIG RMK QFE745/0993 36410260 DIDK 021700Z ///// 5000 HZ NSC NSC 38/16 Q//// NOSIG DIDL 021700Z ///// 5000 HZ NSC 36/06 Q1008 NOSIG PANN 030753Z AUTO 07018G22KT 10SM CLR M02/M13 A2987 RMK AO2 SLP127 T10171133 TSNO PAMY 030055Z 10012KT 4SM BKN004 OVC019 01/M02 A2963 RMK VIA PHONE PAOH 030756Z AUTO 00000KT 10SM CLR M01/M03 A3030 RMK AO2 TSNO T10111027 400721044 SLP261 $ PANT 030753Z AUTO 00000KT 10SM CLR 01/M02 A3028 RMK AO2 SLP256 T00111022 TSNO $ PAPB 030753Z AUTO 32023G30KT 8SM -SN OVC009 02/01 A2974 RMK AO2 PK WND 33035/0718 SLP058 P0000 T00220011 TSNO PAOM 030753Z 08015KT 9SM OVC026 M03/M04 A2965 RMK AO2 SNE48 SLP040 P0000 T10281044 PANV 030836Z AUTO 06013KT 10SM OVC042 M06/M09 A2971 RMK AO1 PANW 030756Z AUTO 10014G19KT 10SM BKN029 OVC034 02/M01 A2973 RMK AO2 TSNO T00221005 UPB21E30 P0000 SLP048 $ UGKO 030830Z 33003KT 280V010 9999 SCT024 BKN040 11/05 Q1017 R07/09//70 NOSIG PAOO 030756Z AUTO 14006KT 7SM OVC007 01/01 A2962 RMK AO2 TSNO T00050005 CIG 005V011 UPE46 P0002 SLP031 $ PAPG 030656Z 00000KT 10SM CLR 00/M04 A3028 RMK HIR BKN PAPH 030836Z AUTO 24017KT 10SM FEW012 SCT040 BKN065 03/M01 A2977 RMK AO1 PAOR 030753Z 00000KT 10SM BKN140 BKN220 M14/M18 A3004 RMK AO2 SLP222 T11391178 PAOT 030753Z 11026KT 4SM BLSN BKN036 OVC065 M06/M09 A2974 RMK AO2 PK WND 11036/0735 SNB30E45 SLP071 P0000 T10611094 OIZB 030800Z 30006KT CAVOK 20/M01 Q1013 DIGA 021700Z 18004KT CAVOK 34/19 Q1006 NOSIG OIZC 030800Z 17012KT 9999 FEW035 26/14 Q1013 A2993 PAOU 030756Z AUTO 19007KT 10SM FEW009 SCT015 OVC022 03/03 A2977 RMK AO2 TSNO T00270027 OVC V BKN SLP085 $ PAPM 030756Z AUTO VRB06KT 10SM BKN018 OVC024 02/02 A2960 RMK AO2 TSNO T00220016 400720011 UPB0659E07 P0000 SLP024 $ CPXL 030800Z AUTO 33007KT M14/M18 RMK AO1 T11381179 PAPN 030656Z AUTO 23013KT FEW023 BKN035 OVC050 A2973 RMK AO2 PWINO TSNO SLPNO $ PAPO 030836Z AUTO 14012KT 1 1/4SM OVC011 M07/M07 A2968 RMK AO1 PAQH 030756Z AUTO 36004KT 10SM BKN026 OVC070 03/01 A2960 RMK AO2 SLP025 T00280011 OIZH 030830Z 23014KT 9999 FEW035 19/M02 Q1013 A2992 OIZI 030800Z 22004KT CAVOK 22/04 Q1014 OIZJ 030600Z 09006KT CAVOK 22/15 Q1014 PAPT 030147Z 06008KT 25SM OVC100 M02/M02 A2999 RMK NO SPECI PARC 030836Z AUTO 02003KT 10SM CLR M22/M33 A3001 RMK AO1 OIYY 030830Z 04004KT CAVOK 15/M04 Q1016 PASA 030836Z AUTO 2 1/2SM OVC006 M02/M03 A2960 RMK AO1 PAQT 030753Z AUTO 09026KT 1SM HZ FEW110 M19/M22 A2989 RMK PK WND 09032/0701 SLP123 T11891217 TSNO VIA AUTODIAL PASC 030753Z 10023KT 3/4SM R05/4500VP6000FT BLSN BR OVC003 M18/M21 A2995 RMK AO2 PK WND 09032/0702 SLP142 P0000 T11831211 PASD 030836Z AUTO 16004KT 10SM OVC022 05/04 A2981 RMK AO1 YWCA 030830Z AUTO 19011KT //// // ////// 33/02 Q1011 PASH 030544Z AUTO 13003KT 7SM OVC029 M05M07 A2970 RMK VIA PHONE PASI 030753Z 13003KT 10SM BKN110 04/00 A3026 RMK AO2 SLP245 T00440000 YWBL 030830Z AUTO 22011KT 9999 // NCD 17/10 Q1016 OLBA 030800Z 22007KT 9999 SCT023 18/11 Q1022 PATA 030752Z AUTO 08006KT 10SM CLR M11/M19 A2999 RMK AO2 SLP163 T11111189 TSNO PNO PARS 030756Z AUTO 00000KT 10SM OVC039 01/M03 A2968 RMK AO2 TSNO T00051027 400111138 SLP056 $ PASK 030836Z AUTO 08016KT 10SM BKN055 OVC100 M07/M09 A2984 RMK AO1 PASL 030836Z AUTO 00000KT 10SM OVC048 M03/M12 A2983 RMK AO1 PATC 030817Z AUTO 19017KT 3/4SM -SN BKN002 M02/M02 A2959 RMK AO2 SLP026 PASM 030836Z AUTO 11011G16KT 10SM OVC026 M01/M03 A2963 RMK AO1 PASN 030753Z AUTO 32020G31KT 10SM OVC009 02/01 A2974 RMK AO2 PK WND 33031/0745 CIG 007V012 SLP072 T00170011 TSNO $ PATE 030758Z AUTO 06010KT 9SM -SN OVC019 M02/M03 A2961 RMK AO2 SLP038 P0000 T10221033 FZRANO PASO 030753Z AUTO 00000KT 10SM FEW060 BKN080 OVC100 03/02 A2988 RMK AO2 RAE08 SLP119 P0000 T00280017 TSNO YWBR 030830Z AUTO 16015KT //// // ////// 24/16 Q1014 PATG 030836Z AUTO 12010KT 6SM OVC015 02/02 A2962 RMK AO1 PARY 030756Z AUTO 08012KT 10SM FEW080 BKN095 M07/M17 A2988 RMK AO2 TSNO T10721172 SLP133 $ PATK 030753Z AUTO 36004KT 10SM OVC090 01/M09 A3002 RMK AO2 SLP172 T00061089 TSNO PATL 030755Z AUTO 12004KT 10SM OVC065 M04/M13 A2984 RMK AO2 SLP128 T10371126 $ PASV 030755Z AUTO 12011KT 10SM BKN050 BKN070 04/M03 A2973 RMK AO2 RAB0556E0727 SLP083 T00411028 MUI 030830Z AUTO 35006KT 9999 // BKN099 28/14 Q1014 PASW 030147Z 28004KT 30SM BKN050 M01/M09 A3013 RMK MAX M01 NOSPECI LAST PATO 030753Z AUTO 11014G25KT 6SM -RA BKN028 OVC035 03/M01 A3008 RMK AO2 PK WND 10036/0734 SLP188 P0002 T00331006 TSNO PASX 030836Z AUTO 36007KT 340V060 10SM BKN060 OVC075 02/M01 A2995 RMK AO1 UHHH 030830Z 03002MPS CAVOK M08/M11 Q1017 NOSIG RMK QFE756/1008 23090060 PASY 030828Z AUTO 18022G29KT 10SM SCT024 OVC035 03/M07 A3015 RMK AO2 PK WND 18029/0824 TSNO $ PATQ 030756Z AUTO 10014KT 10SM CLR M16/M18 A2978 RMK AO2 TSNO T11551177 SLP093 $ PAVA 030831Z AUTO 12007KT 2 1/2SM -RA BR SCT003 OVC012 01/00 A2966 RMK AO2 RAB20 FZRANO PNO $ NSTU 030755Z VRB05KT 10SM FEW020 29/25 A2977 RMK SLP083 T02870250 PAVC 030825Z AUTO 25006KT 10SM FEW006 BKN025 OVC030 04/03 A2979 RMK AO2 TSNO BKN V OVC RAE00 P0000 $ PAVD 030836Z 00000KT 10SM OVC080 01/M05 A3013 RMK AO1 PAUN 030836Z AUTO 10026KT 10SM OVC045 M03/M09 A2972 RMK AO1 DIKO 021700Z ///// 5000 HZ NSC 35/O7 Q1009 NOSIG UIAA 030830Z 30004MPS 9999 M07/M24 Q1016 NOSIG RMK QFE704 29CLRD70 UGSB 030830Z 35009KT 9999 FEW026 10/07 Q1019 R13/CLRD70 NOSIG PAUT 030835Z AUTO 24004KT 10SM BKN023 BKN048 OVC070 04/01 A2975 RMK AO2 T00360012 PAVL 030753Z AUTO 12014KT 10SM BKN045 OVC050 M05/M09 A2971 RMK AO2 SLP062 T10501094 TSNO PAWD 030833Z AUTO 00000KT 10SM -RA SCT008 BKN065 OVC080 02/01 A3001 RMK AO2 P0001 T00220011 TSNO PAWG 030836Z AUTO 15005KT 10SM CLR 02/M07 A3032 RMK AO1 PAWI 030753Z AUTO 07015KT 10SM BKN070 OVC080 M13/M17 A2973 RMK SLP070 T11331167 TSNO VIA AUTODIAL UIBB 030830Z 27005MPS 9999 -SHSN BKN023CB OVC100 M05/M09 Q1016 NOSIG RMK QFE719/0959 30450537 UGTB 030830Z 19004KT 120V290 CAVOK 11/01 Q1017 R31L/CLRD80 NOSIG PAWM 030758Z AUTO 13007KT 10SM BKN038 OVC100 M01/M05 A2968 RMK AO2 SLP062 T10111050 FZRANO YWHA 030830Z AUTO 19017KT 9999 // BKN115 23/14 Q1015 PAYA 030753Z AUTO 00000KT 10SM BKN120 01/M04 A3023 RMK AO2 SLP235 T00111039 TSNO $ PAWS 030836Z AUTO 28004KT 10SM OVC060 M01/M09 A2999 RMK AO1 ZLXY 030800Z 07005MPS 8000 NSC 09/M13 Q1020 NOSIG YWGT 030830Z AUTO 23008KT //// // ////// 27/01 Q1012 UHMA 030800Z 29010G13MPS 2700 BLSN SCT080 M21/M23 Q1013 NOSIG RMK QFE756/1008 YVRD 030830Z AUTO /////KT //// // ////// 35/20 Q1004 UHMD 030200Z 33004MPS 4000 -SN OVC010 M01/M01 Q1003 NOSIG RMK QBB300 MT OBSC QFE751/1002 PAZK 030836Z AUTO 00000KT 10SM OVC090 M10/M12 A2993 RMK AO1 UHMM 030830Z 31001MPS 9999 SCT200 M23/M29 Q1009 NOSIG RMK QFE742 88920550 YWIS 030830Z AUTO 09005KT //// // ////// 28/19 Q1011 OMAA 030800Z 31010KT CAVOK 26/03 Q1015 A2997 NOSIG OMAD 030800Z 34008KT 320V020 CAVOK 25/11 Q1015 A2998 NOSIG ZMUB 030830Z VRB02MPS CAVOK M07/M22 Q1017 NOSIG RMK QFE655.2 27 OMAL 030800Z 24007KT 200V280 CAVOK 28/M03 Q1016 A3000 NOSIG YWLG 030830Z AUTO 01008KT 9999 // NCD 37/15 Q1008 TQPF 022100Z 08015KT 9999 BKN019 27/20 Q1016 YWLM 030830Z 06010KT CAVOK 24/18 Q1012 DITB 021700Z 22006KT 9999 FEW015CB 30/25 Q1008 NOSIG UHPP 030830Z 11005MPS 1000 R34/1400 SHSN VV003 00/M01 Q0987 NOSIG RMK QBB100 MT OBSC QFE737/0982 SC030 EBBE 030825Z 20015KT 9999 SCT050 BKN065 04/00 Q1017 BLU BLU DISP 021900Z 22008KT CAVOK 27/25 Q1009 NOSIG OMDB 030800Z 27007KT 220V300 CAVOK 26/10 Q1015 NOSIG DISS 021700Z ///// 9999 TS SCT016CB 29/26 Q1008 NOSIG EBBL 030833Z 22011KT 9999 -RA FEW024 BKN039 04/01 Q1018 BLU BLU TEMPO WHT EBAW 030820Z 20010KT 170V230 8000 -SHRA SCT021TCU BKN032 05/01 Q1017 TEMPO 4500 SHRA BKN014 UIII 030830Z 32003MPS 300V360 9999 SCT033 BKN100 OVC200 M04/M12 Q1020 NOSIG RMK QFE722/0963 12810360 EBCI 030820Z 20014KT 9999 FEW043 03/M00 Q1018 NOSIG EBBR 030820Z 20008KT 9999 FEW017 04/01 Q1017 TEMPO 4000 SHRA VAAH 030810Z 27004KT 6000 FEW025 SCT080 27/09 Q1014 NOSIG YWOL 030830Z AUTO 08005KT 9999 // BKN033 OVC120 23/18 Q1014 VABB 030810Z 26012KT 3500 FU FEW020 SCT025 27/12 Q1014 NOSIG KA08 030815Z AUTO 00000KT 1/2SM FG OVC003 13/13 A3016 RMK AO2 T01300130 OMDW 030800Z 29008KT 260V320 CAVOK 26/05 Q1016 NOSIG EBCV 030825Z AUTO 20015KT 9999 FEW039/// BKN047/// 04/01 Q1018 BLU UHSS 030830Z 28002MPS 9999 SCT020 M04/M09 Q1016 NOSIG RMK MT OBSC QFE761/1014 01810355 OMFJ 030800Z 29013KT 240V310 8000 NSC 30/02 Q1013 A2992 EBDT 030825Z 20008KT 9999 FEW022 SCT030 BKN040 04/01 Q1018 BLACKBLU BLU TEMPO WHT EBFN 030834Z 19010KT 9999 -RA SCT021 SCT026 BKN034 04/03 Q1015 WHT WHT TEMPO GRN EBFS 030825Z 20011KT 9999 FEW060 BKN100 03/M01 Q1019 BLU BLU DIYO 030800Z 32004KT 5000 BR FEW010 24/23 Q1012 NOSIG YWUD 030830Z AUTO 19014KT //// // ////// 25/09 Q1016 YWTN 030830Z AUTO 08013KT //// // ////// 38/15 Q1008 UHWW 030830Z 01004MPS 9999 BKN040CB OVC100 00/M04 Q1010 BECMG 2000 SHSN RMK QFE756/1009 2519//65 TRPG 022200Z 11016KT 9999 HZ BKN023 24/18 Q1016 EBLB 030725Z 22007KT 9999 FEW010 BKN050 BKN100 00/M02 Q1018 BLU EBLG 030820Z 19010KT CAVOK 03/M01 Q1018 NOSIG YWWL 030830Z AUTO 22007KT //// // ////// 30/05 Q1012 UKBB 030830Z 21003MPS 5000 -SHRA BR BKN004 BKN010CB 05/05 Q1008 88290050 TEMPO 2000 BR YWYM 030830Z AUTO 03006KT //// // ////// 33/25 Q1003 CTNK 030800Z AUTO 00000KT M25/M28 RMK AO1 SOG 51 8004 SLP273 T12541280 50002 UKDD 030830Z 16007MPS 120V180 9999 BKN008 04/03 Q1014 08210358 NOSIG UKDE 030830Z 12006MPS 090V150 9999 BKN011 04/01 Q1015 20290360 NOSIG YWYY 030830Z AUTO 26013KT 9999 // NCD 15/06 Q1013 TTCP 030800Z 00000KT 9999 FEW016 23/20 Q1012 NOSIG UIUU 030830Z 26005MPS 9999 FEW043CB SCT100 M09/M18 Q1021 NOSIG RMK QFE721/0962 26820550 EBOS 030820Z 19009KT 8000 RA FEW012 SCT020 BKN028 04/02 Q1015 TEMPO 4000 RA UKDR 030830Z 15007MPS 3200 BR OVC005 04/04 Q1012 1819//60 NOSIG OMRK 030800Z 29005KT 220V310 CAVOK 27/06 Q1014 A2997 CTRA 030800Z AUTO 20008KT M05/M11 RMK AO1 SLP070 T10511110 56032 VANP 030740Z 31004KT 3000 HZ SCT020 FEW030CB BKN090 27/19 Q1013 TEMPO 1500 TSRA OMSJ 030800Z 26006KT CAVOK 26/03 Q1015 EDAC 030820Z 24015KT CAVOK 04/M02 Q1018 EDAH 030820Z 26017KT 9999 -RA BKN015 03/01 Q1010 EDBC 030820Z 25019KT CAVOK 04/M02 Q1016 UKHH 030830Z 16005MPS 6000 -DZ OVC007 02/M00 Q1015 070///65 BECMG 2100 BR PFCL 030837Z AUTO 16019KT 1SM BR OVC002 01/01 A2967 RMK AO2 FZRANO YYNG 030830Z AUTO 21006KT //// // ////// 27/12 Q1012 ULAA 030830Z 17003G06MPS 120V200 9999 -SNRA BKN014 OVC/// 01/M01 Q1012 08920560 NOSIG RMK QFE758/1011 EDDB 030820Z 26019KT 9999 FEW025 05/M00 Q1015 TEMPO 27020G30KT EDDC 030820Z 25013KT 9999 FEW036 03/M02 Q1017 TEMPO 25015G25KT EDDE 030820Z 24018KT 9999 FEW020 03/M01 Q1018 R88/390195 TEMPO 24015G25KT EDDF 030820Z 20010KT 9999 FEW028 04/M00 Q1021 NOSIG EDDG 030820Z 22012KT 9999 FEW018 04/01 Q1016 NOSIG EDDH 030820Z 24015KT 9999 SCT018 03/00 Q1012 NOSIG KAAA 030835Z AUTO 13009KT 5SM -RA BKN036 OVC046 M01/M03 A3007 RMK AO2 T10111035 KC09 030835Z AUTO 13008KT 10SM OVC055 M03/M06 A3010 RMK AO2 T10301065 PFEL 030758Z AUTO 34003KT 10SM -RA OVC045 01/M06 A2973 RMK AO2 UPB27E32RAB32 SLP071 P0000 T00061061 400061083 FZRANO NVVV 021600Z VRB02KT 9999 SCT020 FEW025CB BKN280 24/24 Q1005 RMK LIGHTNING VISIBLE EDDK 030820Z 19007KT 9999 FEW028 SCT050 BKN180 04/M00 Q1019 NOSIG EDDL 030820Z 22011KT 9999 FEW028 BKN046 BKN130 05/01 Q1018 NOSIG EDDM 030820Z 25017KT CAVOK 04/M01 Q1023 NOSIG EDDN 030820Z 25012KT CAVOK 03/M01 Q1021 R28/190095 NOSIG KAAF 030834Z AUTO 00000KT 10SM OVC002 14/13 A3017 RMK AO2 T01440128 VCBI 030810Z 26008KT 220V290 9999 FEW016 30/24 Q1010 NOSIG EDDP 030820Z 24015KT 9999 FEW020 SCT035 04/M00 Q1017 TEMPO 24015G25KT UKKK 030830Z 34005MPS 320V020 9999 -RA OVC008 03/02 Q1008 26290354 NOSIG EDDR 030820Z 21010KT CAVOK 02/M01 Q1022 NOSIG UKKM 030830Z 32006MPS 9999 -RA SCT006 OVC017 03/03 Q1008 33250350 NOSIG EDDS 030820Z 22007KT 180V260 CAVOK 04/M01 Q1023 NOSIG EDDT 030820Z 28012KT 9999 FEW030 04/M00 Q1015 TEMPO 26015G25KT ZPPP 030800Z 24011G16MPS CAVOK 23/00 Q1011 NOSIG KABE 030751Z 32004KT 10SM CLR M08/M14 A3040 RMK AO2 SLP299 T10831144 EDDV 030820Z 23013KT 9999 SCT020 04/01 Q1015 NOSIG EDFE 030820Z 18006KT 9999 FEW028 04/M01 Q1022 KAAO 030830Z AUTO 19019G27KT 2 1/2SM BR OVC002 01/01 A2982 RMK AO2 PK WND 19029/0755 T00110006 EDDW 030820Z 23012KT 9999 BKN014 03/01 Q1014 R88/290095 NOSIG UKLI 030830Z 28006MPS 250V310 CAVOK 07/M01 Q1014 NOSIG KABI 030752Z 18006KT 1 3/4SM BR OVC003 03/03 A3005 RMK AO2 SLP179 T00330028 EDFH 030820Z 24010KT 9999 FEW012 01/M01 Q1019 UKLL 030830Z 26004MPS 220V290 CAVOK 04/M01 Q1013 31190070 NOSIG KACB 030836Z AUTO 00000KT 10SM BKN090 OVC110 M13/M16 A3018 RMK AO2 T11341160 KAAT 030755Z AUTO 36009KT 10SM BKN070 02/M07 A2995 RMK AO2 SLP144 T00171067 400941056 KC29 030835Z AUTO 15006KT 10SM OVC060 M03/M09 A3005 RMK AO1 T10331093 UKLN 030830Z 30005MPS 250V340 CAVOK 06/M00 Q1013 3329//60 NOSIG EDFM 030820Z 20008KT 170V230 CAVOK 04/M01 Q1023 KC35 030835Z AUTO 13004KT 10SM OVC075 M05/M09 A3003 RMK AO2 T10501086 UKLR 030830Z 27005MPS CAVOK 04/01 Q1011 30190060 NOSIG KABQ 030752Z 05003KT 10SM FEW031 OVC050 06/01 A2997 RMK AO2 SLP118 MTNS OBSC NE-SE T00560006 KABR 030753Z AUTO 18012KT 10SM BKN070 OVC085 M01/M06 A2970 RMK AO2 SLP072 T10111056 KACJ 030815Z AUTO 00000KT 10SM OVC033 15/15 A3021 RMK AO2 UKLU 030830Z 14002MPS 9999 OVC025 03/01 Q1015 10190065 NOSIG KACK 030753Z AUTO 31011KT 10SM CLR M03/M11 A3029 RMK AO2 SLP255 T10331111 KADC 030835Z AUTO 17011KT 10SM OVC070 M06/M08 A2976 RMK AO2 KADF 030816Z AUTO 00000KT 1 1/4SM BR OVC002 02/02 A3017 RMK AO2 KADG 030753Z AUTO 00000KT 8SM OVC095 M06/M10 A3028 RMK AO2 SLP266 T10611100 TSNO KABY 030832Z AUTO 00000KT 1/4SM FG VV001 13/13 A3021 RMK AO2 KACP 030815Z AUTO 00000KT 2SM BR OVC002 10/09 A3014 RMK AO2 T00950089 KACQ 030819Z AUTO 14010KT 10SM OVC060 M06/M09 A2990 RMK AO2 KADH 030835Z AUTO 19010KT 2 1/2SM BR OVC002 03/03 A3002 RMK AO2 EDHI 030820Z 23014KT 9999 FEW015 SCT027 03/01 Q1013 EDGS 030820Z 23015KT 9999 FEW008 SCT023 M00/M02 Q1017 KACT 030751Z 00000KT 1/2SM FG VV002 04/04 A3009 RMK AO2 SLP191 T00440044 EDHK 030820Z 24013KT 210V270 9999 SCT014 03/00 Q1010 EDHL 030820Z 25017KT 9999 FEW008 04/01 Q1012 RMK ATIS FOX KACV 030753Z AUTO 10003KT 10SM CLR 04/04 A3003 RMK AO2 SLP176 T00390039 401280039 KADM 030815Z AUTO 18006KT 1 3/4SM BR OVC002 05/05 A3005 RMK AO2 T00460046 KAEG 030835Z AUTO 28004KT 10SM SCT046 OVC070 03/00 A2995 RMK AO2 T00281003 KACY 030754Z 33005KT 10SM CLR M06/M09 A3040 RMK AO2 SLP295 T10561094 KAEJ 030835Z AUTO 25017G23KT 10SM SCT034 BKN043 OVC050 M01/M11 A2972 RMK AO2 T10101109 KADS 030835Z AUTO 00000KT 2SM -DZ OVC003 06/06 A3009 RMK AO2 T00590059 DNAA 030700Z 06005KT CAVOK 26/M01 Q1013 NOSIG EDJA 030820Z 23013KT CAVOK 01/M03 Q1023 KAEL 030831Z AUTO 14012KT 10SM OVC065 M05/M08 A2987 RMK AO2 KADU 030835Z AUTO 17009KT 10SM BKN020 M01/M06 A2979 RMK AO2 UKON 030830Z 18010MPS 9999 OVC012 07/05 Q1010 NOSIG UKOO 030830Z 22007MPS 9999 OVC006 07/06 Q1010 16190058 NOSIG KADW 030758Z AUTO 01004KT 10SM FEW140 M03/M09 A3038 RMK AO2 SLP297 T10331091 $ CWAE 030100Z 36005KT 15SM SKC 04/M16 A3010 RMK LAST OBS/NEXT 031500UTC WND ESTD SLP212 KAFF 030826Z AUTO 24013G25KT 10SM CLR 04/M12 A2966 RMK AO2 WSHFT 24 CWAF 030800Z AUTO M15/M20 RMK AO1 T11471202 KAFJ 030835Z AUTO 00000KT 9SM FEW090 M08/M11 A3029 RMK AO1 CWAJ 030800Z AUTO 21002KT M07/M10 RMK AO1 SLP279 T10741099 58014 CWBA 032300Z AUTO 31005KT M07/M17 RMK AO1 SOG 56 T10671172 KAFK 030835Z AUTO 16012KT 7SM OVC011 00/M03 A2975 RMK AO2 T00001035 KAGC 030753Z 09005KT 7SM OVC120 M07/M12 A3030 RMK AO2 SLP282 T10671117 TTPP 030800Z 00000KT 9999 FEW015 22/21 Q1011 NOSIG KAFN 030752Z AUTO 00000KT 10SM CLR M09/M17 A3023 RMK AO2 SLP261 T10941172 CWBE 030800Z AUTO 32003KT M13/M18 RMK AO1 SLP267 T11261177 56008 KAEX 030833Z 00000KT 2SM BR OVC003 07/07 A3013 RMK AO2 T00720072 KAFO 030815Z AUTO 15007KT 10SM OVC032 M05/M06 A2970 RMK AO2 KAFP 030835Z AUTO 07003KT 10SM -RA OVC013 08/03 A3028 RMK AO2 T00830032 KC75 030815Z AUTO 14009KT 10SM UP OVC038 M04/M07 A3009 RMK AO2 T10391072 CWAQ 030800Z AUTO 32014G19KT M16/M18 RMK AO1 SOG 01 1021 PK WND 32021/0713 SLP206 T11561181 CWAR 030800Z AUTO 24036G44KT M02/M04 RMK AO1 PK WND 22044/0758 SLP777 T10201039 53003 PFKT 030758Z AUTO 10009KT 9SM -SN OVC021 M01/M03 A2964 RMK AO2 SLP038 P0000 T10111028 FZRANO CWCA 030800Z 36012KT 9SM -SN OVC006 M10/M11 A2931 RMK ST8 CLD TPG HLS SLP926 CWBK 030800Z AUTO 30032G38KT M10/M11 RMK AO1 8PAST HR PRESRR SOG 77 3047 PK WND 30042/0729 SLP079 P0003 T10981108 50014 PFKW 030756Z AUTO 10006KT 10SM -RA BKN030 BKN036 OVC060 02/01 A2963 RMK AO2 SLP036 P0001 T00220011 FZRANO $ CWAV 030800Z AUTO 34004KT M16/M21 RMK AO1 SOG 07 1013 PK WND 34018/0717 SLP307 T11601213 KAFW 030802Z 21003KT 1/8SM R16L/1800V2400FT -DZ FG VV002 03/03 A3009 RMK AO2 P0000 T00330033 CWCF 030800Z AUTO 31021G29KT M13/M15 RMK AO1 2PAST HR SOG 16 3018 PK WND 31035/0712 SLP060 P0001 T11331150 50002 CWBO 030800Z AUTO 34007KT M14/M18 RMK AO1 3016 SLP295 T11401182 50002 CWCI 030700Z AUTO 20013KT M09/M11 RMK AO1 PK WND 20017/0654 SLP213 T10921110 56029 KAIA 030825Z AUTO 06005KT 2 1/2SM -SN BR SCT005 OVC017 M03/M04 A2954 RMK AO2 P0000 T10281039 $ KAGS 030753Z AUTO 00000KT 10SM OVC050 14/13 A3020 RMK AO2 SLP226 T01440128 $ CWDA 030700Z AUTO 34021G28KT M07/M07 RMK AO1 0PAST HR M PK WND 35033/0623 SLP775 P0008 T10671067 50020 CWCJ 030800Z AUTO 18007KT M10/M13 RMK AO1 SOG 63 8035 PK WND 15018/0730 SLP174 T10971130 CWBS 030800Z AUTO 26007KT M13/M22 RMK AO1 T11291215 KAIB 030835Z AUTO 19013G17KT 10SM SCT030 01/M02 A2989 RMK AO2 EDMA 030820Z 24013KT CAVOK 03/M03 Q1023 RMK ATIS MIK CWBT 030800Z AUTO 33013G25KT M14/M20 RMK AO1 PK WND 34027/0743 SLP039 T11351201 51030 KAID 022046Z 00000KT 10SM CLR M02/M12 A3045 CWDC 030800Z AUTO 35006KT M27/M32 RMK AO1 SOG 51 5006 SLP256 T12701317 CWBU 030800Z AUTO 33017G23KT M19/M25 RMK AO1 SOG 23 3006 PK WND 31027/0715 SLP189 T11941251 CWCL 030800Z AUTO ///// A3022 CWBV 030800Z AUTO 31021G28KT M07/M10 RMK AO1 PK WND 30029/0748 SLP078 T10661095 53036 KAHN 030751Z AUTO 33003KT 10SM BKN038 BKN047 OVC055 12/09 A3021 RMK AO2 SLP226 T01220089 EDLN 030820Z 23012KT CAVOK 05/01 Q1018 RMK ATIS D CWCO 030800Z AUTO 19003KT M13/M16 RMK AO1 SLP275 T11271156 58017 KAIG 030815Z AUTO 20011KT 5SM -SN SCT033 BKN040 OVC050 M07/M10 A3001 RMK AO2 T10751099 CWBY 030800Z AUTO 29009G15KT M14/M18 RMK AO1 PRESRR SOG 11 3049 PK WND 32020/0702 SLP060 T11391183 EDLP 030820Z 22017KT 9999 SCT027 02/01 Q1017 RMK ATIS ZUL KAHQ 030835Z AUTO 15009KT 10SM BKN016 OVC042 00/M05 A2975 RMK AO2 T10021048 OPFA 030415Z 00000KT 0800 FG SCT040 13/13 Q1017 CWBZ 030800Z AUTO 26002KT M19/M21 RMK AO1 SLP288 T11881208 50005 UMBB 030830Z 26005G08MPS 8000 NSC 02/M02 Q1010 R29/190060 NOSIG KD07 030756Z AUTO 36029G38KT M06/M13 A2976 RMK AO1 PK WND 35038/0748 SLP105 T10611128 OOMS 030750Z 04009KT 8000 NSC 27/06 Q1013 NOSIG CWDJ 030800Z AUTO 29012KT M19/M22 RMK AO1 SOG 08 3023 PK WND 33017/0702 SLP219 T11871224 KAIK 030835Z AUTO 09004KT 10SM OVC035 13/11 A3025 RMK AO2 KBAB 030758Z AUTO 06005KT 10SM CLR 07/04 A2999 RMK AO2 SLP232 T00690040 401650059 CHINO RWY15 $ CWCT 030800Z AUTO 32013G20KT M17/M22 RMK AO1 SOG 06 0007 PK WND 31020/0750 SLP287 T11741221 CWEB 030800Z AUTO 06007KT 04/04 RMK AO1 SLP219 T00430039 51014 CWDK 030800Z AUTO 35002KT M15/M17 RMK AO1 SOG 00 2009 SLP307 T11511168 KBAC 030835Z AUTO 32018G23KT 10SM -SN FEW080 OVC110 M06/M07 A2975 RMK AO2 P0001 KBAD 030828Z AUTO 00000KT 3SM R33/4000FT BR OVC002 05/05 A3013 RMK AO2 CWDM 030800Z AUTO 33015KT M08/M10 RMK AO1 SOG 70 3009 PK WND 33020/0746 SLP921 T10771104 EDLV 030820Z 21011KT 170V230 CAVOK 05/05 Q1017 PFNO 030758Z AUTO 08018KT 10SM OVC038 M04/M10 A2981 RMK AO2 PK WND 10030/0659 SNE09 SLP097 P0000 T10441100 FZRANO CWEE 030800Z AUTO M30/M34 RMK AO1 SLP231 T13041338 51002 KBAF 030753Z AUTO 27004KT 10SM CLR M07/M15 A3032 RMK AO2 SLP276 T10721150 EDLW 030820Z 22013KT 9999 SCT042 04/M00 Q1017 RMK ATIS I KAIO 030835Z AUTO 17008KT 10SM OVC018 M01/M05 A2981 RMK AO2 EDMO 030820Z 25015KT CAVOK 03/M03 Q1023 RMK ATIS U CWEF 030700Z AUTO 32030G36KT M07/M07 RMK AO1 PK WND 32039/0621 SLP945 T10671074 53033 CWDO 030800Z AUTO 33042G48KT M04/M05 RMK AO1 3PAST HR SOG 35 6036 PK WND 35048/0757 SLP662 P0005 T10441053 50013 KAJG 030835Z AUTO 12008KT 10SM OVC033 01/M05 A3013 RMK AO2 CWEH 030800Z AUTO 32015G21KT M17/M19 RMK AO1 SOG 28 1015 PK WND 33021/0759 SLP247 T11711191 50002 CWDQ 030800Z AUTO 00000KT M25/M26 RMK AO1 SOG 37 2016 SLP272 T12461255 EEEI 030750Z 08011KT 9999 -RA BKN008 OVC014 03/02 Q0996 R06/190095 NOSIG KBAK 030250Z 02003KT 10SM SCT120 M06/M09 A3037 RMK LAST KAIT 030833Z AUTO 17008G16KT 10SM UP BKN034 OVC060 M05/M10 A2981 RMK AO2 KBBB 030833Z AUTO 18011G16KT 10SM -SN BKN050 OVC075 M04/M07 A2979 RMK AO2 CWDT 030700Z AUTO 31007KT M24/M29 RMK AO1 SLP215 T12401289 50005 CWEK 030800Z AUTO 06022KT 06/ RMK AO1 PK WND 05029/0713 SLP250 T0060 53002 CWEL 030800Z AUTO 14016KT 08/M05 RMK AO1 PK WND 13018/0752 SLP226 T00841046 51017 KBBD 030835Z AUTO 14004KT 1/4SM FG OVC001 04/03 A3003 RMK NWWW 030830Z AUTO VRB03KT 9999 NSC 27/24 Q1009 CWDV 030800Z AUTO 19005KT M08/M14 RMK AO1 SOG 56 6046 SLP109 T10811140 CWFD 030800Z AUTO 36011KT 9SM FEW074 M26/ A2943 RMK SLP076 KBAN 030752Z AUTO 00000KT 10SM CLR M07/M11 A2992 RMK AO2 SLP144 T10671106 400441078 KAJO 030756Z AUTO 00000KT 10SM CLR 04/04 A3000 RMK AO2 T00380038 401550033 SLP158 $ KBBF 030835Z AUTO 17015KT 5SM BR FEW007 BKN030 OVC039 21/20 A3004 RMK A01 ULLI 030830Z 14005MPS 9999 OVC011 03/01 Q1004 60190055 10////// NOSIG CWFF 030800Z AUTO 31011KT M20/M23 RMK AO1 SOG 14 3005 PK WND 31019/0700 SLP203 T12031233 KBBG 030815Z AUTO 00000KT 10SM OVC008 01/M01 A3000 RMK AO2 KD25 030815Z AUTO 17006KT 10SM -SN SCT027 BKN035 OVC046 M08/M14 A2995 RMK AO2 T10801144 CWEP 030800Z AUTO 30038G47KT M10/M11 RMK AO1 PK WND 30048/0743 SLP048 T10991109 53041 KAIZ 030835Z AUTO 17009KT 10SM OVC016 02/M03 A2996 RMK AO1 KAKH 030754Z AUTO 06007KT 10SM -RA OVC029 09/M06 A3028 RMK AO2 RAB07 SLP251 P0000 T00891056 CWEQ 030800Z AUTO 29009KT M15/M19 RMK AO1 PK WND 33021/0723 SLP143 T11481191 53014 CWDZ 030800Z AUTO 33005KT M15/M20 RMK AO1 SLP303 T11521204 51013 CWER 030800Z AUTO 28005KT RMK AO1 CWFJ 030800Z AUTO 15001KT M15/M16 RMK AO1 T11531164 KALB 030751Z 28011KT 10SM CLR M09/M16 A3036 RMK AO2 SLP286 T10891156 KBCB 030835Z AUTO 11003KT 10SM SCT036 M03/M06 A3030 RMK AO2 T10321065 CWGB 030800Z AUTO 17003KT 07/M01 RMK AO1 SLP223 T00711013 51018 CWEU 030800Z 05002KT 15SM SKC M46/ A3007 RMK SLP184 CWGD 030800Z AUTO 15005KT M10/M13 RMK AO1 SOG 13 8015 SLP263 T10981133 KBCE 030753Z AUTO 23007KT 10SM CLR M14/M16 A2988 RMK AO2 SLP133 T11441156 CWEW 030800Z AUTO 30001KT M19/M23 RMK AO1 SOG 19 0011 SLP293 T11881226 KAKO 030753Z AUTO 27008KT 1/4SM FZFG VV002 M02/M02 A2957 RMK AO2 PRESRR SLP030 I1001 T10221022 KBAX 030834Z AUTO 18008KT 10SM BKN120 M07/M11 A3024 RMK AO2 T10721110 KBBP 030835Z AUTO 09010G15KT 7SM -DZ SCT011 OVC017 08/07 A3029 RMK AO2 KBAZ 030751Z AUTO 07006KT 3/4SM BR VV002 06/06 A3008 RMK AO2 SLP186 T00610061 $ EDOP 030820Z 23015KT 9999 FEW012 SCT014 03/01 Q1013 KAKQ 030754Z AUTO 00000KT 10SM CLR M02/M04 A3039 RMK AO2 SLP294 T10171044 TSNO EDNY 030820Z 23007KT CAVOK 04/M03 Q1024 RMK ATIS H KAJZ 030835Z AUTO 06004KT 10SM OVC045 03/M01 A2984 RMK AO2 T00331008 CWFQ 030800Z AUTO 33003KT M13/M19 RMK AO1 SOG 45 0004 SLP265 T11271188 CWEZ 030800Z AUTO 06018KT 07/M02 RMK AO1 PK WND 06025/0705 SLP225 T00721024 52019 KALI 030753Z AUTO 02004KT 1/2SM FG VV002 11/09 A3006 RMK AO2 SLP180 T01060094 KAKR 030754Z AUTO VRB04KT 10SM OVC100 M06/M12 A3030 RMK AO2 SLP274 T10561122 $ KAMA 030834Z AUTO 20021G28KT 4SM BR BKN005 01/00 A2983 RMK AO2 PK WND 19031/0757 T00110000 ULMM 030830Z VRB02MPS 9999 BKN020 01/M03 Q1004 NOSIG RMK QFE746 13190060 KALK 030808Z AUTO 30005KT 6SM -RA BR BKN008 BKN014 OVC020 08/07 A2997 RMK AO2 P0000 T00780072 $ KD39 030832Z AUTO 16011KT 4SM -SN SCT033 BKN038 OVC065 M06/M07 A2981 RMK AO2 T10611073 KBCK 030835Z AUTO 00000KT 10SM OVC080 M04/M10 A3000 RMK AO2 T10431105 CWGL 030800Z AUTO 18004KT M16/M17 RMK AO1 SLP274 T11551170 58011 KALM 030835Z AUTO 18012KT 10SM FEW060 BKN075 13/07 A2993 RMK AO2 CWGM 030800Z AUTO 02005KT M15/M17 RMK AO1 T11501168 50008 KBDE 030753Z AUTO 19012KT 10SM CLR M05/M10 A2969 RMK AO2 SLP073 T10501100 TSNO KBBW 030753Z AUTO 18008KT 10SM OVC019 M02/M07 A2965 RMK AO2 SLP056 T10171067 KALN 030835Z AUTO 14008KT 10SM OVC021 00/M06 A3005 RMK AO2 T10021065 KALO 030754Z 15009KT 10SM BKN028 OVC046 M04/M07 A2997 RMK AO2 SLP161 T10391072 KAMG 030821Z AUTO 00000KT 1 1/4SM BR SCT002 OVC070 13/13 A3020 RMK AO2 T01280128 KBDG 030835Z AUTO 29003KT 10SM CLR M02/M02 A2997 RMK AO1 T10221023 KBDH 030835Z AUTO 14013KT 10SM OVC060 M05/M08 A2983 RMK AO2 OOSA 030750Z 18009KT 150V230 9999 FEW025 26/17 Q1016 NOSIG NZAA 030830Z AUTO 05007KT 9999 -RA FEW070/// 21/17 Q1015 NOSIG CWHI 030700Z AUTO 32009KT M15/M20 RMK AO1 T11531197 CWGR 030800Z AUTO 31029G39KT M08/M10 RMK AO1 PK WND 30040/0744 SLP013 T10751097 53035 ZSAM 030800Z 13003MPS 7000 NSC 22/15 Q1010 NOSIG KALS 030752Z AUTO 21012KT 10SM CLR M01/M07 A2979 RMK AO2 SLP066 T10111067 KBEA 030835Z AUTO 03004KT 3/4SM BR OVC002 10/10 A3005 RMK AO2 T00950095 KBCT 030347Z 08008KT 10SM SCT022 23/19 A3023 RMK LAST KANB 030753Z AUTO 06006KT 10SM OVC013 11/08 A3020 RMK AO2 SLP227 T01110083 KD50 030835Z AUTO 31018G25KT 10SM BKN006 M15/M18 A3001 RMK AO2 CWGT 030800Z AUTO 12006KT 07/01 RMK AO1 SLP224 T00730007 51017 KBDL 030751Z 30007KT 10SM CLR M07/M14 A3033 RMK AO2 SLP273 T10671144 CWHL 030800Z AUTO 06009KT 06/M02 RMK AO1 SLP243 T00631017 55001 KAND 030756Z AUTO 06014KT 10SM BKN021 OVC055 12/05 A3023 RMK AO2 RAE0658 SLP231 P0000 T01220050 KBED 030756Z 27005KT 10SM CLR M07/M17 A3030 RMK AO2 SLP277 T10671167 EDQM 030820Z 24016G26KT 9999 BKN013 M01/M03 Q1018 CWID 030800Z AUTO 36002KT M25/M28 RMK AO1 SLP332 T12521284 51004 CWHM 030800Z AUTO 22001KT M16/M21 RMK AO1 T11621214 KALW 030753Z AUTO 17007KT 10SM CLR 01/M06 A3005 RMK AO2 SLP185 T00061056 400721006 KANE 030834Z AUTO 15013G19KT 10SM SCT050 OVC075 M04/M10 A2989 RMK AO2 KAMN 030831Z AUTO 13004KT 10SM SCT050 OVC070 M05/M08 A3023 RMK AO2 T10521081 KBDN 030835Z AUTO 00000KT 10SM FEW038 BKN065 M01/M05 A3004 RMK AO2 CWGW 030800Z AUTO 14006KT M11/M16 RMK AO1 SOG 03 3012 SLP277 T11061161 CWHN 030800Z AUTO 31006KT 280V340 9SM CLR M21/M25 A3012 RMK SLP262 KALX 030835Z AUTO 00000KT 1/2SM RA OVC001 14/12 A3018 RMK AO2 T01370117 CWHO 030800Z AUTO 34009KT M15/M17 RMK AO1 SLP002 T11511171 55001 CWGX 030800Z AUTO 36016KT M14/M16 RMK AO1 5007 PK WND 35019/0754 SLP015 T11401160 50002 PFSH 030758Z AUTO 14013KT 10SM BKN045 OVC055 01/M05 A2972 RMK AO2 SLP080 T00061050 FZRANO CWHP 030800Z AUTO 31019KT M08/M09 RMK AO1 PK WND 31026/0716 SLP976 T10761093 53022 CWIG 030800Z AUTO 26014KT RMK AO1 PK WND 27020/0745 CWGY 030800Z AUTO 28011KT M17/M22 RMK AO1 PK WND 29017/0728 SLP279 T11711224 51010 KBEH 030753Z AUTO 13006KT 10SM OVC090 M04/M09 A3022 RMK AO2 SLP243 T10391094 CWHQ 030800Z AUTO 30002KT M20/M24 RMK AO1 T11981243 KBDR 030752Z AUTO 32004KT 10SM CLR M11/M14 A3038 RMK AO2 SLP286 T11061144 KD57 030835Z AUTO 34020G31KT 10SM FEW009 BKN012 OVC017 M10/M15 A2991 RMK AO2 CWII 030800Z AUTO 31018KT M06/M07 RMK AO1 PK WND 30021/0745 T10591074 KANJ 030755Z AUTO 00000KT 10SM CLR M18/M21 A3019 RMK AO2 SLP236 I1000 T11781206 CWIJ 030800Z AUTO M31/M34 RMK AO1 SOG 74 8002 SLP275 T13081344 KD60 030815Z AUTO 34021G28KT 10SM FEW014 M14/M18 A2997 RMK AO2 OPKC 030825Z 25008KT 7000 BKN025 26/10 Q1014 NOSIG KANK 030815Z AUTO 27014G27KT 10SM SCT050 SCT055 SCT070 01/M09 A2982 RMK AO1 T00071093 CWHT 030800Z AUTO 03001KT M15/M18 RMK AO1 SOG 24 6008 SLP242 T11451175 CWJB 030800Z AUTO 26004KT M15/M23 RMK AO1 SOG 42 T11481226 CWIK 030800Z AUTO 31019G25KT M17/M21 RMK AO1 SOG 15 3026 PK WND 31025/0744 SLP174 T11721213 EDSB 030820Z 21010KT CAVOK 05/M01 Q1024 KBDU 030837Z AUTO 26009G20KT 10SM CLR 06/M08 A2959 RMK AO2 CWJC 030000Z AUTO 08010KT M22/M25 RMK AO1 2PAST HR SOG 03 3020 P0001 T12231247 50013 ULOO 030800Z 15005MPS P6000 OVC010 02/01 Q1001 19290055 NOSIG RMK QFE746 CWIL 030800Z AUTO 28010KT M33/ A3014 RMK SLP218 KBFD 030753Z AUTO 11003KT 8SM CLR M19/M22 A3026 RMK AO2 SLP287 T11891217 CWHV 030800Z AUTO 27005KT M15/M22 RMK AO1 SLP243 T11531223 51015 CWJD 030800Z AUTO 32010G16KT M16/M19 RMK AO1 PK WND 33023/0724 SLP106 T11581190 51021 UMGG 030830Z 16003MPS 9999 -RA OVC005 02/02 Q1008 R28/290050 NOSIG RMK QBB160 KAMW 030753Z AUTO 15010KT 10SM OVC023 M03/M07 A2990 RMK AO2 SLP134 T10331072 NZAP 030800Z 24001KT 40KM SCT039 23/13 Q1014 RMK ALT VATSIM USE ONLY KBFF 030753Z AUTO 00000KT 3SM -SN BR OVC019 M01/M03 A2958 RMK AO2 SLP025 P0002 T10111028 $ CXAF 030800Z AUTO 30006KT M20/M25 RMK AO1 T11961251 50004 TUPJ 030150Z 09008KT 9999 SCT020 25/20 Q1018 RMK A3007 CXAG 030800Z AUTO 31009KT M20/M24 RMK AO1 T12021244 CWIP 030800Z AUTO 31010G20KT M19/ RMK AO1 PK WND 35022/0711 T1194 KANQ 030835Z AUTO 14004KT 10SM FEW065 SCT090 M06/M09 A3023 RMK KAOH 030753Z AUTO 07005KT 8SM OVC090 M06/M11 A3025 RMK AO2 SLP258 T10561106 CWJH 030800Z AUTO 31009KT M23/M29 RMK AO1 2PAST HR SOG 41 2002 PK WND 31019/0719 SLP179 P0001 T12321288 50002 KBFI 030753Z 00000KT 10SM CLR 04/M01 A3016 RMK AO2 SLP212 T00391006 401220033 OPLA 030825Z 34003KT 3000 FU FEW040 SCT100 18/12 Q1015 CWJI 030800Z AUTO 29011KT M17/M19 RMK AO1 SOG 04 1020 SLP231 T11651190 KAPA 030753Z 24015KT 10SM FEW120 05/M10 A2958 RMK AO2 PK WND 24028/0707 SLP016 T00501100 PHBK 030756Z AUTO 04003KT 10SM FEW055 23/17 A3008 RMK AO2 SLP187 T02280172 CXBA 030800Z AUTO 32011KT M18/M22 RMK AO1 T11811222 CXAJ 030800Z AUTO 27005KT M22/M26 RMK AO1 SOG 20 T12241255 CWIS 030800Z AUTO 27003KT M23/M28 RMK AO1 SOG 103 1014 SLP200 T12291276 EEKA 030750Z 08007KT 6000 -RA OVC007 02/02 Q0995 CXAK 030800Z AUTO 32011KT M17/M22 RMK AO1 PK WND 33019/0708 T11691223 KAPC 030754Z AUTO 34005KT 10SM CLR 06/04 A2999 RMK AO2 SLP146 T00610044 401500028 KBFL 030754Z 02004KT 10SM CLR 08/05 A2996 RMK AO2 SLP143 T00780050 401670078 KBFM 030822Z AUTO 17003KT 1SM BR VV004 17/17 A3018 RMK AO2 T01670167 KBGD 030751Z AUTO 22008KT 8SM CLR 03/00 A2982 RMK AO2 SLP104 T00280000 CWKD 030800Z AUTO 25007KT M28/M32 RMK AO1 SLP200 T12751318 51003 KBGE 030835Z AUTO 00000KT 1/4SM FG OVC001 13/13 A3019 RMK AO2 KANW 030835Z AUTO 21006KT 5SM BR BKN010 OVC014 M02/M04 A2963 RMK AO2 T10221038 CWIW 030800Z AUTO 32014KT M19/M22 RMK AO1 SOG 06 3008 PK WND 32018/0757 SLP219 T11891215 KAPF 030753Z AUTO 00000KT 9SM CLR 19/18 A3015 RMK AO2 SLP208 T01890183 EEKE 030750Z 08006KT 5000 RASN BR SCT005 BKN016 OVC021 02/02 Q0993 R17/290195 KAOO 030753Z AUTO 00000KT 10SM CLR M10/M13 A3032 RMK AO2 SLP294 T11001133 KBGF 030835Z AUTO 13004KT 10SM OVC015 08/05 A3018 RMK KAPG 030050Z 29010KT 7SM SKC 01/M08 A3035 RMK LAST CWIX 030800Z AUTO 26007KT M22/M27 RMK AO1 T12191269 CWJO 030800Z AUTO 25009KT M20/M26 RMK AO1 SLP257 T11961255 51018 NZCH 030830Z AUTO 07009KT 9999 BKN011/// 17/15 Q1012 BECMG FM0900 BKN009 NZCI 030800Z 08006KT 25KM SCT025 22/15 Q1014 RMK ALT NZNR VATSIM USE ONLY CWIY 030800Z AUTO 31011KT M17/M23 RMK AO1 SLP185 T11701226 51025 CWKG 030800Z AUTO 28010G22KT M11/M16 RMK AO1 PK WND 27022/0756 SLP150 T11121155 51041 CWIZ 030800Z AUTO 23001KT M16/M20 RMK AO1 T11591196 CWKH 030800Z AUTO 02/M06 RMK AO1 SLP216 T00241061 51018 CXBI 030800Z AUTO 34001KT M21/M24 RMK AO1 2PAST HR 8014 SLP280 P0001 T12131236 50002 CWJR 030800Z AUTO 06006KT M03/M13 RMK AO1 SOG 02 3019 SLP242 T10321126 CXCA 030800Z AUTO 03001KT M11/M13 RMK AO1 SLP149 T11051128 58043 KBHB 030835Z 30005KT 10SM CLR M12/M20 A3020 RMK AO1 NZCM 030555Z 14009G14KT 9999 FEW035 SCT100 BKN150 M10/M24 A2877 RMK SLP748 CWKK 030700Z AUTO 20004KT M11/M13 RMK AO1 SOG 18 8037 SLP139 T11121129 CXAT 030700Z AUTO 35001KT M37/M40 RMK AO1 SOG 00 2005 SLP162 T13661404 CWLB 030800Z AUTO 29007KT M19/M24 RMK AO1 2PAST HR SOG 23 8009 SLP292 P0001 T11931242 50002 CWJT 030800Z AUTO 05001KT M22/M24 RMK AO1 SLP291 T12231244 51010 CXBK 030800Z AUTO 29015KT M18/M21 RMK AO1 SOG 19 2024 PK WND 28019/0745 SLP203 T11751208 KBHC 030835Z AUTO 00000KT 1/2SM FG BKN002 OVC065 14/14 A3019 RMK AO2 EDTL 030820Z 21008KT CAVOK 05/M01 Q1024 CWJU 030800Z AUTO 11005KT 06/M04 RMK AO1 SLP252 T00561038 55001 CWLC 030800Z AUTO 31003KT 06/02 RMK AO1 T00550024 KBGM 030753Z AUTO 27003KT 10SM CLR M11/M14 A3028 RMK AO2 SLP282 T11111139 CXCD 030800Z AUTO 16001KT M21/M25 RMK AO1 T12141254 CWJV 030800Z AUTO 35002KT M03/M10 RMK AO1 SLP248 T10301103 51021 CWKM 030800Z AUTO 10025KT M21/ A3008 RMK SLP193 KAPN 030754Z AUTO 00000KT 10SM CLR M20/M23 A3024 RMK AO2 SLP255 T12001233 KBFW 030834Z AUTO 20005KT 10SM OVC080 M05/M13 A2985 RMK AO2 DNKN 030800Z 06010KT 8000 NSC 21/02 Q1016 NOSIG CWJW 030800Z AUTO 12003KT M17/M22 RMK AO1 SOG 18 1009 SLP325 T11661222 50002 CWLE 030800Z AUTO 31018KT M19/M20 RMK AO1 SOG 21 3013 PK WND 30021/0752 SLP241 T11861195 VCRI 030810Z 14007KT 090V230 9999 SCT017 31/25 Q1009 NOSIG CWKO 030800Z AUTO 30016G21KT M17/M19 RMK AO1 SOG 03 3022 PK WND 31028/0700 SLP223 T11701189 CWJX 030800Z AUTO 32015G21KT M15/M21 RMK AO1 PK WND 32022/0747 SLP271 T11511208 51012 CXBO 030800Z AUTO 25006KT RMK AO1 UMII 030800Z 15004G07MPS 4900 -SNRA OVC004 01/M00 Q1005 TEMPO 2000 SNRA BKN003 RMK QBB130 UNAA 030830Z VRB02MPS 9999 FEW040 BKN100 M02/M11 Q1023 NOSIG RMK QFE744 52090065 CWKP 030800Z AUTO 22022KT M26/ A3026 RMK SLP304 CXCH 030800Z AUTO M07/M09 RMK AO1 SOG 57 T10741086 KBGR 030753Z 31008KT 10SM CLR M11/M21 A3018 RMK AO2 SLP223 T11111211 CXBR 030800Z AUTO 01003KT M14/M16 RMK AO1 T11431162 CWLI 030800Z AUTO 13017KT M26/ A3038 RMK SLP309 KARA 030802Z AUTO 03004KT 1/2SM FG VV002 14/13 A3014 RMK AO2 T01390133 KARB 030753Z AUTO 17004KT 8SM FEW075 OVC100 M06/M09 A3027 RMK AO2 SLP262 T10611094 KBHK 030818Z AUTO 34018G31KT 8SM -SN OVC020 M11/M14 A2995 RMK AO2 PK WND 33031/0809 P0000 T11061144 CXDB 030800Z AUTO 31006KT M17/M20 RMK AO1 T11731199 CXCK 030800Z AUTO 00000KT M20/M23 RMK AO1 SOG 29 6007 SLP269 T12031226 NZDN 030711Z 22005KT 25KM BKN020 OVC035 15/13 Q1013 RMK VATSIM USE ONLY KBHM 030830Z 05004KT 3SM BR BKN006 OVC013 11/10 A3019 RMK AO2 RAB0758E09B14E29 P0001 T01110100 KBID 030835Z AUTO 33008KT 10SM CLR M04/M13 A3032 RMK AO1 CWLM 030800Z AUTO 03011KT 06/M06 RMK AO1 PK WND 02017/0742 SLP227 T00571060 52020 KBIE 030835Z AUTO 17013G16KT 1SM BR OVC004 00/00 A2972 RMK AO2 T10021005 EDVE 030820Z 24014KT 9999 FEW023 BKN035 BKN067 04/01 Q1016 CXDE 030800Z AUTO 08005KT M27/M29 RMK AO1 SOG 13 8013 SLP333 T12691294 CXBW 032200Z AUTO 35016KT M04/M11 RMK AO1 PK WND 35027/2105 T10371108 CWME 030800Z AUTO 05027G36KT 06/M08 RMK AO1 PK WND 05036/0751 SLP237 T00551076 51009 CWKW 030800Z AUTO ///// M25/ A2944 RMK SLP033 KAQO 030815Z AUTO 00000KT 3/4SM BR OVC001 05/05 A3011 RMK AO2 KBIF 030758Z AUTO 24007KT 10SM BKN150 OVC170 13/07 A2993 RMK AO2 SLP103 T01340066 $ CWKX 030800Z AUTO 05007KT M16/M22 RMK AO1 SOG 46 0000 SLP323 T11631220 KD95 030833Z AUTO 19003KT 10SM OVC100 M05/M11 A3025 RMK AO2 T10551106 KAQP 030834Z AUTO 15011KT 5SM -SN SCT020 BKN026 OVC060 M03/M06 A2979 RMK AO2 KARG 030835Z AUTO 00000KT 10SM OVC011 01/M05 A3012 RMK AO1 OPNH 030800Z 36006KT 6000M NSC 28/06 Q.1013 KAPY 030835Z AUTO 00000KT 2 1/2SM BR OVC004 10/10 A3005 RMK AO2 T01000100 EDTY 030820Z 23005KT 170V260 9999 BKN036 04/M01 Q1022 CWLP 030800Z AUTO 11007KT 07/05 RMK AO1 SLP226 T00690046 51012 CXCP 030800Z AUTO 35007KT M14/M19 RMK AO1 T11411191 KBIH 030756Z AUTO 33003KT 10SM FEW060 OVC070 02/M05 A2993 RMK AO2 SLP124 T00221050 401171061 $ UNBB 030830Z 25004MPS CAVOK M04/M09 Q1026 NOSIG RMK QFE747/0996 24CLRD60 KAQR 030815Z AUTO 15006KT 5SM BR OVC003 03/03 A3008 RMK AO2 CXDI 030800Z AUTO 00000KT M17/M19 RMK AO1 3PAST HR 7015 SLP282 P0001 T11741189 50003 OPMT 030754Z 09004KT 6000 BKN040 20/12 Q1015 NOSIG KBIJ 030835Z AUTO 00000KT 3SM BR SCT001 SCT006 OVC046 13/13 A3020 RMK AO2 CXCS 030800Z AUTO 32014KT M17/M22 RMK AO1 PK WND 32019/0759 T11741216 CWLS 030800Z AUTO 17005KT M14/M15 RMK AO1 2PAST HR SOG 24 8012 SLP273 P0001 T11361149 50006 CWMJ 030800Z AUTO 00000KT M21/M23 RMK AO1 SOG 27 0002 SLP274 T12051227 CXEA 030800Z AUTO 19004KT M05/M11 RMK AO1 SOG 46 6039 SLP053 T10521108 CWNB 030700Z AUTO RMK AO1 56017 CXDK 030800Z AUTO 00000KT M27/M30 RMK AO1 SOG 39 0005 SLP325 T12721298 EDVK 030820Z 22010KT CAVOK 03/M02 Q1017 RMK ATIS H KBIL 030837Z 02006KT 3/4SM R10L/P6000FT -SN BR VV010 M09/M11 A3006 RMK AO2 P0002 T10941111 KBJC 030834Z AUTO 26004KT 10SM CLR 02/M08 A2960 RMK AO2 KE11 030815Z AUTO 20008KT 1/2SM FG OVC002 04/04 A2997 RMK AO2 T00370037 CXEC 030800Z AUTO M16/ RMK AO1 T1162 CWNC 030800Z AUTO 35004KT M14/M17 RMK AO1 SOG 03 8010 SLP279 T11381171 KASD 030753Z AUTO 15004KT 1/2SM FG VV002 18/18 A3014 RMK AO2 SLP206 T01830183 KCAD 030834Z AUTO 19007KT 10SM OVC050 M07/M11 A3013 RMK AO2 T10751116 KAQV 030756Z AUTO 00000KT 1/2SM FG VV002 08/07 A3013 RMK AO2 SLP203 T00780072 PNO KARM 030835Z AUTO 33004KT 1/2SM FG OVC001 11/11 A3010 RMK AO2 T01070105 CWND 032022Z M01/M01 RMK 6022 T10101011 CWMM 030800Z AUTO 06007KT 05/M08 RMK AO1 SLP233 T00511084 51024 KASE 030753Z 00000KT 10SM BKN043 OVC060 M03/M06 A2974 RMK AO2 SLP029 T10331056 KAQW 030752Z AUTO 26007KT 10SM CLR M08/M15 A3029 RMK AO2 SLP270 T10831150 KCAE 030819Z 08007KT 10SM BKN017 OVC033 14/11 A3023 RMK AO2 T01440106 CWNE 030800Z AUTO 29035G42KT M14/M15 RMK AO1 8PAST HR 2046 PK WND 30043/0743 SLP082 P0003 T11351147 50014 KAQX 030835Z AUTO VRB03KT 10SM BKN008 OVC011 14/12 A3021 RMK AO2 KASG 030248Z 11005KT 10SM OVC012 02/M01 A3016 CWLX 030800Z AUTO 08011KT M31/ A2982 RMK SLP129 KCAG 030753Z AUTO 22017KT 10SM FEW047 BKN070 01/M03 A2969 RMK AO2 PK WND 22033/0709 SLP049 T00061033 CXDP 030800Z AUTO 27007KT M18/M24 RMK AO1 T11801238 CXEG 030800Z AUTO M18/M23 RMK AO1 SOG 07 T11771227 CWLY 030800Z AUTO 01012G17KT 9SM CLR 02/M14 A3031 RMK SLP271 KASH 030751Z AUTO 29004KT 10SM CLR M07/M16 A3030 RMK AO2 FZRANO T10721161 SLP524 $ KE16 030835Z AUTO 00000KT 10SM CLR 04/04 A3001 RMK AO2 UMKK 030800Z 26009MPS 230V290 6000 -SHRA BKN008 OVC021CB 03/02 Q1003 R24/29//55 NOSIG RMK QFE751/1001 CWNH 030800Z AUTO 30007G16KT M17/M26 RMK AO1 SOG 29 3021 PK WND 28017/0730 SLP226 T11721255 CWMQ 030800Z AUTO 30007KT M15/M19 RMK AO1 SOG 01 3015 SLP286 T11501193 ZSHC 030830Z 31004MPS 280V340 8000 FEW033 14/M03 Q1016 NOSIG KARR 030752Z AUTO 13008KT 7SM SCT070 OVC090 M03/M09 A3014 RMK AO2 SLP217 T10331089 KBJI 030832Z AUTO 18008KT 10SM OVC075 M05/M08 A2971 RMK AO2 T10471077 PFWS 030830Z AUTO 20010KT 9SM FEW008 BKN022 OVC027 03/03 A2975 RMK AO2 RAE28 P0000 KBIS 030828Z AUTO 34018G29KT 10SM FEW017 SCT022 OVC080 M08/M13 A2989 RMK AO2 PK WND 33032/0813 T10831128 VECC 030820Z 31006KT 2800 HZ NSC 31/18 Q1009 NOSIG KBJJ 030756Z AUTO 00000KT 6SM HZ OVC090 M09/M12 A3029 RMK AO2 SLP276 T10891117 TSNO KASJ 030815Z AUTO 00000KT 10SM CLR M01/M05 A3039 RMK AO2 T10061052 KCAK 030751Z 12007KT 9SM OVC095 M06/M12 A3030 RMK AO2 SLP276 T10561122 $ KBKB 030754Z AUTO 00000KT 1/2SM FG VV002 09/08 A3012 RMK AO2 SLP228 T00940078 KART 030756Z AUTO 00000KT 10SM CLR M16/M18 A3037 RMK AO2 SLP292 T11611183 $ CWMT 030700Z AUTO 34002KT M28/M31 RMK AO1 SLP335 T12771310 53002 CWNK 030800Z AUTO 30011G17KT M07/M10 RMK AO1 PK WND 31020/0729 T10691099 CWOB 030834Z AUTO 04018KT M26/ A2964 KASL 030835Z AUTO 14003KT 1SM OVC002 06/05 A3013 RMK AO1 T00560046 CWNL 030700Z AUTO 14003KT M08/M12 RMK AO1 SLP255 T10831118 57016 CWOC 030800Z AUTO 29016G23KT M16/M23 RMK AO1 PK WND 30029/0700 SLP106 T11591227 51038 KBIV 030753Z AUTO 17004KT 10SM OVC095 M04/M09 A3023 RMK AO2 SLP248 T10391089 KARV 030815Z AUTO 20008KT 10SM SCT026 OVC035 M06/M13 A2996 RMK AO2 T10571129 KBKD 030815Z AUTO 00000KT 3SM BR OVC007 03/03 A3006 RMK AO2 T00340032 KCBE 021916Z AUTO 32018G23KT 281V351 10SM CLR 03/M10 A3036 RMK AO1 CWOD 030800Z AUTO 23006KT M25/M29 RMK AO1 SOG 05 3003 SLP236 T12481287 CWNM 030800Z AUTO 09001KT M01/M05 RMK AO1 SLP222 T10071052 53021 ZSFZ 030800Z 06004MPS 5000 HZ BKN040 15/10 Q1012 NOSIG KBKE 030753Z AUTO 33008KT 10SM CLR M04/M07 A2995 RMK AO2 SLP160 T10391067 400781072 TSNO KARW 030835Z AUTO 00000KT 7SM SCT007 13/13 A3021 RMK AO2 KASN 030835Z AUTO 00000KT 7SM DZ OVC010 12/11 A3019 RMK AO2 T01180106 CWOE 030800Z AUTO 31009KT M17/M19 RMK AO1 SLP279 T11741191 51017 CXDW 030800Z AUTO 30014KT M08/M10 RMK AO1 PK WND 30025/0704 T10771103 KCAO 030755Z AUTO 24016G22KT 10SM CLR 03/02 A2975 RMK AO2 SLP077 T00330017 KCBF 030835Z AUTO 16012KT 10SM OVC016 M01/M04 A2976 RMK AO2 KBKF 030758Z 25006KT 10SM SCT100 SCT220 00/M04 A2959 RMK AO2A PK WND 29027/24 SLP024 T10021044 KBIX 030838Z AUTO 16005KT 1/2SM R03/1400FT FG CLR 17/17 A3014 RMK AO2 KCBG 030821Z AUTO 15007KT 10SM SCT043 SCT055 OVC090 M05/M10 A2988 RMK AO2 CWNP 030800Z AUTO 09004KT M03/M11 RMK AO1 SOG 01 1025 SLP233 T10341113 CWMZ 030700Z AUTO 21010KT M10/M12 RMK AO1 SLP268 T10961120 58012 CWNQ 030800Z AUTO 28003KT M15/M20 RMK AO1 SLP270 T11521204 51011 KCAR 030754Z AUTO 31011KT 10SM CLR M16/M23 A3005 RMK AO2 SLP191 T11561233 KCCA 030815Z AUTO 00000KT 5SM BR OVC008 01/M01 A3013 RMK AO2 KAST 030755Z AUTO 12003KT 10SM CLR 02/01 A3015 RMK AO2 SLP208 T00220011 401220022 KCBK 030815Z AUTO 27007KT 10SM CLR 00/00 A2957 RMK AO2 CXET 030800Z AUTO 17004KT M15/M16 RMK AO1 SOG 11 8016 SLP273 T11471163 KBKL 030753Z AUTO 14003KT 10SM OVC100 M04/M11 A3033 RMK AO2 SLP278 T10441106 TSNO KATL 030829Z 00000KT 8SM OVC008 12/07 A3020 RMK AO2 EFET 030820Z AUTO 16011KT 130V210 9999 BKN010 OVC040 00/M01 Q0996 CWPC 030800Z AUTO 19002KT M16/M18 RMK AO1 SLP295 T11571181 56014 KCAV 030835Z AUTO 14014G21KT 10SM OVC020 M04/M05 A2985 RMK AO2 KCBM 030838Z AUTO 00000KT 3SM R31C/3500FT BR OVC003 08/08 A3016 RMK AO2 $ CXFM 030800Z AUTO 31009KT M16/M20 RMK AO1 T11631202 CWPD 030800Z AUTO 03007KT M23/M27 RMK AO1 SLP220 T12331269 51015 UMMG 030830Z 24005G08MPS 9999 BKN015 OVC066 02/01 Q1006 R17/190065 NOSIG KASW 030835Z AUTO 12007KT 10SM BKN080 M04/M09 A3017 RMK AO2 CWPE 030800Z AUTO 31009G18KT M11/M19 RMK AO1 24 0724Z SOG 33 1041 SLP183 T11091186 KASX 030753Z AUTO 20010KT 10SM OVC075 M05/M14 A2998 RMK AO2 SLP165 T10501144 KBLF 030752Z AUTO 04006KT 10SM CLR 03/M08 A3018 RMK AO2 SLP227 T00281083 KAUG 030753Z AUTO 29012G20KT 10SM CLR M10/M21 A3019 RMK AO2 SLP231 T11001206 CWPF 030830Z AUTO 03006KT 07/M06 RMK AO1 T00731064 KATP 030835Z AUTO 13014KT 10SM SCT018 BKN023 BKN028 24/20 A3012 RMK A01 KBLH 030752Z AUTO 13003KT 10SM CLR 11/07 A2995 RMK AO2 SLP138 T01060072 401780100 PHHI 030758Z AUTO 30005KT 10SM CLR 21/18 A3008 RMK AO2 DZB51 SLP178 P0000 T02100175 $ KAUH 030835Z AUTO 14006KT 10SM OVC016 M01/M04 A2969 RMK AO2 T10131045 NZGS 030626Z 36006KT 40KM NSC 23/14 Q1014 RMK VATSIM USE ONLY CWNZ 030800Z AUTO 20006KT M15/M18 RMK AO1 SLP177 T11521177 58024 CXGH 030800Z AUTO 29012G20KT M06/M09 RMK AO1 PK WND 27020/0752 T10601091 KBLI 030753Z AUTO 03017G23KT 10SM CLR 06/M11 A3019 RMK AO2 SLP232 T00561111 401221011 OPPS 030800Z 05006KT 4000 BR FEW015ST FEW025TCU BKN030 SCT120 10/07 Q1017.0 NZHK 030800Z 03004KT 2000 DZ BKN010 18/18 Q1013 RMK ALT VATSIM USE ONLY CXFR 030800Z AUTO 21001KT M19/M24 RMK AO1 T11931242 ULWC 030830Z 19005G08MPS 9999 BKN010 OVC/// M02/M05 Q1014 TEMPO 2000 SN BKN005 RMK QFE750/1000 SC042 KATS 030835Z AUTO 15012KT 7SM BKN004 03/03 A2991 RMK AO2 KBKS 030835Z AUTO 00000KT 1 1/4SM OVC001 10/10 A3003 RMK AO1 T01020096 KCDA 030835Z AUTO 30007G14KT 10SM CLR M13/M21 A3025 RMK AO2 T11261214 KE38 030835Z AUTO 27004KT 10SM CLR 09/02 A3002 RMK AO2 T00880018 CXHA 021600Z AUTO 25007KT M06/M10 RMK AO1 T10611099 UMMM 030830Z 25005MPS 9999 OVC015 02/00 Q1006 R30/290050 NOSIG RMK QFE735 EFHA 030820Z VRB03KT 080V170 8000 OVC002 00/00 Q1000 KATT 030829Z AUTO 00000KT 1 3/4SM BR OVC003 06/05 A3008 RMK AO2 T00560050 PFYU 030836Z AUTO 03004KT 10SM CLR M19/M24 A3011 RMK AO1 KBKT 030835Z AUTO 06004KT 10SM OVC041 00/M07 A3037 RMK AO1 T00001067 UNEE 030830Z 20004MPS 9999 -SHSN BKN017CB OVC066 M05/M05 Q1023 NOSIG RMK QFE744 23851040 CWPK 030800Z AUTO 00000KT M26/M30 RMK AO1 SOG 43 0002 SLP252 T12621298 KCDC 030753Z AUTO 22004KT 10SM BKN039 OVC049 M01/M02 A2988 RMK AO2 SLP121 T10061022 KAVC 030836Z AUTO 00000KT 10SM BKN034 00/M04 A3042 RMK AO2 T10021037 KBMC 030815Z AUTO 19003KT 10SM BKN017 BKN022 OVC033 01/00 A2980 RMK AO1 T00121001 NZHN 030658Z 01008KT 30KM NSC 21/13 Q1015 RMK VATSIM USE ONLY KBKV 030753Z AUTO 00000KT 1/4SM FG VV002 18/17 A3020 RMK AO2 SLP225 T01780172 KBLM 030835Z AUTO 30006KT 180V330 10SM CLR M04/M14 A3039 RMK AO1 KAUM 030836Z AUTO 14010KT 10SM OVC060 M06/M09 A2988 RMK AO2 KCDD 030828Z AUTO 18009G15KT 10SM OVC075 M06/M13 A2977 RMK AO2 CXHD 030800Z AUTO 31007KT M19/M23 RMK AO1 T11921232 KBKW 030751Z AUTO 13008G18KT 10SM CLR 00/M09 A3018 RMK AO2 SLP243 T00001094 KATW 030835Z AUTO 16006KT 10SM OVC085 M05/M08 A3007 RMK AO2 KAUN 030835Z AUTO 09008KT 10SM CLR 06/03 A3000 RMK AO1 EDXW 021720Z 26016KT CAVOK 04/02 Q0999 KAUO 030835Z AUTO 00000KT 1 1/4SM OVC003 12/11 A3022 RMK AO1 KCCO 030835Z AUTO 00000KT 10SM OVC005 12/11 A3019 RMK AO2 T01200111 CWPO 030800Z AUTO 31022G31KT M11/M13 RMK AO1 PK WND 30032/0733 SLP109 T11091129 52017 CXHF 030800Z AUTO M21/M23 RMK AO1 T12061226 KATY 030831Z AUTO 17011KT 7SM -SN BKN024 OVC070 M04/M07 A2971 RMK AO2 P0000 T10391067 EFHF 030820Z 08008KT 040V130 9999 -SHRA BKN006 02/02 Q0999 KBMG 030753Z AUTO 13006KT 10SM OVC050 M02/M08 A3018 RMK AO2 SLP226 T10171083 CWOY 030800Z AUTO 30009KT M20/M24 RMK AO1 SOG 08 3011 SLP198 T11991238 UMMS 030830Z 23002MPS 170V280 9999 OVC011 02/01 Q1006 R13/290060 NOSIG KCDH 030815Z AUTO 00000KT 3/4SM UP OVC001 03/02 A3016 RMK AO2 NZHS 030800Z 08006KT 25KM SCT025 22/15 Q1014 RMK ALT NZNR VATSIM USE ONLY CWQH 030800Z AUTO 15001KT M16/M21 RMK AO1 SOG 26 T11641212 KCCR 030753Z AUTO 15003KT 10SM CLR 09/06 A2999 RMK AO2 SLP141 T00890056 401720083 KBMI 030756Z AUTO 15010KT 10SM BKN035 BKN042 OVC049 M03/M06 A3010 RMK AO2 TSNO T10331055 BKN V OVC SNE30 P0000 PRESFR SLP214 NZHT 030800Z 11002KT 20KM SCT005 15/14 Q1013 RMK ALT VATSIM USE ONLY CWPR 030800Z AUTO 33002KT M05/M12 RMK AO1 SOG 14 1021 SLP253 T10461123 KAUS 030832Z 00000KT 1/4SM R17R/2200V3000FT BR OVC002 05/05 A3008 RMK AO2 SFC VIS 3/4 T00500050 $ KCDJ 030752Z AUTO 16010G17KT 01/M04 A2995 RMK AO1 PRESFR SLP154 T00111039 KBNA 030753Z 17003KT 10SM OVC021 06/M01 A3018 RMK AO2 SLP221 T00611006 $ CWPS 030700Z AUTO M11/M12 RMK AO1 SLP289 T11101121 56017 CWRA 030800Z AUTO 26041G52KT M02/ RMK AO1 PK WND 26056/0729 SLP807 T1018 53005 KAVK 030835Z AUTO 21014KT 9SM OVC015 02/02 A2984 RMK AO2 CXIB 030800Z AUTO 28006G18KT M07/M08 RMK AO1 4PAST HR 3031 PK WND 26018/0755 SLP985 P0002 T10661078 50006 CWQK 030800Z AUTO 02017KT 08/M05 RMK AO1 PK WND 02021/0755 SLP222 T00781052 51015 KBML 030752Z AUTO 31006KT 10SM CLR M12/M21 A3019 RMK AO2 SLP246 T11221206 EFHK 030820Z 08010KT 8000 -RA BKN003 02/02 Q0999 TEMPO SCT003 BKN005 KBLU 030752Z AUTO 00000KT 10SM CLR 01/M03 A2996 RMK AO2 SLP149 T00111033 400280000 KAVL 030754Z AUTO 12003KT 10SM OVC021 06/02 A3027 RMK AO2 RAE26 SLP248 P0001 T00560022 KCCU 030835Z AUTO 24029G42KT 1/2SM SN OVC008 M08/M12 A2967 RMK AO2 KCEC 030756Z AUTO 06003KT 10SM CLR 06/03 A3005 RMK AO2 SLP177 T00610033 401220061 EEPU 030750Z 09008KT 050V140 9999 SCT010 OVC015 03/03 Q0994 KBLV 030758Z AUTO 13007KT 10SM OVC023 00/M04 A3007 RMK AO2 SLP190 T10051040 OPRN 030800Z 23006KT 9999 FEW025TCU SCT030 15/12 Q1017.4/30.04 CXHM 030800Z AUTO 28001KT M15/M17 RMK AO1 SLP287 T11541168 56017 PGRO 030750Z 08015KT 7SM FEW022 SCT100 27/23 A2988 KCDN 030835Z AUTO 06003KT 10SM BKN009 OVC020 11/08 A3027 RMK AO2 TSNO KAUW 030754Z AUTO 17006KT 6SM -SN BR OVC031 M07/M08 A3004 RMK AO2 SNB06 SLP196 P0000 T10671083 KCEF 030758Z AUTO 24004KT 10SM CLR M08/M15 A3031 RMK AO2 SLP274 T10821149 PHJH 030345Z 02011G22KT 15SM SCT035 24/19 A2998 RMK LAST CWQO 030800Z AUTO 31023G31KT M15/M21 RMK AO1 PK WND 30031/0755 T11511206 CWRF 030800Z AUTO ///// M34/ A2990 RMK SLP190 CWPX 030800Z AUTO 34017G23KT M33/ A3012 RMK SLP237 KAVP 030754Z AUTO 00000KT 10SM CLR M09/M14 A3035 RMK AO2 SLP289 T10941144 KAWG 030835Z AUTO 16012KT 5SM -UP SCT022 OVC028 M02/M02 A2998 RMK AO2 KCCY 030835Z AUTO 14012KT 10SM SCT027 OVC048 M04/M07 A2990 RMK AO2 CWQP 032300Z AUTO 30020G25KT M04/M13 RMK AO1 SOG 28 2035 PK WND 31029/2242 SLP281 T10431133 CXHP 030800Z AUTO 25006KT M17/M22 RMK AO1 T11731215 KBMQ 030753Z AUTO A3009 RMK AO2 SLPNO PWINO FZRANO $ KAVQ 030835Z AUTO 33004KT 10SM SCT038 OVC080 10/09 A2996 RMK AO2 T01040094 CWPZ 030800Z AUTO 29001KT M17/M19 RMK AO1 SOG 62 5000 SLP313 T11701190 CWRH 030800Z AUTO ///// M21/ A2960 RMK SLP074 KCDR 030827Z AUTO 02015KT 3SM -SN BR FEW006 BKN010 OVC016 M01/M02 A2966 RMK AO2 CIG 008V011 P0000 T10061022 CXHR 030800Z AUTO 33015KT M16/M21 RMK AO1 PK WND 33020/0743 T11641210 CWQR 030800Z AUTO 35036G44KT M13/ RMK AO1 PK WND 34044/0758 T1130 KCDS 030802Z AUTO 19011KT 8SM SCT008 OVC019 03/02 A2995 RMK AO2 T00280017 $ OPSK 030800Z 09008KT 5000 HZ NSC 23/16 Q1013 RH.66 PC KAXA 030835Z AUTO 15014KT 10SM OVC025 M04/M06 A2983 RMK AO2 EGAA 030820Z 23012KT 9999 FEW010 BKN014 00/M01 Q1007 CWQS 030800Z AUTO 12005KT 08/02 RMK AO1 SLP246 T00830015 56001 CWRJ 030800Z AUTO 27011G18KT M18/M22 RMK AO1 SOG 16 2013 PK WND 24019/0721 SLP251 T11751222 CWSA 030838Z AUTO 29025G38KT 9SM SCT031 BKN040 BKN055 KBMT 030835Z AUTO 00000KT 1/2SM FG OVC003 14/14 A3011 RMK AO2 T01360136 CYAB 022300Z 14002KT 25SM FEW040 FEW130 M33/M37 A2996 RMK SC1AC1 SC TR -29.7/-33.6/0.0/13 MEDIUM PACK LAST STFD OBS/NXT 021200Z SLP151 CWRK 030800Z AUTO 00000KT M24/M27 RMK AO1 SOG 39 8005 SLP276 T12401266 KBNL 030835Z AUTO 12009KT 10SM FEW011 BKN042 OVC048 14/12 A3022 RMK AO2 EGAC 030820Z 22013KT 9999 FEW012 01/M02 Q1007 UMOO 030800Z 16003MPS 6000 -RA BKN005 OVC/// 02/01 Q1007 R13/290070 NOSIG RMK QBB180 KAWM 030825Z AUTO 00000KT 1/2SM FG VV003 03/03 A3012 RMK AO2 T00280028 PGSN 030754Z 08020KT 10SM FEW024 27/21 A2988 RMK AO2 PK WND 08027/0701 SLP139 T02670211 KCFD 030835Z AUTO 00000KT 1 1/4SM BR OVC005 08/08 A3010 RMK AO2 T00750075 CYAD 022100Z 25010G15KT 8SM BKN020 M24/M30 A2995 RMK SC5 LAST OBS/NEXT 031200 UTC SLP174 CWRM 030800Z AUTO 31007KT M17/M22 RMK AO1 SOG 32 0005 SLP315 T11741218 CWSD 030800Z AUTO 30023G29KT M12/M18 RMK AO1 2PAST HR SOG 76 1048 PK WND 30038/0724 SLP095 P0001 T11241181 50002 CWQV 030800Z AUTO 28022G27KT M18/M25 RMK AO1 PK WND 28034/0717 T11761248 KCDW 030753Z AUTO 00000KT 10SM CLR M08/M14 A3039 RMK AO2 SLP298 T10831144 TSNO KCFE 030835Z AUTO 15006KT 10SM SCT050 OVC070 M05/M11 A2989 RMK AO2 T10501108 EGAE 030820Z 22015KT 9999 FEW006 FEW020CB 01/01 Q1004 R26/8200// CWRN 030800Z AUTO 29027G34KT M06/ RMK AO1 PK WND 28037/0739 T1057 KBNO 030753Z AUTO 26007KT 10SM CLR M04/M08 A2996 RMK AO2 SLP164 T10441083 400781072 PWINO FZRANO KAVX 030751Z AUTO 14004KT 10SM CLR 08/00 A2995 RMK AO2 SLP146 T00780000 401110067 KAWO 030835Z AUTO 02004KT 10SM CLR 00/M04 A3018 RMK AO1 CWSF 030800Z AUTO 28022G34KT M15/M16 RMK AO1 PK WND 27037/0741 SLP109 T11511155 51050 CWRO 030800Z AUTO 03007KT 06/02 RMK AO1 SLP245 T00590020 51001 NZKI 030800Z 07004KT 40KM BKN008 17/15 Q1012 RMK ALT VATSIM USE ONLY KAXH 030215Z AUTO 4SM BR 16/16 A3018 RMK AO2 T01600155 ORBI 030830Z VRB05KT 9999 FEW040 23/04 Q1017 CWSG 030800Z AUTO 27023G30KT M16/M21 RMK AO1 PK WND 27030/0759 SLP159 T11611213 51038 PHJR 030753Z VRB03KT 10SM CLR 22/17 A3008 RMK AO2 SLP193 T02220172 CYAH 030800Z AUTO 23004KT 9SM CLR M30/M33 A2996 RMK SLP189 PGUA 030834Z AUTO 07019KT 10SM BKN018 BKN023 25/22 A2987 RMK AO2 DZE0758 CIG 016V025 CIG 018 RWY24L $ KBOI 030753Z 30010KT 10SM BKN045 OVC075 02/M04 A2986 RMK AO2 SLP117 T00171044 NZKK 030738Z 04008KT 40KM FEW025 22/16 Q1015 RMK NZAA VATSIM USE ONLY KCFJ 030835Z AUTO 13011KT 10SM SCT050 SCT070 OVC080 M04/M09 A3013 RMK AO2 T10371095 CXKA 030800Z AUTO 19006KT M18/M20 RMK AO1 SLP202 T11831201 58021 KBOK 030756Z AUTO 33006KT 10SM CLR 09/01 A3005 RMK AO2 T00940011 SLP178 CYBB 030000Z 25007KT 15SM IC FEW100 M37/M40 A3009 RMK IC1AC1 AC TR -33.3/-39.5/0.0/48/HARD PACK/LAST OBS/NXT/031300Z SLP194 CWSK 030800Z AUTO 33006KT 05/M12 RMK AO1 SLP242 T00511121 51026 CWRT 030800Z AUTO 12007KT M14/M16 RMK AO1 T11401162 EGBB 030820Z AUTO 24005KT 190V290 9999 FEW008/// 03/01 Q1011 KCEU 030754Z AUTO 06009KT 10SM OVC018 13/00 A3025 RMK AO2 SLP236 T01330000 KCGC 030835Z AUTO 00000KT M1/4SM FG OVC002 16/16 A3019 RMK AO2 KBPC 030835Z AUTO 20014KT 10SM CLR 02/00 A2982 RMK AO2 CWRU 030800Z AUTO 36009KT 08/02 RMK AO1 SLP214 T00750019 51010 CWSL 030800Z AUTO 04004KT M01/M16 RMK AO1 SOG 00 1017 SLP254 T10081159 CYBC 030800Z AUTO 31009G20KT 9SM CLR M20/M28 A3010 RMK SLP194 CYBD 030100Z 06011G21KT 030V100 15SM SCT200 10/M10 A3026 RMK CC3 SLP247 CYAM 030800Z 08003KT 15SM FEW040 FEW090 SCT260 M19/M21 A3020 RMK SC1AC1CI1 FROIN SLP244 VDPP 030830Z 15003KT 9999 FEW020 35/19 Q1005 KAXN 030753Z AUTO 17016KT 5SM -SN BR OVC055 M05/M07 A2981 RMK AO2 SNB39 SLP115 P0000 T10501072 PHKO 030753Z 01003KT 10SM CLR 25/17 A3000 RMK AO2 SLP160 T02500172 EFIV 030820Z VRB06KT 9999 OVC014 02/M01 Q1000 KCEW 030809Z AUTO 00000KT 1/4SM FG VV002 15/15 A3019 RMK AO2 T01500150 KBNW 030835Z AUTO 15009KT OVC019 M03/M05 A2984 RMK AO2 KCGE 030818Z AUTO 36004KT 10SM CLR 00/M08 A3040 RMK AO1 KAXO 021700Z 17010KT 6 HZ SCT080 21/20 A3026 KCGF 030345Z 14005KT 10SM BKN150 M09/M12 A3040 EGBE 030820Z 23009KT 9999 FEW006 03/03 Q1011 CXKE 030800Z AUTO 23001KT M19/M21 RMK AO1 SOG 22 0000 SLP280 T11861206 EFKE 030820Z 15005KT 110V180 9999 OVC005 01/01 Q1000 CWRX 030800Z AUTO 31006KT M29/ A2991 EFJO 030820Z 15008KT 110V180 4900 BR OVC002 01/01 Q1003 KCEY 030835Z AUTO 13004KT 10SM OVC016 03/M02 A3012 RMK AO1 KBPG 030835Z AUTO 16006KT 2SM OVC003 A2998 RMK AO2 CWRY 030800Z AUTO 31004KT M20/M23 RMK AO1 2PAST HR SOG 04 1014 SLP297 P0001 T12021229 50002 CWSP 030800Z AUTO 07006KT 07/M06 RMK AO1 SLP221 T00721059 51012 CWTG 030800Z AUTO 29010KT M19/M25 RMK AO1 SLP179 T11861251 51046 CYBG 030800Z 26009KT 25SM SKC M20/M24 A3022 RMK SLP249 ZSNB 030800Z 32006G11MPS 290V350 8000 SCT030 14/06 Q1015 NOSIG KCEZ 030753Z AUTO 19009KT 10SM OVC046 01/M02 A2992 RMK AO2 SLP107 T00111022 PHLI 030835Z AUTO 06016G19KT 8SM -RA SCT009 BKN024 OVC035 22/20 A3010 RMK AO2 RAE19B35 P0001 TSNO CWRZ 030800Z AUTO 30021G28KT M13/M19 RMK AO1 PK WND 30029/0736 SLP065 T11271193 51045 KCGI 030753Z AUTO 13006KT 10SM OVC023 02/M03 A3012 RMK AO2 SLP202 T00171033 TSNO KBPI 030753Z AUTO 32008KT 10SM CLR M08/M11 A2964 RMK AO2 SLP051 T10831111 CXKI 030800Z AUTO M26/M28 RMK AO1 2PAST HR SOG 40 6009 SLP240 P0001 T12601280 50002 CWSR 030800Z AUTO 32016G22KT M19/M24 RMK AO1 SOG 16 1011 PK WND 32024/0723 SLP227 T11941238 KCHA 030753Z 00000KT 10SM OVC024 08/03 A3022 RMK AO2 SLP234 T00780033 EFKI 030820Z 13004KT 100V170 9999 BKN007 01/00 Q1001 KBOS 030754Z 29008KT 10SM CLR M05/M16 A3031 RMK AO2 SLP263 T10501156 KCFS 030834Z AUTO 17004KT 10SM OVC100 M06/M11 A3024 RMK AO2 T10581115 KAXS 030835Z AUTO 17010KT 5SM BR SCT010 BKN019 OVC026 04/02 A2999 RMK AO2 T00360015 NZMC 030800Z 11002KT 20KM SCT005 15/14 Q1013 RMK ALT NZHT VATSIM USE ONLY CYAS 022200Z 28012G17KT 15SM DRSN FEW040 BKN070 M28/M34 A2966 RMK SC2AC2 LAST OBS/NEXT 031300UTC SN COV/TR LOOSE SLP062 EGBJ 030820Z 21007KT 9999 FEW012 04/03 Q1013 CWSS 030800Z AUTO 31009G15KT M12/M20 RMK AO1 SOG 68 2029 SLP187 T11171196 KBPK 030753Z AUTO 14007KT 7SM OVC008 M01/M03 A3006 RMK AO2 SLP186 T10061028 KE80 030835Z AUTO 08003KT 10SM OVC075 06/01 A2995 RMK AO2 T00550005 CYBK 030800Z 32003KT 260V080 15SM SKC M35/M39 A3012 RMK SLP204 CXLB 030800Z AUTO 31019G32KT M08/ RMK AO1 PK WND 32032/0758 SLP135 T1078 53044 CWST 030800Z AUTO 28010KT M15/M25 RMK AO1 SOG 07 1025 PK WND 29017/0732 SLP236 T11471251 CYCB 030800Z 32008KT 15SM FEW035 SCT085 M34/M38 A3018 RMK SC1AC2 FROIN SLP226 EFKK 030820Z AUTO 18002KT 9999 BKN006 OVC008 02/01 Q1000 CYAT 030800Z AUTO 18006KT 9SM OVC170 M17/M23 A2991 RMK SLP128 PGUM 030802Z 09008KT 7SM FEW020 BKN033 OVC065 24/23 A2987 RMK AO2 RAE0759 P0002 KAZC 030835Z AUTO 07003KT 10SM SCT007 BKN023 OVC060 01/01 A2996 RMK AO2 T00070008 KCHD 030347Z 09008KT 15SM FEW070 SCT120 11/09 A3000 RMK LAST CYBL 030500Z 31004KT 15SM FEW260 01/M02 A3017 RMK CI2 LAST OBS/NEXT 031400 UTC SLP220 KCFV 030832Z AUTO 19014KT 2 1/2SM BR OVC003 02/02 A2993 RMK AO2 T00220017 EGCC 030820Z 21008KT 9999 FEW008 FEW031TCU 02/01 Q1010 NOSIG KAXV 030831Z AUTO 11003KT 10SM SCT090 M04/M08 A3024 RMK AO2 NZMF 030800Z 21006KT 25KM BKN085 20/11 Q1010 RMK ALT NZQN VATSIM USE ONLY CXKM 030800Z AUTO 32011KT M18/M23 RMK AO1 PK WND 32017/0736 T11781226 CYCD 030500Z 26003KT 250V050 20SM SKC 02/M02 A3016 RMK LAST OBS/NEXT 031400UTC SLP214 KBOW 030835Z AUTO 00000KT 1/4SM FG OVC001 16/ A3019 RMK AO2 KAZE 030815Z AUTO 00000KT 7SM OVC060 16/16 A3019 RMK AO2 T01600160 CWSW 030000Z 10007KT 080V140 8SM BKN035 OVC210 M05/M12 A3001 RMK SC5CI3 LAST OBS/NEXT 031400Z SLP220 CYAW 030144Z 30011G21KT 10SM DRSN BKN036 M04/M05 A2967 RMK SC5 DA-1847FT LAST OBS/NEXT 031200 UTC SLP050 CWTN 030800Z AUTO 30003KT M19/M24 RMK AO1 SLP257 T11861235 51022 CYBN 030800Z AUTO 20002KT 9SM CLR M21/M22 A3030 RMK SLP282 EETN 030820Z 11011KT 9999 -RA BKN010 OVC015 03/02 Q0996 R08/290195 NOSIG KAXX 030835Z AUTO 23015G28KT 5SM -SN SCT013 SCT024 OVC042 M02/M05 A2989 RMK AO2 T10201054 ZSNJ 030800Z 34005MPS 320V020 3200 HZ NSC 12/02 Q1018 NOSIG CYCG 030100Z 03010G23KT 350V050 15SM SCT062 SCT120 05/M04 A2993 RMK SC3AC1 LAST OBS/NEXT 031400UTC PRESRR SLP151 CYAY 030811Z AUTO 33030G42KT 3/8SM SN VV010 M07/M08 A2897 RMK SLP813 EFJY 030820Z 15004KT 4000 BR OVC003 00/00 Q1000 CYAZ 030100Z 28005KT 15SM BKN230 09/04 A3009 RMK CC6 CONTRAILS LAST OBS/NEXT 031500UTC SLP190 CYBQ 030800Z AUTO 02007KT 3SM -SN OVC029 M23/M26 A2977 RMK SLP115 CYBR 030800Z 30014KT 15SM FEW240 M13/M16 A2984 RMK CI1 SLP137 PHMK 030826Z AUTO 02011G16KT 10SM FEW009 BKN017 OVC024 21/21 A3008 RMK AO2 TSNO KAYS 030835Z AUTO 00000KT 1 1/4SM BR SCT003 16/16 A3020 RMK AO2 VIS 1/2V5 T01560156 KCGS 030815Z AUTO 00000KT 10SM CLR M03/M05 A3041 RMK AO1 CYDA 030000Z 33003KT 270V040 20SM FEW240 M07/M17 A3034 RMK CS1 CLIMAT -6.6/-22.6/0.0 LAST STFD OBS/NEXT 031500 UTC SLP310 EFMA 030820Z 06004KT 040V110 9999 OVC005 03/02 Q0997 KBPT 030753Z AUTO 07005KT 1 1/4SM R12/5000VP6000FT BR OVC002 14/14 A3012 RMK AO2 SLP198 T01390139 EFKS 030820Z AUTO 14006KT 3100 -SN OVC006 M01/M01 Q1001 KCHK 030835Z AUTO 19008KT 3SM BR 02/02 A2998 RMK AO2 SKY OBSCURED KBQK 030815Z AUTO 00000KT 5SM BKN045 14/13 A3020 RMK AO1 CXKT 030800Z AUTO 22015G29KT M10/M18 RMK AO1 PRESRR SOG 81 3047 PK WND 24032/0721 SLP135 T11031176 CWTT 030800Z AUTO 34004KT M18/M21 RMK AO1 T11751214 CYCK 030800Z AUTO 19006KT 9SM CLR M08/M10 A3032 RMK SLP280 CYDB 030800Z AUTO 28004KT 9SM OVC150 M12/M15 A3000 RMK SLP221 ZSOF 030800Z 35007MPS 9000 NSC 10/M01 Q1020 NOSIG EFKT 030820Z 15008KT 6000 -SHUP OVC003 00/00 Q0999 34/79//95 KCIC 030835Z AUTO 00000KT 10SM OVC041 08/04 A3000 RMK AO1 CYDC 030100Z 36008G17KT 15SM BKN045CB 02/M09 A3009 RMK CB5 LAST OBS/NEXT 03 1500 UTC SLP213 CXLL 030800Z AUTO 00000KT M27/M29 RMK AO1 SOG 62 1002 SLP327 T12681292 CWTU 030800Z AUTO 32021KT M17/ A2919 RMK SLP940 KBRD 030720Z AUTO 17011KT 10SM OVC030 M06/M11 A2986 RMK AO2 T10611106 EETU 030750Z 13012KT 9999 BKN008 OVC014 02/01 Q0998 KCID 030832Z AUTO 15012KT 1 3/4SM -SN BR BKN019 OVC024 M04/M06 A2996 RMK AO2 UPB0755E27SNB00E09B27 P0000 T10391061 EFKU 030820Z 16008KT 9999 -SHSN OVC004 01/00 Q1002 CYBU 030802Z AUTO 31016G24KT 8SM SCT075 BKN130 BKN150 M19/M25 A2999 RMK SLP191 CYBV 022200Z 17013G23KT 15SM FEW150 BKN220 M04/M13 A2980 RMK AC1CS5 SN COV/MEDIUM PACK/LAST OBS/NEXT031300Z SLP113 CXMD 030800Z AUTO 31013G19KT M08/M11 RMK AO1 SOG 06 3017 PK WND 30024/0701 SLP091 T10771112 CWVD 030800Z AUTO 35008KT M30/ A2963 RMK SLP125 CYBW 030800Z AUTO 36007KT 9SM CLR M17/M20 A3019 RMK SLP309 KAZO 030753Z 16006KT 10SM BKN095 OVC110 M04/M10 A3022 RMK AO2 SLP246 T10391100 PNO $ EGCN 030820Z 19010KT CAVOK 03/01 Q1010 KCHO 030753Z AUTO 00000KT 10SM BKN120 M02/M08 A3037 RMK AO2 SLP286 T10171083 PHNG 030834Z AUTO 05007KT SCT018 BKN025 BKN041 24/20 A3005 RMK AO2 T02390200 $ CWVF 030800Z AUTO 12010KT 07/M09 RMK AO1 T00711086 CYDF 030818Z 29011G20KT 5SM -SHSN BLSN BKN060 OVC076 M06/M09 A2904 RMK SC6AC2 SLP836 CYCO 030800Z 26009G15KT 6SM IC DRSN FEW080 SCT240 M25/M28 A3043 RMK AS1CS4 AS TR PRESRR SLP308 CYBX 030800Z 36025G33KT 1 1/2SM -SN BLSN OVC007 M09/M11 A2909 RMK SN4SC4 SLP854 KF05 030835Z AUTO 18008KT 7SM BKN009 OVC024 04/00 A3000 RMK AO1 T00360000 KBQP 030815Z AUTO 00000KT 1/2SM FG OVC002 04/04 A3016 RMK AO2 T00420040 CYCP 030000Z 02011G21KT 360V060 15SM FEW065 00/M19 A3018 RMK CU1 LAST OB/NEXT 031400 UTC SLP252 CXMG 030800Z AUTO 27007KT M19/M25 RMK AO1 T11881249 CWTY 030800Z AUTO 29003KT M16/M21 RMK AO1 SLP277 T11611211 51014 CWUP 030800Z AUTO ///// M30/ A2974 RMK SLP135 EFLP 030820Z AUTO 15003KT 5000 OVC001 02/01 Q1002 KCGZ 030835Z AUTO 03003KT 10SM CLR 07/05 A2996 RMK AO1 CYCQ 030000Z 00000KT 35SM FEW050 FEW230 M07/M22 A3048 RMK CU1CS1 CU TR LAST OBS/NEXT 031400Z SLP365 CWVH 030800Z AUTO 13016KT M22/ A3019 RMK SLP264 CWVI 030800Z AUTO 32010KT M18/M23 RMK AO1 SOG 17 3005 PK WND 31018/0701 SLP305 T11791234 CXMI 030800Z AUTO 30011G25KT M07/M12 RMK AO1 PK WND 31026/0728 SLP109 T10721119 53038 ZSPD 030830Z 33009MPS 5000 HZ BKN040 12/05 Q1015 NOSIG EFMI 030820Z AUTO 13005KT 2900 BR OVC002 01/01 Q1002 KCHS 030832Z 09008KT 10SM BKN022 14/12 A3023 RMK AO2 KDAA 030758Z AUTO VRB01KT 10SM CLR M02/M09 A3041 RMK AO2 SLP302 T10181095 CYCS 022300Z 30010KT 15SM IC SKC M31/M35 A3001 RMK -29.4/-34.8/0/15 MED PACK LAST STFD OBS/NEXT 031300Z SLP163 CWWA 030800Z AUTO 01003KT 04/M07 RMK AO1 SLP226 T00351069 51021 CWUS 030800Z AUTO 32006KT 01/M17 RMK AO1 SLP247 T00061171 51025 PHNL 030753Z 01005KT 10SM FEW026 SCT035 SCT220 24/18 A3007 RMK AO2 SLP182 T02390183 KDAB 030825Z 00000KT 1/4SM FG OVC002 17/17 A3021 RMK AO2 T01720167 $ CWWB 030800Z AUTO 25004KT M10/M14 RMK AO1 SLP289 T11021140 56016 KBRL 030827Z AUTO 15009KT 8SM -FZRA OVC028 M02/M05 A3001 RMK AO2 P0001 I1001 T10221050 EGEC 030820Z 23019KT 9999 SCT018 03/M00 Q1004 CYDL 030800Z AUTO 13010KT 9SM CLR M16/M22 A3028 RMK SLP307 CXMM 030800Z AUTO 26008KT M19/M22 RMK AO1 SOG 27 8012 SLP281 T11911221 EGDM 030824Z 28011KT 9999 FEW012 SCT060 04/02 Q1014 BLU TEMPO 30015G25KT BLU CYED 030800Z AUTO 30006KT 9SM CLR M17/M26 A3029 RMK SLP312 KCIN 030835Z AUTO 15009KT 10SM OVC022 M03/M05 A2981 RMK AO2 NZNP 030716Z 22006KT 20KM FEW040 19/16 Q1015 RMK VATSIM USE ONLY CWWE 030800Z AUTO 30016G26KT M09/M15 RMK AO1 PK WND 29030/0727 SLP150 T10921150 53042 CWVN 030800Z AUTO 34010KT M14/M17 RMK AO1 PK WND 00021/0720 SLP249 T11441173 51027 CWUW 030800Z AUTO 09009KT 9SM FEW043 FEW066 FEW089 FEW098 M29/ A2966 RMK SLP128 KBRO 030753Z AUTO 34003KT 1/2SM FG VV002 13/13 A3006 RMK AO2 SLP179 T01330128 CYDN 030800Z AUTO 32017G23KT 6SM -SN FEW033 M12/M17 A2983 RMK SLP122 PHOG 030754Z 02010KT 10SM FEW045 SCT065 23/20 A3007 RMK AO2 SLP186 T02330200 KBQX 030835Z AUTO 13006KT M1/4SM FG OVC003 19/19 A3007 RMK A01 NZOH 030739Z 24008KT 40KM NSC 18/15 Q1015 RMK VATSIM USE ONLY CXMO 030800Z AUTO 34009KT M17/M22 RMK AO1 T11741219 CWWF 030800Z AUTO 33021KT M17/M20 RMK AO1 SOG 14 1022 PK WND 33025/0755 SLP201 T11721196 CWUX 030800Z AUTO 27008KT M20/M26 RMK AO1 SLP245 T11981260 51017 CYCX 030800Z 30016G21KT 15SM DRSN FEW085 M13/M24 A3004 RMK AC1 DA-3507FT SLP177 VDSR 030830Z 23006KT 9999 SCT015 SCT040 35/22 Q1005 KDAG 030756Z AUTO 25007KT 4SM HZ FEW001 06/01 A2995 RMK AO2 T00610011 NZNR 030800Z 08006KT 25KM SCT025 22/15 Q1014 RMK ALT VATSIM USE ONLY CYDP 030000Z 20002KT 15SM FEW230 M15/M20 A2963 RMK CI1 LAST STAFFED OB/ NEXT 030900 SLP036 ORER 030200Z 16009KT 9999 FEW040 SCT080 08/06 Q1018 NOSIG CWVP 030800Z AUTO 33010G18KT M19/M21 RMK AO1 SOG 07 2015 PK WND 34019/0706 SLP241 T11871212 CYCY 030800Z AUTO 27004KT 9SM CLR M36/M40 A2998 RMK SLP156 CYEG 030800Z 29006KT 15SM SKC M18/M24 A3029 RMK SLP318 NZNS 030833Z 06006KT 40KM FEW032 BKN047 20/15 Q1014 RMK VATSIM USE ONLY CWVQ 030800Z AUTO 25003KT M14/M19 RMK AO1 SLP283 T11381192 50007 CYDQ 030800Z AUTO VRB04KT 9SM CLR M17/M21 A3033 RMK SLP330 KCIR 030835Z AUTO 08003KT 10SM OVC019 03/M02 A3010 RMK AO2 T00291023 KF17 030815Z AUTO 00000KT 1SM BR OVC003 06/06 A3012 RMK AO2 T00610060 UNKL 030830Z 24004MPS 6000 -SHSN SCT029CB OVC083 M02/M07 Q1021 NOSIG RMK QFE740 29////60 ZSQD 030800Z 33010MPS CAVOK 06/M15 Q1019 NOSIG PGWT 030750Z 08017G23KT 7SM FEW016 27/21 A2987 KBTA 030835Z AUTO 16011KT 10SM OVC015 00/M05 A2974 RMK AO2 T10031050 EGDR 030750Z 27014KT 9999 VCSH FEW018CB SCT020 05/03 Q1016 WHT TEMPO 4000 SHRA FEW008 SCT018CB GRN TVSV 030200Z 09012KT 9999 -SHRA BKN016 SCT032 25/22 Q1016 CWXA 030800Z AUTO 07003KT M14/M21 RMK AO1 SLP280 T11441209 51008 KCKB 030753Z 00000KT 10SM BKN110 M04/M07 A3027 RMK AO2 SLP260 T10441072 NZNV 030613Z 21008KT 50KM BKN036 14/09 Q1013 RMK VATSIM USE ONLY CWVT 030800Z AUTO 31008KT M22/M26 RMK AO1 SOG 43 8007 SLP262 T12211260 CWWK 030800Z AUTO 06005KT 06/M12 RMK AO1 SOG 00 1020 SLP231 T00571115 CYEK 030824Z AUTO 01013KT 9SM -SN BKN024 M29/M32 A3000 RMK SLP162 CYFB 030800Z VRB02KT 10SM IC FEW040 BKN080 M21/M24 A2981 RMK SC2AC3 SLP098 KDAL 030753Z 26003KT 1/4SM R13L/2200V4500FT FG VV002 05/05 A3011 RMK AO2 DZE51 SLP195 P0001 T00500050 KCIU 030835Z AUTO 16008KT 10SM CLR M14/M15 A3015 RMK AO1 KCKC 030833Z AUTO 18008KT 10SM SCT075 OVC100 M08/M14 A2982 RMK AO2 CWXC 030800Z AUTO 13001KT M25/M29 RMK AO1 SLP219 T12521289 51012 CWWL 030800Z AUTO 19004KT 07/04 RMK AO1 SLP243 T00700040 53001 CYFC 030805Z AUTO 29014G23KT 260V330 9SM CLR M13/M22 A3005 RMK SLP178 CXNM 032300Z AUTO 31012G20KT M07/M08 RMK AO1 SOG 171 PK WND 29021/2234 T10691075 KDAN 030753Z AUTO 10005KT 10SM OVC019 04/M01 A3034 RMK AO2 SLP271 T00391011 CYEN 030800Z 30016G22KT 15SM DRSN FEW120 FEW220 M16/M20 A2998 RMK AC1CI2 AC TR SLP194 KCKF 030835Z AUTO 00000KT 7SM SCT027 OVC050 15/15 A3021 RMK AO2 T01540146 PHNY 030756Z AUTO 03013G21KT 10SM CLR 21/19 A3010 RMK AO2 TSNO T02050194 SLP172 $ EGEO 030820Z 6000 -SHSNGS BKN012 OVC028 02/M00 Q1001 SNOCLO EGDX 030750Z AUTO 26012KT 9999 BKN014/// BKN070/// 05/03 Q1013 EGFF 030820Z AUTO 26012KT 9999 -RA SCT016/// BKN039/// //////TCU 05/02 Q1014 CXMY 030800Z AUTO M08/M10 RMK AO1 T10781104 CXNP 030800Z AUTO 30025G32KT M12/M16 RMK AO1 PK WND 28032/0757 SLP117 T11211157 52043 EGDY 030750Z 28005KT 9999 FEW005 FEW018CB 04/02 Q1014 BLU TEMPO 8000 -SHRA FEW010 SCT018TCU WHT KCKI 030835Z AUTO 06003KT 10SM OVC034 12/12 A3027 RMK AO2 KCJR 030815Z AUTO 00000KT 10SM CLR M02/M08 A3040 RMK AO2 CWXI 030800Z AUTO 35027G35KT M08/M08 RMK AO1 5007 PK WND 01038/0715 SLP837 T10761081 50002 CYER 030828Z AUTO 09010KT 9SM -SN SCT034 OVC070 M17/M20 A2967 RMK SLP049 KDCA 030752Z 36008KT 10SM OVC200 00/M09 A3041 RMK AO2 SLP297 T00001089 $ CWWS 030700Z AUTO 32033G39KT M13/M15 RMK AO1 SOG 56 3014 PK WND 32045/0628 SLP057 T11321151 CXPA 030800Z AUTO 31005KT M18/M23 RMK AO1 T11791227 NZPM 030609Z 20008KT 40KM FEW040 24/12 Q1014 RMK VATSIM USE ONLY CYET 030800Z AUTO 27008KT 9SM SCT140 M17/M23 A3029 RMK SLP330 KBTL 030753Z 17006KT 10SM OVC090 M04/M09 A3022 RMK AO2 SLP245 T10391094 CWWU 022000Z 15020G28KT 3/4SM -SN OVC005 M00/M00 A2963 RMK SF8 PRESFR SLP036 CXOL 030800Z AUTO 32012KT M16/M21 RMK AO1 PK WND 34017/0749 T11621213 CXPC 030800Z AUTO M19/M22 RMK AO1 SOG 48 8008 SLP266 T11931217 CWXL 030800Z AUTO 33006KT M15/M20 RMK AO1 T11491199 KBTM 030753Z AUTO 01006KT 3SM -SN OVC038 M11/M16 A2990 RMK AO2 UPB17E22SNE17B22 SLP176 P0000 T11111161 KCKM 030815Z AUTO 00000KT 1/4SM OVC002 04/04 A3015 RMK AO1 CYEV 030800Z 13010KT 15SM SKC M17/M24 A3028 RMK SLP265 EGGD 030820Z 24007KT 9999 SCT012 SCT030 03/02 Q1013 KCLE 030751Z 16004KT 10SM OVC100 M06/M11 A3035 RMK AO2 SLP287 T10561111 KDAW 030751Z AUTO 00000KT 10SM CLR M08/M19 A3023 RMK AO2 SLP239 T10781189 KCKN 030834Z AUTO 22011KT 10SM SCT030 M04/M06 A2972 RMK AO2 KDBN 030835Z AUTO 00000KT 10SM OVC036 A3021 RMK AO2 NZPP 030800Z 01004KT 45KM BKN100 22/14 Q1014 RMK ALT VATSIM USE ONLY CYGE 030000Z 33010G18KT 300V360 20SM FEW075 SCT095 SCT200 00/M21 A3004 RMK AC2AC1CI1 LAST OBS/NEXT 031400Z SLP206 KBUF 030754Z 15004KT 10SM SCT250 M14/M16 A3035 RMK AO2 SLP292 I1000 T11391161 CYFO 030000Z 33016G25KT 1 3/4SM -SN DRSN BKN020 BKN050 M11/M14 A2974 RMK SN3SC2SC2 /S04/ LAST OBS /NEXT 031200UTC SNWCOV/MUCHLOOSE SLP100 CWWX 030800Z AUTO 22006KT M10/M12 RMK AO1 SLP251 T11041115 58016 KBTP 030835Z AUTO 13006KT 10SM CLR M08/M12 A3032 RMK AO1 KDAY 030756Z 16007KT 9SM OVC150 M04/M09 A3025 RMK AO2 SLP256 T10441094 KCKP 030815Z AUTO 16008KT 10SM OVC026 M03/M05 A2980 RMK AO2 T10301054 KDBQ 030753Z AUTO 15012KT 8SM OVC050 M04/M08 A3002 RMK AO2 SLP183 T10441078 CYGH 030000Z 10004KT 25SM SCT220 M15/M24 A3052 RMK CS0 -15.3/-27.5/0.0/45 MUCH LOOSE LAST OBS/NXT 031400UTC SLP349 CWWZ 030800Z AUTO 19005KT M11/M15 RMK AO1 SOG 10 7014 SLP290 T11081146 KBTR 030753Z 00000KT 1/4SM FG VV003 14/14 A3014 RMK AO2 SLP205 T01390139 RVRNO KCLI 030835Z AUTO 16003KT 10SM SCT027 BKN044 OVC065 M05/M07 A3007 RMK AO2 CYFR 021900Z 33021G28KT 5SM BLSN FEW015 M21/M26 A3042 RMK SC1 /0/53 MUCH LOOSE LAST STFD OBS/NEXT031500Z SLP322 CWXR 030800Z AUTO 35003KT M25/ A3038 RMK SLP305 KCMA 030755Z AUTO 06009KT 10SM CLR 11/07 A2997 RMK AO2 SLP157 T01060072 401670078 NZRC 030613Z 21008KT 50KM BKN036 14/09 Q1013 RMK NZNV VATSIM USE ONLY CYHA 022200Z 30008KT 15SM FEW008 FEW100 OVC250 M18/M21 A2963 RMK ST1AS1CS1 SLP038 CWZA 030800Z AUTO 32005KT 06/M14 RMK AO1 SLP248 T00641137 53025 CWYJ 030800Z AUTO 01005KT 06/M07 RMK AO1 SLP227 T00621068 51021 CYFS 030800Z 00000KT 15SM FEW210 M26/M30 A3046 RMK CI1 CI TR AURBO SLP337 KCLK 030835Z AUTO 18017KT 5SM BR OVC005 02/00 A2992 RMK AO2 CYGK 030400Z 30007KT 15SM SKC M09/M16 A3037 RMK LAST STFD OBS/NEXT 031100 UTC SLP290 CYFT 022100Z 00000KT 15SM FEW025 BKN230 M09/M15 A2960 RMK SC1CS7 TR SC LAST OBS/NEXT031000 UTC SLP029 CWYK 030800Z AUTO ///// M20/ A2923 RMK SLP974 KDDC 030752Z AUTO 20017G25KT 8SM CLR 02/M01 A2970 RMK AO2 PK WND 18033/0655 SLP070 T00171011 KCLL 030753Z AUTO 00000KT 1 1/4SM BR OVC003 07/07 A3012 RMK AO2 SLP197 T00720072 NZQN 030800Z 21006KT 25KM BKN085 20/11 Q1010 RMK ALT VATSIM USE ONLY CXPL 030800Z AUTO 32016KT M15/M19 RMK AO1 PK WND 32023/0750 T11501194 CWYL 030800Z AUTO 08002KT M21/M25 RMK AO1 SOG 83 1010 SLP266 T12051252 CYGL 030800Z 18009KT 15SM FEW030 BKN240 M26/M29 A2997 RMK SC1CI5 SLP176 KCKV 030752Z AUTO 11003KT 10SM BKN020 OVC030 04/M02 A3016 RMK AO2 SLP217 T00441017 EFOU 030820Z AUTO 15007KT 9999 OVC006/// 01/00 Q1000 R12/19//95 KDCM 030835Z AUTO 05006KT 10SM SCT020 SCT026 OVC039 10/00 A3028 RMK AO2 KCLM 030753Z AUTO 22004KT 10SM CLR 00/M02 A3020 RMK AO2 SLP228 T00001022 401220000 KBTV 030754Z 00000KT 10SM CLR M14/M18 A3034 RMK AO2 SLP280 T11441183 KCMD 030835Z AUTO 11003KT 10SM OVC007 09/07 A3018 RMK AO2 T00900071 CWYM 030800Z AUTO 08008KT M26/ A2958 RMK SLP106 CYHD 030834Z AUTO 20013KT 9SM -SN BKN035 OVC055 M06/M12 A2965 RMK SLP068 KBVE 030816Z AUTO 12005KT 1/4SM FG VV001 18/17 A3015 RMK AO2 T01780172 EGHE 030820Z 28020G30KT 9999 VCSH FEW020CB 07/02 Q1018 CYHE 030800Z AUTO 12009KT 080V140 9SM CLR 03/M11 A3028 RMK SLP256 KF44 030835Z AUTO 13003KT 1/2SM FG OVC003 06/06 A3008 RMK AO2 CXOX 030800Z AUTO 31010G16KT M22/M26 RMK AO1 SOG 41 0001 PK WND 33019/0714 SLP210 T12211264 EFPO 030820Z AUTO 08004KT 030V110 7000 BKN004/// OVC038/// 02/02 Q0999 R12/29//95 CXOY 030800Z AUTO 33012KT M17/M21 RMK AO1 PK WND 32017/0738 T11711210 CWZG 030800Z AUTO 04003KT M17/M21 RMK AO1 SOG 00 1011 SLP282 T11731213 CYGP 030800Z 29016G29KT 15SM DRSN SKC M14/M21 A2976 RMK PRESRR SLP079 EGGP 030820Z 25007KT 9999 FEW040 04/01 Q1010 KCMH 030751Z 07004KT 10SM SCT090 OVC150 M04/M11 A3025 RMK AO2 SLP252 T10441111 KDDH 030754Z AUTO 26004KT 10SM CLR M09/M15 A3029 RMK AO2 SLP269 T10891150 KF46 030835Z AUTO 00000KT 1/4SM FG OVC002 05/05 A3008 RMK AO2 T00520052 CYHH 022100Z 27014KT 15SM DRSN SCT025 M21/M29 A3006 RMK SC0 LAST OBS/NEXT 031200 UTC SLP205 KBVI 030147Z 00000KT 10SM CLR M06/M11 A3040 RMK LAST CYGQ 030800Z 17006KT 15SM SCT015 BKN110 BKN220 M12/M14 A2989 RMK SC3AC2CI1 PRESFR SLP149 EGHH 030820Z 27011KT 9999 FEW030 06/04 Q1014 KBUR 030753Z 00000KT 10SM OVC065 11/07 A2997 RMK AO2 RAB11E22 SLP141 P0000 T01110067 401500072 KCMI 030820Z AUTO 12011KT 9SM OVC037 M02/M06 A3011 RMK AO2 UPB14E18FZRAE14 P0000 I1000 T10221061 CYHI 030100Z 32014G21KT 10SM DRSN FEW015 FEW210 M28/M32 A3035 RMK SF1CI1 SF TR -28.2/-28.9 SNW CVR/ MEDIUM PACK 0.0/51.0 LAST OBS TAKEN/NEXT031500Z SLP285 CYGR 030300Z 31022G31KT 5SM -SHSN BLSN BKN020 M07/M09 A2944 RMK SC7 LAST OBS/NEXT 031000 UTC SLP970 EGHI 030820Z 25006KT 9999 FEW015 BKN022 05/03 Q1014 KCLS 030835Z AUTO 00000KT 10SM CLR 00/00 A3017 RMK AO2 KCLT 030812Z 07006KT 10SM -RA OVC030 08/M08 A3029 RMK AO2 P0000 $ KCNB 030834Z AUTO 16008KT 10SM BKN048 OVC060 M02/M06 A2978 RMK AO2 T10211061 CXRB 030800Z AUTO 34003KT M32/M35 RMK AO1 SOG 00 1001 SLP168 T13171350 CYHK 030800Z AUTO 30009KT 6SM HZ CLR M37/M40 A3012 RMK SLP210 CYGT 030700Z 34010KT 15SM FEW032 M34/M38 A2995 RMK SC1 CALLOUT SLP151 KDCU 030753Z AUTO 12003KT 6SM BR OVC013 07/06 A3018 RMK AO2 SLP219 T00720061 KDEC 030754Z AUTO 14008KT 10SM OVC036 M02/M06 A3012 RMK AO2 FZRAE24 PRESFR SLP208 P0000 I1000 T10221056 TSNO $ KCNC 030835Z AUTO 16014G22KT 10SM OVC018 M01/M04 A2986 RMK AO2 KBUU 030815Z AUTO 12005KT 10SM OVC075 M05/M09 A3009 RMK AO2 T10471095 CWZL 030800Z AUTO 27001KT 06/01 RMK AO1 SLP256 T00560011 55001 KBWD 030815Z AUTO 17005KT 1/2SM FG OVC002 03/03 A3007 RMK AO2 KDED 030815Z AUTO 00000KT OVC001 A3021 RMK AO1 NZRO 030602Z 36008KT 25KM FEW025 19/14 Q1016 RMK VATSIM USE ONLY CYHM 030800Z 20005KT 15SM BKN170 BKN250 M13/M15 A3033 RMK AC5CI2 SLP288 CYGV 030800Z AUTO 34012G23KT 9SM BKN075 M13/M18 A2960 RMK PRESRR SLP026 PHSF 030756Z AUTO 12004KT 10SM FEW070 SCT180 11/07 A3035 RMK AO2 SLP169 T01080066 $ KCLW 030835Z AUTO 00000KT 1/2SM FG OVC002 18/18 A3018 RMK AO2 KBVN 030835Z AUTO 18007KT 10SM OVC028 M01/M06 A2970 RMK AO2 T10121062 CWZN 030700Z AUTO 00027KT M03/M05 RMK AO1 SLP775 T10271047 51009 CYGW 030800Z AUTO 13009KT 9SM CLR M29/M32 A3001 RMK SLP163 EGGW 030820Z 23006KT 9999 BKN011 03/02 Q1011 KBVO 030753Z AUTO 18011KT 6SM BR OVC004 02/02 A2998 RMK AO2 SLP151 T00220017 CWZO 030800Z AUTO 07016KT RMK AO1 PK WND 07019/0748 CYGX 030826Z 01013G19KT 1/4SM -SN BLSN VV001 M15/M18 A2954 RMK SN8 SLP017 ZSSS 030830Z 31007MPS 8000 SCT040 13/05 Q1015 NOSIG KBWG 030753Z AUTO 06003KT 10SM OVC033 03/M04 A3018 RMK AO2 SLP221 T00331039 $ KBUY 030754Z AUTO 07004KT 10SM OVC015 04/M06 A3031 RMK AO2 SLP265 T00441061 KDCY 030815Z AUTO 13007KT 10SM OVC041 M01/M07 A3016 RMK AO2 T10061070 CWYY 030800Z AUTO 35010G17KT 04/M14 RMK AO1 PK WND 36020/0721 SLP236 T00381140 51025 KDEH 030835Z AUTO 13007KT 10SM OVC060 M05/M08 A2993 RMK AO2 EGHQ 030820Z 26021G32KT 9999 VCSH BKN016 04/01 Q1017 RESHRA CXRH 030800Z AUTO 33009G19KT M07/M08 RMK AO1 22 0745Z SOG 79 T10731078 CWZQ 030820Z AUTO M08/M10 RMK AO1 T10841095 UNNT 030830Z 30003MPS 9999 FEW011 M08/M11 Q1026 25150060 16810160 NOSIG RMK QFE759/1013 KBWI 030754Z 00000KT 10SM FEW180 OVC230 M03/M10 A3040 RMK AO2 SLP294 T10331100 KCNI 030835Z AUTO 00000KT 10SM OVC022 10/04 A3020 RMK AO2 KBVS 030835Z AUTO 02005KT 10SM CLR 00/M05 A3019 RMK A01 P000 KBXA 030835Z AUTO 00000KT 1/4SM FG 18/17 A3014 RMK AO2 T01800165 EGJA 030820Z 26019KT 230V300 9999 SCT030 08/05 Q1017 CWZS 030800Z AUTO 33014G21KT M18/M23 RMK AO1 PK WND 31031/0721 SLP167 T11811230 51026 EFSA 030820Z AUTO 15007KT 110V190 9999 BKN006 OVC022 02/02 Q1003 KCNK 030832Z AUTO 17015G23KT 4SM BR OVC007 00/M01 A2968 RMK AO2 CIG 006V011 T00001011 $ CYIK 022200Z 19007KT 15SM FEW014 FEW040 FEW060 FEW150 FEW250 M30/M37 A2978 RMK ST1SC1SC1AC1CS1 SN CVR HARD PACK LAST OBS/NEXT 031300UTC SLP091 EGJB 030820Z 26017KT 9999 FEW015CB SCT018 07/06 Q1017 KBVU 030835Z AUTO 12004KT 10SM CLR 08/04 A2995 RMK AO2 CXSC 030800Z AUTO 31012KT M16/M20 RMK AO1 PK WND 32018/0712 T11601199 UNOO 030830Z 26003MPS 8000 BKN200 M09/M10 Q1030 25450150 NOSIG RMK QFE764 CXRL 030800Z AUTO M21/M25 RMK AO1 T12051254 CYHU 030800Z AUTO 29005KT 9SM CLR M11/M19 A3036 RMK SLP282 KCNM 030824Z AUTO 16014KT 2SM BR OVC002 03/02 A2991 RMK AO2 T00330022 KCOD 030835Z 32016G24KT 7SM BKN016 OVC026 M11/M14 A2991 RMK AO1 CWZV 030800Z AUTO 29003KT 07/M02 RMK AO1 SLP245 T00741024 51001 KDEN 030753Z 25005KT 5SM HZ FEW095 SCT110 00/M04 A2957 RMK AO2 SLP021 T00001044 KCOE 030835Z AUTO 03010KT 10SM CLR M03/M10 A3008 RMK AO1 NZTG 030737Z 05007KT 25KM NSC 21/16 Q1016 RMK VATSIM USE ONLY NZSP 030550Z 09008KT 9999 IC FEW010 SCT050 M54/ A2851 RMK CLN AIR 07010KT ALL WNDS GRID CWZW 030800Z AUTO 07003KT M14/M20 RMK AO1 SOG 37 7004 SLP298 T11421199 CXSE 030800Z AUTO 30009KT M33/M36 RMK AO1 SLP201 T13271362 53008 CYIN 030800Z AUTO 31004KT 9SM CLR M11/M19 A3021 RMK SLP285 KCOF 030833Z AUTO 01002KT 5SM R02/5000FT BR CLR 19/19 A3017 RMK AO2 KCNO 030753Z 00000KT 10SM CLR 08/06 A3000 RMK AO2 SLP158 T00780056 401560072 KBVX 030835Z AUTO 14004KT 10SM OVC007 01/M03 A3010 RMK AO1 KCMX 030753Z AUTO 18003KT 10SM OVC100 M11/M17 A2997 RMK AO2 SLP171 T11061172 CYJF 022300Z 24006KT 200V280 15SM SKC M07/M17 A3054 RMK -6.9/-21.5/0/47 MEDIUM PACK LAST OB/NEXT 031500UTC SLP360 CYIO 030800Z AUTO 17004KT 9SM CLR M38/M42 A2996 RMK SLP159 EFRO 030820Z 15005KT 1500 -RASN BR BKN001 OVC003 00/00 Q1000 KBVY 030753Z AUTO 30009KT 10SM CLR M06/M18 A3029 RMK AO2 SLP253 T10611178 KCMY 030815Z AUTO 13004KT 10SM OVC080 M04/M09 A3003 RMK AO2 T10451091 KBWP 030815Z AUTO 17015G21KT 10SM SCT080 OVC090 M03/M06 A2975 RMK AO1 CYHY 030800Z 31003KT 15SM FEW100 M23/M26 A3043 RMK AC1 SLP328 ZUCK 030800Z VRB01MPS 9999 SCT050 13/05 Q1015 NOSIG KDEQ 030753Z AUTO 10005KT 1 1/4SM BR OVC003 03/02 A3013 RMK AO2 SLP203 T00280017 PNO $ CXSH 030800Z AUTO 33003KT M18/M23 RMK AO1 SLP268 T11821231 52017 CYHZ 030800Z 30017G31KT 15SM DRSN SCT040 M10/M14 A2981 RMK SC4 SLP102 KDFI 030753Z AUTO 10004KT 8SM OVC090 M05/M10 A3027 RMK AO2 SLP260 T10501100 CWZZ 030800Z AUTO 36025KT M17/ A2940 RMK SLP007 EFSI 030820Z AUTO 14004KT 9999 BKN005 BKN042 01/01 Q1000 EGKA 030820Z 24013KT 9999 SCT020 07/05 Q1014 CYKA 030800Z 29010KT 40SM SKC M03/M14 A3029 RMK SLP274 KDET 030753Z AUTO 20004KT 8SM BKN090 OVC110 M03/M09 A3030 RMK AO2 SLP267 T10331094 EGJJ 030820Z 25010KT 9999 SCT015CB 07/06 Q1018 TEMPO 27020G35KT 5000 SHRA BKN015CB KBXK 030835Z AUTO 07006KT 9SM CLR 10/10 A2996 RMK AO1 KF70 030835Z AUTO 00000KT 10SM CLR 04/03 A2998 RMK AO1 EGKB 030820Z 23009KT 9999 FEW004 SCT030 04/02 Q1013 KCNU 030752Z AUTO 17012KT 3SM BR OVC003 02/01 A2993 RMK AO2 SLP141 T00170011 EHAK 030825Z AUTO 24028KT 9999 FEW016/// SCT026/// BKN049/// 05/M01 Q1006 KCPC 030835Z AUTO 05007KT 10SM OVC050 06/00 A3032 RMK AO2 T00561004 CXSL 030800Z AUTO 28004KT M19/M24 RMK AO1 T11911244 KCOM 030835Z AUTO 21004KT 1SM BR OVC003 03/03 A3006 RMK AO2 T00330033 CYKD 030000Z 16006KT 15SM SKC M18/M23 A3044 RMK -18.4/-27.2/0.0/25 HARD PACK/CI TR/LAST OBS/NXT 031400Z SLP308 CXTD 030800Z AUTO 29021G35KT M08/M11 RMK AO1 PK WND 28037/0725 SLP063 T10801106 53038 CYIV 030800Z 18003KT 3SM -SN OVC015 M08/M10 A2948 RMK SC8 SLP002 KDEW 030753Z AUTO 04006KT 10SM CLR M04/M07 A3009 RMK AO2 SLP210 T10441072 400611050 PHTO 030753Z 24007KT 10SM CLR 20/18 A3006 RMK AO2 SLP177 T02000178 $ KCON 030751Z AUTO 29008KT 10SM CLR M08/M18 A3027 RMK AO2 SLP254 T10831178 KCNW 030452Z 0000KT 2SM BR OVC003 05/05 A3018 EHAM 030825Z 20012KT 9999 SCT016 BKN029 05/03 Q1014 NOSIG CYKF 030800Z AUTO 00000KT 9SM SCT170 M20/M22 A3031 RMK SLP290 CZBF 030800Z 31012G26KT 280V350 15SM DRSN SKC M16/M25 A2991 RMK PRESRR SLP133 KBYG 030805Z AUTO 33026G37KT 1/2SM SN FZFG VV014 M09/M12 A2982 RMK AO2 PK WND 34037/0801 P0000 T10941117 $ KCNY 030753Z AUTO 00000KT 10SM SCT065 02/M02 A2981 RMK AO2 SLP091 T00221017 KBYH 022255Z 01006KT 10SM OVC035 03/M03 A3037 RMK LAST CYKG 022200Z 29003KT 8SM FEW015 SCT090 BKN210 M23/M25 A2959 RMK ST1AC2CI1 LAST OBS/NEXT 031300 UTC SLP042 CXSP 030800Z AUTO 30008KT M20/M24 RMK AO1 PK WND 31019/0710 T12031235 KCOQ 030836Z AUTO 18007KT 10SM OVC070 M07/M13 A2985 RMK AO2 VEPT 030650Z 27004KT 5000 HZ SCT020 26/19 Q1012 NOSIG CXTH 030800Z AUTO 30011KT M20/M24 RMK AO1 PK WND 32017/0708 T11951235 KBYI 030753Z AUTO 25019G26KT 10SM SCT120 01/M07 A2974 RMK AO2 PK WND 25026/0750 SLP069 T00111067 CXSR 030800Z AUTO 21008KT M17/M23 RMK AO1 SOG 56 8016 SLP309 T11651232 KCOS 030754Z 24017G26KT 10SM FEW050 FEW100 06/M08 A2966 RMK AO2 PK WND 25034/0739 SLP051 T00611083 NZTU 030800Z 09004KT 45KM BKN018 16/14 Q1012 RMK ALT VATSIM USE ONLY CYLA 022200Z 29013G18KT 13SM DRSN FEW010 SCT080 BKN230 M27/M32 A2975 RMK SC2AC2CI0 LAST OBS/NEXT 031300UTC SLP081 CYKJ 030800Z AUTO 32009G15KT 9SM FEW015 M26/M30 A2994 RMK SLP197 KCOT 030830Z AUTO 05003KT 2 1/2SM -RA BR OVC003 09/08 A3005 RMK AO2 P0001 T00890078 $ KCPK 030835Z AUTO 00000KT 10SM CLR 02/M06 A3040 RMK AO2 KCQB 030835Z AUTO 21011G15KT 2SM BR OVC001 04/04 A2997 RMK AO2 CYJT 030800Z 31024G36KT 2SM R27/2600V5500FT/N -SHSN BLSN OVC010 M05/M08 A2922 RMK SC8 /S02/ SLP896 EGKK 030820Z 23008KT 9999 FEW035 SCT042 05/04 Q1014 KCQC 030807Z AUTO 30018KT 6SM -SN BR SCT005 BKN012 OVC029 00/M01 A2991 RMK AO2 P0001 T00001006 KCOU 030754Z AUTO 13008KT 10SM OVC019 01/M05 A2999 RMK AO2 SLP161 T00061050 EHBK 030825Z AUTO 20012KT 9999 -RA FEW015 SCT033 BKN037 04/01 Q1018 NOSIG CYLC 022000Z 14007KT 2 1/2SM -SN BKN007 OVC015 M14/M17 A2958 RMK ST7SC1 -13.8/-18.1/TR/TR TRACE LOOSE LASTOB/NXTOB031300Z SLP022 CYKL 030800Z AUTO 33006KT 9SM CLR M31/M35 A2970 RMK SLP117 EGLC 030820Z 25009KT 9999 FEW025 06/03 Q1013 CYLD 030200Z 23007KT 15SM SKC M14/M19 A3020 RMK LAST OBS/NEXT 03 1100Z SLP264 KDFW 030753Z 25006KT 0SM R17C/2200V2400FT DZ FG VV002 04/04 A3011 RMK AO2 SFC VIS 1/4 SLP196 P0000 T00440044 KCQF 030835Z AUTO 00000KT 1/2SM FG BKN003 OVC029 17/17 A3016 RMK AO2 CYKO 022100Z 12007KT 15SM FEW200 M33/M36 A2978 RMK CI1 LAST OB NEXT / 031300 UTC REDUCED PROGRAM SLP088 EGLF 030820Z 25012KT 9999 FEW022 SCT034 05/03 Q1013 CXTO 030800Z AUTO M09/M12 RMK AO1 SLP281 T10881123 57016 CXTP 030800Z AUTO 26015G24KT M04/M05 RMK AO1 SOG 43 6013 PK WND 26026/0738 SLP696 T10381054 CYKP 030800Z AUTO 17007KT 9SM BKN170 BKN190 BKN210 M16/M21 A2985 RMK SLP125 OSDI 030800Z 27014KT 9999 FEW030 13/03 Q1019 EFTP 030820Z 11005KT 9999 BKN003 01/01 Q1000 CYKQ 022200Z 27009KT 15SM SKC M18/M25 A3022 RMK LAST OBS/NEXT 031400 UTC SLP236 CYLH 030800Z AUTO 18006KT 9SM BKN180 M13/M20 A2972 RMK PRESFR SLP087 KCPR 030835Z AUTO 02014G24KT 4SM -SN BR OVC031 M07/M08 A2975 RMK AO2 P0000 T10671083 $ NZWB 030610Z 30012KT 30KM NSC 24/12 Q1011 RMK VATSIM USE ONLY KBYS 030755Z AUTO 33007G13KT 290V010 10SM FEW190 07/01 A2991 RMK AO2 SLP143 T00650010 $ KCPS 030753Z AUTO 15008KT 10SM OVC023 00/M04 A3007 RMK AO2 SLP187 T00001044 TSNO CYLJ 030000Z CCA 32015KT 15SM DRSN SCT025 SCT100 BKN210 M15/M21 A3007 RMK SC3AC1CI3 LAST OB/NEXT 031200UTC SLP222 CYMA 030800Z 01008KT 20SM SKC M15/M22 A3025 RMK SLP297 EFVA 030820Z AUTO 16006KT 9999 BKN009/// OVC052/// 02/01 Q0999 KCPT 030835Z AUTO 00000KT 1/2SM FG OVC001 04/04 A3009 RMK AO2 CYLK 030100Z 33008KT 25SM BKN020 M24/M31 A3032 RMK ST5 -22.0/-25.0/TR/29 MUCHLOOSE/LAST OBS/NXT 031500Z SLP295 ORMM 030800Z 00000KT CAVOK 23/01 Q1017 NOSIG CZDB 030800Z AUTO 29011G18KT M10/M15 RMK AO1 SOG 98 3041 PK WND 31025/0707 SLP105 T11031146 CYLL 030800Z AUTO 31009G15KT 9SM CLR M20/M24 A3018 RMK SLP279 EGLL 030820Z 23008KT 9999 VCSH FEW027 SCT032 05/03 Q1013 NOSIG EGMC 030820Z 22009KT 9999 FEW015 05/03 Q1013 EFTU 030820Z AUTO 08007KT 9999 BKN005/// OVC050/// 02/02 Q0998 R08/29//95 KCQM 030834Z AUTO 18009G18KT 151V211 10SM OVC065 M06/M13 A2976 RMK AO2 EGMD 030820Z 23027KT 9000 VCSH SCT016 BKN028 08/06 Q1014 CXTV 030800Z AUTO 12006KT M22/M25 RMK AO1 SLP263 T12191254 58014 KCPW 030835Z AUTO 22022G43KT OVC001 M12/M12 A2982 RMK AO2 PWINO KDGW 030820Z AUTO 34018G21KT 3/4SM -SN BR VV009 M05/M06 A2973 RMK AO2 P0000 T10501061 KCRE 030753Z AUTO 05009KT 10SM BKN050 OVC065 09/05 A3029 RMK AO1 SLP258 T00890050 KDHN 030834Z 00000KT 1/4SM FG SCT004 OVC060 13/13 A3021 RMK AO2 KBZN 030830Z AUTO 36008KT 1 1/4SM -SN BR OVC019 M09/M12 A2998 RMK AO2 P0000 T10941117 KCRG 030753Z AUTO 00000KT 10SM SCT035 BKN042 OVC065 17/14 A3021 RMK AO2 SLP228 T01670144 KBYY 030835Z AUTO 00000KT 1/4SM FG OVC002 16/16 A3008 RMK AO2 T01600160 KCRH 021335Z AUTO 19011KT 1SM BR BKN015 OVC095 20/20 A3024 RMK A01 ORNI 030800Z 00000KT 8000 NSC 22/05 Q1017 NOSIG CZCP 030800Z AUTO 23004KT 9SM CLR M27/ A3043 RMK SLP320 CYKY 030800Z 32011G16KT 15SM FEW260 M18/M23 A3016 RMK CI1 SLP269 CYKZ 030800Z 00000KT 15SM SKC M17/M21 A3033 RMK SLP287 CYMH 030819Z AUTO 34015G27KT 5/8SM -SN BKN007 OVC150 M08/M09 A2908 RMK SLP848 NZWK 030602Z 36008KT 25KM FEW025 19/14 Q1016 RMK NZRO VATSIM USE ONLY CZCR 030800Z AUTO 27013G20KT M17/M23 RMK AO1 SOG 36 1045 PK WND 26026/0725 SLP160 T11661227 KDIJ 030832Z AUTO 31005KT 1SM -SN BR SCT002 BKN012 OVC034 M03/M04 A2966 RMK AO2 BKN V SCT UPB24E26SNB0758E08B26 P0000 CYMJ 022116Z 32028G33KT 3/4SM -SN BLSN OVC014 M08/M09 A2979 RMK SC8 LAST OBS/NEXT 031000 UTC SLP128 CYNA 030800Z AUTO 32013KT 9SM CLR M10/M13 A2945 RMK SLP975 KDHT 030753Z AUTO 22012KT 7SM CLR 02/01 A2981 RMK AO2 SLP094 T00220006 KCQT 030747Z AUTO VRB03KT 10SM FEW046 OVC070 12/07 A2998 RMK AO2 RAB05E23 SLP150 P0000 T01220072 401720094 KDIK 030756Z AUTO 33016G25KT 7SM -SN OVC019 M09/M13 A2989 RMK AO2 PK WND 34028/0709 SNB10 SLP150 P0000 T10941133 CXWB 030800Z AUTO 29003KT M33/M37 RMK AO1 T13341369 CYLT 030800Z 18003KT 15SM FEW100 BKN200 M36/M40 A3007 RMK AC1CI1 SLP191 EFUT 030820Z 13011KT 5000 OVC002 01/01 Q1001 CYLU 022200Z 29014KT 4SM -SN SCT030 BKN050 OVC070 M17/ A2965 RMK SC4SC3AS1 PRESRR LAST OBS/NEXT 031300Z SLP048 NZWN 030830Z AUTO 01018KT 9999 NCD 19/16 Q1013 NOSIG EHDL 030825Z AUTO 21011KT 9999 SCT013 SCT016 BKN110 03/01 Q1015 GRN TXKF 030755Z 35015KT 6000 -SHRA BKN008 OVC021 18/16 Q1018  CYND 030200Z 30004KT 15SM SKC M14/M20 A3032 RMK LAST OHBS/NEXT 031200 UTC SLP272 CXVM 030800Z AUTO 33010KT M19/M23 RMK AO1 T11881233 CYMM 030800Z AUTO 25008KT 9SM BKN040 M19/M22 A3024 RMK SLP280 KCQW 030835Z AUTO 11007KT 5SM BR OVC006 08/08 A3028 RMK AO2 NZWP 030738Z 04008KT 40KM FEW025 22/16 Q1015 RMK NZAA VATSIM USE ONLY CXVN 030800Z AUTO 19004KT M12/M16 RMK AO1 SLP285 T11161155 56017 CYNE 030839Z AUTO 33009G18KT 3SM -SN BKN020 M17/M20 A2968 RMK SLP073 CYLW 030800Z AUTO 35003KT 340V050 9SM CLR M05/M11 A3022 RMK SLP254 KCQX 030752Z AUTO 10SM CLR M04/M14 A3028 RMK AO2 SLP257 T10441139 $ CYMO 030800Z AUTO 20006KT 9SM CLR M18/M23 A3006 RMK SLP180 KCRP 030751Z 03007KT 1/2SM -DZ FG OVC002 12/12 A3007 RMK AO2 SLP181 P0000 T01220117 KCSG 030816Z AUTO 00000KT 4SM BR OVC009 16/14 A3019 RMK AO2 NZWR 030738Z 04008KT 40KM FEW025 22/16 Q1015 RMK NZAA VATSIM USE ONLY KCRQ 030753Z AUTO 08006KT 10SM BKN090 09/06 A2996 RMK AO2 SLP144 T00940061 401440094 NZWS 030800Z 03006KT 20KM BKN050 20/18 Q1014 RMK ALT VATSIM USE ONLY EGNH 030820Z 25025KT 9999 FEW011 SCT023 04/M01 Q1009 EHEH 030838Z AUTO 21015KT 9999 DZ FEW016 SCT026 BKN033 05/02 Q1017 BLU 21012KT 9999 FEW028 SCT035 BKN045 TEMPO 26020G30KT SHRA SCT015 SCT018CB BKN020 EFVR 030820Z AUTO 6000 OVC003 ///// Q//// KCRS 030802Z AUTO 16003KT 1/2SM FG VV004 07/06 A3010 RMK AO2 T00670061 NZWU 030739Z 24008KT 40KM NSC 18/15 Q1015 RMK NZOH VATSIM USE ONLY CZFA 022300Z 13006KT 30SM FEW240 M06/M19 A3033 RMK CI1 CI TR CLIMAT -5.9/-22.7/0.0 LAST STFTD OBS/NEXT 031500UTC SLP330 CYOA 030400Z 34013KT 15SM SKC M29/M33 A3014 RMK SLP275 EGNJ 030820Z 21013KT 9999 FEW016 03/01 Q1009 KCTB 030756Z AUTO 33009KT 10SM BKN045 OVC110 M14/M19 A3018 RMK AO2 SLP282 T11441189 KDKB 030835Z AUTO 15011KT 10SM BKN060 BKN095 OVC120 M05/M08 A3008 RMK AO2 T10511085 CYMT 030000Z 29008G17KT 15SM SKC M20/M27 A3009 RMK LAST OBS/NEXT 031100 UTC SLP227 CYMU 022200Z 26015G23KT 5SM IC DRSN BKN011 OVC070 M25/M29 A2991 RMK ST6AC1 LASTOBS/NEXT 03 1300Z SLP139 CYOC 030200Z 20002KT 35SM FEW210 M20/M26 A3031 RMK CC2 CCSL CLIMAT -19.5/-31.1/TR CM TR MWE LAST STFD OBS/NEXT 031400 UTC SLP302 CZEL 030800Z AUTO 07002KT M20/M22 RMK AO1 SLP282 T12031215 56015 KCSM 030811Z AUTO 20020G30KT 3SM BR OVC002 02/01 A2991 RMK AO2 PK WND 20030/0809 T00220011 CZEM 022100Z 24010KT 15SM FEW020 M20/M25 A3019 RMK CF1 CF TR/ LAST OBS/NEXT 031400 UTC SLP225 CXWM 030800Z AUTO 28006KT M19/M23 RMK AO1 T11931230 50004 CYNM 030800Z AUTO 16004KT 9SM CLR M25/M28 A3010 RMK SLP227 CYOD 030800Z 30008KT 15SM SKC M19/M26 A3021 RMK SLP282 EGNM 030820Z 24013KT 9999 6000W -SHSN FEW011 SCT022CB 02/M00 Q1007 KCRW 030754Z 04005KT 10SM CLR M01/M07 A3021 RMK AO2 SLP238 T10111067 $ EHDV 030825Z AUTO 25019KT 9999 FEW021/// 05/01 Q1008 EHFD 030825Z AUTO 26025KT 9999 -RA FEW014/// SCT039/// 03/M01 Q1007 CXVW 030700Z AUTO 25008KT M17/M22 RMK AO1 T11721224 CXWN 030800Z AUTO 30005KT M06/M09 RMK AO1 3006 SLP069 T10581087 50002 KCRX 030835Z AUTO 14005KT 3/4SM BR OVC003 07/06 A3014 RMK AO2 EGNO 030820Z 27018G28KT 9999 SCT023 05/01 Q1008 CYMX 030800Z 28003KT 25SM SKC M16/M21 A3035 RMK SLP284 KEBG 030835Z AUTO 00000KT 1/2SM FG OVC002 12/11 A3005 RMK AO2 T01200108 KCSQ 030835Z AUTO 16013G20KT 10SM OVC014 M01/M04 A2980 RMK AO2 UNTT 030830Z 26003MPS 9999 BKN021CB OVC066 M04/M07 Q1022 NOSIG RMK QFE752 21450240 KEAR 030835Z 15004KT 10SM OVC015 M02/M06 A2965 RMK AO1 EGNR 030820Z 25012KT 9999 FEW018 FEW030TCU 05/M01 Q1010 KCTJ 030835Z AUTO 00000KT 10SM OVC007 10/10 A3022 RMK AO2 CYPA 030800Z 33015KT 15SM FEW030 M20/M26 A3007 RMK SC2 INTMT -SN SLP221 CYOJ 030500Z 00000KT 15SM SKC M20/M24 A3039 RMK LAST STFD OBS/ NEXT 031400 UTC VIA CYPE SLP331 KDKK 030753Z AUTO 20003KT 10SM CLR M17/M19 A3037 RMK AO2 SLP299 T11721189 EGNS 030820Z 25022KT 9999 SCT020 04/M01 Q1007 NOSIG EGPA 030820Z 24015KT 9999 FEW018CB 02/M01 Q0996 KCUB 030804Z AUTO VRB05KT 10SM BKN018 OVC034 14/10 A3025 RMK AO2 T01390100 KEAT 030755Z AUTO VRB03KT 10SM CLR 06/M12 A3014 RMK AO2 SLP211 T00561122 401060039 EGPB 030820Z 24021KT 9999 FEW014 FEW015CB SCT018 04/00 Q0995 TEMPO 4000 SHRASN BKN009CB EGNT 030750Z 24006KT 210V270 9999 FEW025 01/M03 Q1004 KEAU 030756Z AUTO 12005KT 10SM OVC080 M06/M10 A3000 RMK AO2 SLP172 T10611100 ZUGY 030800Z 15002MPS 060V200 9999 SCT023 BKN046 10/03 Q1015 NOSIG EGPC 030820Z 20007KT 170V240 9999 FEW010CB FEW018 00/M02 Q0997 KCSV 030753Z AUTO 14003KT 10SM OVC020 07/00 A3017 RMK AO2 SLP220 T00670000 CZFM 030000Z 15007KT 35SM SKC M20/M24 A3045 RMK -19.1/-30.1/0.0/64 MUCH LOOSE LAST OBS/NXT 031400Z SLP318 EGNV 030820Z 22014KT 9999 FEW025 02/M01 Q1007 CZEV 030800Z AUTO 14009KT M17/M24 RMK AO1 SOG 43 6018 SLP264 T11721237 EGOM 030750Z AUTO 24010KT 9999 UP BKN006/// SCT014/// M00/M01 Q1004 EGPD 030820Z 25007KT CAVOK 01/M04 Q0999 NOSIG CYPD 030838Z AUTO 29020G30KT 2SM -SN SCT018 OVC025 M09/M11 A2966 RMK VIS VRB 1 1/4-2 1/2 PRESRR SLP052 CYPE 030800Z 27005KT 15SM SKC M18/M25 A3035 RMK SLP331 EGPE 030820Z 24016KT 9999 VCSH FEW006 FEW025CB 00/M01 Q0999 KDLF 030808Z AUTO 13007KT 4SM R13/4000FT HZ OVC002 09/06 A3006 RMK AO2 $ CYOO 030800Z AUTO 01004KT 9SM CLR M19/M21 A3035 RMK SLP287 EGPF 030820Z 23007KT 9999 VCSH FEW009 SCT016 BKN025 01/00 Q1004 RESN EGNX 030820Z 22014KT 9999 FEW008 03/01 Q1011 KECG 030754Z 04009KT 10SM CLR 02/M06 A3040 RMK AO2 SLP293 T00171056 $ CYPG 022300Z 14015KT 15SM DRSN FEW020 BKN220 M04/M08 A2983 RMK SC1CI4 LAST OBS/NEXT 031200 UTC SLP122 EGOP 030750Z AUTO 27013KT 9999 // NCD 05/02 Q1013 KDLH 030755Z 18013KT 10SM OVC075 M07/M15 A2987 RMK AO2 SLP139 T10671150 KCUH 030835Z AUTO 20011KT 3SM BR OVC004 02/02 A2997 RMK AO2 EHGG 030825Z AUTO 21009KT 180V240 9999 SCT015 BKN018 BKN029 05/02 Q1013 NOSIG CXYH 030800Z AUTO 34002KT M20/M22 RMK AO1 SOG 55 0000 SLP312 T11961223 CYPH 030800Z AUTO VRB02KT 9SM CLR M33/M37 A2991 RMK PRESFR SLP132 EGPH 030820Z 24009KT 9999 5000W VCSH FEW012 SCT018CB BKN026 01/M01 Q1004 KDKR 030810Z AUTO 11003KT 3/4SM BR OVC001 10/10 A3014 RMK AO2 KDMA 030758Z AUTO 33004KT 10SM BKN055 11/08 A2995 RMK AO2 SLP120 T01060078 $ KEBS 030835Z AUTO 14013KT 10SM OVC023 M04/M05 A2983 RMK AO2 EGPI 030820Z 23020KT 200V260 9999 SCT013 BKN020 02/00 Q1003 RESHSN EGQA 021450Z 23012KT 9999 FEW005 05/// Q0994 BLU CZFS 030800Z AUTO 00000KT M26/M29 RMK AO1 SOG 30 8001 SLP335 T12611291 EGOS 030756Z 24005KT 9999 FEW015CB 02/00 Q1010 BLACKBLU NOSIG CYQA 030800Z AUTO 00000KT 9SM CLR M23/M25 A3028 RMK SLP278 EHFS 030825Z AUTO 20019KT 9999 SCT020/// BKN024/// BKN037/// 05/03 Q1015 REDZ KCVB 030815Z AUTO 08005KT 1/2SM FG OVC003 08/08 A3008 RMK AO2 T00770076 CYQB 030800Z 26009KT 15SM SKC M16/M24 A3028 RMK SLP259 EGPK 030820Z 27016KT 9999 FEW018 SCT030 03/M01 Q1005 KEDC 030835Z AUTO 00000KT 1/4SM FG OVC003 05/05 A3008 RMK AO2 KCVC 030835Z AUTO 00000KT 10SM OVC017 12/08 A3020 RMK AO2 KCUL 030835Z AUTO 13009KT 10SM SCT024 SCT033 OVC065 02/M02 A3011 RMK AO2 T00191019 KDLL 030810Z AUTO 13003KT 10SM OVC075 M05/M09 A3004 RMK AO2 T10481090 CYPL 030200Z 20011KT 15SM SCT230 M10/M21 A2988 RMK CI3 LAST STFD OB/NEXT 031100Z SLP158 CXZC 030800Z AUTO 19002KT M18/M22 RMK AO1 SOG 77 8017 SLP180 T11781217 EGPL 030820Z 23015KT 9999 VCSH FEW010CB SCT030 03/00 Q0997 CYQD 030815Z 32019G25KT 8SM DRSN FEW030 BKN200 M18/M23 A2985 RMK SC2CS5 HALO SLP133 EGPM 030820Z 26007KT 9999 VCSH FEW012 SCT025 FEW028CB 02/M00 Q0994 TEMPO 4000 SHRASN BKN009CB VGEG 030750Z 25007KT 4000 HZ FEW018 31/21 Q1009 NOSIG KDLN 030836Z AUTO 03021G26KT 6SM -SN BKN028 OVC042 M10/M14 A2987 RMK AO2 PK WND 03029/0757 P0000 T11001139 KEDE 030835Z AUTO 06004KT 10SM CLR 01/M05 A3038 RMK AO2 T00091046 EGOV 030750Z 24019KT 9999 FEW023 04/M01 Q1010 BLU NOSIG EGOW 030750Z 26017G27KT 9999 FEW015 SCT025 05/M01 Q1009 BLU EGPN 030820Z 25010KT 9999 FEW015 SCT024 02/02 Q1002 R27/2100// CYOW 030800Z 19002KT 15SM SKC M16/M19 A3034 RMK FROIN SLP282 CYPO 030800Z AUTO 19007KT 9SM BKN150 M16/M22 A2972 RMK SLP072 CYQF 030800Z 30008KT 15SM SKC M17/M23 A3026 RMK SLP318 KCTY 030753Z AUTO 00000KT 14/14 A3019 RMK AO1 SLP223 T01440139 KCVG 030752Z 09007KT 10SM OVC200 M03/M09 A3022 RMK AO2 PRESFR SLP240 BINOVC T10281094 EGPO 030820Z 22014KT 9999 VCSH FEW008 FEW010CB 01/M01 Q0996 R18/5501// KECP 030836Z AUTO 00000KT 3SM BR BKN001 13/12 A3017 RMK AO2 $ KDLP 030620Z AUTO VRB04KT A3017 RMK A01 CYOY 030800Z AUTO 25005KT 210V280 9SM CLR M20/M25 A3024 RMK ICG PAST HR SLP256 CYQG 030800Z 18005KT 12SM OVC068 M06/M09 A3029 RMK AC8 SLP267 KCVH 030830Z AUTO 00000KT 10SM CLR 05/05 A3000 RMK AO1 KDMH 030754Z AUTO M17/ A3042 RMK AO1 SLP300 T1172 $ KCTZ 030835Z AUTO 08004KT 10SM OVC060 05/M01 A3035 RMK AO2 T00481010 CYPQ 030800Z AUTO 26002KT 9SM CLR M22/M23 A3033 RMK SLP288 CYQH 030800Z 00000KT 30SM SKC M23/M28 A3026 RMK SLP314 EHFZ 030825Z AUTO 24019KT 9999 FEW019/// SCT023/// BKN033/// 05/01 Q1009 CYQI 030800Z 34020G29KT 8SM -SHSN DRSN SCT050 M08/M12 A3006 RMK SC4 SLP182 CYPR 030800Z AUTO 04004KT 9SM BKN160 BKN210 02/00 A3027 RMK SLP251 KDLS 030753Z AUTO 07003KT 10SM OVC070 06/01 A3013 RMK AO2 SLP205 T00610011 401280000 KEDJ 030830Z AUTO 13005KT 10SM BKN080 M05/M10 A3023 RMK AO1 KECS 030835Z AUTO 34015G24KT 4SM -SN OVC010 M04/M08 A2973 RMK AO2 EHGR 030825Z AUTO 21011KT 9999 FEW027 BKN031 OVC035 04/02 Q1016 BLU 21009KT 9999 FEW030 BKN040 OVC060 BECMG 22015KT 7000 -RA FEW012 BKN020 OVC028 KCWA 030835Z AUTO 15005KT 10SM SCT041 SCT048 OVC075 M06/M07 A3001 RMK AO2 CYRA 030100Z 02004KT 15SM BR FEW014 FEW015 FEW200 M23/M27 A3044 RMK SF1ST2CS1 SF TR CS TR VIS 5 N-E BR -20.5/-24.4/0.2/16.0 MUCH LOOSE LAST OB/NXT 031500Z SLP340 KCUT 030827Z AUTO 36011G17KT 2 1/2SM -SN SCT017 BKN029 OVC042 M07/M10 A2961 RMK AO2 PK WND 36027/0804 P0000 T10671100 KECU 030810Z AUTO 19004KT 1/2SM FG OVC001 08/08 A3005 RMK AO2 EGQK 030750Z AUTO 22007KT 9999 FEW150/// 01/M03 Q0998 CYRB 030800Z 33005KT 15SM -SN SCT080 BKN240 M32/M35 A3001 RMK AC4CS3 SLP177 CYQK 030800Z 21015KT 15SM -SN BKN024 OVC045 M05/M10 A2964 RMK SC6SC2 -SN INTMT SLP063 KCWC 030835Z AUTO 17012KT 10SM SCT012 OVC022 04/03 A3003 RMK AO2 T00400025 CYQL 030800Z AUTO 33006KT 9SM BKN055 M12/M19 A3026 RMK SLP309 EGQL 030750Z 26012KT 9999 FEW012 SCT039 01/M01 Q1002 BLU KEED 030756Z AUTO 00000KT 10SM CLR 10/06 A2995 RMK AO2 SLP132 T01000061 401780100 EGPU 030820Z AUTO 23016KT 200V260 9999 FEW025/// SCT036/// 02/M00 Q0999 RERA CYQM 030800Z 28019G26KT 12SM DRSN SKC M13/M21 A2988 RMK PRESRR SLP122 KDMN 030753Z AUTO 28009KT 10SM BKN033 BKN045 BKN055 11/07 A2994 RMK AO2 SLP090 T01060067 KCVN 030835Z AUTO 20009KT 4SM CLR 01/M01 A2988 RMK AO1 KEDN 030835Z AUTO 12004KT 1/2SM FG BKN003 OVC039 15/15 A3017 RMK AO2 EGQM 030750Z AUTO 23012KT 9999 NCD 02/M01 Q1004 CYPW 030300Z 10002KT 30SM FEW230 05/00 A3013 RMK CI1 LAST OBS/NEXT031500UTC SLP208 KDMO 030753Z AUTO 18011KT 10SM OVC017 02/M03 A2997 RMK AO2 SLP157 T00221028 KCVO 030835Z AUTO 27004KT 10SM CLR 02/01 A3014 RMK AO1 KCWF 030835Z AUTO 08003KT 3/4SM BR OVC002 11/11 A3012 RMK AO2 T01110111 CYPX 030800Z AUTO 09006KT 9SM CLR M38/M42 A2990 RMK SLP130 CYPY 030838Z AUTO 32006KT 6SM HZ OVC037 M22/M25 A3028 RMK SLP283 KDLZ 030847Z AUTO 09005KT 10SM OVC090 M06/M11 A3025 RMK AO2 CYQQ 030800Z 31004KT 20SM BKN250 05/M06 A3021 RMK CI1 SLP230 KCWI 030835Z AUTO 15013KT 9SM OVC034 M04/M08 A3005 RMK AO1 CYQR 030800Z 29012KT 12SM -SN DRSN FEW040 BKN250 M18/M22 A3004 RMK SC1CI5 SLP220 KCVS 030758Z AUTO 21004KT 6SM BR CLR 00/00 A2989 RMK AO2 SLP129 T00001001 $ CYRJ 030800Z 25007KT 25SM SKC M21/M27 A3023 RMK SLP254 EGQS 030750Z 24013KT 9999 FEW012 FEW015CB 00/M03 Q0998 BLU NOSIG EHJA 030825Z AUTO 24021KT 9999 FEW012/// 05/02 Q1009 CYSB 030800Z 22004KT 15SM SKC M15/M19 A3019 RMK SLP250 OTBD 030830Z 35012KT CAVOK 25/08 Q1016 NOSIG CYQT 030800Z 04004KT 15SM OVC110 M12/M13 A2992 RMK AC8 PRESFR SLP147 KDNL 030753Z AUTO 11004KT 10SM SCT037 OVC050 16/12 A3020 RMK AO2 SLP223 T01610122 KEDU 030835Z AUTO 00000KT 10SM CLR 07/05 A3000 RMK AO1 CYRL 030300Z 15006KT 15SM BKN024 M08/M14 A2979 RMK SC7 LAST STFD OBS/ NEXT 03 1000UTC SLP122 EGSC 030820Z 19009KT 160V240 9999 SCT013 04/02 Q1011 CXZU 030800Z AUTO M17/M22 RMK AO1 SLP321 T11681215 58008 CYSC 030800Z AUTO 28002KT 9SM CLR M17/M21 A3026 RMK SLP267 CYQU 030800Z 25007KT 25SM FEW110 M16/M23 A3036 RMK AC1 SLP340 KEFD 030750Z 11003KT 1/4SM FG VV003 14/14 A3012 CYSD 030000Z 35020G25KT 25SM FEW025 BKN250 M07/M12 A3011 RMK SC1CI2 -2.8/-7.0/14-24Z 0.7 CM/LAST OB/NEXT 031400 SLP240 EGSD 030820Z 22008KT 9999 SCT024 03/03 Q1011 CXZV 030800Z AUTO 33018G30KT M20/M28 RMK AO1 PK WND 34030/0754 SLP114 T12001275 53039 CYQV 030800Z AUTO 31018G25KT 9SM OVC047 M17/M21 A2990 RMK PRESRR SLP167 KEEN 030835Z AUTO 00000KT 10SM CLR M08/M17 A3029 RMK AO1 KCWN 030756Z AUTO 14004G14KT 10SM FEW080 03/M08 A2935 RMK AO2 PK WND 16027/16 SLP950 T00311085 $ KEDW 030758Z AUTO 23005KT 10SM CLR 05/02 A2993 RMK AO2 SLP135 T00530016 401410033 KCVW 030835Z AUTO 06004KT 1/2SM BR OVC002 14/14 A3014 RMK A01 KCXE 030815Z AUTO 10003KT 10SM OVC031 03/M03 A3035 RMK AO1 T00301027 KDMW 030815Z AUTO 32004KT 10SM SCT085 M04/M10 A3036 RMK AO2 KDNN 030815Z AUTO 00000KT 10SM OVC026 07/05 A3021 RMK AO2 CYQW 030833Z AUTO 32013KT 9SM SCT023 M19/M22 A3018 RMK SLP267 KEEO 030753Z AUTO 22016G23KT 10SM BKN065 OVC075 01/M05 A2972 RMK AO2 PK WND 23027/0708 SLP035 T00111050 KCVX 030835Z AUTO 00000KT 10SM OVC100 M11/M15 A3018 RMK AO2 T11151151 CYSF 030800Z AUTO 30007KT 9SM CLR M27/M33 A3009 RMK SLP222 CYQX 030823Z 28027G36KT 3/4SM R03/P6000FT/D R13/6000FT/D -SN BLSN OVC006 M05/M06 A2864 RMK SN6SF2 SLP706 CZHY 030800Z AUTO 33003KT M23/M26 RMK AO1 SOG 32 2003 SLP318 T12261264 CYQY 030800Z 29019G28KT 6SM -SN BKN018 M07/M09 A2950 RMK SC7 SLP993 CYRQ 030800Z AUTO 00000KT 9SM CLR M21/M24 A3033 RMK SLP275 CYQZ 030800Z AUTO 00000KT 9SM CLR M09/M16 A3038 RMK SLP323 EGSH 030820Z 23008KT 200V260 7000 -SHRA SCT008 BKN015 03/02 Q1011 KDPA 030752Z 14005KT 10SM OVC070 M03/M09 A3014 RMK AO2 SLP216 T10331089 KDNS 030835Z AUTO 16008G14KT 10SM OVC021 M01/M05 A2976 RMK AO2 OSKL 030800Z 09008KT 9999 SCT026 OVC100 11/08 Q1016 CYSJ 030800Z 31016G23KT 15SM SKC M14/M21 A2999 RMK SLP163 KEET 030830Z AUTO 00000KT 2SM BR OVC003 11/11 A3018 RMK AO2 RAB0758E21 P0001 T01110106 ORSU 030815Z 27006KT 3000 SHRA FEW035TCU BKN040 BKN070 10/07 Q1020 KEFK 030835Z AUTO 00000KT 10SM CLR M17/M22 A3028 RMK AO2 T11721218 CYSK 022300Z 27011KT 12SM IC DRSN SKC M28/M31 A2994 RMK -25.8/-31.1/M/M SNOW COVER/HARD PACK LAST OBS/NEXT 031300UTC SLP144 CYRT 030800Z 35010KT 15SM IC SKC M34/M38 A3004 RMK SLP178 EGTC 030820Z 24007KT 9999 FEW006 SCT012 03/02 Q1011 KCWV 030835Z AUTO 09003KT 10SM BKN060 BKN070 13/13 A3020 RMK AO2 KDNV 030835Z AUTO 13009KT 10SM -RA OVC048 M03/M06 A3010 RMK AO2 T10271063 CZKD 030800Z AUTO 34013G21KT M17/M20 RMK AO1 2PAST HR SOG 60 3010 PK WND 33027/0734 SLP042 P0001 T11701197 50002 CYSM 030800Z 32006KT 15SM FEW050 M24/M27 A3032 RMK SC1 SC TR FROIN SLP295 CYRV 030800Z AUTO 33011G16KT 9SM CLR M03/M16 A3023 RMK SLP257 EHKD 030825Z AUTO 22013KT 9999 FEW099 06/02 Q1012 BLU 25015KT SCT010 BKN015 TEMPO 27020G30KT 4500 SHRA SCT008 SCT015CB KEGE 030835Z AUTO 25011KT 10SM SCT050 BKN070 OVC085 00/M03 A2976 RMK AO1 CYSN 030200Z 24006KT 15SM FEW035 M08/M13 A3044 RMK SC2 LAST STFD OBS/NEXT 03 1200UTC SLP313 EGTE 030820Z 28014KT 260V330 9999 VCSH SCT025CB 05/02 Q1015 CYTE 030800Z AUTO 00000KT 9SM FEW017 M25/M27 A2979 RMK SLP095 KCXO 030753Z AUTO 00000KT 1/2SM FG VV003 11/11 A3012 RMK AO2 SLP198 T01110106 KDPG 021959Z 30006KT 3SM -DZ BR OVC009 01/00 A2972 RMK SLP062 T00080003 NOSPECI KCXP 030835Z AUTO 00000KT 10SM FEW060 OVC070 02/M04 A2995 RMK AO2 CYSP 022200Z 24005KT 180V290 15SM FEW050 SCT220 M10/M17 A3025 RMK SC1CI2 LAST STFD OBS/NEXT 031300UTC SLP273 CYTH 030800Z 33014G27KT 10SM -SN DRSN SCT040 BKN070 M20/M25 A2969 RMK SC3AC3 SLP078 KEGI 030758Z AUTO 00000KT 1/4SM FG VV001 16/15 A3017 RMK AO2 SLP218 T01560153 RVRNO $ EHJR 030825Z AUTO 21021G25KT //// ///////// 05/02 Q1011 W06/H23 OSLK 030800Z 06005KT 9999 SCT026 BKN030 14/10 Q1018 KEHA 030828Z AUTO 24013KT 03/00 RMK AO1 PK WND 21 000 T00330001 CYUA 030800Z AUTO 11006KT 9SM CLR M22/ A3016 RMK SLP221 EGSS 030820Z 23012KT 9999 BKN013 05/03 Q1012 KEFT 030815Z AUTO 14008KT 10SM OVC060 M04/M07 A3005 RMK AO2 EGTK 030820Z 24008KT 9999 FEW008 03/03 Q1012 CYUB 030600Z 11013KT 15SM SKC M23/M29 A3038 RMK -22.9/-25.3/0/27 MEDIUM PACK LAST OBS/NEXT 031400UTC SLP289 EGUB 030750Z 23006KT 9999 -SHRA FEW012 SCT040 04/02 Q1012 BLU NOSIG KDPL 030835Z AUTO 09004KT 10SM OVC060 04/M03 A3036 RMK AO2 T00411033 KEHC 030835Z AUTO 10008KT M1/4SM FG VV000 20/20 A3009 RMK A01 CYTL 030800Z AUTO 17006KT 9SM SCT065 SCT130 M11/M16 A2960 RMK SLP045 KDOV 030758Z AUTO 32005KT 10SM CLR M03/M08 A3039 RMK AO2 SLP295 T10341082 $ KCXY 030756Z AUTO 32003KT 10SM CLR M07/M11 A3039 RMK AO2 SLP298 T10721111 CYSY 030000Z 31012KT 15SM IC FEW020 SCT110 M30/M33 A3040 RMK SC1AC2 SNW CVR TRACE LOOSE LAST OBS/NEXT 031400Z SLP312 KDQH 030835Z AUTO 00000KT 1/2SM FG OVC001 15/13 A3021 RMK AO2 VGHS 030750Z 27005KT 4000 HZ SCT015 BKN100 30/10 Q1010 NOSIG CYTQ 022200Z 28020G25KT 4SM IC DRSN BKN080 BKN220 M27/M30 A2978 RMK AC5CI1 LAST OBS/NEXT 031300Z SLP091 CYTR 030800Z 00000KT 15SM FEW150 M17/M19 A3036 RMK AC1 SLP289 KCYS 030753Z AUTO 25013G20KT 10SM CLR 03/M07 A2954 RMK AO2 PK WND 25031/0700 SLP001 T00331072 $ KDRA 030752Z AUTO 00000KT 10SM CLR 01/00 A2993 RMK AO2 SLP131 T00060000 401000006 CYTS 030800Z 19007KT 15SM FEW200 M19/M22 A3010 RMK CI1 SLP222 EGVA 030758Z AUTO 25008KT 9999 SCT120 03/02 A2989 RMK AO2 SLP129 T00250022 $ EHMA 030825Z AUTO 22015KT 9999 FEW018/// SCT021/// 05/02 Q1012 EICK 030830Z 25010KT 9999 FEW018CB M00/M00 Q1013 NOSIG CYVC 030800Z 30011G17KT 15SM DRSN FEW030 M22/M27 A3005 RMK SC2 SLP213 CYUL 030800Z 28005KT 15SM SKC M12/M20 A3036 RMK SLP282 EGUL 030816Z AUTO 22009KT 9999 SCT015 SCT020 04/02 A2986 RMK AO2 RAE0815 KEGV 030810Z AUTO 19004KT 10SM OVC039 M07/M15 A2997 RMK AO2 T10711151 CZMD 030800Z AUTO 20011KT 4SM -SN BKN028 OVC049 M08/M12 A2955 RMK SLP027 EHKV 030825Z AUTO 23021KT 9999 FEW036/// SCT043/// 05/02 Q1011 KEHO 030835Z AUTO 01006KT 10SM OVC024 08/M03 A3030 RMK AO2 T00801032 EGUN 030829Z AUTO 22013KT 9999 FEW016 BKN060 BKN075 04/02 A2985 RMK AO2 PRESFR EHMG 030825Z AUTO 23022KT 9999 SCT017/// BKN022/// BKN027/// 05/01 Q1011 CYTZ 030800Z AUTO 28005KT 9SM CLR M09/M13 A3036 RMK SLP287 KEHR 030835Z AUTO 12006KT 10SM BKN027 BKN034 OVC070 01/M05 A3012 RMK AO1 KDRI 030835Z AUTO 00000KT 5SM BR OVC002 10/09 A3014 RMK AO2 T00970090 CZMJ 030800Z AUTO 30014KT M18/M21 RMK AO1 SOG 09 2022 PK WND 30020/0705 SLP238 T11751207 CYUS 030800Z AUTO 15005KT 9SM CLR M42/ A3011 RMK SLP207 CYWA 030800Z AUTO 00000KT 9SM CLR M21/M24 A3032 RMK SLP279 KEIK 030835Z AUTO 28017G30KT 10SM CLR 06/M09 A2960 RMK AO2 T00581086 KCZT 030835Z AUTO 00000KT 2SM +RA OVC005 08/08 A3007 RMK AO2 P0002 CYUT 022200Z CCA 34014G22KT 2SM IC BLSN FEW020 FEW150 M32/M36 A2995 RMK BLSN1ST1AC1 ST TR AC TR -31.0/-33.4/0.2/1.0 SNW CVR/MUCH LOOSE LAST OBS/NXT 031400Z SLP146 EIDL 030800Z 27024G41KT 9999 FEW016 SCT032 BKN041 04/00 Q1005 EGWC 030750Z 17003KT 9999 FEW006 01/00 Q1011 BLU CYVL 030800Z AUTO 00000KT 9SM CLR M29/M31 A3035 RMK SLP320 KDRM 030835Z AUTO 00000KT 10SM CLR M20/M22 A3018 RMK AO2 T11971217 CYVM 030800Z AUTO 22003KT 9SM CLR M34/M38 A2998 RMK SLP153 CYWE 030824Z AUTO 27005KT 230V290 9SM -SN FEW033 M30/M34 A3028 RMK SLP313 KDRO 030753Z AUTO 23009KT 10SM OVC040 M01/M01 A2991 RMK AO2 SLP128 T10061006 $ EHLW 030825Z AUTO 23010KT 9999 SCT140 BKN360 05/02 Q1012 BLU 23009KT 9999 SCT019 EGUW 030816Z 22009KT 9000 SHRA SCT015 BKN025 04/02 Q1011 WHT TEMPO FEW015 BKN025 BLU EGVN 030750Z 23004KT CAVOK 03/02 Q1012 BLU NOSIG KFAF 030758Z AUTO 08003KT 10SM CLR 00/M07 A3036 RMK AO2 SLP284 T00031068 $ CYVO 030800Z AUTO 22007KT 9SM CLR M20/M23 A3016 RMK SLP248 CYUX 030800Z AUTO 32013KT 9SM CLR M39/M43 A2999 RMK SLP157 EGVO 030750Z 23013KT 9999 FEW024 BKN028 04/02 Q1013 BLU NOSIG KEHY 030815Z AUTO 1SM -SN OVC006 M05/M07 A2957 RMK AO2 EGVP 030807Z 28011KT 9999 FEW013 SCT100 05/02 Q1013 BLU NOSIG CYUY 030800Z 19007KT 15SM SKC M20/M23 A3016 RMK SLP242 CYVP 030800Z 23007KT 15SM FEW100 FEW240 M33/M37 A2994 RMK AS1CI2 AS TR SLP144 CYWG 030800Z 31019G24KT 10SM -SN BKN039 M07/M09 A2971 RMK SC7 SLP076 KCZZ 030752Z AUTO 36005KT 03/02 A2992 RMK AO1 SLP129 T00280017 400940022 CYVQ 030800Z 11007KT 30SM SKC M21/M25 A3039 RMK SLP303 CYWH 030500Z 35005KT 330V050 15SM SKC 05/02 A3014 RMK LAST STFD OBS/NEXT 031400 UTC SLP207 KEIR 030835Z AUTO VRB03KT 10SM CLR 22/21 A3012 RMK A01 CYVR 030800Z 11008KT 20SM SKC 02/M04 A3022 RMK SLP233 KDTA 030815Z AUTO 20008KT 10SM SCT025 BKN035 OVC041 00/00 A2985 RMK AO1 T00031002 CYWJ 030000Z 31010KT 40SM SKC M17/M24 A3049 RMK -16.5/-24.5/0/33 MUCH LOOSE LAST OB/NXT 031400UTC SLP354 KDRT 030753Z AUTO 11007KT 8SM OVC004 09/08 A3006 RMK AO2 SLP175 T00890083 CYVT 030400Z 33014G23KT 15SM DRSN SKC M20/M26 A3016 RMK BLSN IN OPEN AREAS SN COV/MEDIUM PACK LAST STFD OB/NXT 031200 UTC SLP258 CZMT 030200Z VRB02KT 15SM FEW060 BKN090 BKN210 05/02 A3029 RMK SC2AC3CI2 LAST OBS/NEXT 031500 UTC SLP257 CYWK 030800Z AUTO 27006KT 9SM CLR M29/M34 A2973 RMK SLP127 KH21 030835Z AUTO 14009KT 10SM 01/M01 A2995 RMK AO2 CZMU 030700Z AUTO 32012KT M17/M23 RMK AO1 SOG 00 PK WND 33019/0610 T11741231 CYWL 030800Z 32006KT 15SM SKC M10/M19 A3026 RMK SLP299 CYXC 030800Z 18003KT 15SM -SN FEW010 OVC040 M07/M12 A3014 RMK SC2SC6 SLP254 KDSM 030837Z 15012KT 10SM -FZDZ OVC021 M01/M06 A2986 RMK AO2 FZDZB36 P0000 I1000 T10111061 KFAM 030835Z AUTO 18011KT 10SM OVC015 01/M05 A3006 RMK AO1 EGXC 030750Z 21010KT 9999 FEW013 SCT070 BKN220 03/01 Q1010 BLU NOSIG CYVV 030800Z 18004KT 20SM FEW250 M15/M17 A3028 RMK CI1 SLP270 CYXD 030800Z AUTO 30008KT 9SM CLR M16/M22 A3031 RMK SLP317 EGXD 030818Z 13003KT 9999 FEW009 FEW018CB 02/00 Q1008 RESHRA RESHSN BLU NOSIG EGXE 030750Z 19008KT 9999 FEW006 FEW018CB 01/00 Q1007 BLACKBLU TEMPO 3000 -SHSN SCT006 BKN015CB CYXE 030800Z 33016KT 15SM FEW040 M19/M24 A3012 RMK SC2 SLP245 EIDW 030830Z 24017KT 9999 FEW014 SCT200 01/M01 Q1009 RESHSN R10/210095 NOSIG KFBG 030758Z AUTO 09006KT 10SM BKN026 OVC050 05/M01 A3034 RMK AO2 CIG 026V055 BKN V SCT SLP277 $ CYXH 030800Z AUTO 31009KT 9SM CLR M14/M18 A3027 RMK SLP296 KFAR 030833Z 20010KT 10SM BKN014 M03/M06 A2974 RMK AO2 T10281056 KDUA 030835Z AUTO 16007KT 1/2SM FG OVC001 03/03 A3007 RMK AO2 KELA 030815Z AUTO 32004KT 1/2SM FG OVC003 09/09 A3010 RMK AO2 T00930093 CYXJ 030800Z 19004KT 15SM FEW230 M16/M24 A3031 RMK CI2 SLP325 KFAT 030753Z 00000KT 10SM CLR 08/05 A2997 RMK AO2 SLP149 T00780050 401500078 $ KDUB 030835Z AUTO 12008KT 3SM -SN SCT005 OVC012 M07/M08 A2963 RMK AO2 CYYB 030800Z AUTO VRB02KT 9SM FEW220 SCT240 M16/M18 A3020 RMK SLP256 KFBL 030834Z AUTO 14009G14KT 10SM OVC070 M04/M09 A2989 RMK AO2 KDTL 030835Z AUTO 18013KT 10SM CLR M02/M05 A2973 RMK AO2 KDUC 030835Z AUTO 19010KT 3SM BR OVC002 03/03 A3001 RMK AO2 KEKM 030150Z 18004KT 10SM BKN120 M03/M11 A3037 CZOL 030800Z AUTO 31006KT M17/M23 RMK AO1 T11691233 CYXL 030800Z 20009KT 15SM -SN OVC050 M06/M14 A2968 RMK SC8 SLP078 CYYC 030800Z 36015KT 15SM BKN047 M14/M20 A3023 RMK SC7 SLP312 EGWU 030814Z 26007KT 9999 -RA SCT018 SCT022 BKN120 05/03 Q1013 WHT BECMG FEW022 SCT040 BLU KELD 030803Z AUTO 00000KT 2 1/2SM BR OVC002 03/03 A3016 RMK AO2 T00330028 CZPC 030822Z AUTO 12005KT 2 1/2SM -SN OVC027 M14/M15 A3019 RMK SLP303 KDSV 030754Z AUTO 15003KT 10SM CLR M14/M16 A3037 RMK AO2 SLP306 T11391161 EGYD 030807Z 23013KT 9999 SCT009 BKN140 02/01 Q1010 GRN BECMG SCT025 BLU CYYD 030800Z AUTO 14004KT 9SM CLR M05/M13 A3032 RMK SLP295 KDTN 030815Z AUTO 14003KT 2SM BR OVC002 04/04 A3014 RMK AO2 T00440039 KEKN 030751Z AUTO 00000KT 5SM BR OVC100 M06/M07 A3026 RMK AO2 SLP274 T10611067 TSNO CYXN 022200Z 36004KT 300V030 15SM FEW230 M30/M34 A2996 RMK CI1 -30.0/-35.0/0.0MM/38.0CM/SNW CVR TRACE LOOSE/LAST OBS/NEXT 031400Z SLP147 EGYE 030750Z 21008KT 9999 FEW008 SCT040 ///// Q1009 BLU CYYE 030800Z 27002KT 15SM SKC M20/M24 A3037 RMK SLP324 KDTO 030753Z AUTO 20005KT 1/4SM FG VV002 04/04 A3010 RMK AO2 SLP193 T00390039 KEKO 030836Z AUTO 21004KT 2SM -SN BR OVC016 M01/M01 A2982 RMK AO2 SNB06 P0003 T10061011 OTHH 030300Z 35008KT CAVOK 19/14 Q1014 NOSIG CYYF 030800Z 35008KT 15SM SKC M00/M12 A3023 RMK SLP248 KFAY 030753Z AUTO 09006KT 10SM OVC050 06/00 A3034 RMK AO2 SLP270 T00560000 KDUG 030821Z AUTO 34008KT 7SM -RA BKN023 BKN029 OVC036 08/07 A2994 RMK AO2 P0003 T00830072 CYWY 022300Z 27003KT 15SM SKC M14/M23 A3057 RMK -13.6/-25.1/0/48 MEDIUM PACK LAST OBS/NEXT 031500Z SLP374 CYXP 022300Z 00000KT 15SM FEW180 BKN220 M24/M30 A2984 RMK AS2CI5 -22.7/-26.5/0.0/41 LAST STFD OBS/NEXT 031200Z SLP109 EGXP 030750Z 22013KT 9999 FEW010 SCT100 02/01 Q1009 BLU CYYG 030800Z 30023G35KT 15SM BLSN SCT035 M12/M18 A2977 RMK SC3 PRESRR SLP084 KDUH 030834Z AUTO 00000KT 10SM OVC100 M04/M08 A3028 RMK AO2 KEKQ 030756Z AUTO 00000KT 10SM BKN036 OVC070 02/M02 A3020 RMK AO2 T00221022 BKN V OVC SLP235 EHPG 030825Z AUTO 23021KT 9999 -RA FEW017/// SCT030/// 07/02 Q1012 CYXQ 022300Z 06008KT 30SM BKN210 M04/M15 A3017 RMK CI5 CLIMAT -3.5/-22.0/0.0/LAST STFD OBS/NEXT 031700UTC SLP272 EGYH 021550Z 28020KT 9999 SCT035 06/M00 Q1008 BLU CYYH 030800Z 16006KT 15SM IC FEW080 M38/M41 A3012 RMK AC1 AC TR SLP205 KFCI 030755Z AUTO 08003KT 10SM CLR 01/M12 A3040 RMK AO1 KFBR 030835Z AUTO 25016G20KT 10SM CLR M04/M05 A2974 RMK AO2 T10431054 CYXR 030800Z AUTO 15002KT 9SM CLR M19/M21 A3019 RMK ICG PAST HR SLP247 KDTS 030833Z AUTO 14006KT 1SM BR VV002 16/15 A3017 RMK AO2 T01560150 TSNO KDUJ 030753Z AUTO 10003KT 10SM CLR M12/M14 A3027 RMK AO2 SLP280 T11171139 EGXS 030750Z AUTO 20017KT 9999 // OVC060/// 03/01 Q1008 CYYJ 030833Z 06010KT 30SM FEW250 05/M06 A3022 RMK CI1 WSHFT 0818 SLP233 CYXS 030800Z AUTO 36002KT 9SM CLR M14/M18 A3036 RMK SLP331 KELK 030835Z AUTO 20020G24KT 4SM BR OVC004 01/01 A2994 RMK AO2 EGXT 030750Z 24010KT 9999 BKN010 02/02 Q1010 GRN CYXT 030800Z 01011KT 20SM BKN200 M01/M09 A3031 RMK CS5 SLP275 EGXU 030750Z 23003KT 9999 FEW010 FEW015CB BKN022 02/M01 Q1008 BLACKWHT BECMG FEW020 BLU CYXU 030800Z 12005KT 10SM OVC140 M13/M15 A3031 RMK AC8 SLP282 KFCM 030753Z AUTO 14009KT 10SM OVC070 M06/M12 A2993 RMK AO2 SLP147 T10561117 KELM 030753Z AUTO 00000KT 10SM FEW029 M16/M17 A3035 RMK AO2 SLP296 T11611172 CYYL 030829Z AUTO 33018G28KT 6SM -SN SCT024 OVC110 M25/M30 A2982 RMK SLP138 KELN 030753Z AUTO VRB03KT 10SM CLR 02/M07 A3010 RMK AO2 SLP204 T00221072 401060000 KDTW 030753Z 18006KT 8SM BKN075 BKN100 OVC150 M04/M09 A3030 RMK AO2 SLP269 T10441089 EGXV 030750Z AUTO 23012KT 9999 FEW044/// 02/01 Q1008 EGYM 030750Z 23009KT 9999 -RA SCT010 BKN018 OVC050 03/02 Q1011 GRN TEMPO 4500 -RASN GRN CYZE 030800Z AUTO 13003KT 9SM CLR M19/M21 A3024 RMK ICG SLP255 CYYN 030800Z AUTO 30011KT 9SM CLR M18/M21 A3009 RMK SLP251 KELO 030833Z AUTO 21010G14KT 10SM BKN080 OVC085 M07/M14 A2979 RMK AO2 EGXW 030750Z 22012KT 9999 SCT009 BKN090 02/01 Q1010 GRN BECMG FEW008 BLU EHQE 030825Z AUTO 22021KT 9999 FEW016/// 06/02 Q//// CYZF 030800Z 34007KT 15SM SKC M28/M31 A3039 RMK SLP322 CYXX 030800Z 05012KT 15SM SKC 06/M12 A3023 RMK SLP239 KELP 030751Z 24008KT 10SM FEW120 SCT150 OVC180 14/07 A2992 RMK AO2 SLP095 T01390067 CYZG 022200Z 20012KT 15SM FEW120 M31/M36 A2963 RMK AS2 SNW CVR/HARDPACK/LAST OBS/NEXT031300 UTC SLP072 CYXY 030800Z 18014KT 15SM FEW220 M08/M18 A3014 RMK CI1 SLP260 EGYP 030750Z 30014KT 9999 FEW025 BKN160 09/04 Q0994 BLU CYXZ 030000Z 22005KT 15SM FEW030 FEW240 M12/M16 A3027 RMK SC1CS1 LAST OBS/NEXT 031100UTC SLP277 EGXZ 030750Z AUTO 21002KT 6000 -SN BKN003/// 00/M00 Q1008 CYZH 030800Z AUTO 27012KT 9SM CLR M17/M23 A3030 RMK SLP313 CYYQ 030800Z 07015KT 15SM OVC060 M22/M25 A2983 RMK SC8 SLP104 CYYR 030800Z 31005KT 15SM BKN060 OVC120 M15/M19 A2946 RMK SC6AC0 FROIN SLP979 KFCS 030758Z 24005KT 10SM SCT100 03/M02 A2964 RMK AO2A SLP072 T00301022 CZPS 030800Z AUTO 31009KT M18/M24 RMK AO1 T11811236 KDVK 030835Z AUTO 00000KT 10SM OVC044 M01/M05 A3018 RMK AO2 KEMK 030835Z AUTO 13010KT 3SM BR SCT003 SCT017 OVC032 21/21 A3007 RMK A01 KFDK 030815Z AUTO 00000KT 10SM CLR M05/M09 A3044 RMK AO2 CYYT 030800Z 25031G46KT 10SM -SHSN OVC012 M02/M04 A2875 RMK SC8 SLP741 KDVL 030835Z AUTO 32024G28KT 10SM BKN120 M09/M12 A2979 RMK AO1 CYYU 030800Z 20005KT 15SM SKC M17/M19 A3006 RMK SLP202 KEND 030833Z AUTO 18021G27KT 10SM FEW009 SCT025 BKN190 02/01 A2985 RMK AO2 KEMM 030835Z AUTO 26017KT 10SM SCT027 BKN032 M05/M06 A2969 RMK AO2 KDVN 030833Z AUTO 15014KT 1 3/4SM -SN SCT017 OVC025 M04/M07 A3003 RMK AO2 UPB0757E18FZRAB18E23SNB11E13B23 P0001 I1001 T10391072 EHRD 030825Z AUTO 21015KT 170V230 9999 FEW015 SCT044 05/02 Q1014 TEMPO 5000 SHRA SCT015CB KDUX 030835Z AUTO 22014KT 10SM CLR 02/01 A2980 RMK AO2 T00180006 KDVO 030835Z AUTO 00000KT 06/05 A3000 RMK AO2 KELY 030753Z AUTO 16008KT 10SM BKN065 M07/M08 A2987 RMK AO2 SLP128 I1000 T10671078 400171094 KDVP 030833Z AUTO 00000KT 10SM OVC060 M05/M07 A2978 RMK AO2 T10481075 KEMP 030753Z AUTO 18013G20KT 2SM BR OVC003 01/01 A2986 RMK AO2 SLP122 T00060006 CYYY 030800Z 30017G24KT 10SM BKN025 M17/M24 A3012 RMK SC7 SLP203 CYZP 030800Z AUTO 25005KT 9SM SCT090 BKN140 BKN160 05/02 A3027 RMK SLP252 KDWH 030753Z 07003KT 3/4SM BR VV002 12/12 A3010 RMK AO2 SLP193 T01220117 KELZ 030756Z AUTO 00000KT 10SM CLR M13/M16 A3025 RMK AO2 SLP283 I1001 T11331161 CYYZ 030800Z 28003KT 15SM FEW210 M12/M15 A3034 RMK CI2 SLP287 KFDR 030815Z AUTO 20009KT 4SM BR SCT009 OVC023 03/01 A2999 RMK AO2 T00280011 $ CYZR 030800Z AUTO 17006KT 9SM OVC130 M09/M11 A3031 RMK SLP274 KFFA 030815Z AUTO 02005KT 10SM CLR 02/M02 A3036 RMK AO2 T00241025 KEMT 030355Z 05004KT 10SM BKN034 BKN041 12/07 A2998 EHSA 030825Z AUTO 21028G34KT //// ///////// 06/04 Q1013 W///H18 CYZS 030800Z 34014KT 15SM DRSN FEW050 FEW210 M32/M37 A2990 RMK SC1CI1 SLP135 KDVT 030753Z AUTO 00000KT 10SM SCT047 BKN065 OVC075 09/07 A2997 RMK AO2 RAE0654 SLP144 T00890072 CYZT 030800Z 23002KT 15SM BKN220 00/00 A3021 RMK CS7 SLP231 KFFC 030817Z AUTO 00000KT 10SM OVC009 13/09 A3021 RMK AO2 T01280089 KENL 030835Z AUTO 12007KT 10SM OVC023 00/M06 A3005 RMK AO2 T00001060 EHSC 030825Z AUTO 22026G31KT 7000 ///////// 05/04 Q1013 W06/H16 CYZU 030500Z 30009KT 15SM DRSN SKC M15/M23 A3032 RMK LAST OBS/NEXT 031300Z SLP330 KEMV 030815Z AUTO 00000KT 10SM CLR M02/M03 A3040 RMK AO2 CYZV 030800Z 33023G30KT 15SM DRSN SKC M20/M29 A2986 RMK PRESRR SLP116 KFDW 030835Z AUTO 05006KT 10SM OVC017 11/08 A3025 RMK AO1 KEOE 030815Z AUTO 05007KT 10SM SCT010 OVC032 12/10 A3027 RMK AO2 CYZW 030100Z 17002KT 40SM FEW210 M06/M18 A3030 RMK CI2 CLIMAT-5.5/-18.1/0.0/44046/LAST STFD OBS/NXT031700UTC SLP320 CYZX 030800Z 30026G33KT 15SM DRSN FEW040 M11/M16 A2997 RMK SC2 WNDY HILL 31024G34KT SLP153 KFDY 030753Z AUTO 08005KT 8SM OVC095 M06/M11 A3027 RMK AO2 SLP258 T10611106 KFEP 030835Z AUTO 14010KT 10SM OVC055 M04/M08 A3007 RMK AO2 T10431079 CZRP 030800Z AUTO 29015KT M34/M37 RMK AO1 PK WND 29017/0758 SLP203 T13381374 CYZY 030831Z AUTO 16004KT 1 3/4SM HZ CLR M16/M19 A3036 RMK SLP337 KDYA 030815Z AUTO 00000KT 1/2SM FG OVC003 12/ A3017 RMK AO2 T0120 CZSJ 030800Z AUTO 18004KT 1 1/2SM -SN OVC024 M08/M09 A2951 RMK SLP014 KDYB 030835Z AUTO 08004KT 10SM SCT016 BKN034 OVC050 13/12 A3024 RMK AO1 KFET 030835Z AUTO 16009G14KT 10SM OVC040 00/M04 A2976 RMK AO2 T00001040 KEOK 030835Z AUTO 13009KT 10SM OVC021 M02/M04 A2996 RMK AO2 CZTB 030800Z AUTO 05003KT M11/M13 RMK AO1 SLP144 T11111131 58045 KDWU 030835Z AUTO 00000KT 10SM CLR M01/M06 A3022 RMK AO1 KFFL 030835Z AUTO 13011KT 10SM BKN024 OVC034 M02/M05 A2995 RMK AO2 KFFM 030834Z AUTO 18017G20KT 10SM SCT070 OVC080 M04/M07 A2978 RMK AO2 KENV 030835Z AUTO 27005KT 10SM FEW060 SCT095 02/M03 A2980 RMK AO1 CZSM 030600Z AUTO 28005KT M23/M26 RMK AO1 SOG 39 6009 SLP286 T12251258 KENW 030753Z AUTO 15007KT 10SM OVC070 M03/M09 A3015 RMK AO2 PRESFR SLP220 T10331094 KFEW 030757Z AUTO 27017G27KT 10SM CLR 03/M07 A2950 RMK AO2 SLP997 T00281074 $ KFFO 030758Z AUTO VRB02KT 10SM CLR M05/M10 A3026 RMK AO2 CIG 130 RWY05L SLP261 T10481099 KDWX 030835Z AUTO 23017G23KT 3SM -SN SCT012 SCT018 OVC023 00/M02 A2969 RMK AO2 T00001016 VHHH 030830Z 15013KT 130V200 9999 FEW018 24/20 Q1009 WS R07L NOSIG PLCH 030800Z 11008KT 9999 FEW019 27/25 Q1008 CZSP 030800Z AUTO 29023G33KT M10/M13 RMK AO1 PRESRR SOG 86 3049 PK WND 29034/0723 SLP074 T11011128 KEPH 030753Z AUTO 01020G28KT 10SM CLR 03/M10 A3011 RMK AO2 PK WND 01029/0713 SLP205 T00331100 401110011 ZUUU 030800Z VRB01MPS 9999 SCT030 15/M03 Q1014 NOSIG KDXR 030753Z AUTO 00000KT 10SM CLR M13/M17 A3035 RMK AO2 SLP285 T11331172 $ KH78 021230Z 11013KT 10SM BKN020 23/21 3026 RMK SEAS3-4 KEQA 030835Z AUTO 20020G26KT 4SM BR OVC003 02/02 A2982 RMK AO2 KFFT 030753Z AUTO 07003KT 10SM CLR M02/M07 A3020 RMK AO2 SLP234 T10221072 KDZB 030835Z AUTO 00000KT 1/2SM FG OVC003 A3007 RMK AO2 KFHB 030835Z AUTO 18003KT 10SM SCT036 BKN070 18/16 A3017 RMK AO1 CZST 030100Z 05008KT 15SM FEW250 BKN280 06/M14 A3036 RMK CS2CI3 LAST STFD OBS/NEXT031500Z SLP280 KDYL 030754Z AUTO 32003KT 10SM CLR M07/M13 A3038 RMK AO2 SLP298 T10671133 FABL 030800Z 01008KT 320V070 CAVOK 20/10 Q1028 NOSIG KFGN 030834Z AUTO 17010KT 10SM OVC024 M07/M09 A2965 RMK AO2 EIKN 030830Z 22007KT 9999 FEW006 FEW016CB M01/M02 Q1007 NOSIG KDXX 030834Z AUTO 16010KT 5SM -SN SCT020 SCT028 OVC036 M03/M06 A2978 RMK AO2 KFFX 030833Z AUTO 11004KT 10SM SCT075 OVC095 M06/M08 A3018 RMK AO2 T10571077 KFFZ 030252Z 11005KT 30SM SCT100 10/10 A2998 RMK WIND ESTIMATED PKMJ 022352Z 03006KT 15SM SCT015TCU SCT050 BKN300 30/24 A2976 RMK TCU S MOV W KDYR 030835Z 14003KT 10SM OVC011 04/M06 A3013 RMK AO1 KDYS 030803Z AUTO 19007KT 9SM OVC004 03/02 A3003 RMK AO2 KDYT 030833Z AUTO 21005KT 10SM OVC080 M04/M13 A2991 RMK AO2 CZUM 030800Z AUTO 30013G25KT 9SM SCT050 M26/M29 A2962 RMK SLP076 EIME 030830Z 22015KT 9999 FEW012 FEW016CB SCT200 01/M01 Q1010 KFGX 030835Z AUTO 08005KT 10SM CLR M03/M07 A3021 RMK AO2 T10261073 KFIG 030754Z AUTO 00000KT 10SM FEW001 M14/M16 A3032 RMK AO2 SLP294 T11391161 EIKY 030830Z 31007KT 260V360 9999 SCT016 SCT023CB 02/00 Q1014 PKMR 030756Z VRB03KT 15SM SCT014 BKN050 BKN120 OVC300 27/25 A2975 RMK SHRAB29E46 SLP076 T02700254 KFHR 030753Z AUTO 01008KT 10SM CLR 06/M09 A3020 RMK AO2 SLP228 T00611089 401060022 KERI 030751Z 17005KT 10SM CLR M09/M13 A3035 RMK AO2 SLP290 T10941133 FACT 030800Z 04003KT 340V070 CAVOK 35/10 Q1012 NOSIG KESC 030835Z AUTO 19005KT 10SM OVC090 M06/M09 A3009 RMK AO1 KFHU 030825Z 03004KT 2SM -RA BR SCT002 OVC004 07/07 A2995 EHVK 030825Z AUTO 21015KT 9999 FEW030 SCT042 BKN047 04/01 Q1016 BLU 22014KT 9999 SCT020 BKN045 TEMPO 26020G30KT 4000 -SHRA SCT015 SCT018CB BKN022 CZVL 030800Z AUTO 29008KT 9SM CLR M16/M22 A3030 RMK SLP314 EHVL 030825Z AUTO 23018KT 9999 FEW018 BKN022 BKN025 05/02 Q1012 WHT KGAD 030835Z 06003KT 9SM OVC011 09/07 A3018 RMK AO1 FACV 030642Z 03013KT CAVOK 28/02 Q1021 KFIN 030835Z AUTO 00000KT 1/4SM FG OVC002 16/16 A3020 RMK AO2 T01630162 KESF 030753Z AUTO 10003KT 3SM BR OVC002 07/07 A3015 RMK AO2 SLP210 T00670067 VIAR 030730Z 27006KT 3500 BR FEW020 FEW030TCU SCT035 19/15 Q1016 KEQY 030753Z AUTO 06006KT 10SM -RA SCT049 BKN075 OVC100 08/M03 A3027 RMK AO2 RAE0657B42 SLP262 P0000 T00831033 KGAG 030829Z AUTO 21020G27KT 8SM FEW012 02/01 A2980 RMK AO2 PK WND 21027/0828 T00220006 KI16 030835Z AUTO 10SM CLR 00/M02 A3022 RMK AO2 T10031021 KGAI 030835Z AUTO 00000KT 10SM CLR M06/M11 A3043 RMK AO1 KFKA 030835Z AUTO 14009KT 10SM OVC065 M06/M09 A2992 RMK AO2 T10601092 KFIT 030752Z AUTO 30004KT 10SM CLR M09/M17 A3030 RMK AO2 SLP268 T10891167 KETB 030810Z AUTO 16003KT 10SM OVC085 M04/M09 A3010 RMK AO2 KETC 030835Z AUTO 00000KT 5SM BR CLR 00/00 A3039 RMK AO2 T00020000 FAEL 030831Z 05013KT 010V080 CAVOK 25/13 Q1020 KGBD 030835Z AUTO 20020G23KT 10SM CLR 02/M03 A2968 RMK AO1 KERV 030835Z AUTO 00000KT 3/4SM -RA OVC003 06/05 A3004 RMK AO2 T00570051 KESN 030834Z AUTO 36003KT 10SM CLR M01/M07 A3044 RMK AO2 T10131070 KGAO 030835Z AUTO M1/4SM FG OVC002 14/14 A3013 RMK AO2 T01400138 EINN 030830Z 24011KT 9999 FEW008 FEW018CB 02/M00 Q1012 NOSIG FAEO 030653Z 08007KT 9999 SCT015 10/06 Q1031 KERY 030835Z AUTO 17010KT 10SM SCT024 M11/M13 A3010 RMK AO2 T11091135 EHWO 030836Z AUTO 20007KT 9999 -RA FEW015 SCT018 BKN033 04/03 Q1016 RERA REDZ WHT 22012G22KT 9999 SCT020 BKN040 TEMPO 24015G28KT 4500 -SHRA RA FEW008 SCT015 SCT018CB BKN020 KGBG 030835Z AUTO 15010G16KT 7SM UP OVC028 M03/M05 A3004 RMK AO2 P0001 T10281048 FADY 030640Z 02005KT CAVOK 22/10 Q1025 KETH 030835Z AUTO 16014KT 2SM -SN BKN004 OVC009 M05/M06 A2976 RMK AO2 KEST 030752Z AUTO 15012KT 10SM OVC055 M06/M07 A2983 RMK AO2 SLP120 T10561072 KGBK 030835Z AUTO 13014KT 10SM CLR 24/20 A3010 RMK A01 KGCC 030832Z AUTO 34023G29KT 1SM -SN BR FEW009 OVC013 M09/M12 A2983 RMK AO2 PK WND 34030/0826 P0000 T10941117 TSNO KFKL 030835Z AUTO 00000KT 10SM CLR M12/M16 A3030 RMK AO1 KFLD 030753Z AUTO 17008KT 10SM OVC085 M04/M09 A3012 RMK AO2 SLP212 T10441094 FAGC 030800Z AUTO 09006KT //// // ////// 16/07 Q1029 KGCD 030835Z AUTO 02005KT 10SM SCT040 SCT050 OVC065 00/M06 A3001 RMK AO2 T00001061 KFKN 030835Z AUTO 00000KT 10SM CLR M03/M04 A3040 RMK AO2 T10311038 KEUF 030814Z AUTO 00000KT 1/4SM FG FEW016 OVC031 16/16 A3017 RMK AO2 $ KEUG 030754Z AUTO 30006KT 10SM CLR 03/02 A3013 RMK AO2 SLP204 T00330017 401220022 $ KFLG 030657Z AUTO 25006KT 9SM SCT010 BKN034 OVC042 M02/M03 A2994 RMK AO2 SNE51 SLP132 P0001 T10171033 400391017 TSNO $ FAGG 030800Z VRB02KT CAVOK 24/13 Q1016 KFKR 030835Z AUTO 11009KT 10SM UP CLR M04/M07 A3017 RMK AO2 T10361071 KFKS 030834Z AUTO 15007KT 10SM SCT027 BKN050 OVC065 M06/M09 A3015 RMK AO2 T10581090 KEVB 030247Z 00000KT 1/4SM FG OVC002 17/17 A3026 RMK LAST KGDB 030832Z AUTO 12011G15KT 10SM OVC060 M05/M07 A2982 RMK AO2 T10501070 KGCK 030754Z AUTO 20020G31KT 9SM CLR 02/00 A2963 RMK AO2 PK WND 21031/0745 SLP045 T00170000 KI39 030835Z AUTO 09003KT 10SM OVC070 M01/M05 A3017 RMK AO2 KFLL 030753Z 09008KT 10SM FEW024 22/20 A3015 RMK AO2 SLP208 T02220200 KEUL 030835Z AUTO 30015G20KT 10SM FEW060 BKN090 OVC110 02/M07 A2992 RMK AO1 KGCM 030835Z AUTO 17015G19KT 1SM BR OVC002 02/01 A3000 RMK AO2 VIDP 030730Z 31006KT 2500 HZ SCT035 BKN100 19/14 Q1015 BECMG 3000 KGCN 030826Z AUTO 23004KT 10SM OVC004 M02/M02 A2995 RMK AO2 SNB05E18 CIG 003V008 P0000 T10171022 $ KFME 030818Z AUTO 00000KT 10SM CLR M06/M07 A3043 RMK AO1 KFLO 030804Z AUTO 09010KT 10SM SCT010 OVC047 09/07 A3029 RMK AO2 RAE0755 P0000 T00940072 KFLP 030835Z 13005KT 10SM OVC011 01/M03 A3004 RMK AO1 KFMH 030835Z AUTO 31005G12KT 10SM CLR M08/M14 A3031 RMK AO2 FZRANO KGDJ 030835Z AUTO 00000KT 3SM BR BKN004 BKN008 OVC012 04/04 A3010 RMK AO2 T00420035 CZZJ 030800Z AUTO 27004KT M17/M23 RMK AO1 SOG 33 8002 SLP326 T11741228 KEWB 030753Z AUTO 26003KT 10SM CLR M07/M13 A3031 RMK AO2 SLP265 T10671133 KFNB 030753Z AUTO 16010KT 10SM OVC013 01/M03 A2984 RMK AO2 SLP110 T00111033 URFF 030830Z 26002MPS 210V310 CAVOK 11/03 Q1013 19010065 NOSIG KEVM 030832Z AUTO 20007KT 10SM CLR M06/M13 A2982 RMK AO2 KGED 030754Z AUTO 00000KT 10SM CLR M03/M09 A3040 RMK AO2 SLP293 T10281089 KFMM 030835Z AUTO 21006KT 3/4SM BR OVC001 M03/M03 A2956 RMK AO2 T10261031 KFMN 030753Z AUTO 26006KT 10SM CLR 01/M03 A2992 RMK AO2 SLP118 T00061028 KGEG 030753Z 35005KT 10SM FEW040 FEW060 M04/M08 A3005 RMK AO2 SLP196 T10441078 400561044 KFLY 030832Z AUTO 26022G28KT 10SM CLR 03/M14 A2968 RMK AO2 T00321138 KFOA 030835Z AUTO 12009KT 10SM OVC027 00/M05 A3009 RMK AO2 T10051050 KGFA 030756Z AUTO 35007KT 10SM FEW025 BKN070 M11/M15 A3020 RMK AO2 SLP294 T11151147 TSNO $ KEWK 030835Z AUTO 19024G28KT 3SM OVC004 01/M02 A2978 RMK AO1 FAJB 030800Z AUTO 09003KT //// // ////// 18/08 Q1029 KFNL 030835Z AUTO 08006KT 9SM CLR 00/M03 A2958 RMK AO1 KGDV 030835Z AUTO 35018KT 10SM OVC021 M11/M15 A3003 RMK AO1 KEVV 030754Z AUTO 10005KT 10SM OVC037 01/M06 A3018 RMK AO2 SLP221 T00111056 KFOD 030835Z AUTO 13007KT 10SM OVC025 M03/M08 A2983 RMK AO1 DRRM 030800Z 08012KT 8000 NSC 24 M03 Q1015 KEVW 030830Z AUTO 23011KT 2 1/2SM -SN BR BKN027 M06/M07 A2973 RMK AO2 SNB24 P0000 T10561067 KFOE 030753Z AUTO 17016G20KT 2 1/2SM BR OVC004 02/00 A2984 RMK AO2 SLP110 T00170000 KEWN 030754Z AUTO 05003KT 10SM BKN037 02/M02 A3038 RMK AO2 SLP288 T00221017 PNO DRRN 030800Z 06005KT 360V080 8000 NSC 24/M10 Q1014 TEMPO 06018KT 4000 BLDU KFMY 030753Z AUTO 00000KT 9SM CLR 18/18 A3016 RMK AO2 SLP214 T01830178 EISG 030800Z 22008KT 170V240 9999 FEW023 SCT055 01/M02 Q1007 KEWR 030751Z 25003KT 10SM FEW250 M05/M12 A3040 RMK AO2 SLP293 T10501122 EKAH 030820Z AUTO 24008KT 200V280 9999NDV NCD 04/01 Q1005 KI67 030835Z AUTO 00000KT 10SM CLR M03/M08 A3022 RMK AO1 KGFK 030753Z AUTO 24007KT 10SM CLR M04/M08 A2974 RMK AO2 SLP083 T10441078 TSNO $ KFNT 030753Z AUTO 17004KT 10SM OVC100 M04/M10 A3027 RMK AO2 SLP261 T10441100 KFOK 030753Z AUTO 32006KT 10SM CLR M05/M14 A3038 RMK AO2 SLP288 T10501139 TSNO KI69 030836Z AUTO 08003KT 10SM CLR M02/M07 A3020 RMK AO1 KGEU 030255Z 04004KT 20SM FEW030 FEW060 SCT100 BKN250 12/09 A2999 RMK LAST DRRT 030800Z 10022KT 1800 BLSA NSC 24/01 Q1015 KGFL 030753Z AUTO 02003KT 10SM CLR M11/M17 A3034 RMK AO2 SLP285 T11061172 KGEV 030835Z AUTO 18004KT 10SM OVC023 03/M05 A3021 RMK AO2 T00251053 KGGE 030835Z AUTO 06010G14KT 10SM OVC021 10/08 A3028 RMK AO2 KEYE 030753Z AUTO 13007KT 10SM SCT110 M03/M09 A3020 RMK AO2 SLP235 T10331089 KEYF 030835Z AUTO 07005KT 10SM OVC050 05/M01 A3034 RMK AO2 T00501013 KGGG 030820Z AUTO 13004KT 4SM BR OVC002 06/05 A3011 RMK AO2 T00610050 KGEY 030804Z AUTO 33026G33KT 10SM FEW034 OVC041 M06/M12 A2981 RMK AO2 PK WND 34033/0803 T10611122 KI75 030835Z AUTO 15011KT 10SM UP OVC018 M01/M04 A2984 RMK AO2 T10061038 KGEZ 030753Z AUTO 08004KT 10SM FEW110 M03/M08 A3020 RMK AO2 SLP234 T10281083 KGGI 030835Z AUTO 14014KT 10SM UP SCT022 OVC027 M03/M05 A2990 RMK AO2 T10261055 EKBI 030820Z 24006KT 9999 FEW008 SCT022CB 01/00 Q1007 FALA 030800Z 06004KT 350V090 9999 FEW020 18/09 Q1030 NOSIG KFPK 030834Z AUTO 14004KT 10SM OVC100 M05/M09 A3021 RMK AO2 T10461095 KFOT 030835Z AUTO 00000KT 10SM OVC017 08/07 A3005 RMK AO1 KGHB 030835Z AUTO 14004KT 9SM FEW032 SCT037 BKN047 23/23 A3010 RMK A01 KFQD 030835Z AUTO 07004KT 10SM OVC025 07/M01 A3030 RMK AO2 T00721007 FAKM 030800Z 32011KT CAVOK 23/12 Q1026 KEXX 022235Z AUTO 36004KT 10SM CLR 14/M02 A3024 RMK AO2 T01441019 FALE 030800Z 05006KT 9999 FEW035 23/14 Q1025 NOSIG FAKN 030800Z 21005KT 9999 SCT020 17/06 Q1029 NOSIG KEZF 030815Z AUTO 00000KT 10SM CLR M01/M06 A3040 RMK AO2 T10151057 KGHG 030835Z AUTO 29005KT 10SM CLR M06/M15 A3033 RMK AO2 KGGP 030815Z AUTO 12009KT 10SM SCT120 M04/M07 A3019 RMK AO2 WAAA 030800Z 26005KT 230V290 7000 -RA FEW017CB BKN018 26/24 Q1009 NOSIG KFOZ 030833Z AUTO 19010KT 10SM OVC075 M05/M11 A2974 RMK AO2 PKWA 030820Z AUTO 06019KT 10SM CLR 27/22 A2979 RMK AO2 T02740221 KFPR 030834Z AUTO 00000KT 1 3/4SM BR SCT020 17/16 A3017 RMK AO2 T01670161 EKCH 030820Z 27014KT 9999 FEW010 BKN017 04/01 Q1006 NOSIG KGIC 030835Z AUTO 33007KT 7SM SCT003 BKN013 OVC031 M02/M03 A2997 RMK AO1 P0001 T10201033 KEZM 030835Z AUTO 00000KT 10SM OVC050 16/16 A3021 RMK AO2 T01580158 FALM 030600Z 13015KT 9999 SCT028 18/// Q1028 KEYW 030753Z AUTO 07008KT 10SM FEW022 23/21 A3013 RMK AO2 SLP202 T02280206 KGGW 030753Z AUTO 34018G27KT 10SM BKN037 M12/M19 A3013 RMK AO2 PK WND 34032/0735 SLP237 T11221189 KGIF 030836Z AUTO 00000KT 1 1/4SM BR SCT004 18/17 A3020 RMK AO2 T01780172 KFRG 030753Z AUTO 29004KT 10SM CLR M06/M13 A3038 RMK AO2 SLP286 T10611128 URKA 030830Z 19004MPS 9999 BKN027 OVC110 09/03 Q1017 NOSIG RMK QFE757/1010 SC065 KFRI 030838Z AUTO 19009G19KT 10SM OVC007 02/02 A2977 RMK AO2 PRESFR KEZS 030835Z AUTO 19003KT 5SM -SN SCT010 BKN028 OVC042 M05/M07 A3008 RMK AO2 T10471068 EKEB 030820Z AUTO 23012KT 9999NDV -SHUP FEW013/// BKN040/// 03/01 Q1007 KFRM 030835Z AUTO 14011KT 10SM OVC060 M05/M08 A2982 RMK AO1 KFSD 030756Z AUTO 15008KT 10SM OVC046 M03/M07 A2977 RMK AO2 SLP099 T10331072 VIJP 030730Z VRB05KT 4000 HZ SCT030 21/03 Q1015 NOSIG FAMM 030800Z 04011KT 9999 SCT035 20/11 Q1027 NOSIG KGHW 030834Z AUTO 16013KT 7SM -SN SCT011 OVC042 M06/M07 A2979 RMK AO2 KFSE 030835Z AUTO 21013G19KT 10SM CLR M04/M07 A2972 RMK AO2 KHAE 030835Z AUTO 13006KT 10SM OVC021 00/M05 A3000 RMK AO2 FALW 030800Z AUTO 05009KT //// // ////// 36/02 Q1011 KHAF 030835Z AUTO 00000KT 8SM CLR 05/04 A3000 RMK AO2 PMDY 030756Z AUTO 07014KT 7SM OVC033 17/11 A3043 RMK AO2 TSNO T01660105 SLP620 $ EIWF 030830Z 27010KT 210V300 9999 FEW030 02/00 Q1013 KFSI 030358Z AUTO 18010KT 7SM OVC005 02/02 A3010 RMK AO2 SLP201 T00180018 URKK 030830Z 11004MPS CAVOK 08/03 Q1017 NOSIG RMK QFE760 SC070 KHAI 030834Z AUTO 13004KT 10SM OVC070 M04/M09 A3019 RMK AO2 T10401092 KFRR 030835Z AUTO 00000KT 10SM CLR M03/M09 A3036 RMK AO1 USCC 030830Z 13004MPS 6000 FEW200 M04/M09 Q1027 09000060 NOSIG RMK QFE750 FAOB 030800Z AUTO 14009KT //// // ////// 23/12 Q1014 KFSM 030811Z AUTO 09008KT 9SM OVC009 03/00 A3007 RMK AO2 T00280000 WABP 030800Z 24008KT 7000 TS FEW013CB OVC015 29/25 Q1007 KHAO 030753Z AUTO 07003KT 10SM CLR M03/M08 A3027 RMK AO2 PRESFR SLP256 T10331078 KFSO 030835Z AUTO 00000KT 10SM CLR M17/M19 A3036 RMK AO2 T11711189 KFTG 021648Z 23003KT 2SM BR BKN003 M04/M07 A2992 KHBG 030753Z AUTO 13003KT 1/2SM FG VV002 16/16 A3016 RMK AO2 RAB16E27 SLP212 P0000 T01610156 VILK 030800Z VRB02KT 4500 HZ FEW020 SCT100 25/17 Q1012 BECMG 5000 HZ KHBI 030835Z AUTO 00000KT 10SM OVC040 06/M04 A3032 RMK AO2 T00611045 KGKJ 030753Z AUTO 12003KT M09/M13 A3029 RMK AO2 SLP278 T10891133 TSNO $ WADD 030800Z 27007KT 9999 FEW017CB FEW018 29/25 Q1007 NOSIG RMK CB TO NE NW USCM 030830Z VRB01MPS 6000 SCT100 M06/M08 Q1025 NOSIG 19090060 RMK QFE730 KGJT 030753Z AUTO 31005KT 10SM CLR 03/M04 A2978 RMK AO2 SLP059 T00331044 KFST 030834Z AUTO 00000KT 1SM BR VV002 02/02 A2995 RMK AO2 T00220022 KFTK 030824Z AUTO 04004KT 10SM OVC036 00/M07 A3016 RMK AO2 KGLD 030753Z AUTO 29012G21KT 10SM CLR 03/M01 A2956 RMK AO2 PK WND 31030/0704 WSHFT 0659 SLP024 T00281006 KHCD 030832Z AUTO 13010KT 10SM OVC045 M05/M08 A2986 RMK AO2 T10501085 KFTN 030930Z AUTO 00000KT 3SM BKN002 BKN009 OVC015 08/08 A3006 RMK AO1 KFSW 030835Z AUTO 14011G15KT 10SM UP OVC024 M02/M04 A2998 RMK AO2 KGLE 030835Z AUTO 18007KT 3/4SM BR OVC002 04/03 A3009 RMK AO2 T00350033 FAPE 030800Z 06012KT CAVOK 20/14 Q1019 NOSIG KGLH 030753Z AUTO 36003KT 1/2SM FG VV002 05/04 A3016 RMK AO2 SLP220 T00500044 KHBR 030753Z AUTO 20014KT 4SM BR OVC005 02/01 A2998 RMK AO2 SLP160 T00220011 URML 030830Z 33003MPS 300V360 5000 -RA BR BKN030 OVC100 08/03 Q1018 NOSIG RMK QFE763/1018 SC070 WADL 030800Z 33006KT 9999 FEW015CB BKN016 28/24 Q1008 NOSIG FAOR 030830Z 05008KT 350V090 CAVOK 17/07 Q1031 NOSIG DRZA 030800Z 10018KT 8000 NSC 23/M02 Q1018 URMM 030830Z 30003G05MPS 9999 BKN010 05/03 Q1017 R30/290250 NOSIG RMK MT OBSC QFE734/0979 KGKT 030835Z AUTO 00000KT 10SM FEW041 OVC060 03/02 A3019 RMK KHDC 021835Z AUTO 00000KT 4SM BR OVC003 20/18 A3026 RMK AO2 URMN 030830Z 05001MPS 9999 OVC010 05/03 Q1017 NOSIG RMK MT OBSC QFE725 SC055 FBFT 030700Z /////KT 9999 BKN020 18/15 Q1025 KFUL 030753Z 08004KT 10SM CLR 10/06 A2997 RMK AO2 SLP150 T01000056 401670094 URMO 030830Z 35003MPS 320V030 9999 BKN006 OVC013 05/03 Q1016 NOSIG RMK QFE718/0958 SC050 KHBV 030815Z AUTO 05006KT 1/2SM +RA OVC001 A3003 RMK AO2 ZWSH 030800Z VRB02MPS 7000 NSC 09/M07 Q1012 NOSIG KFVE 030753Z AUTO 30014KT 10SM CLR M17/M24 A3002 RMK AO2 SLP186 T11721244 KFTW 030753Z AUTO 00000KT 1/4SM R16/1600V2000FT FG VV001 04/04 A3009 RMK AO2 RAB09E45 SLP191 P0000 T00440039 KHDE 030835Z AUTO 16005KT 10SM OVC014 M02/M05 A2962 RMK AO2 T10201050 KHCO 030821Z AUTO 28008KT 10SM CLR M06/M09 A2972 RMK AO2 FAPN 030800Z AUTO 10005KT //// // ////// 20/11 Q1027 KGKY 030802Z AUTO 00000KT 2 1/2SM BR OVC002 05/03 A3010 RMK AO2 RAE00 P0000 T00500033 KFTY 030753Z 00000KT 10SM OVC010 11/07 A3020 RMK AO2 SLP225 T01060067 FAPP 030800Z 07006KT 9999 FEW030 18/05 Q1027 NOSIG URMT 030830Z 30005MPS 9999 BKN025 OVC100 05/M00 Q1016 NOSIG RMK QFE723 SC060 KGLR 030753Z AUTO 19004KT 10SM SCT120 M14/M18 A3015 RMK AO2 SLP237 T11441178 KGLS 030837Z AUTO 07007KT 1/4SM FG VV002 14/14 A3009 RMK AO2 T01390139 KFWA 030754Z 10006KT 10SM OVC085 M05/M09 A3026 RMK AO2 SLP257 T10501094 KGNA 030756Z AUTO 21016KT M03/M09 A2994 RMK AO1 SLP151 T10281094 KGMJ 030835Z AUTO 18007KT 10SM OVC011 03/03 A2998 RMK AO2 KFWB 030815Z AUTO 11007KT 10SM OVC010 00/M02 A2999 RMK AO2 KGNC 030835Z AUTO 20006KT 1/4SM FG OVC002 03/03 A2997 RMK AO2 T00300030 KFWC 030815Z AUTO 12006KT 10SM OVC028 00/M04 A3012 RMK AO1 T00031045 KHDN 030835Z AUTO 24023G32KT 10SM OVC065 00/M06 A2967 RMK AO1 KGLW 030815Z AUTO 09003KT 10SM OVC034 02/M03 A3016 RMK AO2 T00221028 KHDO 030831Z AUTO 05005KT 2 1/2SM -RA BR OVC002 08/07 A3007 RMK AO2 P0001 T00780072 KHEF 030835Z 00000KT 10SM CLR M03/M07 A3041 RMK AO1 KGLY 030835Z AUTO 18008KT 10SM OVC017 02/M01 A2996 RMK AO2 ZYCC 030800Z 29004MPS 9999 SCT030 M05/M11 Q1013 NOSIG KHEI 030753Z AUTO 34020G28KT 10SM FEW018 OVC048 M09/M13 A2986 RMK AO2 PK WND 34031/0732 SLP140 T10891133 DRZR 030800Z 04012KT 4000 DU NSC 23/M05 Q1016 FASB 030832Z 03014KT CAVOK 32/04 Q1019 KGMU 030753Z AUTO 03013KT 10SM BKN020 OVC027 10/M03 A3027 RMK AO2 RAE06 SLP246 P0000 T01001028 KHFD 030753Z AUTO 29004KT 10SM CLR M06/M14 A3036 RMK AO2 SLP279 T10611139 KFXE 030753Z 08006KT 10SM CLR 22/19 A3015 RMK AO2 SLP213 T02170194 KFWN 030753Z AUTO 00000KT 10SM CLR M11/M16 A3037 RMK AO2 SLP288 T11061156 $ KHFF 030801Z AUTO 11010G14KT 10SM BKN018 BKN045 07/03 A3035 RMK AO2 CIG 018V045 BKN V SCT KFVX 030835Z AUTO 00000KT 10SM OVC041 01/M07 A3036 RMK AO2 T00081073 KGNR 030756Z AUTO 32016G24KT M16/M22 A3003 RMK AO1 PK WND 33034/0705 SLP199 T11561222 FASI 030800Z AUTO /////KT //// // ////// 14/07 Q1030 KFWS 030835Z AUTO 22003KT 1SM RA OVC001 05/04 A3010 RMK AO2 P0001 T00450040 KHFJ 030815Z AUTO 15008KT 10SM OVC008 01/00 A2996 RMK AO2 DTKA 030800Z VRB01KT 9999 FEW020 18/10 Q1025 NOSIG KGOK 030753Z AUTO 20013KT 5SM BR OVC009 04/02 A2995 RMK AO2 SLP151 T00390022 EKKA 030820Z AUTO 22007KT 9999NDV FEW027/// 03/02 Q1005 R27L/720095 TEMPO 3000 SHRASNGS BKN012 SCT020CB KGNT 030835Z AUTO 30011G18KT 10SM BKN050 01/M05 A2996 RMK AO2 T00071055 FCBB 030800Z 27005KT 220V310 9999 FEW013 25/20 Q1014 NOSIG KGNV 030753Z AUTO 06004KT 1/2SM FG VV002 16/16 A3020 RMK AO2 SLP225 T01560156 KGON 030756Z AUTO 30008KT 10SM CLR M07/M13 A3035 RMK AO2 SLP275 T10721133 FBKE 030400Z 12010KT 9999 BKN020 FEW030CB SCT070 20/18 Q1018 USHH 030830Z 00000MPS CAVOK M04/M10 Q1025 NOSIG RMK QFE765 24////60 KGOO 030840Z AUTO 00000KT 10SM CLR 03/00 A2999 RMK AO1 KFYG 030815Z AUTO 14005KT 10SM SCT024 BKN039 OVC048 00/M05 A3003 RMK AO2 KHEY 030833Z AUTO 00000KT 1SM BR FEW031 OVC060 14/14 A3016 RMK AO2 T01440144 KGOP 030815Z AUTO 00000KT 3/4SM BR OVC001 04/04 A3010 RMK AO2 KGPH 030835Z AUTO 16009KT 5SM BR OVC007 00/00 A2990 RMK AO2 KHEZ 030835Z AUTO 00000KT 3/4SM OVC003 08/07 A3014 RMK AO1 KFWZ 030835Z AUTO OVC005 M09/M10 RMK AO2 PWINO KGPI 030755Z AUTO 03013KT 10SM OVC055 M07/M17 A3011 RMK AO2 SLP233 T10671167 KFYJ 030835Z AUTO 00000KT 10SM CLR M02/M06 A3041 RMK AO2 T10221064 KFYM 030835Z AUTO 00000KT 10SM OVC013 07/04 RMK KGOV 030835Z AUTO 00000KT 10SM OVC090 M13/M18 A3016 RMK AO2 T11331176 KGPM 030835Z AUTO 00000KT 1 3/4SM OVC003 05/05 A3010 RMK AO2 T00460046 KHHF 030835Z AUTO 22012G17KT 10SM SCT014 04/02 A2983 RMK AO2 T00350015 KFXY 030815Z AUTO 13012KT 10SM BKN027 OVC033 M04/M08 A2986 RMK AO2 KFZG 030815Z AUTO 00000KT 7SM SCT055 OVC075 16/14 A3021 RMK AO2 T01570144 PWINO KHHG 030815Z AUTO 09005KT 10SM SCT070 OVC080 M05/M10 A3021 RMK AO2 T10461105 UTAA 030800Z VRB01MPS 9999 FEW050 14/03 Q1016 R30/CLRD70 NOSIG KHGR 030753Z AUTO 19003KT 9SM CLR M04/M11 A3039 RMK AO2 SLP311 T10391106 KHIB 030753Z AUTO VRB06G17KT 10SM FEW065 OVC090 M06/M14 A2983 RMK AO2 SLP126 T10611144 KGRB 030831Z AUTO 16004KT 2SM -SN BR OVC025 M05/M06 A3010 RMK AO2 PRESFR P0003 T10501061 KGPT 030753Z AUTO 14003KT 3/4SM BR OVC002 17/17 A3016 RMK AO2 SLP211 T01720167 RVRNO DTMB 030830Z 01001KT 8000 NSC 17/11 Q1026 NOSIG KFYV 030753Z AUTO 22009G15KT 8SM OVC006 03/03 A3001 RMK AO2 SLP169 T00280028 KGRD 030836Z AUTO 04009KT 10SM BKN011 OVC027 13/09 A3025 RMK AO2 T01280094 KHIE 030752Z AUTO 19004KT 10SM CLR M16/M21 A3023 RMK AO2 SLP260 T11561206 KGRF 030758Z AUTO 14004KT 10SM CLR M01/M01 A3015 RMK AO2 SLP216 T10071009 401071010 $ KHIF 030758Z AUTO 14004KT 10SM SCT018 OVC027 00/00 A2979 RMK AO2 CIG 018V027 CIG 022 RWY32 SLP088 URRR 030830Z 16002MPS 9999 SCT026 BKN100 04/M02 Q1018 04CLRD70 NOSIG WAJJ 030800Z 28010KT 9999 FEW014 28/23 Q1005 FAUP 030800Z 01019KT CAVOK 28/11 Q1022 NOSIG KGPZ 030835Z AUTO 17014G20KT 10SM BKN023 OVC055 M06/M12 A2977 RMK AO1 UTAK 030800Z 35004MPS 9999 SCT050 BKN100 10/04 Q1018 R34/CLRD70 NOSIG KHHR 030753Z AUTO 25004KT 5SM RA FEW025 SCT038 OVC047 12/09 A2999 RMK AO2 RAE12B25 SLP154 P0005 T01220089 401720100 KGRI 030753Z AUTO 15007KT 10SM OVC018 M02/M06 A2971 RMK AO2 SLP078 T10171056 KHII 030815Z AUTO 10007KT 10SM CLR 11/05 A2995 RMK AO2 UTAM 030800Z 31002MPS CAVOK 14/03 Q1017 NOSIG RMK SC07 ZWWW 030830Z 02002MPS 340V070 6000 FEW040 M02/M07 Q1022 NOSIG KIAB 030833Z AUTO 17018KT 1SM R19/2200FT BR OVC002 00/00 A2983 RMK AO2 KGSB 030758Z AUTO 07007KT 10SM BKN030 OVC180 04/03 A3035 RMK AO2 SLP281 T00370025 $ KGRK 030758Z 00000KT 1/2SM FG OVC004 04/04 A3007 RMK AO2A SLP188 T00380038 RVRNO FAWB 030800Z AUTO 11005KT //// // ////// 18/08 Q1027 FAUT 030827Z 05003KT CAVOK 19/13 Q1025 KIAD 030752Z 01004KT 10SM SCT140 OVC230 M02/M09 A3041 RMK AO2 SLP298 T10221094 KHHV 030835Z AUTO 14011KT 5SM BR CLR 21/21 A3007 RMK A01 KHHW 030835Z AUTO 14004KT 1/2SM FG OVC003 04/03 A3009 RMK AO2 T00350029 FBMN 030700Z 11014KT 9999 FEW030CB BKN070 21/17 Q1021 KHIO 030753Z AUTO 28004KT 10SM CLR 03/M01 A3012 RMK AO2 SLP201 T00281006 401280028 KIAG 030753Z AUTO 20003KT 10SM CLR M13/M16 A3036 RMK AO2 SLP304 I1000 T11331161 $ KFZY 030754Z AUTO 00000KT 7SM CLR M16/M18 A3037 RMK AO2 SLP293 I1000 T11561183 URSS 030830Z 27004MPS 9999 FEW040 SCT230 11/04 Q1017 NOSIG RMK R02/28003MPS MT OBSC QFE762 06000070 02////// ZYHB 030800Z 36003MPS 320V050 2500 HZ NSC M05/M10 Q1012 NOSIG KIAH 030753Z 08003KT 1/8SM FG VV002 13/13 A3011 RMK AO2 SFC VIS 1/4 SLP195 T01330133 KGSH 030753Z AUTO 13005KT 8SM OVC080 M04/M09 A3023 RMK AO2 SLP249 T10441089 $ KHJH 030835Z AUTO 19010KT 7SM OVC014 00/M03 A2971 RMK AO2 T00001030 UTAT 030800Z VRB02MPS CAVOK 09/02 Q1017 99CLRD70 NOSIG KGRR 030753Z AUTO 14003KT 10SM OVC095 M04/M09 A3022 RMK AO2 SLP245 T10441094 KHKA 030753Z AUTO 00000KT 8SM OVC012 02/00 A3014 RMK AO2 SLP208 T00220000 UTAV 030800Z 14002MPS CAVOK 15/06 Q1017 NOSIG KGTB 030758Z AUTO 22002KT 10SM CLR M14/M17 A3033 RMK AO2 SLP284 T11391169 FAWK 030800Z AUTO 09003KT //// // ////// 18/08 Q1030 EKOD 030750Z 24017G27KT 9999 FEW020CB 04/03 Q1007 FAVV 030800Z AUTO /////KT //// // ////// 17/06 Q1030 KHJO 030753Z AUTO 00000KT 10SM CLR 07/05 A2998 RMK AO2 SLP153 T00670050 401610067 KGTF 030753Z 35006KT 10SM FEW031 BKN070 OVC085 M12/M14 A3017 RMK AO2 SLP285 T11221144 KGSO 030754Z 06007KT 10SM OVC042 04/M07 A3030 RMK AO2 SLP260 T00441067 KGSP 030836Z AUTO 04011KT 10SM BKN028 BKN033 OVC050 08/M01 A3026 RMK AO2 T00831006 KGRY 030840Z AUTO 18008KT 10SM FEW018 SCT023 BKN036 24/21 A3012 RMK A01 WALL 030800Z 01006KT 9999 SCT020 28/24 Q1007 NOSIG UTDD 030830Z 12005MPS 9999 SCT046CB BKN120 13/M00 Q1015 R09/CLRD// TEMPO TS RMK QFE693/0924 KHLC 030753Z AUTO 19009G16KT 7SM CLR 01/M02 A2958 RMK AO2 SLP029 T00111017 KGUC 030835Z 25017G32KT 10SM BKN044 M01/M09 A2982 RMK AO1 KIBM 030835Z AUTO 32005KT 2 1/2SM BR OVC002 M02/M02 A2959 RMK AO2 T10231023 KHLG 030753Z AUTO 11006KT 10SM BKN110 M06/M11 A3029 RMK AO2 SLP276 T10611111 URWA 030830Z 01002MPS 340V070 CAVOK 06/M02 Q1017 NOSIG RMK QFE765/1020 SC060 UTDK 030830Z 22002MPS 9999 FEW040 SCT100 12/05 Q1017 01CLRD70 RMK QFE705/0940 KGTR 030835Z 00000KT 1 3/4SM OVC003 08/07 A3016 RMK AO1 UTDL 030830Z 07005MPS 5000 BR SKC 12/03 Q1016 NOSIG RMK QFE723/0964 88CLRD70 KHKS 030753Z AUTO 00000KT 1 1/4SM BR OVC005 11/10 A3015 RMK AO2 SLP204 T01060100 KIDA 030753Z AUTO 21015KT 10SM BKN065 OVC080 00/M07 A2968 RMK AO2 SLP057 T00001067 WAMM 030830Z 30005KT 240V360 9999 SCT021 28/23 Q1008 NOSIG KGTU 030835Z 00000KT 3/4SM OVC002 05/04 A3007 RMK AO1 KICL 030835Z AUTO 16010G15KT 10SM -UP OVC017 00/M03 A2982 RMK AO2 KGUL 030835Z AUTO 4SM BR FEW015 SCT021 BKN041 22/22 A3008 RMK A01 KHLN 030753Z 34010KT 10SM FEW033 FEW041 OVC055 M09/M14 A3010 RMK AO2 SNE30 SLP254 P0000 T10941144 KGVE 030815Z AUTO 00000KT 10SM BKN120 M04/M07 A3038 RMK AO1 T10371070 URWI 030830Z 31003MPS 5000 BR OVC002 03/03 Q1018 NOSIG RMK QBB070 OBST OBSC SC060 KHKY 030753Z AUTO 35004KT 10SM OVC035 07/M04 A3029 RMK AO2 SLP246 T00671044 $ KGUP 030820Z AUTO 23010KT 10SM BKN020 BKN025 01/M02 A2997 RMK AO2 T00061022 UTFA 030800Z VRB02KT 3800 BR FEW024 OVC200 13/03 Q1016 R88/09//70 UTDT 030830Z VRB01MPS 9999 SCT046CB SCT150 16/06 Q1015 35CLRD70 RMK QFE722/0962 KICR 030753Z AUTO 18009KT 10SM OVC032 01/M08 A2966 RMK AO2 SLP055 T00061083 KIDI 030835Z AUTO 00000KT 10SM OVC019 M10/M11 A3034 RMK A01 KGUR 030835Z AUTO 35003KT 3/4SM SN OVC006 02/01 A2968 RMK AO2 T00230012 KHLR 030823Z AUTO 00000KT 3/4SM BR VV003 04/04 A3006 RMK AO2 RVRNO KGUS 030758Z AUTO 12009KT 10SM CLR M04/M08 A3017 RMK AO2 CIG 070 RWY05 SLP231 T10411083 KICT 030753Z 18020KT 3/4SM R01L/5000V6000FT BR OVC002 01/00 A2984 RMK AO2 PK WND 19027/0741 SLP115 T00060000 KHNB 030835Z AUTO 13008KT 10SM OVC034 01/M06 A3015 RMK AO1 KGWB 030835Z AUTO 11003KT 10SM OVC070 M04/M09 A3023 RMK AO2 USNN 030830Z 25005MPS 9999 OVC009 M02/M05 Q1023 NOSIG RMK QFE762 21420353 KGVL 030753Z AUTO 08007KT 10SM FEW030 OVC042 12/07 A3023 RMK AO2 SLP227 T01220072 UTFF 030800Z VRB02KT 5000 HZ NSC 12/01 Q1015 R18/CLRD70 KHND 030756Z 03003KT 10SM CLR 07/02 A2994 RMK AO2 SLP141 T00670017 401390050 KHMN 030758Z AUTO 23007KT 10SM FEW065 13/08 A2990 RMK AO2 SLP082 T01250076 $ KHLX 030835Z AUTO 18005KT 10SM OVC028 00/M06 A3024 RMK AO2 T00001064 KGUY 030753Z AUTO 23012KT 10SM CLR 05/02 A2974 RMK AO2 SLP069 T00500017 KIDP 030835Z AUTO 19015G19KT 1 1/4SM BR OVC003 01/01 A2993 RMK AO2 WBGB 030800Z 33007KT 9999 SCT016 SCT150 BKN300 29/24 Q1008 KIFA 030835Z AUTO 13011KT 10SM OVC022 M04/M07 A2988 RMK AO2 T10381067 KGXA 030755Z AUTO 14004KT 10SM CLR 00/M01 A2994 RMK AO2 SLP164 T00041008 TSNO $ KHOB 030835Z AUTO 18009KT 1SM BR OVC001 03/03 A2994 RMK AO2 KGVT 030835Z AUTO 00000KT 3/4SM BR OVC001 05/05 A3009 RMK AO2 URWW 030830Z 08005MPS 0350 R11/0350N FZFG VV002 M04/M04 Q1019 NOSIG RMK QBB060 OBST OBSC 11150065 EKSB 030820Z 24006KT 200V290 3000 -SHRA SCT020CB 04/02 Q1008 EKRK 030820Z AUTO 26016KT 9999NDV FEW015/// 04/01 Q1006 WAOO 030800Z 20008KT 9999 SCT015 27/24 Q1007 NOSIG WBGG 030830Z 34008KT 290V030 9999 SCT020 SCT150 BKN300 30/22 Q1008 NOSIG KIEN 030824Z AUTO 03015G26KT 3SM -SN BR FEW008 BKN028 M01/M03 A2960 RMK AO2 PK WND 03028/0813 P0000 T10111033 KHOE 030815Z AUTO 00000KT 3/4SM BR BKN001 BKN042 13/13 A3020 RMK AO2 EKRN 030820Z AUTO 27020KT 9999NDV BKN013/// 04/02 Q1006 KGWO 030753Z AUTO 00000KT 1 1/2SM BR FEW004 OVC008 08/07 A3016 RMK AO2 SLPNO T00780072 PWINO $ KGVX 030835Z AUTO 12012KT M1/4SM FG OVC002 18/18 A3008 RMK A01 KGXF 030756Z AUTO 09004KT 10SM CLR 11/10 A2996 RMK AO2 SLP143 T01110097 KGWR 030835Z AUTO 29010KT 10SM CLR 00/M04 A2973 RMK A01 P000 KIER 030835Z AUTO 13003KT 3/4SM BR OVC002 07/07 A3015 RMK AO2 T00660066 KHNR 030835Z AUTO 17009KT 10SM OVC020 M01/M03 A2981 RMK AO2 DTTA 030830Z 21004KT 170V270 9999 FEW026 18/10 Q1026 NOSIG KGYB 030835Z AUTO 10003KT 1 1/4SM BR OVC001 06/06 A3012 RMK AO2 T00610060 FDBB 030600Z AUTO 00000KT //// // ////// 21/13 Q1025 DTTB 030800Z 20005KT 170V240 9999 FEW020 17/12 Q1025 FBSK 030800Z 05011KT 020V090 9999 BKN020 21/12 Q1026 NOSIG DTTD 030800Z 27008KT CAVOK 14/03 Q1029 USPP 030830Z 00000MPS 9999 FEW016 M03/M13 Q1026 21090060 NOSIG RMK QFE759/1012 KHON 030755Z AUTO 15008KT 10SM BKN055 OVC070 M01/M07 A2972 RMK AO2 SLP077 T10111067 KGWW 030818Z AUTO 00000KT 10SM OVC029 03/M02 A3037 RMK AO2 EKSN 030750Z 26012KT CAVOK 04/03 Q1001 DTTF 030800Z 21005KT CAVOK 13/05 Q1028 NOSIG WBGR 030800Z 32009KT 9999 SCT016 SCT150 BKN300 29/24 Q1008 KIFP 030835Z AUTO 00000KT 10SM CLR 10/07 A2997 RMK AO2 KHOP 030834Z AUTO 12004KT 10SM OVC014 04/M02 A3013 RMK AO2 DTTG 030800Z 23018KT CAVOK 14/04 Q1028 NOSIG WBGS 030800Z 35003KT 9999 SCT018 SCT150 BKN300 31/22 Q1007 FBSP 030700Z 09022KT 9999 BKN020 SCT075 18/13 Q1026 EKSP 030820Z 23008KT 9999 FEW008 SCT023CB 02/01 Q1008 TEMPO 26018G32KT 4000 SHRASNGS KHNZ 030835Z AUTO 00000KT 10SM OVC029 02/M05 A3035 RMK AO2 T00231050 KGYH 030815Z AUTO 04010KT 10SM SCT017 OVC027 08/M05 A3026 RMK AO2 KGYI 030835Z AUTO 17008KT 1SM BR OVC002 05/05 A3008 RMK AO2 T00530053 DTTJ 030830Z 28014KT CAVOK 16/07 Q1027 NOSIG KHOT 030828Z AUTO 00000KT 1 1/4SM BR OVC002 02/01 A3014 RMK AO2 T00170011 DTTK 030700Z 23002KT 9999 FEW026 13/09 Q1025 KHOU 030753Z 10005KT 1/4SM FG VV002 14/14 A3010 RMK AO2 SLP196 T01440144 KGYL 030835Z AUTO 14005KT 10SM SCT049 OVC065 M05/M08 A2987 RMK AO2 T10471081 DTTL 030800Z VRB05KT 9999 FEW033 17/12 Q1026 KIGM 030751Z AUTO 00000KT 10SM CLR 01/00 A2996 RMK AO2 SLP121 T00110000 TSNO WBGY 030800Z 30005KT 230V350 9999 SCT022 BKN300 31/23 Q1006 KHPN 030756Z 00000KT 10SM CLR M10/M15 A3034 RMK AO2 SLP285 T11001150 DTTN 030800Z 23004KT 9999 FEW020 13/11 Q1026 KGXY 030835Z AUTO 00000KT 4SM CLR M03/M07 A2958 RMK AO1 KGZH 030753Z AUTO 00000KT 1/4SM FG VV002 16/15 A3018 RMK AO2 SLP218 T01560150 KIGQ 030835Z AUTO 13009KT 10SM OVC070 M03/M09 A3015 RMK AO2 T10301087 KGYR 030347Z 12006KT 10SM FEW040 FEW100 SCT250 12/09 A3000 RMK LAST KHQI 030835Z AUTO 10006KT M1/4SM FG OVC003 21/21 A3009 RMK A01 DTTR 030800Z 14002KT CAVOK 12/03 Q1031 KIIB 030835Z AUTO 14013KT 10SM OVC021 M03/M06 A2993 RMK AO2 KGZL 030835Z AUTO 13004KT 8SM OVC006 02/01 A3005 RMK AO2 KHQM 030835Z AUTO 05006KT 3SM BR CLR 03/02 A3016 RMK AO2 T00280022 EKVD 030820Z 25007KT 9999 BKN020 03/01 Q1007 KIGX 030756Z AUTO 10008KT 10SM OVC020 06/02 A3034 RMK AO2 SLP273 T00560017 TSNO WARR 030800Z 31010KT 9000 SCT016 FEW018CB 31/22 Q1006 USRR 030830Z 28005MPS 7000 SCT041 BKN070 M01/M05 Q1023 NOSIG RMK QFE762 25////60 DTTX 030700Z 28006KT CAVOK 13/07 Q1025 KGYY 030835Z AUTO 13004KT 10SM SCT055 OVC070 M02/M11 A3016 RMK AO2 T10181107 WARS 030800Z 30016KT 9000 SCT018 31/24 Q1007 NOSIG EKVG 030820Z AUTO 17009KT 140V230 9999NDV -SHSN FEW007/// BKN015/// BKN070/// 02/M01 Q0988 DTTZ 030800Z 26008KT CAVOK 14/06 Q1029 NOSIG KHRI 030753Z AUTO 34007KT 10SM FEW110 04/M09 A3010 RMK AO2 SLP195 T00441094 401061044 KHSA 030150Z 11004KT 1/2SM FG OVC002 18/16 A3022 KHRJ 030835Z AUTO 08007KT 10SM OVC028 06/M04 A3035 RMK AO2 T00551036 EKVJ 030750Z 25008KT 9999 SCT030TCU 04/02 Q1006 KHSB 030835Z AUTO 11007KT 10SM SCT024 OVC065 01/M03 A3013 RMK AO2 T00051028 KHRL 030752Z AUTO 36004KT 1/2SM FG VV002 13/12 A3005 RMK AO2 SLP177 T01280122 KJAC 030835Z AUTO 16003KT 5SM FEW006 SCT011 BKN021 M05/M06 A2964 RMK AO1 KHQU 030835Z AUTO 00000KT 10SM OVC026 15/15 A3024 RMK AO1 T01480147 KIJD 030752Z AUTO 26004KT 10SM CLR M07/M14 A3034 RMK AO2 SLP276 T10721144 KHSE 030751Z AUTO 03007KT 10SM CLR 04/M01 A3035 RMK AO2 SLP277 T00391006 TSNO KHRO 030753Z AUTO 13007KT 10SM OVC008 02/01 A3002 RMK AO2 SLP172 T00170006 ELLX 030820Z 20008KT 160V270 CAVOK 02/M01 Q1020 NOSIG USSS 030830Z 07002MPS 7000 SKC M00/M06 Q1025 0811//60 NOSIG RMK QFE749 KHQZ 030835Z AUTO 00000KT 1/4SM OVC001 05/05 A3009 RMK AO1 T00530049 WBKK 030830Z 36003KT 9999 FEW015 SCT140 BKN270 29/24 Q1007 NOSIG KHSI 030836Z AUTO 17008KT 9SM OVC014 M02/M05 A2966 RMK AO2 T10171050 WBKL 030800Z 29004KT 210V020 9999 FEW013 BKN290 29/23 Q1007 KL18 030835Z AUTO 01005KT 10SM CLR 07/04 A2997 RMK AO2 KHRT 030828Z 11003KT 1/4SM FG VV001 16/14 A3016 RMK AO2A DZB15E28 RVRNO $ UUBP 030800Z 14005G09MPS 5000 BR OVC005 01/00 Q1010 NOSIG 16190060 RMK QFE740 KJAN 030824Z AUTO 00000KT 3/4SM R16L/4000V5000FT BR VV003 12/11 A3014 RMK AO2 T01170111 KHRX 030815Z AUTO 21017KT 3SM BR OVC003 02/02 A2988 RMK AO2 T00200017 USTR 030830Z 21002MPS CAVOK M01/M08 Q1028 NOSIG RMK QFE761/1015 21CLRD65 30CLRD65 KIIY 030835Z AUTO 00000KT 10SM SCT027 BKN034 BKN048 15/15 A3020 RMK AO2 KHSP 030835Z AUTO 16009KT 10SM CLR M03/M11 A3017 RMK AO2 T10271107 WBKS 030800Z 07006KT 030V120 9999 SCT016 SCT140 BKN280 29/24 Q1008 WATT 030800Z 32004KT 6000 VCRA FEW015CB BKN015 28/25 Q1006 NOSIG RMK CB TO E S AND W AREA WBKT 030800Z 06006KT 350V120 9999 FEW015 BKN270 29/24 Q1008 KJAS 030835Z AUTO 08003KT 1/2SM FG OVC002 10/09 A3014 RMK AO2 T00950093 KHUA 030838Z AUTO 15005KT 10SM OVC009 09/08 A3015 RMK AO2 UUDD 030830Z 17006MPS 9999 BKN013 M00/M02 Q1015 64290095 14290095 NOSIG KIKK 030835Z AUTO 13007KT 10SM UP OVC060 M03/M06 A3015 RMK AO2 T10321065 KHST 030758Z AUTO 07008KT 10SM FEW022 23/19 A3014 RMK AO2 SLP210 T02270187 UUBW 030830Z 14005MPS 8000 OVC014 M00/M02 Q1016 NOSIG RMK SC0.50 WBKW 030800Z 35004KT 9999 FEW017 BKN140 27/23 Q1007 KHTL 030753Z AUTO 16003KT 10SM OVC110 M12/M15 A3018 RMK AO2 SLP242 T11171150 KHSV 030753Z AUTO 00000KT 5SM BR OVC012 09/07 A3018 RMK AO2 SLP220 T00890067 KILE 030835Z AUTO 00000KT 3/4SM OVC003 05/02 A3004 RMK AO1 KHUF 030753Z 12005KT 10SM OVC048 M02/M08 A3018 RMK AO2 SLP225 T10171083 KJAX 030756Z 00000KT 10SM BKN034 OVC060 16/16 A3020 RMK AO2 SLP226 T01610156 KIJX 030835Z AUTO 12005KT 10SM OVC024 00/M04 A3005 RMK AO2 T10051043 KILG 030751Z 36005KT 10SM CLR M05/M09 A3041 RMK AO2 SLP299 T10501094 KL35 030815Z AUTO 00000KT 1 1/2SM BR SCT001 SCT023 M09/M11 A2992 RMK AO2 KJBR 030753Z AUTO 00000KT 10SM OVC008 01/M02 A3014 RMK AO2 SLP208 T00111022 UUDL 030830Z 15004MPS 9999 OVC016 M01/M04 Q1017 NOSIG RMK QFE755 23000060 KHTS 030751Z 08005KT 10SM CLR M02/M07 A3022 RMK AO2 SLP238 T10171072 KL38 030815Z AUTO 00000KT M1/4SM FG OVC002 18/18 A3013 RMK AO2 T01800180 KIKT 030835Z AUTO 13010KT 10SM FEW014 BKN023 22/20 A3014 RMK A01 UUEE 030830Z 13005MPS 9000 -SN OVC011 00/M02 Q1014 25290151 NOSIG KHUL 030753Z AUTO 33013G16KT 10SM CLR M14/M22 A3005 RMK AO2 SLP186 T11391217 $ KILM 030753Z AUTO 06009KT 10SM BKN060 06/M02 A3034 RMK AO2 SLP274 T00611022 KHUM 030835Z AUTO 00000KT 1/4SM +RA OVC001 18/18 A3012 RMK AO2 T01800180 KJDD 030835Z AUTO 00000KT 1/2SM FG OVC001 06/06 A3010 RMK AO2 KIKV 030835Z AUTO 14010KT 10SM OVC022 M01/M05 A2987 RMK AO2 KIKW 030833Z AUTO 20004KT 10SM OVC075 M05/M09 A3023 RMK AO2 T10501092 KILN 030754Z AUTO 13004KT 9SM CLR M06/M10 A3024 RMK AO2 SLP274 T10561100 KHVE 030835Z AUTO 24010KT 10SM CLR 03/M02 A2985 RMK AO2 FCPP 030800Z VRB02KT 9999 SCT013 27/24 Q1013 NOSIG OYAA 030800Z 11010KT 6000 FEW018 BKN025 27/19 Q1016 KHUT 030752Z AUTO 18021G27KT 4SM BR OVC007 02/M01 A2979 RMK AO2 PK WND 18029/0726 CIG 006V012 SLP090 T00171006 KJCT 030824Z AUTO 00000KT 1 1/4SM -RA BR OVC003 04/04 A3005 RMK AO2 RAB03 P0000 T00440044 UTNN 030800Z 16002KT CAVOK 08/M01 Q1017 R33/CLRD60 NOSIG KIML 030753Z AUTO 01007KT 6SM BR M02/M04 A2958 RMK AO2 SLP042 T10221044 EKYT 030820Z 24012KT 9999 FEW020CB 04/02 Q1003 KIND 030829Z 11007KT 10SM -FZRA FEW070 BKN090 OVC110 M03/M09 A3018 RMK AO2 FZRAB28 P0000 I1000 T10281089 $ KHWD 030754Z AUTO 07004KT 10SM CLR 10/06 A2998 RMK AO2 SLP162 T01000061 401670078 KIMM 030835Z AUTO 00000KT 1SM CLR A3016 RMK A01 P000 KJDN 030748Z AUTO 34021G24KT M09/M15 A3008 RMK AO1 SLP223 T10941150 KHVN 030753Z AUTO 31004KT 10SM CLR M04/M13 A3037 RMK AO2 SLP282 T10441133 KJEF 030753Z AUTO 12006KT 10SM OVC022 02/M05 A3002 RMK AO2 SLP160 T00171050 KINF 030815Z AUTO 00000KT 1 1/4SM BR VV007 16/15 A3019 RMK AO2 VIS 1/2V4 ZYTL 030830Z 32009MPS CAVOK 00/M18 Q1018 NOSIG KHVR 030753Z AUTO 35004KT 10SM CLR M13/M18 A3023 RMK AO2 SLP278 T11331183 UTNU 030800Z 07005KT CAVOK 13/M02 Q1016 R31/CLRD70 NOSIG KHVS 030835Z AUTO 07005KT 5SM OVC004 09/08 A3028 RMK AO2 KIMS 030833Z AUTO 11007KT 10SM BKN060 M01/M09 A3020 RMK AO1 KINJ 030835Z AUTO 31004KT 1/4SM FG OVC002 05/04 A3008 RMK AO2 T00460040 KINK 030753Z AUTO 17004KT 10SM OVC005 05/02 A2998 RMK AO2 SLP145 T00500022 KIMT 030754Z AUTO 16005KT 10SM OVC100 M08/M13 A3005 RMK AO2 SLP196 T10781133 TSNO $ KIOB 030835Z AUTO 09005KT 10SM CLR M01/M06 A3020 RMK AO2 KINL 030755Z AUTO 20008G16KT 10SM OVC060 M04/M12 A2974 RMK AO2 SLP089 T10441117 KHXD 030835Z AUTO 03004KT 1/4SM FG OVC001 12/12 A3022 RMK AO2 P0000 KHWO 030753Z AUTO 08004KT 10SM FEW022 21/18 A3016 RMK AO2 SLP214 T02110183 OYAR 030800Z 36004KT CAVOK 22/02 Q//// KJER 030753Z AUTO 24017G25KT 10SM BKN090 OVC100 01/M05 A2976 RMK AO2 PK WND 24027/0725 SLP080 T00061050 OYAT 030800Z 14007KT CAVOK 29/06 Q1021 KHYA 030756Z AUTO VRB06KT 10SM CLR M04/M13 A3028 RMK AO2 SLP256 T10441133 KINS 030758Z AUTO 17002KT 10SM CLR 03/01 A2993 RMK AO2 SLP128 T00340010 400920025 KJES 030815Z AUTO 00000KT 3SM BR OVC050 15/15 A3019 RMK AO2 KJFK 030751Z 32009KT 10SM CLR M04/M13 A3039 RMK AO2 SLP292 T10441128 $ KINT 030754Z AUTO 06007KT 10SM OVC042 06/M09 A3030 RMK AO2 SLP261 T00561094 ZYTX 030830Z 30008MPS 9999 BKN040 M02/M17 Q1016 NOSIG ENAL 030820Z 20007KT 170V230 9999 SCT064 03/00 Q0995 KHWV 030756Z AUTO 00000KT 10SM CLR M08/M14 A3038 RMK AO2 SLP288 T10781139 TSNO KINW 030756Z AUTO 17006KT 10SM OVC043 02/M01 A2997 RMK AO2 SLP133 T00221006 ENAN 030820Z 18008KT 9999 FEW015 SCT020 BKN030 02/01 Q0993 TEMPO 26012KT KJGG 030835Z AUTO 04003KT 10SM CLR M01/M04 A3040 RMK AO1 KHWY 030815Z AUTO 06003KT 10SM CLR M02/M06 A3039 RMK AO2 T10201061 KHYI 030835Z 06003KT 1SM OVC002 06/04 A3008 RMK AO1 FDJR 030600Z AUTO 13003G28KT //// // ////// 22/14 Q1029 KIPJ 030835Z AUTO 00000KT 10SM -RA OVC033 07/M05 A3030 RMK AO2 T00721052 FDLB 030800Z AUTO 12004KT //// // ////// 23/08 Q1028 KIPL 030753Z AUTO 27004KT 10SM CLR 11/06 A2994 RMK AO2 SLP137 T01060056 401780100 ENAT 030750Z 17015KT 9999 FEW029 BKN038 04/M02 Q0995 RMK WIND 700FT 18022KT ENBL 030820Z 19004KT 1500 SHSN VV006 M01/M01 Q0995 KIOW 030819Z AUTO 14011KT 2 1/2SM -SN SCT027 OVC032 M03/M06 A3002 RMK AO2 UPE00SNB00 P0001 T10331061 $ KHZE 030835Z AUTO 33021G30KT 10SM FEW020 OVC075 M11/M17 A2997 RMK AO2 KIPN 030835Z AUTO 12009KT 10SM OVC018 22/19 A3016 RMK A01 ENBN 030820Z 16005KT 120V210 9999 FEW015 02/M01 Q0996 KJFX 030835Z AUTO 00000KT 1 1/4SM BR SCT001 BKN006 09/09 A3018 RMK A02 P-128 ENBO 030820Z 11006KT 9999 FEW017 SCT040 02/01 Q0995 NOSIG UTSA 030730Z 23004KT 190V260 4600 FU BKN044 13/05 Q1016 R07/CLRD70 NOSIG KJFZ 030835Z AUTO 14006KT 10SM CLR 04/M05 A3014 RMK AO2 T00441051 UTSB 030800Z 18005KT 9999 BKN035 14/05 Q1016 R01/CLRD70 NOSIG WBSB 030830Z 32010KT 9999 SCT015 FEW016CB BKN280 28/24 Q1008 NOSIG KHYR 030835Z AUTO 19005KT 4SM -SN BKN033 BKN070 OVC090 M07/M11 A2992 RMK AO2 SNB08 P0000 T10671111 ENBR 030820Z 13009KT 9999 9000N VCSH FEW007 SCT012CB SCT018 01/00 Q0997 TEMPO 3000 SHRASN BKN012CB RMK WIND 1200FT 14011KT KHYS 030835Z AUTO 20012KT 10SM FEW022 02/M04 A2963 RMK AO1 ENBS 030750Z 20016KT 9999 BKN016 01/M05 Q0999 KIPT 030754Z AUTO 00000KT 10SM CLR M11/M15 A3040 RMK AO2 SLP303 T11061150 OYDM 030800Z 14012KT CAVOK 22/00 Q//// KHZL 030835Z AUTO 30005KT 10SM CLR M10/M14 A3032 RMK AO2 FDLM 030700Z AUTO 00000KT //// // ////// ///// Q//// ENBV 030750Z 20025KT 9999 SCT020 02/M02 Q0998 KHYW 030835Z AUTO 05003KT 7SM OVC042 08/06 A3030 RMK AO2 KJHN 030835Z AUTO 23014KT 10SM CLR 06/03 A2963 RMK AO2 T00570025 ENCN 030820Z VRB01KT 9999 FEW015CB 02/M00 Q1001 KHYX 030835Z AUTO 18004KT 10SM CLR M05/M09 A3024 RMK AO2 UTSK 030800Z 28003KT 9999 NSC 14/03 Q1016 R16/CLRD70 KHZR 030835Z AUTO 00000KT 1/4SM FG OVC003 10/10 A3014 RMK AO2 T01000097 KIRK 030755Z AUTO 15015KT 9SM OVC019 M01/M04 A2995 RMK AO2 UPE10 PRESFR SLP155 P0000 T10111044 FDND 030600Z AUTO /////KT //// // ////// 19/12 Q1026 KJHW 030835Z 00000KT 7SM CLR M12/M14 A3025 RMK AO1 KHZX 030828Z AUTO 17008KT 10SM SCT036 OVC055 M05/M10 A2983 RMK AO2 KHZY 030753Z AUTO 16005KT 10SM FEW120 M09/M13 A3033 RMK AO2 SLP286 T10891133 UTSS 030800Z VRB02KT 9999 FEW073CB 13/00 Q1015 R88/CLRD70 NOSIG UTST 030700Z 11004KT 060V150 CAVOK 16/05 Q1016 R88/CLRD70 NOSIG ENDR 030820Z AUTO 21022KT 04/02 Q0993 KIRS 030834Z AUTO 13006KT 10SM BKN070 OVC080 M04/M09 A3018 RMK AO2 KJKA 030835Z AUTO 12003KT 1/4SM FG OVC002 17/17 A3017 RMK AO2 T01680168 FDMS 030800Z 10003KT 9999 SCT035 19/09 Q1028 NOSIG KM19 030756Z AUTO 00000KT 10SM OVC009 01/M02 A3016 RMK AO2 T00111022 SLP213 ENFB 030820Z AUTO 21017KT 9999NDV BKN020/// 04/01 Q0994 W///S5 ENEK 030820Z 25030KT 9999 VCSH FEW025CB SCT050 05/M02 Q1003 W07/S5 KISM 030245Z 11004KT 10SM SKC 21/20 A3025 RMK LAST ENDU 030820Z 14003KT 110V180 9999 6000E -SNRA FEW010 BKN040 02/00 Q0994 TEMPO 4000 -SNRA VV014 FDMV 030700Z AUTO 19007KT //// // ////// 24/10 Q1033 KISN 030752Z AUTO 33020G28KT 10SM CLR M12/M18 A3001 RMK AO2 PK WND 32032/0740 SLP198 T11221178 KISO 030835Z AUTO 07006KT 10SM OVC033 04/M03 A3037 RMK AO2 T00351031 FEFF 030800Z 31003KT 6000 NSC 29/20 Q1012 NOSIG KM25 030835Z AUTO 00000KT 10SM BKN018 OVC027 03/M02 A3013 RMK AO2 KISP 030456Z 27006KT 10SM FEW250 M04/M13 A3034 RMK AO2 SLP274 LAST AUGMENTED OBSERVATION UNTIL 1100Z T10441128 400221044 LBBG 030830Z 24007KT 5000 BR FEW028 BKN036 08/08 Q1013 R99/29//95 NOSIG FDMY 030700Z AUTO 36004KT //// // ////// ///// Q1036 ENFG 030820Z 32001KT 9999 SCT040 BKN050 OVC090 M11/M13 Q0994 KISQ 030835Z AUTO 17007KT 10SM OVC100 M06/M07 A3010 RMK AO2 T10601075 KITH 030756Z AUTO 34003KT 10SM -SN OVC028 M09/M13 A3034 RMK AO2 T10881127 P0000 SLP292 UTTT 030800Z VRB02KT 7000 NSC 15/01 Q1016 R88/CLRD70 NOSIG KJKJ 030832Z AUTO 19010G15KT 10SM CLR M03/M04 A2974 RMK AO2 KM30 030815Z AUTO 11003KT 10SM OVC022 02/M03 A3012 RMK AO2 T00241030 KJKL 030753Z AUTO 05004KT 10SM CLR M01/M07 A3017 RMK AO2 SLP224 T10111072 OYHD 030800Z 19018KT 170V230 3000 BLDU NSC 29/22 Q1013 ENFL 030820Z 12013KT 9999 VCSH FEW009 SCT015CB BKN022 02/00 Q0996 ENGC 030820Z 24017KT 9999 -SHRA SCT018CB 03/00 Q0994 W06/S5 ENEV 030820Z 20003KT 9999 -SHRASN SCT009 BKN053 01/00 Q0994 RMK WIND 1400FT 23014KT KISW 030754Z AUTO 14005KT 10SM OVC080 M06/M11 A3007 RMK AO2 SLP199 T10561111 FDNY 030600Z AUTO 17005KT //// // ////// 20/10 Q1036 OYHJ 030800Z 25004KT CAVOK 23/17 Q//// KITR 030753Z AUTO 29015KT 10SM CLR 02/M01 A2960 RMK AO2 PK WND 22032/0700 WSHFT 0654 PRESRR SLP036 T00221011 OYIB 030800Z 17011KT CAVOK 25/03 Q//// KM40 030815Z AUTO 00000KT 3/4SM HZ OVC001 09/04 A3019 RMK AO2 FDOT 030600Z AUTO /////KT //// // ////// 20/09 Q1028 FEFT 030800Z 28014KT 9999 FEW007 OVC300 27/20 Q1011 UUMO 030830Z 16005MPS 9999 OVC015 00/M03 Q1015 NOSIG RMK QFE746/0994 26190055 ENHD 030820Z 14007KT 9999 -RASN FEW009 SCT022 01/M00 Q0998 ENGM 030820Z VRB01KT 2500 BR SCT002 BKN007 01/00 Q0996 TEMPO 8000 BKN010 KJLN 030753Z AUTO 18012KT 9SM OVC011 02/00 A2996 RMK AO2 SLP152 T00220000 ENHE 030820Z 20021KT 9999 VCSH FEW015 SCT040 04/01 Q0991 W///S4 ENHF 030750Z 18012KT 9999 FEW027 SCT053 03/M01 Q0993 RMK WIND 1254FT 17022KT UUOB 030830Z 16004MPS 7000 BKN018 01/M01 Q1015 11650150 NOSIG KIWA 030815Z AUTO 00000KT 10SM CLR 07/07 A2998 RMK AO2 ENHK 030550Z 16012KT 9999 FEW045 SCT130 04/M01 Q0992 KIWD 030835Z AUTO 19013G19KT 10SM BKN060 OVC080 M06/M14 A2989 RMK AO1